ENHM 271850Z 15023KT 9000 NSC 12/11 Q1011 W10/S3 UUOK 262000Z 00000MPS 9999 SCT033 13/11 Q1012 R12/CLRD65 NOSIG RMK QFE741/0988 KIWI 271853Z AUTO 08005KT 10SM BKN041 OVC048 18/09 A2986 RMK AO2 SLP112 T01830089 KJMR 271902Z AUTO 24008KT 10SM CLR 20/07 A2990 RMK AO2 KIXA 271900Z AUTO 25007KT 10SM CLR 30/18 A2988 RMK AO2 KJMS 271856Z AUTO 27013KT 10SM SCT080 BKN100 22/03 A2980 RMK AO2 SLP089 T02220033 UUOO 271830Z 35002MPS CAVOK 13/05 Q1014 R30/090057 NOSIG RMK QFE747 KIXD 271853Z 14011KT 10SM BKN110 18/16 A2980 RMK AO2 PRESRR SLP084 T01830156 ENHV 262050Z 27008KT 9999 SCT026 01/M03 Q1019 KM63 271858Z AUTO 29024G31KT 7SM FEW150 29/M05 A3002 RMK AO2 PK WND 31036/30 SLP090 WND DATA ESTMD T02911047 PPIZ 271856Z AUTO 11008KT 10SM BKN070 06/M01 A2996 RMK AO2 SLP149 T00611006 TSNO KIYA 271853Z AUTO 19010KT 10SM BKN027 BKN033 31/26 A3002 RMK AO2 ENKB 271850Z AUTO 29009KT 9999 BKN074/// 15/10 Q1012 RMK WIND 745FT 30009KT FDSK 271500Z 05008KT 9999 SCT035 24/15 Q1014 NOSIG KJNX 271905Z AUTO 23004KT 10SM SCT050 30/18 A2990 RMK AO2 KM75 271855Z AUTO 32011G17KT 280V020 10SM BKN090 BKN120 24/02 A2992 RMK A01 VLPS 271300Z 22002KT 1000 RA BKN020 SCT050 25/25 Q1007 NOSIG KIZA 271855Z AUTO 27005KT 10SM CLR 21/10 A3007 RMK AO2 ENLA 271850Z AUTO 15035KT 9000NDV SCT180/// BKN210/// 14/12 Q1010 W///S3 KJOT 271855Z AUTO 00000KT 10SM CLR 24/16 A2990 RMK AO2 T02440161 FDST 271800Z AUTO 18007KT //// // ////// 18/17 Q1018 KJQF 271850Z 25008G14KT 10SM SCT060 31/16 A2996 ENLE 271850Z 13034KT CAVOK 15/12 Q1011 W11/S3 LBGO 271900Z AUTO VRB01KT 9999 OVC078/// 14/14 Q1018 KIZG 271854Z AUTO 00000KT 10SM OVC060 21/08 A2984 RMK AO2 SLP105 T02110078 ENKR 271850Z AUTO 03008KT 9999 BKN026/// 01/M05 Q1020 RMK WIND 731FT 02009KT KJRB 271856Z AUTO VRB03KT 10SM OVC060 22/13 A2988 RMK AO2 SLP117 T02170133 ENLK 271150Z 07010KT 9999 FEW040 SCT200 10/M02 Q1018 KM91 271855Z AUTO 22011KT 10SM BKN023 BKN033 BKN050 28/23 A2991 RMK A01 KN03 271855Z AUTO 29003KT 10SM SCT020 SCT027 OVC050 17/13 A2992 RMK AO2 ENMH 262220Z 24007KT 9999 BKN027 M00/M02 Q1019 VLSK 271200Z 09004KT 3000 BR FEW020 SCT093 28/20 Q1007 NOSIG KLAA 271853Z AUTO 06007KT 10SM BKN044 OVC060 21/09 A2999 RMK AO2 SLP115 T02110089 FDUS 271800Z AUTO 13006KT //// // ////// 15/13 Q1019 ENNA 271850Z AUTO 33006KT 9999 NCD 04/M04 Q1021 RMK WIND 1800FT 28003KT ENML 271850Z AUTO 26005KT 9999NDV NCD 20/12 Q1011 ENNE 271850Z AUTO 15023KT 0250NDV -RA FG NCD 08/08 Q1009 W///S4 KLAF 271854Z 00000KT 10SM OVC022 21/17 A2989 RMK AO2 SLP120 T02060172 KLBB 271853Z 27011G20KT 10SM FEW140 FEW250 FEW300 34/M09 A2991 RMK AO2 SLP066 T03441089 ENMS 271450Z 14003KT 070V210 9999 -RA FEW010 SCT018 BKN028 08/07 Q1016 RMK WIND 412FT VRB03KT ENOA 271850Z 17026KT 9000 NSC 11/11 Q1012 W///S3 KJSL 271840Z AUTO 16014KT 2SM HZ CLR 29/26 A3001 RMK A01 KLAL 271853Z 34009G15KT 10SM SKC 33/11 A3006 KJTC 271855Z AUTO 28010G16KT 260V320 10SM CLR 23/M12 A3020 RMK AO2 KLAM 271855Z AUTO 26011G19KT 250V310 10SM CLR 21/M11 A3014 RMK AO2 T02121107 ENNM 261950Z 05008KT 9999 -RADZ BKN014 09/08 Q1017 KLAN 271853Z 00000KT 10SM OVC060 24/12 A2990 RMK AO2 SLP121 T02440117 KLBE 271850Z 00000KT 10SM BKN011 OVC019 19/17 A2992 KLBF 271853Z AUTO 35006KT 10SM OVC028 16/13 A3002 RMK AO2 SLP155 T01610128 KJSO 271855Z AUTO 20009G14KT 7SM SCT032 OVC038 28/23 A2993 RMK AO2 T02910240 KLAR 271853Z AUTO 36017G22KT 10SM FEW049 09/01 A3018 RMK AO2 PK WND 33028/1821 SLP172 T00940006 LATI 271850Z 33007KT 9999 SCT120 20/09 Q1014 NOSIG VMMC 271830Z 08007KT 040V130 CAVOK 26/21 Q1009 NOSIG KLAS 271856Z 00000KT 10SM FEW100 29/M03 A2999 RMK AO2 SLP130 T02941033 KJST 271854Z AUTO 24003KT 10SM BKN009 BKN014 OVC032 17/15 A2993 RMK AO2 CIG 007V012 SLP132 T01670150 KLBL 271856Z AUTO 05009G16KT 10SM OVC039 23/14 A2993 RMK AO2 SLP111 T02330144 ENOL 271850Z 13009KT 9999 FEW020 BKN070 16/12 Q1012 NOSIG KJSV 271855Z AUTO 18010KT 10SM SCT033 32/22 A2980 RMK AO2 KLAW 271853Z 24009KT 10SM CLR 34/17 A2976 RMK AO2 SLP062 T03440172 $ KLAX 271853Z 23009KT 10SM FEW017 SCT029 SCT041 19/11 A3007 RMK AO2 SLP182 T01940111 KLCG 271855Z AUTO 03013G16KT 10SM SCT065 21/10 A2992 RMK AO2 T02130097 KLCH 271855Z 20010KT 10SM BKN021 29/23 A2998 RMK AO2 T02890233 $ KLCI 271856Z AUTO VRB05KT 10SM FEW120 21/09 A2986 RMK AO2 SLP126 T02060089 KN38 271855Z AUTO 02005KT 10SM OVC039 19/12 A2991 RMK AO2 ENQA 271850Z AUTO 17025KT 9999NDV NCD 12/11 Q1013 W09/S4 KLBT 271854Z AUTO 24010KT 10SM SCT060 31/17 A2991 RMK AO2 SLP125 T03110172 KLCK 271855Z AUTO 33004KT 10SM CLR 25/20 A2986 RMK AO2 T02460195 ENQC 271850Z AUTO 17020KT 9999NDV NCD 12/10 Q1012 W///S4 ENOV 271350Z VRB09KT 9999 FEW045 24/09 Q1014 RMK WIND 2175FT 22021KT KLBX 271853Z AUTO 16017KT 10SM BKN024 OVC029 31/24 A2995 RMK AO2 SLP140 T03110244 KLCQ 271855Z AUTO 27008KT 10SM CLR 31/15 A3006 RMK AO2 VLVT 271600Z 16002KT 4000 BR BKN050 27/20 Q1008 NOSIG KLDJ 271835Z AUTO 32004KT 10SM OVC055 22/12 A2987 RMK AO2 T02170120 KKLS 271856Z AUTO 26005KT 10SM CLR 23/13 A3007 RMK AO2 SLP186 T02280133 ENRA 271450Z 07011KT 9999 BKN035 11/02 Q1016 KLEB 271853Z 29003KT 9SM OVC050 21/09 A2986 RMK AO2 SLP106 T02060094 KJVL 271845Z 24005KT 10SM SCT028 23/15 A2990 KLDM 271855Z AUTO 25009KT 10SM CLR 18/12 A2991 RMK AO2 T01750119 KLEE 271853Z 31005KT 10SM CLR 33/13 A3006 RMK AO2 SLP177 T03280133 KJWG 271855Z AUTO 24004KT CLR 32/19 A2977 RMK AO2 T03190193 PWINO ENQR 271850Z AUTO 18018KT 9999NDV FEW066/// 11/10 Q1011 W///S4 KN60 271852Z AUTO 28018G32KT 22/04 A2980 RMK AO1 PK WND 31032/1845 SLP091 T02220039 UUWW 271900Z 14001MPS CAVOK 12/04 Q1015 R06/000070 NOSIG ENSB 271850Z 25003KT 9999 FEW020 SCT030 BKN080 M03/M09 Q1021 RMK WIND 1400FT VRB02KT ENSD 271150Z 21009KT 170V280 9999 FEW045 22/10 Q1016 RMK WIND 1138FT VRB03KT UWGG 271900Z 31002MPS 9999 SCT033 09/03 Q1012 R36L/090060 NOSIG RMK QFE752 KJWN 271855Z AUTO 33005KT 10SM SCT026 BKN031 BKN040 27/22 A2990 RMK A01 LCEN 271850Z 00000KT CAVOK 21/07 Q1010 NOSIG ENSE 271850Z AUTO 20021KT 9999NDV -SHRA FEW230/// 11/10 Q1012 W///S4 ENSF 271850Z AUTO 19022KT 9000NDV BKN067/// 13/10 Q1011 W///S3 ENRO 271850Z AUTO 06006KT 9999NDV NCD 16/09 Q1014 ENSG 271050Z 24007KT 9999 FEW040 18/09 Q1020 RMK WIND 3806FT 21006KT ENSH 271250Z 05010KT CAVOK 09/M03 Q1018 KJXI 271855Z AUTO 19009KT 7SM SCT028 BKN035 OVC041 30/23 A2989 RMK AO2 T02950232 KLFI 271858Z AUTO 12006KT 10SM CLR 29/18 A2986 RMK AO2 SLP118 T02850184 $ KLGA 271851Z 31003KT 10SM OVC050 22/12 A2986 RMK AO2 SLP111 T02170117 ENRS 271250Z 06017KT CAVOK 08/01 Q1017 KLFK 271853Z AUTO 17012G18KT 10SM SCT036 SCT048 32/23 A2991 RMK AO2 PK WND 22026/1813 SLP123 T03220233 $ KLGB 271853Z VRB05KT 10SM OVC035 19/09 A3006 RMK AO2 SLP180 T01940089 ENSK 270850Z 08011KT CAVOK 08/M02 Q1018 KLGC 271855Z AUTO 24006KT 10SM BKN028 BKN036 27/23 A3006 RMK AO2 T02740229 ENSL 271850Z AUTO 16032KT 9999NDV NCD 13/11 Q1010 W12/S3 ENTC 271850Z 05009KT CAVOK 06/M05 Q1020 RMK WIND 2600FT 11007KT KLGD 271855Z AUTO 00000KT 10SM CLR 20/08 A3017 RMK AO1 LBPD 271900Z AUTO 10003KT 9999 BKN049/// OVC058/// 16/15 Q1017 NOSIG KLEW 271856Z AUTO 04011KT 10SM FEW047 20/09 A2984 RMK AO2 SLP119 T02000094 KJXN 271856Z 00000KT 10SM OVC043 23/13 A2990 RMK AO2 SLP120 T02280128 KLEX 271854Z 21007KT 10SM FEW027 SCT039 27/19 A2990 RMK AO2 SLP114 T02720194 KJYG 271855Z AUTO 22006KT 10SM SCT090 18/09 A2995 RMK AO2 KJWY 271855Z AUTO 18011G19KT 4SM HZ OVC021 29/24 A2987 RMK AO2 T02850240 ENRY 271850Z AUTO 17009KT 9999NDV NCD 16/12 Q1017 ENSR 270050Z 17002KT 9999 FEW050 SCT100 01/M04 Q1020 WIND 1119FT 15005KT KLFT 271900Z 19013G20KT 10SM FEW029 SCT041 31/24 A3000 RMK AO2 T03060239 KLHB 271855Z AUTO 18016KT 7SM SCT038 BKN044 32/24 A2989 RMK AO2 T03200240 ENST 271420Z 02006KT 9999 -RA FEW009 SCT015 BKN040 09/07 Q1015 RMK WIND 300FT VRB02KT KJYL 271855Z AUTO 25006KT 10SM CLR 32/19 A3001 RMK AO2 T03240189 KJYM 271855Z AUTO 11003KT 10SM OVC040 21/15 A2991 RMK AO2 EPCE 271900Z 00000KT CAVOK 16/10 Q1022 RMK 162 067 0/0 = KJYO 271855Z AUTO 11003KT 10SM OVC050 20/17 A2991 RMK AO2 ENTO 271850Z 20014KT CAVOK 17/13 Q1016 ENUG 271850Z AUTO 34007KT 9999NDV FEW038/// BKN046/// 03/M02 Q1020 W06/S3 KJZI 271855Z AUTO 20012G18KT 10SM CLR 30/20 A2999 RMK AO2 KJYR 271855Z AUTO 04010G17KT 10SM CLR 23/10 A2989 RMK AO2 EPDA 271830Z 00000KT CAVOK 18/09 Q1022 RMK 182 055 0/0 = ENVA 271850Z 25005KT 200V280 CAVOK 18/13 Q1013 RMK WIND 670FT 08006KT FGBT 271800Z 25005KT 220V270 9999 SCT010 SCT100 29/25 Q1012 KLGU 271851Z AUTO 31006KT 10SM CLR 17/06 A3023 RMK AO2 SLP213 T01670056 TSNO KLIC 271855Z AUTO 36019KT 10SM SCT033 15/06 A3008 RMK AO2 PK WND 36030/1809 SLP145 T01500061 KLHM 271855Z AUTO 17005KT 10SM CLR 22/07 A3006 RMK AO1 ENVD 271150Z 30011KT 9999 SCT031 BKN100 04/M03 Q1019 EPDE 271830Z 03002KT CAVOK 16/08 Q1023 RMK 164 057 1/1= KJZP 271855Z AUTO 00000KT 10SM CLR 26/14 A3007 RMK AO2 T02580139 KLHQ 271853Z AUTO 01003KT 10SM FEW027 BKN035 26/19 A2987 RMK AO2 LTG DSNT S AND SW SLP110 T02610194 EPBY 271900Z VRB01KT CAVOK 18/07 Q1023 UWKD 271900Z 34005MPS CAVOK 09/04 Q1007 R29/2/0050 NOSIG RMK QFE744/0993 UWKE 271900Z 32005G10MPS 7000 -SHRA OVC007CB 11/10 Q1004 R03/210355 NOSIG RMK OBST OBSC QFE736/0981 VOBG 271800Z 27006KT 8000 -DZ SCT015 FEW025CB BKN080 21/21 Q1010 KMAE 271853Z AUTO 30005KT 10SM CLR 23/12 A3007 RMK AO2 SLP180 T02280117 KLHW 271858Z AUTO 27010G19KT 10SM CLR 33/16 A2999 RMK AO2 SLP158 T03280159 $ KLHX 271853Z AUTO 10SM BKN047 BKN060 21/08 A3002 RMK AO2 SLP126 T02060083 KMAF 271853Z 28012G26KT 10SM CLR 36/M03 A2992 RMK AO2 PK WND 27026/1847 SLP075 T03611028 $ KLJF 271852Z AUTO 23004KT 10SM CLR 21/09 A2991 RMK AO2 LBSF 271900Z 03004KT 9999 SCT039 BKN060 15/10 Q1019 NOSIG DXNG 271800Z 03006KT 9999 FEW007 27/23 Q1015 NOSIG KLHZ 271855Z AUTO 26004KT 10SM SCT070 30/18 A2992 RMK AO2 VOCB 271900Z 19010KT 6000 FEW015 SCT080 26/24 Q1009 NOSIG KMAI 271853Z AUTO 27008KT 10SM CLR 30/18 A3007 RMK AO2 SLP180 T03000183 ENVR 270550Z 05019KT 9999 FEW030 07/02 Q1017 VOBL 271900Z 28009KT 6000 SCT015 BKN080 21/21 Q1008 NOSIG VOBM 271200Z 27010KT 9999 SCT015 31/21 Q1009 KLIT 271853Z 19010G19KT 10SM FEW025 SCT035 BKN050 31/24 A2987 RMK AO2 SLP115 T03060244 KO22 271835Z AUTO 27005KT 10SM BKN033 22/10 A3012 RMK AO1 KMAN 271855Z AUTO 34005KT 10SM CLR 22/06 A3018 RMK A01 KMAO 271855Z AUTO 27013G18KT 7SM SCT050 31/18 A2993 RMK AO2 VOCI 271900Z 00000KT 4000 HZ FEW012 SCT080 28/23 Q1008 NOSIG KMBG 271852Z AUTO 28014G20KT 10SM FEW095 23/02 A2986 RMK AO2 SLP106 T02330017 UWKS 271900Z 35004MPS 9999 FEW040 08/01 Q1010 R06/010060 NOSIG RMK QFE742 VNKT 271850Z VRB02KT 7000 FEW015 SCT030 BKN100 19/17 Q1013 NOSIG VOCL 271900Z 00000KT 6000 SCT012 SCT080 29/26 Q1008 NOSIG KMCB 271853Z AUTO 20012G17KT 10SM BKN035 BKN044 BKN055 31/22 A3002 RMK AO2 SLP159 T03060217 TSNO KMBL 271856Z AUTO 28012KT 10SM CLR 20/12 A2990 RMK AO2 SLP144 T02000117 KMCC 271855Z AUTO 22007KT 10SM CLR 22/09 A3008 RMK AO2 KMCD 271855Z AUTO 07003KT 2SM HZ CLR 19/12 A2989 RMK AO2 T01910121 KMAW 271915Z AUTO 21007KT 5SM -RA SCT007 SCT019 SCT027 27/23 A2987 RMK AO2 KMCE 271853Z AUTO 32006KT 10SM CLR 22/11 A3006 RMK AO2 SLP177 T02220106 ENWV 271850Z AUTO 15033KT 9999NDV BKN160/// 16/14 Q1011 W///S3 EPGD 271900Z VRB01KT CAVOK 18/09 Q1022 KMBO 271855Z AUTO 20007KT 10SM SCT030 SCT040 28/22 A2999 RMK AO2 VOBZ 271700Z 14005KT 2500 HZ FEW020 SCT100 28/26 Q1003 NOSIG KMCF 271858Z AUTO 30008KT 10SM CLR 32/19 A3008 RMK AO2 SLP189 T03190189 $ KLKR 271855Z AUTO 24009G16KT 9SM CLR 30/18 A2996 RMK AO2 KMCI 271853Z 21007KT 10SM SCT060 BKN140 BKN180 18/16 A2979 RMK AO2 RAE19 SLP081 P0000 T01780156 $ KMBS 271853Z 00000KT 10SM FEW045 23/13 A2989 RMK AO2 SLP121 T02330128 $ KLLJ 271855Z AUTO 00000KT 10SM CLR 17/M01 A3022 RMK AO2 SLP199 T01721006 KMCJ 271855Z AUTO 21008G17KT 7SM FEW032 FEW100 32/22 A2989 RMK AO1 KMCK 271853Z AUTO 35014KT 10SM BKN055 OVC100 20/13 A2998 RMK AO2 SLP138 T02000128 LCLK 271900Z 06002KT CAVOK 21/11 Q1011 NOSIG KLKU 271855Z AUTO 00000KT 10SM SCT110 30/20 A2985 RMK AO2 KMDD 271855Z AUTO 26015G20KT 250V320 10SM CLR 36/M03 A2992 RMK AO2 T03621027 KMCN 271853Z 25009KT 10SM CLR 32/12 A3003 RMK AO2 SLP165 T03170122 KMCO 271853Z VRB06KT 10SM FEW250 32/11 A3004 RMK AO2 SLP171 T03170111 $ KLLQ 271853Z AUTO 23008G14KT 200V260 10SM SCT027 SCT033 BKN055 31/24 A2992 RMK AO2 SLP127 T03110239 KMDH 271905Z 23007KT 10SM VCTS FEW043 27/22 A2986 RMK AO2 LTG DSNT NE AND NW T02720217 KLNA 271855Z AUTO 12007KT 10SM SCT025 BKN033 BKN041 32/25 A3005 RMK AO2 T03190253 KMDJ 271855Z AUTO 15009KT 28/26 A3008 RMK A01 KMEB 271852Z AUTO 26013G18KT 10SM BKN065 32/18 A2992 RMK AO2 SLP130 T03170178 TSNO KLNC 271855Z AUTO 19008KT 4SM HZ OVC024 29/24 A2986 RMK AO2 T02900236 KLND 271853Z AUTO 03006KT 10SM CLR 15/M01 A3019 RMK AO2 SLP195 T01501011 KMCW 271853Z AUTO 30004KT 10SM OVC095 20/09 A2995 RMK AO2 SLP135 T02000089 KMCX 271855Z AUTO 00000KT 10SM OVC016 20/16 A2991 RMK AO2 T01990162 KO54 271855Z AUTO 25003KT 10SM 25/07 A3007 RMK AO1 KMDQ 271855Z AUTO 19014KT 10SM SCT030 SCT035 OVC065 27/19 A2998 RMK AO2 KMEH 271856Z AUTO 00000KT 10SM CLR 21/M09 A3019 RMK AO2 SLP215 T02061089 KMEI 271858Z 19010KT 10SM BKN065 31/23 A3002 RMK AO2 SLP160 T03060228 KMDS 271850Z AUTO 00000KT 10SM OVC065 18/07 A2994 RMK AO2 KKY8 271855Z AUTO 22006KT 10SM SCT034 BKN055 29/22 A2984 RMK AO1 KLMT 271853Z 11004KT 10SM CLR 22/01 A3017 RMK AO2 SLP185 T02170011 KLNK 271854Z 06008KT 10SM FEW023 21/15 A2988 RMK AO2 SLP112 T02110150 KMDT 271856Z 00000KT 10SM FEW030 OVC045 22/13 A2990 RMK AO2 SLP124 T02170128 KLNL 271855Z AUTO 27007KT 10SM SCT065 24/04 A2985 RMK AO2 T02370043 LDDU 271900Z 05013G25KT 330V130 CAVOK 23/06 Q1017 NOSIG UWOO 271900Z 00000MPS 9999 SCT040CB 12/10 Q1006 R26/CLRD65 NOSIG RMK QFE744/0992 KMFD 271852Z 04003KT 10SM OVC060 23/16 A2990 RMK AO2 SLP119 T02280156 KMEM 271854Z 24013G20KT 10SM SCT026 BKN032 BKN055 30/23 A2991 RMK AO2 SLP123 T03000233 KMDW 271853Z VRB04KT 10SM FEW025 FEW035 BKN250 23/14 A2990 RMK AO2 SLP119 T02280144 $ KMFE 271853Z 14015G20KT 9SM CLR 38/23 A2983 RMK AO2 PK WND 14026/1819 SLP099 T03780233 ENZV 271850Z 17009KT CAVOK 20/12 Q1015 NOSIG KLNN 271855Z AUTO 01009KT 10SM CLR 20/12 A2990 RMK AO1 T02030120 LBWN 271900Z 35006KT 9999 -RA FEW023 BKN036 15/13 Q1016 TEMPO RA UWOR 271900Z 26005MPS CAVOK 13/11 Q1005 R25/190060 NOSIG RMK QFE731/0974 KLNP 271850Z AUTO 00000KT 10SM SCT020 SCT060 SCT070 23/17 A3003 RMK AO2 KMDZ 271855Z AUTO 26007KT 10SM BKN050 21/09 A2988 RMK AO2 T02080088 KMER 271845Z 30005KT 10SM SKC 25/MM A3007 KMFI 271854Z AUTO 27011G17KT 10SM CLR 22/09 A2987 RMK AO2 SLP114 T02220094 KLNR 271856Z AUTO 00000KT 8SM CLR 22/15 A2990 RMK AO2 SLP118 T02170150 KLNS 271853Z 25007KT 10SM OVC048 21/13 A2990 RMK AO2 SLP124 T02110128 KO69 271855Z AUTO VRB05G11KT 10SM CLR 17/11 A3012 RMK A01 DXSK 271800Z 00000KT CAVOK 29/24 Q//// KLOL 271853Z AUTO 08008G14KT 10SM CLR 23/M03 A3016 RMK AO2 SLP184 T02281033 TSNO KMGC 271855Z AUTO 32007KT 10SM OVC025 20/16 A2992 RMK AO2 KLPC 271856Z AUTO 29010KT 10SM CLR 18/10 A3010 RMK AO2 SLPNO T01830100 VOGO 271530Z 29009KT 6000 FEW020 FEW080 29/23 Q1006 NOSIG KMEV 271855Z AUTO 00000KT 10SM CLR 20/00 A3017 RMK AO2 KLOM 271855Z AUTO 29006KT 10SM SCT037 SCT060 BKN100 21/14 A2991 RMK AO1 KMGE 271858Z 22010KT 10SM SCT044 BKN150 BKN250 29/18 A3002 RMK AO2A SLP157 T02900181 $ KMGG 271853Z AUTO 21003KT 10SM SCT110 21/10 A2991 RMK AO2 T02100101 KMEZ 271855Z AUTO 20006KT 10SM SCT033 SCT038 31/26 A2987 RMK AO2 LCPH 271900Z 34004KT 320V020 CAVOK 19/10 Q1010 KMFR 271853Z VRB03KT 10SM CLR 26/08 A3003 RMK AO2 SLP160 T02560083 $ KLOR 271858Z AUTO 22007KT 10SM SCT047 30/20 A3006 RMK AO2 SLP160 T02970198 KMGJ 271854Z AUTO 24008KT 10SM SCT041 BKN050 OVC070 22/13 A2986 RMK AO2 SLP109 T02170128 TSNO KLOT 271855Z AUTO 00000KT 10SM CLR 23/16 A2990 RMK AO2 T02310159 KLOU 271853Z 23011KT 10SM -TSRA SCT034 BKN050 BKN065 28/21 A2987 RMK AO2 RAB50 TSB53 SLP110 P0000 T02780211 EPKK 271900Z VRB01KT CAVOK 15/09 Q1023 EPLB 271900Z 34004KT CAVOK 15/10 Q1023 KMGM 271853Z 23008KT 10SM FEW034 SCT045 31/21 A3005 RMK AO2 SLP173 T03060206 $ KMFV 271855Z AUTO 16009KT 10SM SCT120 25/M21 A2989 RMK AO2 T02451214 KMHE 271853Z AUTO 26005KT 10SM OVC075 20/08 A2995 RMK AO2 SLP138 T02000083 KMGN 271853Z AUTO 21005KT 10SM CLR 19/11 A2988 RMK AO2 T01930115 FHAW 271850Z 12014KT 9999 FEW025 27/20 Q1013 BLU NOSIG VOHS 271900Z 12010KT 6000 TSRA SCT015 FEW030CB SCT100 25/22 Q1008 NOISIG KLOZ 271901Z AUTO 22009KT 10SM FEW027 BKN036 27/18 A2994 RMK AO2 T02670183 KO86 271855Z AUTO 00000KT 10SM CLR 23/ A3007 RMK AO1 KLPR 271853Z AUTO 06008KT 10SM CLR 21/12 A2990 RMK AO2 SLP124 T02110117 KMGR 271855Z AUTO 25008KT 10SM CLR 31/13 A3007 RMK AO2 KMIA 271853Z 14007KT 100V170 10SM VCTS BKN034 BKN050 34/24 A3004 RMK AO2 LTG DSNT S TSE51 SLP171 CB DSNT S AND SW T03390244 LCRA 271850Z 21005KT CAVOK 22/09 Q1010 NOSIG EPKS 271830Z VRB02KT CAVOK 20/07 Q1023 RMK 204 044 0/0= KMHK 271852Z 34007KT 10SM CLR 23/18 A2981 RMK AO2 RAB33E42 SLP087 P0000 T02330178 KMIB 271858Z AUTO 32021G28KT 10SM FEW075 20/04 A2974 RMK AO2 PK WND 30036/18 RAB26E36 SLP075 P0001 T02020043 $ EPMB 271830Z 15004KT CAVOK 18/10 Q1022 RMK 181 062 0/0= KMIC 271853Z 20008KT 10SM SCT110 21/06 A2988 RMK AO2 SLP118 T02110061 KMHL 271855Z AUTO 00000KT 10SM VCTS BKN095 25/17 A2990 RMK AO2 LTG DSNT S THRU NW EPKT 271900Z VRB02KT CAVOK 15/10 Q1023 KLRD 271856Z 16016G21KT 10SM CLR 36/23 A2982 RMK AO2 SLP095 T03560233 $ EPLL 271900Z VRB01KT CAVOK 16/08 Q1023 VOHY 271530Z VRB02KT 6000 SCT020 32/18 Q1006 NOSIG KMGW 271853Z 02005KT 10SM OVC017 20/17 A2992 RMK AO2 SLP126 T02000172 KMIE 271906Z VRB04KT 10SM BKN027 OVC040 24/18 A2988 RMK AO2 T02440178 KLRF 271858Z AUTO 21009KT 10SM FEW050 SCT200 30/24 A2987 RMK AO2 SLP115 T03020241 KMGY 271853Z AUTO 27009KT 10SM CLR 27/19 A2986 RMK AO2 SLP106 T02670189 KMHR 271845Z 23007KT 10SM SKC 21/10 A3007 KLRJ 271855Z AUTO 02009KT 10SM OVC075 19/10 A2994 RMK AO2 KMHS 271856Z AUTO 00000KT 10SM CLR 25/03 A3011 RMK AO2 SLP191 T02500033 KP08 271855Z AUTO RMK AO2 PNO PWINO TSNO LEAB 271900Z 17009KT CAVOK 23/09 Q1018 NOSIG KMHT 271853Z 00000KT 10SM BKN060 20/08 A2984 RMK AO2 SLP117 T02000078 KMHV 271840Z AUTO 00000KT 10SM CLR 25/02 A3004 RMK A01 EPMM 271830Z 05002KT CAVOK 17/09 Q1023 RMK 173 058 1/1= KLSE 271853Z 30003KT 10SM SCT060 24/12 A2989 RMK AO2 SLP115 T02390117 KLRO 271855Z AUTO 23009KT 10SM CLR 31/19 A2997 RMK AO2 KLSF 271858Z AUTO 20008KT 10SM CLR 30/18 A3003 RMK AO2 SLP172 T02990183 LEAG 271900Z AUTO VRB06KT 9999 BKN023 BKN028 22/17 Q1015 EPMO 271900Z 25001KT CAVOK 17/08 Q1023 LEBA 271900Z 25009KT CAVOK 27/16 Q1012 KMIS 271855Z AUTO 20007KT 7SM FEW038 29/24 A3009 RMK A01 LEBB 271900Z 00000KT 9999 FEW035CB SCT070 22/18 Q1011 TEMPO 4000 TSRA BKN025CB KNAK 271854Z AUTO 00000KT 10SM OVC085 22/14 A2990 RMK AO2 SLP127 T02170144 LEAL 271900Z 06011KT CAVOK 24/12 Q1017 NOSIG KMKC 271854Z 33011G16KT 10SM CLR 19/16 A2977 RMK AO2 RAE01 SLP077 P0000 T01940156 KNBC 271856Z AUTO 23013G18KT 10SM CLR 33/18 A2999 RMK AO2 SLP155 T03280183 PWINO $ KLRU 271855Z AUTO 26017G25KT 10SM CLR 30/M10 A3009 RMK AO2 T02951099 LEAM 271900Z 08015KT CAVOK 24/16 Q1013 KMIV 271854Z AUTO 26005KT 10SM -RA BKN075 OVC095 20/16 A2990 RMK AO2 RAB37 SLP125 P0000 T02000156 KMKE 271852Z 12010KT 10SM SCT041 SCT250 22/13 A2990 RMK AO2 SLP124 T02170128 KMIW 271905Z AUTO 34010KT 5SM VCTS -RA BR FEW040 BKN070 OVC100 16/15 A2987 RMK AO2 LTG DSNT N-SE TSE1859 PRESFR P0001 T01610150 KLRY 271855Z AUTO 09007KT 10SM SCT095 18/17 A2983 RMK AO2 P0003 LTG DSNT E THRU S LEBG 271900Z AUTO 01007KT 340V070 CAVOK 19/14 Q1016 KNBG 271855Z 21013KT 10SM SCT028 BKN035 30/25 A3004 RMK AO2 SLP172 T03000250 $ KMKG 271855Z 27011KT 10SM SCT040 SCT250 22/11 A2990 RMK AO2 SLP123 T02220106 KMJQ 271855Z AUTO 00000KT 10SM OVC070 17/10 A2995 RMK AO2 KNCA 271856Z AUTO 24011KT 10SM SCT060 32/18 A2990 RMK AO2 SLP127 T03170178 LEAS 271900Z VRB01KT 4000 BR FEW002 BKN007 16/15 Q1014 TEMPO 2000 BR BKN004 KLUA 271855Z AUTO 05007KT 10SM SCT050 25/18 A2987 RMK AO2 KP28 271856Z AUTO 08009G18KT 27/15 A2982 RMK AO1 SLP083 T02670150 KMKJ 271855Z AUTO 24010G18KT 10SM SCT025 SCT060 OVC070 24/18 A3003 RMK AO2 T02410175 KMLB 271853Z 11010KT 10SM CLR 31/22 A3003 RMK AO2 SLP169 T03110217 VOMD 271900Z 00000KT 5000 HZ FEW018 SCT100 29/22 Q1006 NOSIG EPOK 271830Z 20002KT CAVOK 18/05 Q1022 RMK 179 043 4/4 = LEBL 271900Z 08004KT 050V110 CAVOK 21/18 Q1019 NOSIG KMKL 271853Z 20013KT 10SM SCT023 BKN034 29/24 A2991 RMK AO2 SLP122 T02890239 KMLC 271853Z AUTO 18014G25KT 10SM FEW031 32/24 A2978 RMK AO2 PK WND 21026/1841 SLP072 T03220244 KLSV 271858Z AUTO 01004KT 10SM CLR 30/00 A2997 RMK AO2 SLP126 T02950001 KLUD 271855Z AUTO 16013G17KT 7SM CLR 34/23 A2981 RMK AO2 T03430229 KMKN 271855Z AUTO 17011G17KT 10SM SCT028 BKN035 OVC042 32/25 A2986 RMK AO2 T03220251 KMLE 271855Z AUTO 05006KT 10SM BKN027 21/15 A2987 RMK AO2 T02130154 KLUF 271858Z AUTO 17004KT 10SM CLR 31/M02 A2993 RMK AO2 SLP123 T03121018 $ KMLF 271852Z AUTO 02011G19KT 10SM CLR 20/M02 A3019 RMK AO2 SLP177 T02001022 KMKO 271853Z AUTO 19012G19KT 10SM SCT034 SCT044 32/24 A2977 RMK AO2 SLP072 T03170244 $ KMJX 271856Z AUTO 16007KT 8SM SCT050 OVC110 21/14 A2989 RMK AO2 SLP127 T02060144 LECH 271900Z AUTO 00000KT 9999 NCD 21/16 Q1019 KMLI 271852Z VRB03KT 10SM CLR 23/16 A2988 RMK AO2 SLP117 T02330161 KMKS 271855Z AUTO 24008KT 10SM CLR 31/14 A2996 RMK AO2 KMLJ 271855Z AUTO 26005KT 10SM CLR 31/14 A3002 RMK AO2 VOML 271800Z 29004KT 6000 SCT015 SCT080 29/25 Q1008 NOSIG KLTS 271858Z AUTO 03004KT 10SM CLR 35/09 A2976 RMK AO2 SLP060 T03470089 VOND 270330Z 25009KT 6000 NSC 35/18 Q1007 LEBT 271900Z AUTO 10003KT 050V130 9999 // NCD 23/14 Q1018 KLUK 271853Z 26009KT 10SM FEW036 FEW045 28/21 A2986 RMK AO2 SLP107 T02780206 KMKT 271856Z AUTO 16005KT 10SM BKN100 18/09 A2993 RMK AO2 RAE19 SLP134 P0000 T01830089 KNBT 271856Z AUTO 21016G20KT 10SM CLR A2992 RMK AO2 SLP138 PNO $ VOMM 271900Z 15004KT 6000 FEW020 BKN100 31/27 Q1003 NOSIG KLUL 271855Z AUTO 20006KT 10SM SCT038 BKN044 BKN060 31/21 A3003 RMK AO2 T03100213 KLUM 271855Z AUTO 28011G16KT 10SM RA SCT032 BKN065 OVC090 19/09 A2990 RMK AO2 T01910087 LDLO 271400Z 31009KT CAVOK 24/16 Q1019 LECO 271900Z 02004KT 310V050 9000 BKN014 17/15 Q1014 NOSIG DXXX 271800Z 19009KT 9999 FEW013 29/25 Q1012 NOSIG KMLP 271853Z AUTO VRB05KT 10SM CLR 14/01 A3027 RMK AO2 SLP176 T01390011 TSNO KMKY 271855Z AUTO 26010KT 10SM CLR 33/21 A3007 RMK AO1 EPPO 271900Z 11005KT CAVOK 19/07 Q1023 LEBZ 271900Z 24010KT 210V270 CAVOK 26/13 Q1013 KMMH 271855Z AUTO 14006KT 10SM CLR 19/M04 A3024 RMK AO2 T01851041 KMMI 271855Z AUTO 20009KT 10SM FEW030 27/20 A2997 RMK KLVJ 271907Z AUTO 16012KT 8SM BKN027 32/23 A2994 RMK AO2 T03170233 KMLS 271853Z AUTO 27017G28KT 10SM SCT090 23/02 A2996 RMK AO2 PK WND 27028/1849 SLP136 T02330017 KLWA 271855Z AUTO 33006KT 10SM SCT040 21/15 A2991 RMK AO2 T02100148 KLVK 271853Z 31011KT 10SM CLR 19/10 A3008 RMK AO2 SLP185 T01940100 KMLT 271853Z AUTO 02005KT 10SM BKN047 17/07 A2985 RMK AO2 SLP115 T01670072 TSNO KMMK 271853Z AUTO 00000KT 10SM SCT045 BKN055 20/11 A2987 RMK AO2 SLP115 T02000106 TSNO KLWB 271855Z AUTO 24011G18KT 10SM SCT035 SCT046 BKN080 25/17 A2996 RMK AO2 T02460168 EPRA 271900Z VRB02KT CAVOK 16/08 Q1023 KLWC 271852Z AUTO 11006KT 10SM BKN110 21/17 A2979 RMK AO2 SLP082 T02060167 KMLU 271853Z 18011G16KT 10SM FEW029 SCT036 BKN055 32/23 A2995 RMK AO2 SLP140 T03170233 KMML 271856Z AUTO 24007KT 10SM CLR 21/08 A2991 RMK AO2 SLP130 T02110078 KLVL 271855Z AUTO 22009KT 10SM CLR 30/18 A2988 RMK AO1 T02960177 LECV 271800Z 14011KT 9999 FEW050 28/06 Q1016 KLWD 271853Z AUTO VRB04G17KT 10SM FEW019 SCT110 21/16 A2982 RMK AO2 SLP092 T02110161 KLVM 271853Z AUTO 28007KT 10SM FEW075 SCT095 19/04 A3015 RMK AO2 SLP196 T01890044 TSNO VOMY 270800Z 26005KT 8000 SCT015 SCT080 28/23 Q1010 KLVN 271848Z AUTO 00000KT 10SM SCT090 18/11 A2991 RMK AO2 P0001 KMNE 271855Z AUTO 18011G16KT 150V210 10SM BKN028 BKN040 OVC049 31/24 A2993 RMK AO2 T03130235 KP53 271856Z AUTO 20009G15KT 26/12 A2980 RMK AO1 SLP090 T02560117 EPPW 271830Z VRB02KT CAVOK 19/06 Q1023 RMK 190 042 0/0 = KLUX 271855Z AUTO 24009KT 230V290 7SM CLR 29/18 A2996 RMK AO2 KMNI 271855Z AUTO 29021G27KT 260V320 10SM CLR 31/20 A2996 RMK AO2 KLVS 271853Z AUTO 06007G15KT 10SM CLR 24/M08 A3007 RMK AO2 SLP076 T02391083 KP58 271851Z AUTO 11012KT 14/12 A2991 RMK AO1 SLP127 T01440122 $ KMMT 271858Z AUTO 27010G17KT 10SM FEW055 32/18 A2996 RMK AO2 SLP146 T03180181 $ KP59 271851Z AUTO 35010KT 11/08 A2981 RMK AO1 SLP093 T01110083 KMOB 271856Z 20009KT 10SM SCT065 SCT250 31/21 A3007 RMK AO2 SLP180 T03060206 KP60 271856Z AUTO 00000KT 04/01 A3031 RMK AO1 SLP260 T00390011 $ KNEL 271900Z AUTO 19007KT 10SM SCT041 OVC120 21/14 A2988 RMK AO2 SLP115 T02110139 $ KMMU 271845Z 00000KT 10SM OVC055 22/13 A2987 KMOD 271853Z 35005KT 10SM CLR 22/11 A3007 RMK AO2 SLP182 T02170111 $ KMMV 271853Z AUTO VRB03KT 10SM CLR 24/12 A3006 RMK AO2 SLP177 T02440122 KLWM 271854Z 13005KT 10SM FEW045 BKN055 21/11 A2987 RMK AO2 SLP114 T02060106 KMNM 271356Z AUTO 23007KT 10SM CLR 19/13 A2987 RMK AO2 SLP130 T01890133 $ EPSC 271900Z VRB01KT CAVOK 20/13 Q1022 KMNN 271853Z AUTO 10003KT 10SM FEW042 SCT055 24/16 A2989 RMK AO2 SLP118 T02390161 KNFE 271856Z AUTO 27004KT 10SM CLR 33/17 A2987 RMK AO2 SLP117 T03280167 KNFG 271855Z AUTO 26009KT 9SM BKN038 21/12 A3006 RMK AO2 SLP178 T02110117 KNDZ 271856Z AUTO A3007 RMK AO2 SLPNO PWINO TSNO PNO $ LEGA 271200Z 26009KT CAVOK 31/08 Q1015 KP68 271853Z AUTO 02007KT 330V040 17/M02 A3023 RMK AO1 SLP190 T01721017 KLWS 271856Z VRB04KT 10SM CLR 24/08 A3013 RMK AO2 SLP199 T02390083 KP69 271852Z AUTO 18003KT 24/07 A3012 RMK AO1 SLP189 T02390067 $ KLWT 271854Z AUTO 29014G22KT 10SM BKN095 19/01 A3008 RMK AO2 SLP176 T01940011 KLXL 271852Z AUTO 25008KT 10SM SCT065 22/03 A2987 RMK AO2 KNFL 271856Z 24004KT 10SM CLR 22/M06 A3015 RMK AO2 SLP174 T02171061 FGSL 271800Z 24003KT 9999 SCT010 FEW020CB 27/24 Q1013 NOSIG KLWV 271853Z AUTO 32005KT 10SM SCT034 BKN044 27/20 A2987 RMK AO2 SLP110 T02720200 KMNV 271855Z AUTO 22012G18KT 190V250 10SM BKN028 BKN034 27/21 A2997 RMK A01 LEGE 271900Z 20010KT 170V230 CAVOK 19/15 Q1019 KNEW 271853Z 21012KT 10SM SCT039 BKN048 31/23 A3003 RMK AO2 SLP164 T03110228 KLXN 271855Z AUTO 36010KT 10SM OVC042 20/12 A2997 RMK AO2 T01950121 EPSN 271830Z VRB02KT CAVOK 22/11 Q1022 RMK 221 047 0/0= KMOP 271855Z AUTO 22005KT 10SM SCT048 BKN050 OVC065 24/12 A2989 RMK AO2 T02410120 KLYH 271854Z 00000KT 10SM FEW050 30/18 A2988 RMK AO2 SLP110 T03000183 KMNZ 271855Z AUTO 19011KT 7SM OVC017 30/24 A2990 RMK AO2 T02980238 KMOR 271855Z AUTO 30008KT 260V020 10SM FEW034 SCT039 BKN050 27/20 A2997 RMK A01 EPRZ 271900Z 36003KT CAVOK 15/08 Q1023 LDOS 271900Z 04008KT CAVOK 17/10 Q1020 KLXT 271853Z AUTO 14009KT 10SM CLR 18/15 A2978 RMK AO2 PK WND 07029/1754 WSHFT 1747 LTG DSNT SE RAE11 TSE18 PRESRR SLP077 P0000 T01830150 KMOT 271854Z 28026G33KT 10SM BKN080 21/03 A2978 RMK AO2 PK WND 28033/1854 SLP082 T02060028 KMQB 271855Z AUTO 10003KT 10SM SCT020 23/18 A2989 RMK AO2 T02280176 LEHC 271900Z AUTO 09010KT 9999 NCD 24/11 Q1018 LDPL 271900Z 26004KT CAVOK 19/14 Q1020 NOSIG KLXV 271906Z AUTO 34006KT 3SM -SN FEW013 BKN021 OVC060 02/M01 A3026 RMK AO2 P0000 T00221006 KNFW 271852Z 18017KT 10SM OVC037 33/24 A2982 RMK AO2 CIG 030 N SLP082 T03280239 $ KMQE 271856Z AUTO 08006KT 19/09 A2986 RMK AO1 SLP121 T01890094 KMPO 271853Z AUTO 25007KT 10SM SCT033 BKN046 18/11 A2991 RMK AO2 SLP125 T01780111 KMOX 271853Z AUTO 22007KT 10SM CLR 22/07 A2987 RMK AO2 KLXY 271855Z AUTO 18012G19KT 10SM BKN029 OVC037 31/24 A2987 RMK AO2 T03060239 KNGP 271756Z AUTO 16014G24KT 9SM SCT018 31/26 A2990 RMK AO2 PK WND 15027/1742 SLP125 T03110256 10322 20272 58001 PWINO EPSY 271800Z VRB02KT CAVOK 19/09 Q1022 LEGR 271900Z 24006KT 190V280 CAVOK 29/12 Q1014 KMQI 271900Z AUTO 00000KT 10SM SCT060 28/17 A2990 RMK AO2 T02820170 KMQJ 271901Z AUTO RMK AO1 LEGT 271800Z 12009KT CAVOK 32/08 Q1013 LEIB 271900Z 06007KT 030V090 CAVOK 22/17 Q1017 NOSIG KMRB 271853Z 01005KT 10SM SCT013 OVC040 19/16 A2990 RMK AO2 SLP122 T01890161 KNHK 271852Z 14009KT 10SM BKN085 22/17 A2989 RMK AO2 SLP120 ACC OVHD T02170172 KNGU 271659Z 03006KT 9SM SCT110 28/17 A2990 RMK AO2 SLP126 T02830167 KMRC 271855Z AUTO 20013KT 9SM FEW028 SCT080 28/22 A2992 RMK A01 KMPV 271851Z AUTO 30007KT 10SM OVC048 18/09 A2992 RMK AO2 SLP133 T01780094 KNID 271856Z AUTO 12008G15KT 10SM CLR 28/M01 A3000 RMK AO2 SLP142 T02831006 $ KP92 271853Z AUTO VRB04KT 29/24 A3002 RMK AO1 SLP165 T02890239 $ KLYV 271858Z AUTO 22007KT 10SM OVC065 16/10 A2997 RMK AO2 KMRF 271856Z AUTO 28016G25KT 10SM CLR 32/00 A3011 RMK AO2 SLP131 T03170000 KMPZ 271855Z AUTO 16006KT 10SM SCT120 23/16 A2989 RMK AO2 T02340161 KMRH 271858Z AUTO 22015KT 10SM CLR 28/21 A2993 RMK AO2 SLP134 T02780211 TSNO LDRI 271900Z 35005KT 320V030 CAVOK 23/11 Q1019 KMQS 271855Z AUTO 26004KT 10SM BKN042 BKN095 20/13 A2993 RMK AO2 KMRJ 271855Z AUTO 25006KT 10SM SCT023 22/17 A2992 RMK AO2 LDSB 271800Z 35005KT CAVOK 19/06 Q1018 EPWA 271900Z 33005KT CAVOK 18/07 Q1023 NOSIG KLZU 271845Z 28013KT 10SM BKN055 28/18 A3003 RMK ATIS W RWY 25 VISUAL APCH LL KMRN 271855Z AUTO 20003KT 10SM CLR 29/17 A2996 RMK AO2 T02860166 VORY 271230Z 09009KT 2000 FU SCT020 30/27 Q1001 KMQY 271856Z 22008KT 10SM SCT035 BKN055 BKN070 29/22 A2993 RMK AO2 SLP011 T02890217 KNIP 271853Z 08007KT 240V210 10SM FEW250 32/16 A3003 RMK AO2 SLP164 T03220156 KLZZ 271855Z AUTO 19006KT 5SM HZ OVC019 28/25 A2989 RMK AO2 T02770246 VOTK 271000Z 27012KT 7000 FEW020 38/21 Q1002 LFBA 271900Z AUTO 13006KT CAVOK 26/16 Q1015 KOAJ 271856Z AUTO 24007KT 10SM FEW060 32/19 A2991 RMK AO2 SLP131 T03220194 KOAK 271853Z 29007KT 10SM SCT021 18/10 A3012 RMK AO2 SLP200 T01780100 KMRT 271852Z AUTO 05005KT 10SM SCT023 BKN027 OVC042 23/18 A2989 RMK AO2 T02280180 KNJK 271856Z VRB04KT 10SM CLR 29/07 A2993 RMK AO2 SLP150 T02940072 $ LFBC 271900Z AUTO 10007KT CAVOK 28/19 Q1013 KMSL 271853Z AUTO 22014G20KT 10SM SCT028 SCT036 30/21 A2997 RMK AO2 SLP140 T03000211 KMTC 271858Z VRB05KT 10SM FEW030 FEW045 FEW250 22/15 A2990 RMK AO2A SLP126 T02160150 KNJM 271657Z AUTO 22011KT 10SM CLR 27/19 A2995 RMK AO2 SLP146 T02670194 $ LFBD 271900Z AUTO 12009KT CAVOK 28/19 Q1014 TEMPO SCT080TCU LFBE 271900Z AUTO VRB03KT CAVOK 26/19 Q1014 NOSIG VOTP 271600Z 20008KT 6000 FEW020 SCT100 32/23 Q1003 KMSN 271853Z VRB04KT 10SM SCT031 BKN250 22/15 A2989 RMK AO2 SLP121 T02220150 KOBE 271855Z AUTO 31004KT 10SM CLR 34/15 A3005 RMK AO2 KMSO 271853Z 10SM CLR 22/05 A3017 RMK AO2 SLP206 T02170050 $ VOTR 271900Z 29007KT 4000 HZ FEW018 SCT080 31/22 Q1004 NOSIG LFBG 271900Z AUTO 11004KT CAVOK 27/18 Q1014 KMSP 271853Z 25006KT 10SM BKN100 21/07 A2990 RMK AO2 RAB12E29 SLP123 P0000 T02060067 KMRY 271854Z 32010KT 10SM CLR 16/09 A3012 RMK AO2 SLP213 T01560089 LDSP 271900Z 03017KT CAVOK 24/07 Q1017 NOSIG LFAQ 271900Z AUTO 32008KT CAVOK 19/15 Q1017 LFBH 271900Z AUTO 00000KT CAVOK 22/17 Q1014 TEMPO -TSRA BKN080CB KMTH 271853Z AUTO 00000KT 10SM OVC019 31/26 A3006 RMK AO2 SLP179 T03110261 LFBI 271900Z AUTO VRB02KT 9999 ///TCU 27/16 Q1015 NOSIG LEJR 271900Z 28005KT 240V310 CAVOK 21/16 Q1014 KMTJ 271853Z AUTO 04009KT 10SM CLR 18/M01 A3014 RMK AO2 SLP144 T01831006 KMSS 271853Z AUTO 32003KT 10SM FEW050 22/09 A2988 RMK AO2 SLP120 T02170094 EPWR 271900Z 13004KT CAVOK 18/08 Q1023 VOTV 271900Z 34003KT 4000 HZ FEW015 28/26 Q1008 NOSIG LFAT 271900Z AUTO 32007KT 9999 OVC005 15/13 Q1018 LELC 271900Z 03013KT 010V070 CAVOK 23/16 Q1016 NOSIG LFBL 271900Z AUTO 15004KT CAVOK 25/16 Q1017 NOSIG KNLC 271856Z AUTO 03006KT 9SM CLR 24/08 A3007 RMK AO2 SLP180 T02390083 LFBM 271900Z AUTO 10010KT CAVOK 28/17 Q1013 KMSV 271855Z AUTO 28006KT 10SM BKN050 OVC065 18/12 A2991 RMK AO1 KMTN 271845Z 00000KT 9SM SCT030 OVC090 21/17 A2992 LFBO 271900Z AUTO 13015KT CAVOK 24/10 Q1016 TEMPO 14015G25KT KMTO 271853Z AUTO 01005KT 10SM FEW024 24/18 A2987 RMK AO2 SLP111 T02440183 KOCF 271856Z 28007KT 10SM CLR 33/14 A3005 RMK AO2 SLP178 T03330144 PNO $ LFBP 271900Z AUTO 10006KT 070V130 CAVOK 27/18 Q1013 NOSIG KMSY 271853Z 17012KT 10SM SCT028 BKN040 BKN250 31/24 A3003 RMK AO2 SLP173 T03060239 KMTP 271854Z AUTO VRB04KT 18/08 A2991 RMK AO1 SLP128 T01830083 KOCH 271855Z 21009G20KT SCT041 BKN048 32/24 A2989 RMK AO1 KMUI 271858Z AUTO 24006KT 10SM FEW120 BKN180 22/13 A2989 RMK AO2 SLP123 T02210129 LFCK 271900Z AUTO 11021G31KT 080V140 CAVOK 23/09 Q1017 NOSIG LFBT 271900Z AUTO 06004KT 020V100 CAVOK 25/18 Q1015 NOSIG KNKT 271854Z 20010KT 10SM CLR 31/19 A2992 RMK AO2 SLP127 T03060189 $ LELL 271900Z AUTO 11004KT 070V140 9999 NCD 21/17 Q1019 LFBU 271900Z AUTO VRB02KT CAVOK 27/18 Q1015 NOSIG LEMD 271900Z 14010KT CAVOK 30/09 Q1014 NOSIG KMTV 271855Z AUTO 25004KT 10SM SCT050 SCT065 SCT085 29/19 A2992 RMK AO2 T02930190 LELN 271900Z VRB01KT CAVOK 22/14 Q1016 KMVE 271852Z AUTO 25005KT 10SM CLR 24/09 A2989 RMK AO2 KMTW 271856Z AUTO 16013KT 10SM CLR 20/11 A2989 RMK AO2 SLP142 T02000106 LELO 271900Z 07008KT 020V110 9999 FEW065 28/13 Q1013 KMUO 271858Z AUTO 34003KT 10SM CLR 21/05 A3019 RMK AO2 SLP215 T02060049 $ KNKX 271855Z 31008KT 10SM BKN033 22/11 A3006 RMK AO2 SLP176 T02220111 $ LEMG 271900Z 13006KT 9999 BKN022 22/17 Q1015 NOSIG LFBY 271900Z AUTO 09007KT 9999 // ////// 29/19 Q1012 LEMH 271900Z 09008KT 050V110 9999 FEW008 21/17 Q1019 LFBZ 271900Z AUTO 09006KT CAVOK 27/21 Q1012 TEMPO 28020G30KT TSRA BKN005 SCT050CB KMVH 271855Z AUTO 31018G27KT 10SM FEW100 19/02 A3010 RMK AO2 KOCQ 271855Z AUTO 20009KT 140V220 10SM SCT055 24/10 A2985 RMK AO1 T02400104 EPZG 271900Z 10004KT CAVOK 19/07 Q1023 LFCR 271900Z AUTO 13010KT CAVOK 22/09 Q1019 NOSIG KMWA 271847Z 20010KT 10SM SCT035 SCT045 OVC100 29/21 A2986 KMUT 271855Z AUTO 10004KT 10SM CLR 23/17 A2989 RMK AO2 KOEB 271854Z AUTO 12005KT 10SM OVC037 22/15 A2990 RMK AO2 T02160149 KMVL 271854Z AUTO 00000KT 10SM BKN050 OVC060 18/08 A2989 RMK AO2 SLP124 T01780078 KMWC 271845Z 21003KT 10SM SCT032 22/12 A2991 KNMM 271856Z AUTO 23010G19KT 200V260 10SM SCT037 SCT045 BKN065 31/20 A3002 RMK AO2 SLP171 T03060200 $ KMVN 271856Z AUTO 21006KT 29/21 A2986 RMK AO2 LTG DSNT S SLP107 T02890211 PWINO $ KOCW 271900Z AUTO 24009KT 10SM CLR 31/18 A2990 RMK AO2 T03110181 VOVZ 271900Z 00000KT 5000 BR FEW018 BKN090 29/26 Q1002 NOSIG KODO 271853Z AUTO 27018G24KT 10SM CLR 36/M06 A2993 RMK AO2 SLP080 T03611056 LEMO 271900Z 24009KT 210V280 CAVOK 23/15 Q1014 NOSIG KMWH 271852Z VRB06KT 10SM CLR 26/06 A3011 RMK AO2 SLP190 T02610056 KMWK 271855Z AUTO 22004KT 10SM SCT050 SCT075 SCT080 28/18 A2995 RMK AO2 T02810181 KMWL 271853Z AUTO 19014G18KT 10SM CLR 35/23 A2979 RMK AO2 SLP072 T03500228 KMWM 271855Z AUTO 19009KT 10SM SCT080 17/11 A2994 RMK AO2 KMWN 271848Z 34007KT 2SM BKN/// BKN020 06/04 RMK BBLO BKN ALQDS LIMITING VIS TO 2SM INTMT FG KODX 271853Z AUTO 30004KT 10SM BKN050 OVC065 20/08 A2995 RMK AO2 SLP135 T02000083 KOFF 271856Z AUTO 03009KT 10SM FEW021 21/16 A2985 RMK AO2 SLP108 T02080156 $ KMWO 271855Z AUTO 26006KT 230V290 10SM SCT035 28/18 A2987 RMK AO2 T02780182 KOEO 271855Z AUTO 25007KT 10SM CLR 21/06 A2993 RMK AO2 T02100062 KMXF 271858Z AUTO 24009KT 10SM FEW035 30/21 A3003 RMK AO2 SLP170 T02980214 KMVY 271853Z 09007KT 10SM BKN034 BKN041 17/09 A2988 RMK AO2 SLP119 T01720094 KNOG 271856Z AUTO 13013G20KT 10SM CLR 34/26 A2986 RMK AO2 SLP090 T03440256 LEPA 271900Z 10006KT 070V140 CAVOK 25/13 Q1018 NOSIG LFGA 271900Z AUTO 29007KT CAVOK 26/17 Q1017 KNPA 271856Z 19011KT 10SM FEW022 SCT060 BKN250 29/23 A3007 RMK AO2 SLP185 T02890228 $ PTKK 271850Z VRB05KT 15SM SCT013CB BKN120 OVC280 28/27 A2980 RMK CB ALQDS SLP093 T02780266 KOGA 271855Z AUTO 01006KT 10SM -RA SCT029 BKN065 OVC110 16/11 A3004 RMK AO2 T01600111 KOGB 271853Z AUTO 25013KT 10SM CLR 32/17 A2997 RMK AO2 SLP145 T03170167 KMWT 271853Z AUTO 10SM SCT028 SCT035 BKN045 30/22 A2986 RMK AO2 SLP096 T03000222 KOFK 271856Z AUTO 03009KT 10SM BKN070 22/08 A2991 RMK AO2 SLP123 T02170083 KOGD 271853Z VRB04KT 10SM CLR 16/03 A3023 RMK AO2 SLP211 T01560028 KMYF 271853Z 29011KT 10SM BKN026 BKN031 20/11 A3006 RMK AO2 SLP177 T02000111 KMXO 271855Z AUTO 00000KT 10SM FEW017 21/16 A2990 RMK AO2 KOFP 271854Z AUTO VRB05KT 10SM FEW055 SCT090 29/16 A2986 RMK AO2 SLP110 T02890161 PTKR 271854Z 05004KT 15SM FEW017 BKN120 OVC300 27/25 A2978 RMK SLP084 T02740249 LFGJ 271900Z AUTO 13003KT CAVOK 26/17 Q1017 NOSIG KNQA 271850Z 22006G14KT 8SM SCT024 OVC050 29/23 A2989 KMYJ 271855Z AUTO 04010KT 7SM CLR 25/17 A2985 RMK AO2 LTG DSNT S LDZA 271900Z 07003KT CAVOK 21/09 Q1020 NOSIG KMYL 271851Z AUTO 22004KT 10SM CLR 17/M01 A3022 RMK AO2 SLP213 T01721011 $ LDZD 271900Z 06006KT 360V110 9999 FEW050 22/07 Q1019 NOSIG KNOW 271855Z AUTO 13003KT 10SM CLR 17/10 A3012 RMK AO2 T01690101 LEPP 271900Z 16006KT 090V210 CAVOK 27/13 Q1015 ESCF 271850Z AUTO 26009KT 9999 NCD 24/13 Q1017 KMZG 271855Z AUTO 14012KT 8SM CLR 28/25 A2992 RMK A01 KMZH 271856Z AUTO 23006KT 10SM SCT070 21/06 A2985 RMK AO2 KNOZ 271859Z AUTO VRB03KT 10SM CLR 31/05 A2993 RMK AO2 SLP084 T03110050 $ KMYR 271845Z 25015G20KT 10SM FEW045 32/18 A2994 KNQI 271856Z AUTO 15012KT 10SM CLR 35/26 A2984 RMK AO2 SLP101 T03500256 KOGS 271855Z AUTO 00000KT 10SM SCT046 SCT070 SCT110 22/11 A2988 RMK AO2 T02240106 TSNO GABS 271900Z 16005KT 9999 FEW030 29/23 Q1014 NOSIG KNRB 271852Z AUTO VRB06KT 10SM CLR 31/18 A3003 RMK AO2 SLP169 T03060183 $ KMYV 271853Z AUTO 13006KT 10SM CLR 22/11 A3006 RMK AO2 SLP182 T02220106 TSNO ESDF 271850Z AUTO 23003KT 200V260 9999 NCD 19/13 Q1020 FJDG 271855Z 12016KT 9999 FEW020 SCT050 BKN080 27/26 A2989 RMK SLP119 P0003 T02720257 KMYZ 271855Z AUTO 30006KT 10SM SCT018 21/16 A2983 RMK AO2 LERI 271800Z 06012KT CAVOK 26/07 Q1016 NOSIG WIBB 271830Z 00000KT 5000 -RA SCT010 FEW015 23/23 Q1008 LESA 271800Z 26004KT CAVOK 25/13 Q1014 KOJA 271855Z AUTO 25004KT 10SM CLR 31/16 A2977 RMK AO2 KOJC 271853Z 16009KT 10SM BKN110 17/16 A2980 RMK AO2 LTG DSNT SE PRESRR SLP084 T01720161 LGAD 271850Z 00000KT 9999 FEW020 SCT080 19/12 Q1013 KPAE 271853Z VRB04KT 10SM CLR 22/09 A3012 RMK AO2 SLP196 T02170089 KNSE 271856Z AUTO VRB05KT 10SM BKN035 BKN043 29/23 A3007 RMK AO2 SLP168 T02940228 $ KNQX 271853Z 02007KT 10SM FEW023 BKN250 31/26 A3006 RMK AO2 SLP178 T03060261 $ KPAH 271853Z 22008KT 9SM SCT026 BKN033 29/21 A2987 RMK AO2 SLP110 T02890211 KMZZ 271856Z AUTO 27003KT 7SM SCT018 OVC034 21/17 A2991 RMK AO2 FIMP 271900Z 08006KT 9999 SCT015 25/21 Q1020 KNSI 271907Z AUTO 29016G22KT 10SM SCT017 17/14 A3009 RMK AO2 T01670144 PWINO $ FIMR 271500Z 09013KT 9999 FEW020 25/20 Q1019 LERS 271830Z 12005KT 070V170 9999 SCT015 21/18 Q1019 KNRS 271856Z AUTO 31015KT 10SM CLR 20/12 A3007 RMK AO2 SLP183 T02000117 $ LERT 271900Z 27009KT 250V320 CAVOK 20/17 Q1014 NOSIG LFKB 271900Z 23002KT CAVOK 22/10 Q1018 NOSIG KOKB 271852Z AUTO 26011G17KT 10SM FEW038 21/12 A3006 RMK AO2 SLP178 T02110122 LFJL 271900Z AUTO 22012KT 9999 ///CB 24/15 Q1019 TEMPO 3000 TSRA BECMG 16006KT NSC LFKC 271900Z AUTO 19002KT CAVOK 20/15 Q1019 NOSIG KOKC 271852Z 23012KT 10SM SCT045 BKN055 33/20 A2976 RMK AO2 SLP059 T03330200 LGAL 271850Z 03007KT 9999 -RA FEW020TCU SCT030 BKN060 16/15 Q1014 RCFN 271200Z 36011G21KT 300V040 9999 FEW008 SCT030 BKN045 23/20 Q1011 NOSIG RMK A2987 KNTD 271856Z 24011KT 10SM FEW030 19/13 A3008 RMK AO2 SLP187 T01940133 $ KPAM 271856Z AUTO 24009KT 10SM CLR 28/22 A3009 RMK AO2 SLP192 T02800217 $ KPAN 271855Z AUTO 27009G15KT 240V300 10SM CLR 24/M04 A3017 RMK AO2 KPAO 271847Z 36010KT 10SM FEW030 18/11 A3011 LESO 271900Z VRB02KT CAVOK 24/20 Q1012 LFKF 271900Z AUTO 17002KT CAVOK 19/14 Q1019 NOSIG KPBF 271853Z AUTO 20015G20KT 10SM SCT033 31/23 A2989 RMK AO2 SLP119 T03110233 $ KPBG 271853Z AUTO 10007KT 10SM CLR 19/08 A2987 RMK AO2 SLP115 T01940083 KPBH 271855Z AUTO 26005KT 10SM SCT055 20/09 A2987 RMK AO2 T02010086 LFJR 271900Z AUTO 02006KT CAVOK 26/17 Q1015 KPBI 271853Z VRB04KT 10SM SCT049 33/20 A3005 RMK AO2 SLP174 T03330200 LFKJ 271900Z AUTO 00000KT CAVOK 22/12 Q1018 NOSIG WIDD 271900Z 15005KT 9999 FEW014 28/26 Q1009 LEST 271900Z 27004KT 210V330 9999 BKN008 BKN018 16/15 Q1015 NOSIG LFLB 271900Z AUTO 00000KT CAVOK 23/16 Q1019 NOSIG KOKK 271856Z AUTO 00000KT 10SM OVC021 22/17 A2991 RMK AO2 SLP124 T02170172 KNUC 262256Z VRB05KT 10SM FEW020 BKN038 19/11 A3001 RMK SLP161 LAST T01890111 LESU 271700Z 22013KT 9999 FEW030 FEW050TCU 27/10 Q1019 LETL 271900Z AUTO 17013KT 9999 NCD 21/10 Q1020 LFLC 271900Z AUTO 20004KT CAVOK 26/13 Q1016 NOSIG LGBL 271850Z 28005KT 9999 FEW020TCU SCT030 BKN080 18/14 Q1014 PTPN 271650Z 09010KT 15SM SCT018TCU BKN130 OVC300 27/25 A2980 RMK TCU S LGAV 271850Z 27003KT 9999 FEW018 BKN025 18/14 Q1014 NOSIG KOKM 271855Z AUTO 21011G21KT 10SM BKN035 OVC042 31/23 A2976 RMK AO2 T03100234 LETO 271900Z 15011KT 120V190 CAVOK 30/08 Q1014 NOSIG KOLF 271853Z AUTO 31019G24KT 10SM SCT090 SCT120 24/01 A2987 RMK AO2 PK WND 31027/1835 SLP112 T02440011 TSNO KOLG 271855Z AUTO 27005KT 10SM BKN065 21/02 A2986 RMK AO1 ESGG 271850Z 22010KT CAVOK 19/14 Q1020 KNUI 271853Z AUTO 11006KT 10SM BKN090 24/17 A2987 RMK AO2 SLP115 T02440167 LFKS 271900Z AUTO 27005KT CAVOK 23/09 Q1018 KOMA 271852Z 05009KT 10SM FEW022 BKN140 BKN200 22/14 A2987 RMK AO2 SLP109 T02170144 ESGJ 271850Z AUTO 24006KT 9999 NCD 23/10 Q1019 WIEE 271800Z 17002KT 9999 -RA BKN018 25/24 Q1009 NOSIG LEVC 271900Z 09008KT CAVOK 23/17 Q1018 NOSIG LFLL 271900Z 15008KT CAVOK 27/13 Q1018 NOSIG LFMC 271900Z AUTO 35003KT 270V040 9999 ////// 25/11 Q1019 KNTU 271856Z 11009KT 10SM FEW060 FEW110 SCT280 27/18 A2986 RMK AO2 SLP115 T02670178 KPDC 271855Z AUTO 20004KT 10SM CLR 22/14 A2990 RMK AO2 T02170140 LEVD 271900Z 28004KT 9999 FEW035TCU 25/11 Q1015 LFMD 271900Z AUTO 00000KT CAVOK 21/14 Q1019 NOSIG KOLM 271854Z 36006KT 10SM CLR 26/11 A3009 RMK AO2 SLP187 T02560111 KPCM 271855Z AUTO 28011G19KT 10SM CLR 34/13 A3008 RMK AO2 KOKV 271855Z AUTO 00000KT 10SM OVC038 17/15 A2991 RMK AO2 LFLN 271900Z AUTO 06003KT CAVOK 25/17 Q1017 NOSIG KPBX 271855Z AUTO 21004KT 10SM SCT027 SCT036 SCT080 25/20 A2995 RMK AO2 T02480200 LFLP 271900Z AUTO VRB01KT CAVOK 24/14 Q1020 NOSIG LFMH 271900Z AUTO 18005KT CAVOK 24/13 Q1018 NOSIG KOKZ 271855Z AUTO 25008G18KT 10SM CLR A3003 RMK AO2 KNUQ 271856Z 35008KT 10SM CLR 18/11 A3011 RMK AO2 SLP200 T01780106 KOMH 271855Z AUTO 17004KT 10SM SCT033 SCT110 27/18 A2986 RMK AO2 PTSA 270150Z 05009KT 10SM SCT020 BKN130 OVC300 29/25 A2981 RMK LAST LFMI 271900Z AUTO 17003KT CAVOK 23/09 Q1019 NOSIG LFLS 271900Z AUTO 20006KT 180V240 CAVOK 24/10 Q1020 NOSIG ESGR 271850Z AUTO 25007KT 9999 NCD 23/08 Q1018 KOLS 271854Z AUTO VRB06G15KT 10SM CLR 29/M07 A3007 RMK AO2 SLP114 T02941067 KONA 271852Z AUTO 30008KT 10SM CLR 23/08 A2992 RMK AO2 KPEA 271855Z AUTO 35006KT 10SM CLR 20/17 A2984 RMK AO2 T01950172 LFMK 271900Z AUTO 10012KT 080V140 CAVOK 21/13 Q1018 KOMK 271853Z AUTO 21004KT 10SM CLR 24/07 A3009 RMK AO2 SLP186 T02440072 KPDK 271853Z 23011G15KT 10SM FEW041 SCT049 29/18 A3002 RMK AO2 SLP152 T02890178 LFLU 271800Z AUTO 18008KT CAVOK 26/13 Q1018 LFML 271900Z AUTO 18004KT CAVOK 23/06 Q1019 NOSIG ESIB 271850Z AUTO 24009KT 9999 NCD 21/13 Q1018 KOLV 271850Z 23010G18KT 10SM SCT020 BKN045 A2990 KOMN 271850Z 07010KT 10SM SKC 30/18 A3004 LFLW 271900Z AUTO 13004KT CAVOK 21/12 Q1019 LFMN 271900Z 18002KT CAVOK 21/16 Q1019 NOSIG PTRO 271850Z 07005KT 15SM SCT016 SCT120 BKN300 27/25 A2977 KNUW 271856Z 29005KT 10SM FEW250 17/10 A3014 RMK AO2 SLP207 T01670100 $ KPCW 271858Z AUTO 07011KT 10SM CLR 21/13 A2990 RMK AO2 $ LFLX 271900Z AUTO 07006KT CAVOK 25/18 Q1015 TEMPO 18015G25KT 4000 -TSRA SCT050CB BKN060 LFMO 271900Z AUTO 21006KT CAVOK 25/11 Q1019 NOSIG LFLY 271900Z AUTO 14005KT 070V190 CAVOK 26/14 Q1018 NOSIG LFMP 271900Z AUTO 02008KT CAVOK 20/17 Q1018 NOSIG KOLY 271855Z AUTO 00000KT 10SM BKN041 OVC046 27/20 A2987 RMK AO2 T02720200 KOLZ 271855Z AUTO 00000KT 10SM SCT032 22/15 A2990 RMK AO2 KPCZ 271855Z AUTO 00000KT 10SM SCT060 26/14 A2986 RMK AO2 T02560144 LEVS 271900Z 12011KT 080V150 CAVOK 30/07 Q1014 LFOA 271900Z AUTO 09004KT CAVOK 26/17 Q1016 KOOA 271855Z AUTO 16003KT 10SM SCT032 BKN090 24/17 A2984 RMK AO2 T02430166 LEVT 271900Z 04006KT 360V090 9999 FEW040 25/14 Q1014 LFOB 271900Z AUTO 35008KT 330V030 CAVOK 20/16 Q1017 NOSIG LFMT 271900Z AUTO VRB02KT CAVOK 22/11 Q1019 TEMPO 18012KT KPDT 271853Z VRB04KT 10SM CLR 26/01 A3010 RMK AO2 SLP182 T02610011 LFMU 271900Z AUTO 09004KT CAVOK 21/13 Q1019 NOSIG LFOC 271900Z AUTO 03003KT CAVOK 26/18 Q1016 LGEL 271850Z 34004KT 9999 BKN015 FEW020TCU SCT025 20/11 Q1013 KONL 271855Z AUTO 32013G16KT 10SM SCT028 BKN090 BKN110 18/10 A3000 RMK AO2 T01760102 LFMV 271900Z AUTO 26006KT CAVOK 23/13 Q1019 NOSIG KONM 271855Z AUTO 10006KT 10SM CLR 28/M08 A3005 RMK AO2 T02831083 LFOE 271900Z AUTO 02006KT CAVOK 23/18 Q1017 ETAD 271858Z AUTO 19004KT 9999 CLR 25/12 A3007 RMK AO2 SLP157 T02500117 $ LEVX 271900Z 28005KT 240V320 5000 BR FEW010 SCT049 16/14 Q1015 TEMPO 3000 -RA BR BKN010 KONO 271853Z AUTO 00000KT 10SM CLR 22/05 A3018 RMK AO2 SLP213 T02220050 TSNO KPDX 271853Z VRB05KT 10SM FEW050 FEW250 24/10 A3005 RMK AO2 SLP174 T02390100 $ KPEO 271853Z AUTO 00000KT 10SM BKN019 OVC026 17/12 A2992 RMK AO2 SLP128 T01720117 KNXF 271856Z AUTO 28013KT 10SM CLR 20/13 A3007 RMK AO2 SLP268 T02000133 RCKH 271800Z 04003KT 9999 FEW013 SCT040 BKN070 27/24 Q1008 NOSIG RMK A2977 LFMY 271900Z AUTO 21002KT CAVOK 23/10 Q1019 KONP 271855Z AUTO 25005KT 10SM OVC005 12/11 A3015 RMK AO2 LFOH 271900Z AUTO 36006KT CAVOK 16/14 Q1018 KPEQ 271855Z AUTO 27013G19KT 240V310 10SM CLR 36/M01 A2991 RMK AO2 T03631010 LEXJ 271900Z 31004KT 5000 BR SCT005 BKN012 17/17 Q1013 RETSRA LFOJ 271900Z AUTO 00000KT CAVOK 26/19 Q1015 KPGA 271853Z AUTO 00000KT 10SM CLR 24/M02 A3008 RMK AO2 SLP124 T02441017 TSNO LFPB 271900Z AUTO VRB03KT CAVOK 27/17 Q1016 NOSIG LFOK 271900Z AUTO 20003KT 9999 FEW009 25/21 Q1017 TEMPO 2000 TSRAGR BKN060CB KONT 271853Z 21008KT 10SM FEW080 FEW200 21/09 A3005 RMK AO2 SLP169 T02110089 KNYC 271851Z AUTO 00000KT 10SM SCT050 OVC065 21/12 A2989 RMK AO2 SLP112 T02110122 $ KPGD 271853Z 26008KT 10SM CLR 33/20 A3008 RMK AO2 SLP185 T03280200 WIHH 271200Z 06007KT 6000 FEW024 29/23 Q1007 NOSIG PTTP 271455Z 09012KT 14SM -SHRA BKN017TCU OVC120 27/26 A2984 RMK SHRAB45 TCU ALQDS SLP105 60000 8/27/ T02720257 57015 KONX 271905Z AUTO 25009KT 210V270 10SM CLR 30/17 A2988 RMK AO2 T02990168 KOPF 271853Z 27006KT 10SM FEW055 36/22 A3004 RMK AO2 LTG DSNT S SLP172 T03560222 KPEX 271853Z AUTO 21008G14KT 10SM SCT120 22/05 A2990 RMK AO2 T02170049 VQPR 271030Z 30006KT 9999 SCT040 BKN060 17/10 Q1016 NOSIG LFOP 271900Z AUTO 02006KT CAVOK 19/14 Q1017 NOSIG LFPG 271900Z VRB04KT CAVOK 26/17 Q1016 NOSIG KNYG 271856Z AUTO 05007KT 10SM BKN060 23/17 A2989 RMK AO2 SLP122 T02330167 KNXP 271856Z 14005KT 10SM CLR 28/M07 A3006 RMK AO2 SLP145 T02781072 $ KONZ 271853Z AUTO 17008KT 10SM BKN037 OVC046 19/15 A2990 RMK AO2 T01940146 KPEZ 271855Z AUTO 18010G17KT 10SM CLR 35/21 A2985 RMK AO2 T03530211 LFQA 271900Z AUTO 25003KT CAVOK 27/19 Q1016 ETAR 271858Z 00000KT 9999 FEW090 27/12 A3005 RMK AO2A SLP169 T02700118 $ LFQB 271900Z AUTO 07004KT 030V130 CAVOK 26/18 Q1016 LFOT 271900Z AUTO 09005KT CAVOK 24/18 Q1015 TEMPO 18015G25KT 4000 -TSRA SCT050CB BKN060 KNYL 271857Z AUTO 00000KT 10SM CLR 30/07 A2992 RMK AO2 SLP128 T03000067 $ KOPL 271855Z AUTO 20012G16KT 10SM SCT029 32/23 A2999 RMK AO2 T03160233 PWINO LFPM 271900Z AUTO 02002KT CAVOK 26/17 Q1016 LFOV 271900Z AUTO 01005KT CAVOK 24/17 Q1015 KPHD 271853Z AUTO 00000KT 10SM OVC036 22/16 A2991 RMK AO2 SLP124 T02220161 LFPN 271900Z AUTO VRB03KT CAVOK 25/19 Q1016 TEMPO BKN060TCU ESKM 271850Z AUTO 19003KT 9999 NCD 25/09 Q1013 KOPN 271855Z AUTO 24007KT 10SM CLR 28/11 A3005 RMK AO2 LFPO 271900Z 32003KT CAVOK 27/17 Q1016 NOSIG ESKN 271850Z 30005KT CAVOK 24/10 Q1016 KPHF 271854Z 20007KT 10SM CLR 29/17 A2987 RMK AO2 SLP114 T02890167 LFQG 271800Z AUTO 14003KT 090V170 CAVOK 29/16 Q1016 LEZG 271900Z 11013KT 080V140 9999 FEW050 28/13 Q1015 WIII 271900Z AUTO VRB03KT 8000 SCT160 27/25 Q1008 NOSIG LGHI 271750Z 00000KT 9999 FEW020TCU 19/16 Q1011 KPIA 271854Z 09005KT 10SM CLR 24/16 A2988 RMK AO2 SLP115 T02440161 LFPT 271900Z AUTO 02008KT CAVOK 22/19 Q1016 LFRB 271900Z AUTO 02007KT 9999 OVC017 15/12 Q1017 TEMPO BKN014 KPIB 271855Z AUTO 20006KT 160V220 10SM FEW038 SCT047 SCT055 31/22 A3005 RMK AO1 KORB 271855Z AUTO 00000KT 10SM BKN090 21/02 A2976 RMK AO2 GAMB 271800Z 26004KT 9999 FEW030 FEW040CB 34/21 Q1012 LEZL 271900Z 29013KT CAVOK 24/16 Q1013 NOSIG LFRC 271900Z AUTO 29009KT CAVOK 14/12 Q1017 KPHL 271854Z 27009KT 10SM BKN055 OVC090 22/11 A2990 RMK AO2 SLP124 T02170111 $ KORC 271855Z AUTO 36005KT 10SM SCT035 SCT049 BKN065 16/12 A2995 RMK AO2 LFRD 271900Z AUTO 35010KT CAVOK 15/12 Q1017 TEMPO BKN005 LFPV 271900Z AUTO VRB01KT CAVOK 27/17 Q1016 NOSIG KORD 271851Z 00000KT 10SM SCT150 23/12 A2990 RMK AO2 SLP121 T02330122 KPGV 271905Z AUTO 27004KT 7SM SCT055 31/17 A2992 RMK AO2 KORE 271852Z AUTO VRB06KT 10SM OVC055 21/10 A2986 RMK AO2 SLP110 T02110100 TSNO KPIE 271853Z AUTO 33009KT 10SM CLR 31/14 A3008 RMK AO2 SLP185 T03110144 $ KPHN 271856Z AUTO 31003KT 10SM SCT039 BKN050 22/12 A2991 RMK AO2 KORF 271851Z 03006KT 10SM CLR 29/18 A2987 RMK AO2 SLP114 T02890178 RCMQ 271800Z 00000KT 6000 FEW010 BKN060 22/19 Q1008 RMK A2979 LFRG 271900Z AUTO 02003KT 340V050 CAVOK 18/13 Q1018 NOSIG KORG 271855Z AUTO 19012G18KT 7SM OVC021 30/24 A2999 RMK AO2 T02970244 KPHP 271855Z AUTO 31012G18KT 10SM BKN080 BKN100 22/04 A2995 RMK AO2 SLP133 T02170039 GAKY 270600Z 24008KT CAVOK 33/21 Q1010 LFRH 271900Z AUTO 25004KT CAVOK 19/16 Q1016 NOSIG LFQQ 271900Z AUTO 30009KT CAVOK 21/15 Q1017 TEMPO 2000 TSRA BKN060CB KPIH 271853Z VRB04KT 10SM SCT050 16/08 A3026 RMK AO2 SLP235 T01560083 $ KORH 271854Z 00000KT 10SM BKN048 18/07 A2988 RMK AO2 SLP117 T01830067 LFRI 271900Z AUTO 12004KT CAVOK 26/17 Q1014 NOSIG LFRJ 271900Z AUTO 03008KT 9999 OVC015 15/12 Q1017 KOSA 271855Z AUTO 17005KT 5SM SCT026 SCT033 SCT042 30/23 A2990 RMK AO1 T02970234 LFSB 271900Z 25004KT 9999 FEW060TCU SCT260 24/16 Q1017 NOSIG LFRK 271900Z AUTO 03006KT 360V070 CAVOK 16/13 Q1017 NOSIG KOQT 271853Z AUTO VRB05KT 10SM FEW027 SCT048 SCT060 26/18 A2998 RMK AO2 SLP141 T02610183 KPHT 271855Z AUTO 21009KT 10SM BKN017 BKN025 BKN031 27/23 A2989 RMK A01 KOQU 271850Z 16006KT 15SM SCT035 19/09 A2987 LFRL 271900Z AUTO 36007KT 9999 BKN018 BKN170 17/13 Q1017 KORL 271853Z 28007G18KT 10SM CLR 33/11 A3004 RMK AO2 SLP175 T03280106 ESMK 271850Z AUTO 23006KT 9999 NCD 22/13 Q1020 KPIL 271853Z AUTO 16016G29KT 8SM CLR 35/24 A2986 RMK AO2 PK WND 14029/1850 SLP110 T03500244 KOSC 271853Z AUTO 15007KT 10SM CLR 22/11 A2990 RMK AO2 T02160109 ETEB 271858Z AUTO 11005KT 9999 CLR 22/10 A3013 RMK AO2 SLP197 T02200097 RCNN 271800Z 35006KT 6000 FEW012 SCT030 BKN050 25/21 Q1007 RMK A2976 LFSD 271900Z AUTO 14002KT CAVOK 24/17 Q1017 LFRM 271900Z AUTO 03008KT CAVOK 26/17 Q1015 NOSIG KPIM 271855Z AUTO 26009KT 10SM SCT033 SCT039 28/21 A3007 RMK AO2 T02830208 LFRN 271900Z AUTO 34004KT CAVOK 23/15 Q1015 NOSIG ESND 271850Z AUTO 07010KT 9999 NCD 18/10 Q1015 LGIO 271850Z /////KT 9999 -RA FEW025 BKN035 14/14 Q1017 LFRO 271900Z AUTO 33005KT 290V020 9999 SCT015 BKN170 14/11 Q1018 NOSIG KPHX 271851Z VRB05KT 10SM FEW120 32/M05 A2993 RMK AO2 SLP116 T03221050 LFSG 271900Z AUTO 26004KT CAVOK 22/17 Q1018 KNZY 271852Z 31012KT 10SM FEW018 BKN037 20/12 A3006 RMK AO2 SLP180 T02000122 $ KQC5 271856Z AUTO 00000KT 9999 FEW095 25/22 A3002 RMK AO2 LTG DSNT N SLPNO WND DATA ESTMD T02470217 LFRQ 271900Z AUTO 34006KT CAVOK 18/14 Q1016 NOSIG KOSH 271853Z 21009KT 190V260 10SM FEW040 SCT065 23/14 A2987 RMK AO2 SLP109 T02330139 ESNG 271850Z AUTO 09009KT 9999 NCD 05/M06 Q1018 LFSI 271900Z AUTO 10004KT CAVOK 24/17 Q1017 PTYA 271751Z 10007KT 12SM SCT016TCU BKN130 OVC300 26/25 A2980 RMK SHRAB05E40 TCU ALQDS SLP091 60028 8/271 T02570248 10260 20250 57008 ESMQ 271850Z AUTO 25006KT 9999 NCD 25/11 Q1018 KPIR 271853Z AUTO 21005KT 10SM BKN095 21/08 A2993 RMK AO2 SLP127 T02110078 LGIR 271850Z 31012KT 9999 SCT020 19/15 Q1013 NOSIG LFRS 271900Z AUTO 01006KT 340V040 CAVOK 26/16 Q1014 NOSIG KORS 271855Z AUTO 33006KT 10SM CLR 17/11 A3011 RMK AO2 LFRT 271900Z AUTO 06006KT CAVOK 15/13 Q1017 KPIT 271851Z 24003KT 10SM FEW009 BKN014 BKN028 19/16 A2991 RMK AO2 SLP134 T01940161 ESMS 271850Z 18005KT CAVOK 17/13 Q1021 KPKB 271901Z 19006KT 10SM VCTS FEW050 SCT100 25/21 A2989 RMK AO2 LTG DSNT E AND W TSE1855 T02500206 $ LFRU 271900Z AUTO 02005KT 350V050 9999 OVC015 15/12 Q1018 LFSL 271900Z AUTO 15004KT CAVOK 26/14 Q1016 NOSIG ESNK 271850Z AUTO 00000KT 9999 OVC026/// 13/10 Q1016 ESMT 271850Z AUTO 21003KT 9999 NCD 20/12 Q1020 LGKC 270850Z 05008KT 9999 FEW009 SCT015 FEW018TCU 19/15 Q1014 LHBC 271745Z 02009KT CAVOK 21/08 Q1019 KQBD 271825Z AUTO 35003KT 10SM CLR 16/02 A3024 RMK AO2 SLP191 WND DATA ESTMD T01550023 LFRV 271900Z AUTO 09002KT CAVOK 23/15 Q1015 ESNL 271850Z AUTO 25003KT 9999 FEW071/// 09/05 Q1016 KPKD 271853Z AUTO 27017G23KT 10SM SCT085 BKN100 24/03 A2982 RMK AO2 SLP097 T02390033 KQD3 271856Z AUTO 13004KT 9999 CLR 33/24 A2971 RMK AO2 SLP058 WND DATA ESTMD T03270241 LFSN 271900Z AUTO VRB04KT 9999 ///CB 24/18 Q1018 LFSO 271900Z AUTO 02007KT 350V050 9999 ///CB 22/16 Q1019 ESNN 271850Z 17010KT 9999 FEW016 SCT021 OVC100 09/07 Q1017 ESOE 270850Z 22008KT 190V260 CAVOK 22/11 Q1018 LGKF 271850Z 34007KT 9999 FEW018 19/17 Q1013 KQBF 271856Z AUTO 00000KT 9999 FEW210 32/20 A2990 RMK AO2 SLPNO WND DATA ESTMD T03160201 ESNO 271850Z VRB02KT 9999 FEW025 BKN050 10/08 Q1016 ESMX 271850Z AUTO 24005KT 9999 NCD 21/11 Q1020 KOTG 271856Z AUTO 23009KT 10SM OVC070 17/09 A2996 RMK AO2 SLP149 T01670094 KS25 271855Z AUTO 27013G24KT 10SM FEW070 FEW085 21/04 A2983 RMK AO2 LFTH 271900Z AUTO 21006KT CAVOK 22/07 Q1019 NOSIG LFRZ 271900Z AUTO 01005KT CAVOK 24/16 Q1015 NOSIG KOTH 271855Z 28006KT 10SM OVC014 13/11 A3013 RMK AO1 ESNQ 271850Z AUTO 11003KT 9999 NCD 03/M04 Q1018 GANR 271800Z 18006KT CAVOK 36/20 Q1012 LFST 271900Z AUTO 01003KT CAVOK 28/10 Q1017 NOSIG ESPA 271850Z AUTO 10004KT 9999 SCT009/// OVC017/// 05/03 Q1019 ESNS 271850Z AUTO 07010KT 9999 OVC002/// 05/04 Q1018 KOSU 271853Z VRB04KT 10SM SCT023 BKN031 26/19 A2987 RMK AO2 SLP110 T02560194 ESOK 271850Z AUTO 25009KT 9999 NCD 22/08 Q1016 LGKL 271850Z 00000KT 9999 FEW025 SCT035 18/14 Q1013 KQBL 271856Z AUTO 20003KT 10SM CLR 29/24 A3011 RMK AO2 SLP198 WND DATA ESTMD T02890236 ESNU 271850Z 12003KT CAVOK 09/06 Q1017 KS32 271915Z AUTO 24019KT 10SM FEW075 SCT095 23/03 A2978 RMK AO2 KOTM 271853Z AUTO 14008KT 10SM FEW048 SCT070 BKN090 23/18 A2984 RMK AO2 SLP099 T02330178 $ ESNV 271850Z AUTO 10002KT 9999 -RA OVC036/// 08/05 Q1016 KS33 271855Z AUTO 36007KT 10SM CLR 23/03 A3015 RMK AO2 LFSX 271900Z AUTO 00000KT CAVOK 24/19 Q1018 ESPE 271850Z AUTO 09010KT 9999 1200// R11/P2000N R29/P2000N BR SCT023/// OVC036/// 07/03 Q1017 LGKO 271850Z 33005KT 9999 FEW018 BKN030 18/14 Q1011 ESNX 271850Z AUTO 08010KT 9999 FEW068/// 09/01 Q1015 LGKP 271850Z AUTO 31004KT //// // ////// 17/14 Q1012 RE// LHBP 271900Z 07005KT CAVOK 18/08 Q1021 NOSIG ETGG 271820Z 13009KT 9999 22/14 Q1018 BLU+ ESNZ 271850Z 23005KT CAVOK 12/10 Q1015 LGKR 271850Z 16003KT 9999 SCT025 FEW030TCU BKN080 20/15 Q1013 NOSIG ETHA 271820Z AUTO 05008KT //// // ////// 20/11 Q1021 /// VRMM 271800Z 25016KT 9999 SCT017TCU BKN110 28/25 Q1010 TEMPO 5000 -SHRA WIMM 271900Z 18004KT 6000 SCT018 28/26 Q1007 KS39 271855Z AUTO 10SM CLR 23/01 A3015 RMK AO2 ETHB 271820Z 15007KT 9999 FEW300 25/12 Q1018 BLU+ LHDC 271549Z AUTO 01014G24KT //// ////// 22/07 Q1019 ETHC 271820Z AUTO 11009KT 6000 // ////// 25/08 Q1019 /// LGLM 271850Z AUTO 01008KT //// // ////// 18/15 Q1013 RE// LGKV 271850Z 00000KT 9999 FEW010 SCT030 BKN080 17/15 Q1014 KPMD 271853Z AUTO VRB05KT 10SM CLR 26/02 A3004 RMK AO2 SLP151 T02560017 KPKV 271855Z AUTO 17014G19KT 7SM BKN024 BKN030 BKN036 30/26 A2992 RMK AO2 T03020258 LFTW 271900Z AUTO 22003KT CAVOK 22/12 Q1019 NOSIG KOVE 271853Z AUTO 19006KT 10SM CLR 23/11 A3007 RMK AO2 SLP182 T02280106 KPLN 271854Z AUTO 35009KT 10SM SCT050 OVC065 23/12 A2987 RMK AO2 SLP116 T02280117 KOUN 271855Z AUTO 18014G18KT 10SM CLR 31/22 A2977 RMK AO2 ETHE 271820Z AUTO 13009KT //// // ////// 28/13 Q1016 /// ESOW 271850Z AUTO 22006KT 9999 NCD 23/11 Q1015 ETHF 271820Z AUTO 14005KT 9999 // ////// 25/12 Q1018 /// KQDG 271856Z AUTO 21003KT 0200 M FEW005 SCT044 SCT070 10/10 A2980 RMK AO2 VIS 0200V1400 SLP093 T01020099 PWINO $ LGKZ 271750Z 03004KT 9999 FEW020TCU BKN070 16/10 Q1015 KPLR 271855Z AUTO 20008G14KT 170V230 10SM SCT029 SCT035 BKN055 28/22 A3003 RMK A01 KOWA 271854Z AUTO 33005KT 10SM CLR 19/07 A2992 RMK AO2 KPNA 271855Z AUTO 31005KT 10SM BKN070 11/M06 A3025 RMK AO2 LGMK 271850Z 35009KT 9999 FEW010 FEW018TCU SCT020 18/15 Q1013 KOWB 271856Z 24010G16KT 10SM SCT038 BKN045 BKN060 29/22 A2985 RMK AO2 SLP114 T02940217 KPNC 271853Z AUTO 08010KT 10SM FEW042 30/23 A2974 RMK AO2 SLP056 T03000228 TSNO $ KOVL 271853Z AUTO 24007KT 10SM CLR 21/08 A2990 RMK AO2 KPLU 271855Z AUTO 28004KT 10SM 26/10 A3009 RMK AO2 ETHL 271820Z 08007KT 9999 FEW140 24/09 Q1020 BLU+ KOWD 271853Z VRB04KT 10SM CLR 21/11 A2985 RMK AO2 SLP108 T02060111 ETIC 271858Z AUTO 00000KT 9999 CLR 21/10 A3014 RMK AO2 DZB04E12 SLP197 P0000 KPNE 271854Z 28007KT 10SM OVC100 23/13 A2990 RMK AO2 SLP123 T02330128 ETHN 271820Z 09005KT 9999 22/11 Q1019 BLU+ LFVP 271900Z 06015KT 9999 SCT033 BKN100 08/05 Q1009 KPMP 271853Z 12010KT 8SM SCT035 32/26 A3004 RMK AO2 SLP174 T03170256 KQEI 271900Z AUTO 02001KT 9999 CLR 10/08 A2993 RMK A02 TSNO KOWI 271855Z AUTO 10015G20KT 10SM BKN043 BKN065 OVC090 20/16 A2979 RMK AO2 LTG DSNT SE ETIH 271858Z AUTO 26003KT 9999 CLR 20/13 A3015 RMK AO2 SLP199 PWAK 271858Z AUTO 06009KT 9999 FEW019 26/24 A2995 RMK AO2 SLP148 KQEJ 271700Z AUTO 11001KT 9999 CLR 12/10 A2990 RMK A02 TSNO KOVS 271853Z AUTO 28005KT 10SM CLR 23/15 A2990 RMK AO2 SLP125 T02280150 ETHS 271820Z 16009KT 9999 24/09 Q1019 BLU+ ESSA 271850Z 21008KT CAVOK 23/10 Q1015 NOSIG KQFB 271900Z AUTO 09001KT 9999 CLR 13/10 A2999 RMK A02 TSNO KOXB 271853Z AUTO 16008KT 10SM FEW120 21/13 A2991 RMK AO2 SLP129 T02110133 LGMT 271850Z 00000KT 9999 FEW020TCU SCT045 19/14 Q1013 KPOB 271858Z AUTO 25011KT 10SM SCT070 31/17 A2990 RMK AO2 SLP126 T03120172 $ KPOC 271847Z 24005KT 10SM CLR 19/09 A3008 ESSB 271850Z AUTO 17006KT 9999 FEW078/// 23/10 Q1015 KQEL 271900Z AUTO 01002KT 9999 CLR 10/08 A3001 RMK A02 TSNO KOXC 271850Z 28006KT 10SM BKN033 221/09 A2989 KPMU 271855Z AUTO 23010G16KT 10SM SCT025 SCT030 SCT065 29/22 A2994 RMK AO2 T02940223 ETIK 271758Z AUTO 09003KT 9999 CLR 26/11 A3011 RMK AO2 SLP186 T02580114 10271 20253 56002 $ WIOO 271500Z 00000KT 6000 SCT011 26/25 Q1009 NOSIG KPNM 271854Z AUTO 18005KT 10SM CLR 22/08 A2990 RMK AO2 KPMV 271855Z AUTO 03006KT 10SM BKN016 20/16 A2986 RMK AO2 T02030157 ESSD 271850Z AUTO 25004KT 9999 NCD 23/10 Q1014 KPOE 271858Z AUTO 18011KT 10SM FEW029 BKN036 BKN200 BKN350 31/23 A2996 RMK AO2 SLP144 T03060234 KPOF 271853Z AUTO 21012KT 7SM FEW022 OVC030 27/24 A2984 RMK AO2 SLP099 T02720239 TSNO $ KQEP 271900Z AUTO 07001KT 9999 FEW110 11/08 A2994 RMK A02 TSNO KOWP 271855Z AUTO 19006KT 10SM SCT031 SCT040 SCT055 33/24 A2975 RMK AO2 T03290241 KQEQ 271720Z AUTO 20001KT 9999 CLR 10/09 A2994 RMK A02 TSNO RCSS 271800Z 08012KT 9999 FEW022 SCT040 BKN070 23/19 Q1009 NOSIG RMK A2981 KQER 271900Z AUTO 02001KT 9999 CLR 09/08 A2988 RMK A02 TSNO KOXI 271855Z AUTO 00000KT 10SM OVC019 20/10 A2990 RMK AO1 KQES 271900Z AUTO 09001KT 9999 BKN085 15/09 A2994 RMK A02 TSNO KPNS 271853Z 17011KT 10SM FEW047 SCT055 30/23 A3007 RMK AO2 SLP184 T03000233 LGPA 271850Z AUTO VRB03KT //// // ////// 18/15 Q1013 RE// KPPA 271855Z AUTO 32009G16KT 10SM CLR 27/14 A2992 RMK AO2 T02670144 ESTA 271850Z AUTO 18005KT 9999 NCD 21/13 Q1020 KPNT 271855Z AUTO 13004KT 10SM SCT027 24/19 A2990 RMK AO2 T02400187 ESSL 271850Z AUTO 27010KT 230V290 9999 NCD 25/11 Q1017 KQEV 271900Z AUTO 29001KT 9999 FEW110 12/09 A2989 RMK A02 TSNO WIPP 271800Z 18002KT 4000 BR SCT010 26/25 Q1008 FKKD 271900Z 00000KT 9999 SCT016 FEW020CB BKN036 26/25 Q1013 NOSIG KQEW 271900Z AUTO 19001KT 9999 CLR 12/10 A2993 RMK A02 TSNO KQGE 271856Z AUTO 20007KT 10SM FEW200 28/21 A3008 RMK AO2 SLP190 T02770207 LGNX 271550Z 01007KT 9999 FEW020TCU 20/15 Q1012 KPPF 271852Z AUTO VRB03KT 10SM FEW012 OVC020 23/21 A2978 RMK AO2 RAE03B31E52 SLP075 P0000 T02330206 $ KQEX 271900Z AUTO 31001KT 9999 CLR 16/10 A2986 RMK A02 TSNO KOWX 271855Z AUTO 00000KT 10SM BKN028 OVC032 22/17 A2990 RMK AO1 RCTP 271830Z 10009KT 9999 FEW020 BKN100 24/20 Q1008 NOSIG RMK A2977 KQEY 271900Z AUTO 25002KT 9999 CLR 11/08 A2964 RMK A02 TSNO ESSP 271850Z 26009KT CAVOK 24/10 Q1016 KOXR 271851Z 24011KT 10SM CLR 18/12 A3007 RMK AO2 SLP182 T01830117 KOZA 271855Z AUTO 29008G14KT 250V350 10SM 37/08 A2992 RMK AO2 KQFT 271900Z AUTO 16001KT 9999 CLR 10/07 A2992 RMK A02 TSNO ESST 271850Z AUTO 22011KT 9999 NCD 24/10 Q1015 KQFU 271900Z AUTO 25001KT 9999 FEW095 SCT110 12/07 A2995 RMK A02 TSNO KPOU 271853Z 00000KT 10SM SCT042 BKN050 OVC070 21/12 A2986 RMK AO2 SLP108 T02110122 KQFV 271900Z AUTO 08002KT 9999 CLR 08/07 A2995 RMK A02 TSNO ESTL 271850Z AUTO 19005KT 9999NDV NCD 21/13 Q1020 KOXV 271855Z AUTO 01008KT 10SM SCT095 BKN120 19/17 A2981 RMK AO2 KPOV 271855Z AUTO 14003KT 10SM BKN034 OVC040 22/13 A2990 RMK AO2 T02200134 ESSV 271850Z AUTO 17004KT 9999 NCD 19/12 Q1017 ESUD 271850Z AUTO 24002KT 9999 -RA SCT019/// BKN026/// 08/06 Q1016 REDZ KQFW 271900Z AUTO 15001KT 9999 CLR 11/09 A2994 RMK A02 TSNO FKKN 271700Z 30002KT 9999 TS SCT020 FEW023CB 25/21 Q1018 KQFX 271210Z AUTO 10001KT 9999 CLR 18/09 A2988 RMK A02 TSNO KPPO 271855Z AUTO 15004KT 10SM BKN020 OVC027 21/17 A2991 RMK AO2 T02110165 KPOY 271855Z AUTO 28007KT 10SM SCT065 BKN090 16/M03 A3015 RMK AO2 KPPQ 271855Z AUTO 08007KT 10SM CLR 25/18 A2988 RMK AO2 T02450181 LFYR 271900Z AUTO VRB02KT CAVOK 24/20 Q1015 KPQI 271856Z AUTO 13005KT 10SM OVC048 17/07 A2984 RMK AO2 SLP149 T01720072 FKKR 271900Z 28006KT CAVOK 30/25 Q1012 NOSIG KPRB 271853Z AUTO 00000KT 10SM CLR 20/10 A3007 RMK AO2 SLP179 T02000100 TSNO KPQL 271853Z 23008KT 10SM CLR 31/22 A3007 RMK AO2 SLP183 T03060222 KPRC 271853Z 24008KT 10SM CLR 24/M04 A3013 RMK AO2 SLP132 T02441039 KPQN 271854Z AUTO 34006KT 10SM CLR 19/06 A2993 RMK AO2 KPRG 271855Z AUTO 02004KT 10SM BKN017 22/18 A2990 RMK AO2 T02200178 ESUP 271850Z AUTO 09005KT 030V110 9999 OVC060/// 05/M04 Q1019 LGPZ 271750Z 00000KT 9999 FEW020 SCT025 18/13 Q1013 KOZR 271856Z AUTO 25010KT 10SM FEW040 SCT049 30/20 A3007 RMK AO2 SLP182 T02970199 LGSA 271850Z 34005KT 9999 FEW018 17/13 Q1013 KOZS 271855Z AUTO 05003KT 10SM BKN019 BKN028 26/21 A2983 RMK AO2 LTG DSNT SW THRU NW VTBD 271900Z 14004KT 9999 FEW020 26/26 Q1007 NOSIG KRAC 271853Z AUTO 13011KT 10SM CLR 21/12 A2993 RMK AO2 SLP133 T02060117 ESUT 271850Z AUTO VRB01KT 9999 DZ SCT029/// OVC033/// 05/04 Q1014 KPSC 271853Z 25006KT 10SM CLR 28/06 A3008 RMK AO2 SLP184 T02830056 ETML 271820Z AUTO 09018KT //// // ////// 17/13 Q1019 /// KOZW 271854Z AUTO 07003KT 10SM SCT045 BKN050 23/10 A2990 RMK AO2 T02310103 KPRN 271856Z AUTO 26008KT 10SM FEW029 29/20 A3006 RMK AO2 SLP174 T02940200 KPSF 270054Z AUTO 32003KT 9SM -RA FEW006 BKN023 OVC027 12/10 A2974 RMK AO2 SLP060 P0001 T01170100 ETMN 271820Z 14008KT 9999 FEW250 26/10 Q1017 BLU+ KPRO 271915Z AUTO 02013G17KT 10SM SCT038 SCT049 OVC055 17/14 A2987 RMK AO2 T01650141 LGRP 271850Z VRB02KT 9999 FEW018TCU SCT025 17/15 Q1010 NOSIG ETNH 271820Z 13008KT 9999 FEW180 25/13 Q1018 BLU+ VTCC 271830Z 35002KT 9999 BKN035 25/23 Q1009 NOSIG LIBA 271855Z 29012KT CAVOK 19/14 Q1017 RMK SKC VIS MIN 9999 WIND THR11 29011KT WIND THR29 /////KT BLU KPRS 271855Z AUTO 27007G20KT 10SM CLR 37/01 A2997 RMK AO2 T03730014 LGSK 271850Z 36005KT 9999 FEW018TCU SCT030 19/15 Q1014 KPSK 271855Z AUTO 25010G15KT 10SM SCT039 SCT050 BKN070 27/14 A2999 RMK AO2 T02680137 KPTB 271855Z AUTO 00000KT 10SM SCT050 SCT095 29/16 A2987 RMK AO2 T02900160 KT20 271855Z AUTO 18013G21KT 10SM BKN039 BKN046 34/25 A2987 RMK AO2 T03430248 KRAL 271853Z VRB03KT 10SM CLR 22/10 A3005 RMK AO2 SLP163 T02170100 ETNL 271820Z 12006KT 9999 24/13 Q1020 BLU+ VTBO 271100Z 00000KT 8000 FEW022 28/25 Q1005 KRBD 271853Z 19007G15KT 140V230 4SM HZ OVC021 29/24 A2984 RMK AO2 SLP095 T02890244 LGSM 271850Z 00000KT 9999 FEW018TCU SCT025 BKN090 17/14 Q1011 LIBD 271850Z 32006KT 280V350 CAVOK 20/13 Q1017 KPSM 271858Z 10009KT 10SM SCT060 BKN250 16/09 A2986 RMK AO2A SLP115 T01620092 LHKE 271845Z 03004KT CAVOK 19/06 Q1021 NOSIG RMK BLU KPSN 271855Z AUTO 18008G18KT 5SM HZ SCT031 BKN040 31/24 A2990 RMK AO2 T03140242 LIBF 271550Z 32015KT 9999 FEW030 24/08 Q1017 ETNN 271820Z AUTO 13006KT 9999 // ////// 28/12 Q1016 /// VTCH 270500Z VRB03KT 9999 SCT028 35/19 Q1006 A2971 LGSO 271550Z 36006KT 9999 FEW014 SCT018 20/14 Q1012 KPSO 271855Z AUTO 24012G22KT 10SM BKN100 BKN120 19/M07 A3015 RMK AO2 T01921069 KPRX 271855Z 21015G22KT 10SM FEW031 SCT038 BKN046 31/23 A2986 RMK AO1 LGRX 271850Z 08008KT 9999 SCT030 BKN060 18/16 Q1013 LIBG 271750Z 34009KT 310V020 CAVOK 22/05 Q1015 KRBG 271853Z AUTO 00000KT 10SM CLR 24/12 A3004 RMK AO2 SLP170 T02390117 KRAP 271852Z 33013G22KT 10SM CLR 21/02 A3001 RMK AO2 SLP151 T02060017 KPSP 271853Z 00000KT 10SM CLR 31/04 A2994 RMK AO2 SLP135 T03060039 KQKG 271855Z AUTO 00000KT 9000 HZ CLR 22/12 A2995 RMK AO2 SLP077 WND DATA ESTMD T02240120 VTBS 271900Z 08004KT 9999 FEW020 SCT035 27/24 Q1007 NOSIG LIBH 271855Z 35008KT CAVOK 23/04 Q1016 RMK SKC QUK / QUL / VIS MAR 25 KM VIS MIN 9999 LGSR 271850Z 27005KT 9999 FEW020 17/14 Q1013 VTBU 271900Z 02004KT 7000 FEW020 SCT100 27/23 Q1006 NOSIG VTCL 271200Z 00000KT 9999 FEW025 27/24 Q1005 A2970 LICA 271850Z 24006KT 200V260 9999 FEW020 BKN060 20/16 Q1017 KRAS 271855Z AUTO 15010KT 7SM CLR 29/25 A2990 RMK AO2 T02930249 KRCA 271858Z AUTO 31016G23KT 10SM CLR 20/02 A3000 RMK AO2 SLP153 T02000016 $ ETNS 271820Z AUTO 13008KT //// // ////// 25/13 Q1018 /// LICB 271750Z 25007KT 9999 FEW040 20/14 Q1017 KPUB 271853Z 10009G16KT 10SM SCT047 SCT055 19/08 A3002 RMK AO2 SLP121 T01940078 KPTK 271853Z 08005KT 10SM SCT042 BKN055 22/12 A2989 RMK AO2 SLP120 T02170122 VTCN 271200Z 34002KT 9999 FEW025 SCT100 29/25 Q1004 RWY 02 INFO M ETNT 271820Z AUTO 14008KT 8000 // ////// 27/13 Q1016 /// KPUC 271853Z AUTO 29011G18KT 10SM CLR 19/M02 A3015 RMK AO2 SLP159 T01941022 LICC 271850Z 13006KT 9999 FEW020 BKN060 22/14 Q1016 KRBL 271854Z AUTO 14005KT 10SM CLR 24/11 A3003 RMK AO2 SLP167 T02440111 TSNO LICD 271850Z 13003KT CAVOK 20/17 Q1017 VTCP 271900Z AUTO VRB03KT 7000 // ////// 26/24 Q1007 LIBN 271855Z 33010KT CAVOK 19/11 Q1016 RMK SKC VIS MIN 9999 WIND THR14 33010KT WIND THR32 33012KT BLU KPTN 271856Z AUTO 21009KT 10SM OVC023 29/24 A3004 RMK AO2 SLP172 T02940244 KRCE 271855Z AUTO 23009KT 10SM CLR 32/17 A2977 RMK AO2 KQN3 271856Z AUTO VRB03KT 9999 CLR 37/17 A2985 RMK AO2 SLP100 WND DATA ESTMD T03660168 ETNW 271820Z AUTO 12010KT //// // ////// 25/13 Q1018 /// LICF 271855Z 03005KT 9999 FEW035 21/15 Q1017 RMK FEW QUK / QUL / VIS MAR 20 KM MON INVIS VAR RAPID VIS MIN 9999 KPSX 271853Z AUTO 18017G21KT 10SM BKN024 OVC030 29/24 A2993 RMK AO2 SLP135 T02890239 KRBO 271855Z AUTO 14014G19KT 10SM CLR 33/25 A2986 RMK AO2 T03280250 LICG 271755Z 31006KT CAVOK 20/14 Q1017 LIBP 271850Z 22003KT 190V270 CAVOK 21/11 Q1019 KT35 271855Z AUTO 22010G15KT 7SM SCT034 OVC042 32/24 A2988 RMK AO2 T03190238 PWINO LGSY 271750Z 00010KT 9999 FEW012 FEW025 19/14 Q1012 RMK BKN080 BLU VTCT 271900Z AUTO 02004KT //// R03/P2000N SCT054/// 24/24 Q1008 LIBR 271845Z 31017KT CAVOK 19/17 Q1016 NOSIG KQKR 271756Z AUTO 26004KT 9999 CLR 30/24 A2987 RMK AO2 SLPNO WND DATA ESTMD T02980242 10331 20298 KPTS 271855Z AUTO 20008KT 10SM -TSRA SCT009 SCT016 BKN030 19/19 A2975 RMK AO2 LTG DSNT ALQS P0112 T01930190 LGTS 271850Z 29006KT 9999 -RA FEW018TCU SCT030 18/13 Q1015 NOSIG LICJ 271850Z 04008KT CAVOK 21/16 Q1017 KPUJ 271855Z AUTO 00000KT 10SM SCT035 BKN047 29/22 A3004 RMK AO2 KPTT 271855Z AUTO 09010KT 10SM SCT041 BKN050 24/12 A2986 RMK AO2 T02430121 KPVB 271855Z AUTO 00000KT 10SM BKN022 21/17 A2992 RMK AO1 T02110170 LICL 271755Z 24011KT 9999 FEW023 20/15 Q1016 RMK FEW QUK 1 QUL 0 VIS MAR 15 KM VIS MIN 9999 KPVC 271856Z AUTO 06004KT 10SM CLR 15/08 A2990 RMK AO2 SLP125 T01500083 LIBV 271855Z 34008KT CAVOK 18/08 Q1017 RMK SKC VIS MIN 9999 WIND THR32 36009KT WIND THR14 34010KT BLU KRDD 271853Z 16004KT 10SM CLR 24/11 A3001 RMK AO2 SLP157 T02440111 KRCM 271855Z AUTO 03010G17KT 10SM -RA SCT055 SCT075 15/14 A2980 RMK AO2 LTG DSNT ALQS KPVD 271851Z 18006KT 10SM BKN046 BKN250 20/11 A2987 RMK AO2 SLP116 T02000111 KPTV 271856Z AUTO VRB04KT 10SM 23/12 A3006 RMK AO2 SLP190 T02330117 $ ETOU 271858Z AUTO 10007KT 9999 CLR 24/14 A3006 RMK AO2 SLP176 T02390143 GCGM 271900Z AUTO 10004KT 070V130 9999 NCD 21/14 Q1018 RMK R09/09004KT 020V180 ARP/11005KT 080V160 GCFV 271900Z 06005KT 030V090 9999 SCT025 BKN045 23/20 Q1016 KPTW 271854Z AUTO 25004KT 10SM BKN060 BKN110 21/12 A2991 RMK AO2 SLP124 T02060122 KRBW 271855Z AUTO 27009KT 10SM CLR 32/17 A2999 RMK AO2 KPVE 271855Z AUTO 9SM OVC022 27/22 A2992 RMK A01 KPVF 271855Z AUTO 29007KT 10SM SCT028 18/10 A3011 RMK AO1 LIBY 271855Z 36011KT CAVOK 20/07 Q1015 RMK SKC QUK / QUL / VIS MAR 15 KM VIS MIN 9999 KPVG 271855Z 22005KT 10SM CLR 30/17 A2984 RMK AO1 KRDG 271854Z 27006KT 10SM FEW100 23/14 A2989 RMK AO2 SLP125 T02280139 LICR 271850Z 35011KT CAVOK 20/12 Q1017 KRCR 271855Z AUTO 18003KT 10SM SCT019 BKN029 23/17 A2990 RMK AO2 GCHI 271900Z AUTO 35011KT 9999 NCD 24/16 Q1017 KPWA 271853Z 22010KT 10SM CLR 33/18 A2975 RMK AO2 SLP054 T03280183 LIEA 271850Z 01005KT 330V060 CAVOK 23/08 Q1018 KPVJ 271855Z AUTO 21014KT 10SM BKN035 BKN040 33/24 A2976 RMK AO2 T03290241 LIEB 271855Z 09005KT CAVOK 20/15 Q1018 RMK SKC QUK 1 QUL 0 VIS MAR 30 KM MON LIB VIS MIN 9999 LICT 271855Z 36004KT CAVOK 21/18 Q1017 KRDK 271855Z AUTO 04012KT 10SM SCT017 SCT033 20/16 A2984 RMK AO2 LIEC 271755Z 23006KT CAVOK 22/12 Q1018 RMK SKC QUK 1 QUL 0 VIS MAR 30 KM VIS MIN 9999 KPWC 271853Z AUTO 23013G20KT 10SM SCT095 BKN110 23/07 A2987 RMK AO2 LIED 271855Z 13006KT CAVOK 22/13 Q1015 RMK FEW FEW100 VIS MIN 9999 WIND THR35 15006KT WIND THR17 /////KT BLU KQND 271856Z AUTO 27005G14KT 9999 CLR 35/19 A2987 RMK AO2 SLPNO WND DATA ESTMD T03500187 KRDM 271856Z 03006KT 10SM CLR 24/M02 A3014 RMK AO2 SLP191 T02441017 KPUW 271853Z AUTO 20008KT 10SM CLR 23/06 A3019 RMK AO2 SLP215 T02280061 LIEE 271850Z 12008KT CAVOK 21/13 Q1018 KRCX 271855Z AUTO 27012G15KT 10SM BKN060 21/09 A2991 RMK AO2 T02120088 KPWG 271856Z AUTO 18015G21KT 5SM HZ CLR 30/24 A2987 RMK AO2 SLP118 T03000239 $ KREG 271855Z AUTO 21010G15KT 10SM SCT030 SCT040 SCT046 31/23 A3002 RMK AO2 T03070230 KRCZ 271900Z AUTO 25008KT 10SM CLR 31/19 A2992 RMK AO2 T03080189 LICZ 271855Z 15006KT 9999 SCT070 23/11 Q1017 RMK SCT VIS MIN 9999 WIND THR28 /////KT WIND THR10 14006KT A3004 BLU KRDR 271857Z AUTO 31016G25KT 10SM FEW110 24/05 A2975 RMK AO2 WSHFT 49 SLP079 $ ETSA 271820Z 03007KT 9999 FEW060 22/10 Q1020 BLU+ KPWK 271852Z 00000KT 10SM CLR 23/14 A2991 RMK AO2 SLP128 T02330139 ETSB 271820Z AUTO 13005KT 9999 // ////// 25/09 Q1019 /// KRDU 271851Z 24011KT 10SM SCT045 BKN250 31/21 A2991 RMK AO2 SLP122 T03110206 KPVU 271859Z VRB04KT 10SM FEW050 16/02 A3023 KPWM 271851Z 14009KT 10SM SCT043 SCT200 17/09 A2986 RMK AO2 SLP112 T01670094 KRFD 271854Z VRB03KT 10SM SCT027 BKN200 23/16 A2990 RMK AO2 SLP124 T02330161 KPVW 271855Z AUTO 24014G21KT 10SM CLR 32/M05 A2990 RMK AO2 T03181052 KPXE 271855Z AUTO 28010KT 10SM CLR 32/09 A3005 RMK AO2 T03240087 KREO 271852Z AUTO 35005KT 23/M02 A3019 RMK AO1 SLP203 T02281022 LIEO 271850Z 08004KT CAVOK 20/12 Q1019 KT65 271855Z AUTO 16014G19KT 7SM CLR 36/24 A2984 RMK AO2 T03610235 ETSH 271820Z 11007KT 9999 FEW200 25/06 Q1020 BLU+ KRFI 271855Z AUTO 21005KT 7SM SCT027 SCT034 OVC043 30/24 A2991 RMK AO2 T02990235 ETSI 271820Z AUTO 07003KT 6000 // ////// 24/08 Q1020 /// LHPA 271845Z 36002KT CAVOK 19/10 Q1021 NOSIG RMK BLU KRGA 271855Z AUTO 22006KT 10SM BKN028 BKN034 BKN040 28/20 A2991 RMK AO2 KPWT 271856Z AUTO 05005KT 10SM CLR 25/09 A3010 RMK AO2 SLP206 T02500094 KT70 271858Z AUTO 15004KT 10SM FEW026 32/25 A2981 RMK AO2 SLP081 T03190247 $ ETSL 271820Z AUTO 05007KT 9000 // ////// 21/11 Q1020 /// ETSN 271820Z 06004KT 9999 23/09 Q1020 BLU+ LGZA 271850Z 34004KT 9999 FEW020 20/15 Q1013 GCLA 271900Z VRB01KT 9999 SCT050 22/15 Q1017 KRGK 271855Z AUTO 34005KT 10SM SCT110 20/07 A2991 RMK AO2 FLKK 271600Z 14003KT CAVOK 23/12 Q1020 NOSIG KPYM 271852Z AUTO 04007KT 10SM CLR 17/08 A2989 RMK AO2 SLP120 T01670083 TSNO KT82 271850Z AUTO 24006KT 7SM OVC019 28/22 A2993 RMK AO2 T02800220 LHPP 271645Z 03009KT CAVOK 23/07 Q1020 FMCH 271800Z 09004KT 9999 FEW020 26/23 Q1015 NOSIG KRHI 271853Z AUTO 25009G18KT 10SM CLR 25/09 A2986 RMK AO2 SLP105 T02500089 LHPR 271845Z AUTO 33006KT CAVOK 18/10 Q1021 RMK BLU AGGH 271900Z 18003KT 9999 FEW015 FEW016CB 23/22 Q1009 KRIC 271854Z 18009KT 10SM FEW060 BKN095 BKN300 29/18 A2985 RMK AO2 SLP112 T02890178 KRID 271855Z AUTO 25005KT 7SM SCT060 25/18 A2989 RMK AO2 KQRD 271858Z AUTO 19007KT 9SM FEW350 28/23 A3008 RMK AO2 SLP190 KPYX 271855Z AUTO 02008KT 10SM SCT032 26/16 A2990 RMK AO2 T02580162 GCLP 271900Z 03010KT 9999 SCT025 BKN040 22/15 Q1017 NOSIG KPZQ 271855Z AUTO 08008KT 10SM SCT065 20/11 A2990 RMK AO2 T01980111 KQRH 271856Z AUTO 00000KT 9999 CLR 32/26 A2977 RMK AO2 SLP068 WND DATA ESTMD T03190260 KSAA 271855Z AUTO 34012G17KT 302V012 10SM SCT035 SCT044 BKN070 09/02 A3022 RMK AO2 KSAC 271853Z 19012KT 10SM CLR 18/11 A3007 RMK AO2 SLP181 T01830111 $ KRIL 271853Z AUTO 36006KT 10SM FEW090 SCT110 16/03 A3016 RMK AO2 PK WND 24031/1755 RAB1757E16 SLP165 P0002 T01560028 KRHV 271715Z VRB04KT 10SM SCT030 18/10 A3013 KSAD 271851Z AUTO VRB04KT 10SM CLR 29/M09 A3001 RMK AO2 SLP108 T02941089 FMEE 271900Z AUTO 16006KT 9999 FEW026 BKN036 BKN047 23/20 Q1019 TEMPO 4000 SHRA KSAF 271853Z 23014G23KT 10SM CLR 24/M08 A3009 RMK AO2 SLP090 T02441083 KQQY 271755Z AUTO 13003KT 12SM CLR 30/22 A3006 RMK AO2 SLP154 60072 T02980224 10299 20202 58030 $ FMCZ 271900Z AUTO 35002KT 9999 NCD 25/23 Q1015 NOSIG KSBA 271853Z 24006KT 10SM CLR 18/12 A3007 RMK AO2 SLP182 T01830122 KRIV 271858Z AUTO 34007KT 10SM CLR 21/08 A3005 RMK AO2 SLP168 T02110080 KRKD 271856Z AUTO 06007KT 10SM OVC041 14/08 A2987 RMK AO2 SLP116 T01440083 KSBD 271847Z 24006KT 5SM HZ SKC 22/08 A3006 LHSM 271845Z 36004KT CAVOK 19/09 Q1021 NOSIG ETWM 271820Z AUTO VRB03KT 9999 // ////// 28/12 Q1016 /// KRIW 271853Z AUTO 35013G18KT 10SM CLR 16/M02 A3019 RMK AO2 SLP195 T01561022 LHSN 271845Z 03010KT CAVOK 17/08 Q1020 NOSIG RMK BLU KSAN 271851Z 31011KT 10SM FEW022 BKN033 19/12 A3008 RMK AO2 SLP187 T01890122 FMEP 271900Z AUTO VRB03KT 9999 BKN068 OVC088 24/20 Q1018 KSAR 271855Z AUTO 24003KT 10SM OVC035 26/20 A2988 RMK AO2 LTG DSNT SW THRU NW T02630204 KSAT 271851Z 18007KT 6SM HZ BKN040 BKN250 34/24 A2988 RMK AO2 SLP098 T03390239 KSBM 271853Z AUTO 18011KT 10SM CLR 22/14 A2989 RMK AO2 SLP121 T02220139 KSAV 271853Z 27012KT 10SM FEW200 34/15 A3000 RMK AO2 SLP159 T03390150 $ KSCD 271855Z AUTO 25006KT 10SM BKN030 BKN037 BKN049 28/23 A3005 RMK AO2 T02820226 KRLD 271855Z AUTO 12005KT 10SM CLR 29/07 A3008 RMK AO2 T02900068 LHUD 271845Z 01007KT CAVOK 19/09 Q1020 LJCE 271900Z VRB01KT CAVOK 20/10 Q1021 RMK BLU KSBN 271854Z VRB03KT 10SM OVC030 22/17 A2990 RMK AO2 SLP121 T02220167 KSAW 271848Z 17006KT 7SM -RA SCT043 BKN050 OVC060 17/15 A2985 GBYD 271900Z 24008KT CAVOK 29/23 Q1012 KSBO 271855Z AUTO 25008G17KT 10SM CLR 31/16 A3003 RMK AO2 KSCF 271855Z AUTO 14008KT 7SM OVC024 27/25 A3006 RMK A01 KRKP 271853Z AUTO 14015G21KT 10SM BKN015 BKN021 31/24 A2990 RMK AO2 SLP126 T03060244 KSBP 271856Z 30014KT 10SM CLR 21/10 A3008 RMK AO2 SLP185 T02110100 KSCH 271755Z AUTO 05004KT 15SM OVC085 19/10 A2989 KSAZ 271852Z AUTO 25012G18KT 10SM SCT095 23/02 A2985 RMK AO2 KRKR 271855Z AUTO 19016G24KT 10SM CLR 32/23 A2979 RMK AO2 T03160227 LIMA 271650Z VRB02KT 9000 NSC 29/14 Q1018 KSDA 271855Z AUTO 05009KT 10SM BKN017 OVC022 20/16 A2983 RMK AO2 KRKS 271854Z AUTO VRB04KT 10SM FEW055 SCT070 BKN090 12/M03 A3024 RMK AO2 SLP213 T01171028 KSDB 271853Z AUTO 07008G17KT 10SM CLR 26/M01 A3013 RMK AO2 SLP157 T02561011 KSCK 271855Z VRB04KT 10SM CLR 22/12 A3007 RMK AO2 SLP181 T02220117 LIMC 271850Z 25004KT CAVOK 26/12 Q1019 NOSIG KU42 271855Z AUTO 30010G16KT 10SM CLR 16/07 A3024 RMK AO1 T01610065 KRME 271853Z 26005KT 10SM SCT055 OVC070 21/11 A2988 RMK AO2 SLP116 T02060111 LIME 271850Z 15003KT 100V190 CAVOK 24/12 Q1019 NOSIG LIMF 271850Z 06004KT CAVOK 24/16 Q1019 KSDF 271856Z 25010KT 7SM -TSRA FEW031 BKN055CB BKN090 BKN250 29/22 A2987 RMK AO2 LTG DSNT NE AND E RAB48 TSB38 SLP107 OCNL LTGIC N AND E TS N MOV E P0000 T02890217 KQVF 271855Z AUTO 23004KT 9999 FEW021 SCT029 25/23 A2995 RMK AO2 SLP142 WND DATA ESTMD T02520226 LIMG 271650Z 09004KT CAVOK 26/12 Q1018 KRMG 271853Z AUTO 24009KT 10SM FEW038 29/20 A2998 RMK AO2 SLP143 T02890200 KSBY 271854Z 15009KT 10SM FEW060 SCT110 26/16 A2988 RMK AO2 SLP119 T02560156 LIMH 271855Z /////KT CAVOK 06/M01 Q1035 RMK SCT SCT100 MON CLD SCT VAL CLD SCT VIS MIN 9999 KSCR 271855Z AUTO 24007KT 10SM SCT050 30/18 A2992 RMK AO2 T02990183 KSEA 271853Z 30007KT 10SM CLR 24/10 A3010 RMK AO2 SLP196 T02390100 LIMJ 271850Z 27004KT CAVOK 22/12 Q1019 FKYS 271900Z 21005KT 9999 BKN016 25/21 Q1017 NOSIG KSDL 271853Z VRB05KT 10SM CLR 32/M07 A2997 RMK AO2 SLP122 T03171067 LIML 271850Z 09003KT CAVOK 26/10 Q1018 NOSIG KRNC 271855Z AUTO 25014KT 10SM FEW028 28/21 A2997 RMK KSDM 271853Z 27011KT 10SM SCT028 21/12 A3006 RMK AO2 SLP174 T02060117 KRND 271858Z AUTO 17008KT 10SM FEW041 SCT049 SCT075 BKN110 BKN150 OVC210 34/24 A2987 RMK AO2 SLP105 T03430235 KRMN 271855Z AUTO 03003KT 10SM OVC060 24/19 A2992 RMK AO2 T02430187 KSEE 271850Z VRB06KT 10SM SKC 21/10 A3005 KSEF 271855Z AUTO 29007G14KT 10SM CLR 36/07 A3005 RMK AO2 T03580072 LIMP 271850Z 07006KT CAVOK 25/12 Q1018 KSEG 271853Z AUTO 00000KT 10SM BKN042 OVC049 21/12 A2990 RMK AO2 SLP124 T02110117 PWINO $ KRNH 271855Z AUTO 25004KT 10SM OVC100 20/06 A2991 RMK AO2 T01970064 KROA 271854Z 26008G18KT 10SM FEW050 BKN095 28/18 A2991 RMK AO2 SLP118 T02830178 KSFB 271853Z 28005KT 10SM FU CLR 33/12 A3003 RMK AO2 SLP169 T03330117 LIMU 271855Z 23009KT CAVOK 21/11 Q1020 RMK SKC QUK 2 QUL 1 S VIS MAR 30 KM VIS MIN 9999 KROC 271854Z 10SM OVC043 17/13 A2991 RMK AO2 SLP132 T01720133 KRNM 271853Z VRB04KT 10SM FEW025 21/11 A3006 RMK AO2 SLP167 T02110111 KSEM 271855Z AUTO 22009G15KT 10SM SCT028 SCT036 30/21 A3004 RMK AO2 TSNO VTPH 271200Z VRB02KT 9000 -RA BKN028 27/26 Q1005 KSFF 271853Z VRB06KT 10SM FEW060 24/07 A3014 RMK AO2 SLP197 T02440072 KRNO 271855Z 11010G15KT 10SM CLR 23/M04 A3016 RMK AO2 SLP164 T02281039 LIMY 271755Z 10007KT CAVOK 25/17 Q1020 RMK FEW FEW200 VAL FOSCHIA VIS MIN 9999 KROG 271858Z 20016G28KT 10SM BKN035 BKN045 30/22 A2979 RMK AO2 PK WND 18028/1854 SLP070 T03000222 KRMY 271854Z AUTO 00000KT 10SM BKN034 OVC047 22/14 A2989 RMK AO2 T02230142 KRNP 271854Z AUTO 00000KT 10SM SCT045 OVC060 23/12 A2989 RMK AO2 T02290122 KSDY 271856Z AUTO 30018G23KT 10SM FEW080 24/04 A2985 RMK AO2 SLP108 T02390039 KSEP 271855Z AUTO 19007G16KT 10SM BKN029 BKN034 31/24 A2988 RMK AO2 T03130235 LIMZ 271850Z VRB02KT CAVOK 24/15 Q1019 LIPA 271855Z 21006KT CAVOK 24/16 Q1018 RMK SKC VIS MIN 9999 WIND THR05 23008KT WIND THR23 22006KT A3009 BLU GCRR 271900Z 30010G22KT 260V020 9999 FEW035 SCT042 25/16 Q1016 KU68 271855Z AUTO 24009G14KT 10SM SCT100 20/00 A3013 RMK AO2 VTPM 271000Z 06006KT 9999 SCT020 BKN060 32/21 Q1003 A2962 KRNT 271853Z 31007KT 10SM CLR 23/12 A3008 RMK AO2 SLP192 T02280122 KSET 271854Z AUTO 10009KT 10SM CLR 26/17 A2984 RMK AO2 LTG DSNT S AND SW SLP099 T02560172 $ LIPB 271850Z 16008KT CAVOK 26/11 Q1017 FLSK 262100Z 00000KT CAVOK 15/13 Q1022 LIPC 271855Z 14001KT CAVOK 21/15 Q1019 FNBC 270600Z 30005KT 8000 FEW010 BKN070 20/// Q//// VTPO 271100Z 00000KT 9999 FEW022 32/24 Q1003 KRPD 271855Z AUTO 24006G14KT 10SM BKN060 BKN070 21/06 A2992 RMK AO2 T02050060 KSFM 271856Z AUTO 12007KT 090V170 10SM SCT050 OVC060 16/10 A2987 RMK AO2 SLP125 T01610100 KRNV 271855Z AUTO 22014G22KT 10SM SCT026 BKN036 BKN045 30/26 A2993 RMK AO2 T03020261 VTPP 271200Z 13015KT 270V360 6000 1500SE -RA SCT010 CB BKN015 OVC100 28/22 Q1005 CB OVER AD LIPE 271850Z 10006KT CAVOK 23/12 Q1019 LIPF 271755Z 15002KT CAVOK 26/15 Q1019 KSGF 271852Z 17011KT 10SM SCT049 SCT075 27/22 A2976 RMK AO2 LTG DSNT W-NE PRESFR SLP065 T02670222 KQWX 271855Z AUTO VRB05KT 12SM FEW017 20/14 A2987 RMK AO2 SLP104 WND DATA ESTMD T02030141 KSFO 271856Z 29013KT 10SM FEW020 FEW025 18/08 A3011 RMK AO2 SLP196 T01780083 FNBG 271500Z 29010KT 9999 FEW015 26/21 Q1014 LIPH 271850Z 18002KT CAVOK 25/13 Q1018 KSGH 271856Z AUTO 00000KT 10SM FEW024 BKN030 OVC065 25/19 A2988 RMK AO2 SLP113 T02500194 KSEZ 271855Z AUTO 13007KT 090V160 10SM CLR 26/M02 A3012 RMK AO2 KSFQ 271855Z AUTO 22006KT 10SM CLR 30/16 A2988 RMK AO2 T02960164 KRPH 271855Z AUTO 20011G14KT 10SM CLR 36/22 A2977 RMK AO2 T03620222 LIPI 262255Z /////KT 9999 FEW055 SCT060 18/15 Q1019 RMK SCT VIS MIN 9999 WIND THR06 07003KT WIND THR24 10002KT BLU KROS 271854Z AUTO 25006KT 10SM CLR 21/08 A2989 RMK AO2 T02100075 KSGJ 271856Z 11009KT 10SM CLR 30/17 A3005 RMK AO2 SLP174 T03000172 KRPJ 271855Z AUTO 00000KT 10SM SCT025 22/16 A2990 RMK AO2 T02240164 EVLA 271850Z AUTO 21009KT 9999 NCD 14/09 Q1019 KRQB 271855Z AUTO 17006KT 10SM OVC060 24/11 A2989 RMK AO2 T02410105 FNCA 271600Z 20007KT 9999 SCT016 BKN080 28/23 Q1013 LIQC 271855Z 04002KT CAVOK 21/16 Q1017 RMK SKC QUK 2 QUL 0 VIS MAR 50 KM VIS MIN 9999 LIPL 271855Z /////KT CAVOK 26/12 Q1019 RMK SKC VIS MIN 9999 WIND THR31 13004KT BLU KSHD 271855Z AUTO 24009KT 10SM SCT055 SCT100 27/18 A2989 RMK AO2 T02670176 KRQE 271853Z AUTO 27007G18KT 10SM CLR 22/M06 A3018 RMK AO2 SLP122 T02171061 TSNO KROW 271851Z 23011G20KT 10SM CLR 34/M09 A2993 RMK AO2 PK WND 27026/1839 SLP063 T03391089 LIPO 271850Z 14005KT CAVOK 25/11 Q1018 KROX 271854Z AUTO 27009KT 10SM SCT075 21/07 A2972 RMK AO2 KQZF 271855Z AUTO RMK AO2 SLPNO WND DATA ESTMD PWINO PNO TSNO $ KSFY 271855Z AUTO 24005KT 10SM CLR 20/16 A2990 RMK AO2 T02000159 KSFZ 271856Z AUTO 00000KT 10SM OVC048 19/09 A2988 RMK AO2 SLP135 T01940094 LIPQ 271850Z 13007KT CAVOK 22/17 Q1018 VTSB 271600Z 16004KT 9999 FEW020 27/25 Q1008 KSGR 271853Z 20013G18KT 10SM FEW031 33/24 A2992 RMK AO2 PK WND 16026/1812 SLP130 T03280244 LIPR 271845Z 10001KT CAVOK 22/15 Q1019 VTSC 270900Z 27006KT 9999 FEW022 32/23 Q1006 LIPS 271855Z 18003KT CAVOK 24/16 Q1019 RMK SKC VIS MIN 9999 WIND THR26 18002KT WIND THR08 18002KT BLU LIRA 271850Z 18006KT CAVOK 21/09 Q1017 KSGS 271854Z AUTO 21007KT 10SM SCT065 SCT085 19/10 A2990 RMK AO2 T01850101 GCTS 271900Z 07013KT 9999 FEW020 BKN054 23/16 Q1017 NOSIG KSGT 271855Z AUTO 19013G17KT 10SM SCT029 BKN036 BKN050 31/19 A2990 RMK AO1 LIPU 270600Z VRB03KT CAVOK 20/13 Q1020 VTSE 271200Z 00000KT 9999 FEW020 BKN080 26/26 Q1005 KSHL 271855Z AUTO 32007KT 10SM FEW050 OVC060 16/12 A2994 RMK AO2 KSGU 271856Z AUTO 00000KT 10SM CLR 26/M01 A3005 RMK AO2 SLP141 T02611006 VTSF 271400Z VRB02KT 9999 FEW018 27/25 Q1007 KSHM 271858Z AUTO 35016G25KT 10SM -RA BKN032 BKN055 11/06 A3012 RMK AO2 LTG DSNT W-NW RAB51 SLP172 T01070058 $ LIQN 271750Z 02007KT CAVOK 23/06 Q1017 VTSG 271900Z AUTO 00000KT 5000 BR ////// 25/24 Q1007 A2975 LIRE 271855Z 20005KT CAVOK 20/15 Q1017 RMK SKC VIS MIN 9999 WIND THR13 21004KT WIND THR31 /////KT BLU KSHN 271853Z AUTO VRB03KT 10SM CLR 26/11 A3007 RMK AO2 SLP179 T02560106 VTSH 271000Z 24006KT 9999 FEW020 SCT040 BKN100 31/25 Q1005 NOSIG KRPX 271835Z AUTO 28013KT 10SM 21/01 A2996 LIRF 271850Z 28005KT CAVOK 21/16 Q1017 NOSIG LIPX 271850Z 15004KT CAVOK 24/13 Q1019 KRQO 271855Z AUTO 21012G17KT 10SM CLR 34/14 A2977 RMK AO2 T03390136 KSIF 271855Z AUTO 24003KT 10SM CLR 31/18 A2989 RMK AO2 T03060184 LIPY 271850Z VRB02KT CAVOK 21/14 Q1019 WMBA 271900Z 00000KT 9000 FEW005 SCT032 BKN280 27/26 Q1006 LIPZ 271850Z 19006KT CAVOK 23/16 Q1018 NOSIG VTSK 270600Z 22008KT 8000 HZ FEW025 BKN100 31/22 Q1006 A2972 LIRI 271450Z 36015KT 9999 FEW030 26/07 Q1017 KSHR 271853Z AUTO 30015G22KT 10SM CLR 19/02 A3010 RMK AO2 SLP182 T01890017 FMMI 271900Z 00000KT 9999 FEW020 15/13 Q1023 NOSIG VTSM 271500Z 00000KT 9999 FEW020 29/25 Q1008 LIRK 271855Z AUTO 09014KT //// ///// Q//// KSIK 271915Z AUTO 21007KT 10SM BKN033 BKN038 29/22 A2986 RMK AO2 LTG DSNT N KSJC 271853Z 33006KT 10SM FEW032 FEW045 20/11 A3010 RMK AO2 SLP190 T02000111 KRRL 271855Z AUTO 23012G16KT 10SM CLR 23/10 A2987 RMK AO2 T02300097 LIRM 271855Z 24004KT 9999 SCT040 21/17 Q1017 KTAD 271854Z AUTO 10SM CLR 18/07 A3006 RMK AO2 SLP122 T01830067 TSNO KSHV 271856Z 19010KT 9SM FEW035 OVC055 31/24 A2990 RMK AO2 SLP121 T03110239 VTSP 271830Z 00000KT 8000 FEW018 27/24 Q1008 NOSIG LIRN 271850Z 36004KT CAVOK 23/09 Q1018 NOSIG VTSR 271100Z VRB02KT 9999 OVC025 26/25 Q1005 LIRP 271845Z 31005KT CAVOK 24/09 Q1018 NOSIG VTSS 271900Z 00000KT 9999 FEW020 BKN100 26/25 Q1007 NOSIG LIRQ 271850Z 04004KT 350V070 CAVOK 24/09 Q1018 VTST 271100Z 20005KT 9999 SCT018 30/26 Q1004 RWY08 INFO L WMAU 271900Z AUTO 25005KT 230V300 //// // 25/24 Q//// QFF1007 LIRS 271855Z 02008KT CAVOK 25/11 Q1018 KSKA 271858Z AUTO 20005KT 10SM CLR 23/08 A3015 RMK AO2 SLP204 T02270077 LIRT 271855Z /////KT CAVOK 13/06 Q1020 RMK SKC MON INVIS VAL INVIS VIS MIN 9999 VTUD 271500Z 11002KT 9999 FEW048 BKN100 27/22 Q1008 KRRT 271854Z AUTO 23011G17KT 10SM CLR 22/08 A2972 RMK AO2 LTG DSNT N LIRU 271650Z 22008KT 9999 FEW040 25/10 Q1016 FMMT 271900Z 26002KT 9999 FEW017 SCT033 23/22 Q1017 NOSIG KRSL 271853Z AUTO 31008KT 10SM SCT090 BKN110 22/16 A2988 RMK AO2 SLP105 T02220156 LIRV 271855Z 03007KT CAVOK 22/10 Q1019 FMNM 271900Z 00000KT CAVOK 24/22 Q1015 NOSIG KTAN 271852Z AUTO 00000KT 10SM FEW047 19/09 A2986 RMK AO2 SLP112 T01940094 KSJN 271854Z AUTO 30007KT 270V360 10SM CLR 23/M08 A3013 RMK AO2 SLP123 T02331083 TSNO KRSN 271855Z AUTO 20010G16KT 10SM SCT029 SCT034 BKN050 31/23 A2998 RMK AO2 T03070234 FMNN 271500Z 21002KT 9999 FEW020 27/23 Q1013 LIRX 271755Z 06003KT CAVOK 22/09 Q1017 RMK SKC VIS MIN 9999 VIS MAR 30 KM KSKF 271858Z AUTO 18010G18KT 10SM FEW130 SCT190 35/24 A2985 RMK AO2 SLP099 T03500236 KRSP 271730Z AUTO 00000KT 3SM -RA BR BKN050 OVC060 15/15 A2991 RMK AO2 P0010 $ VVCI 271900Z 32001KT CAVOK 24/22 Q1009 NOSIG VTUI 271900Z AUTO 14005KT 090V180 9999 FEW072/// OVC110/// 26/16 Q1008 A2977 KSIY 271853Z AUTO 00000KT 10SM CLR 23/04 A3010 RMK AO2 SLP187 T02330044 LIRZ 271850Z 02006KT CAVOK 19/08 Q1020 VTUK 271900Z 11004KT 050V160 9999 SCT030 BKN100 27/21 Q1007 NOSIG VTUL 270900Z 11004KT 060V170 8000 FEW032 31/21 Q1006 KSJS 271855Z AUTO 26007KT 10SM BKN026 BKN031 OVC080 26/20 A2994 RMK AO2 T02550199 KSJT 271851Z 29005KT 10SM CLR 38/12 A2985 RMK AO2 SLP076 T03780117 $ KSLB 271855Z AUTO 03010KT 10SM FEW085 18/10 A2992 RMK AO2 KRST 271854Z AUTO 34005KT 10SM CLR 20/09 A2993 RMK AO2 SLP132 T02000089 KTCC 271853Z AUTO 09006G15KT 10SM CLR 29/M02 A2993 RMK AO2 SLP076 T02941022 KSLC 271854Z 30010KT 10SM FEW070 18/03 A3022 RMK AO2 SLP205 T01830028 VTUO 270800Z 06008KT 010V090 9999 SCT025 30/26 Q1006 A2972 INFO I RWY 04 KRSV 271855Z AUTO 00000KT 10SM CLR 25/19 A2988 RMK AO2 T02520185 KRUE 271853Z AUTO 23012G17KT 10SM BKN050 31/21 A2983 RMK AO2 SLP093 T03060211 KRTN 271853Z AUTO 16011G18KT 130V190 10SM CLR 24/M02 A3002 RMK AO2 SLP072 T02391017 KRSW 271853Z AUTO VRB06KT 10SM CLR 33/21 A3006 RMK AO2 SLP177 T03280206 KSLE 271856Z 35004KT 10SM CLR 26/12 A3004 RMK AO2 SLP171 T02560117 KTBN 271858Z AUTO 08007KT 10SM FEW170 25/18 A2983 RMK AO2 LTG DSNT E SLP094 T02470184 VTUQ 271900Z AUTO 00000KT ////NDV ////// 25/25 Q1007 A2976 KSJX 271855Z AUTO 24010KT 10SM CLR 19/12 A2990 RMK AO2 T01930119 VVCR 271900Z 22002KT 9999 SCT013 BKN050 27/26 Q1007 NOSIG GCXO 271900Z 31009KT 9999 BKN028 17/13 Q1019 NOSIG KSLG 271855Z AUTO 18021G27KT 10SM FEW029 BKN034 29/22 A2977 RMK AO1 KSLH 271855Z AUTO 07010KT 10SM SCT055 BKN065 18/12 A2987 RMK AO2 T01840129 KTAZ 271855Z AUTO 08005KT 10SM CLR 24/17 A2988 RMK AO2 T02420174 VVCT 271400Z 22004KT 9999 FEW013 BKN050 26/26 Q1007 NOSIG KSLI 271858Z 24008KT 10SM FEW015 SCT030 BKN040 20/10 A3006 RMK AO2A SLP182 T02040104 KTBR 271855Z AUTO 28010G18KT 240V320 10SM CLR 32/17 A3001 RMK AO2 T03190167 VTUU 271900Z 08004KT 9999 SCT022 BKN080 25/25 Q1007 NOSIG LJLJ 271900Z 09006KT 9999 FEW060 20/11 Q1021 NOSIG KRTS 271855Z AUTO 11009G17KT 10SM CLR 20/M06 A3018 RMK AO2 VTUV 271300Z 09003KT 8000 FEW022 28/20 Q1007 A2974 INFO N RWY 36 LJMB 271900Z 31003KT 300V030 CAVOK 19/10 Q1021 KSLK 271851Z AUTO 16003KT 10SM OVC045 16/09 A2989 RMK AO2 SLP124 T01610089 VTUW 271200Z 13007KT CAVOK 29/19 Q1006 VVDN 271900Z VRB01KT 7000 SCT013 BKN050 25/23 Q1008 NOSIG KTCL 271853Z 21008KT 10SM SCT028 BKN037 OVC048 28/22 A3001 RMK AO2 SLP160 T02830222 LIVD 271755Z /////KT CAVOK 21/13 Q1022 RMK SKC VIS MIN 9999 KTCM 271858Z AUTO 01007KT 10SM CLR 25/11 A3009 RMK AO2 SLP192 T02490106 $ LIVE 271855Z 00000KT CAVOK 18/08 Q1022 RMK SKC VIS MIN 9999 KSLN 271853Z 33010KT 10SM FEW110 21/17 A2983 RMK AO2 LTG DSNT S AND SW SLP090 T02110167 KSME 271855Z AUTO 27011G14KT 10SM BKN028 BKN038 OVC050 26/19 A2994 RMK AO2 KTDF 271855Z AUTO 24006KT 10SM SCT050 29/17 A2992 RMK AO2 KSMF 271853Z 17006KT 10SM CLR 22/11 A3005 RMK AO2 SLP176 T02170111 KSKX 271855Z AUTO 22013G18KT 10SM CLR 21/M06 A3013 RMK AO1 KSLO 271855Z AUTO 00000KT 10SM CLR 29/19 A2987 RMK AO2 LTG DSNT W T02890193 KTBX 271855Z AUTO 31007G16KT SCT034 SCT041 SCT048 09/M02 A3032 RMK AO2 PWINO KRUQ 271855Z AUTO 25008KT CLR 29/17 A2993 RMK AO2 T02870171 PWINO KSLR 271855Z AUTO 20012KT 4SM HZ OVC020 29/24 A2989 RMK AO2 T02860235 KTCS 271853Z AUTO VRB05KT 10SM CLR 28/M07 A3005 RMK AO2 SLP091 T02831072 KSNA 271853Z VRB06KT 10SM FEW021 BKN037 BKN048 20/11 A3007 RMK AO2 SLP181 T02000111 KTEB 271851Z 36005KT 10SM BKN048 OVC060 22/12 A2985 RMK AO2 SLP109 T02220122 EVRA 271850Z 27006KT 220V310 CAVOK 18/08 Q1018 NOSIG KRUT 271856Z AUTO 00000KT 10SM BKN049 OVC095 19/09 A2989 RMK AO2 SLP139 T01890094 $ KSNC 271855Z AUTO 17007KT 10SM BKN037 BKN060 BKN100 18/11 A2989 RMK AO2 LKCV 271900Z 07005KT CAVOK 20/09 Q1022 NOSIG RMK BLU+ BLU KSMN 271855Z AUTO 21005KT 10SM CLR 18/04 A3017 RMK AO1 LIVO 271755Z 10002KT 9999 FEW035 21/13 Q1020 RMK FEW VIS MIN 9999 KRWF 271853Z AUTO 20004KT 10SM OVC085 21/03 A2991 RMK AO2 SLP128 T02110028 KSMO 271851Z 24008KT 10SM SCT040 18/11 A3007 RMK AO2 SLP182 T01830111 LIVP 270955Z VRB03KT 9999 3000S FEW000 11/07 Q1026 RMK SCT MON S INVIS VAL S CLD SCT VIS MIN 3000S KSMP 271856Z AUTO 00000KT 10SM CLR 21/04 A3019 RMK AO2 SLP202 T02060039 KSMQ 271853Z AUTO 00000KT 10SM FEW055 23/13 A2986 RMK AO2 SLP109 T02280133 KSNH 271855Z AUTO 22012KT 10SM SCT025 BKN031 OVC065 29/22 A2993 RMK A01 LIVR 271755Z 13014KT 9999 SCT015 09/07 Q1025 RMK SCT MON CLD SCT VIS MIN 9999 KRWI 271853Z AUTO 27008KT 9SM FEW060 31/18 A2990 RMK AO2 SLP122 T03060183 KTDR 271856Z AUTO 24008KT 10SM CLR 27/23 A3009 RMK AO2 SLP193 T02690225 $ KSOA 271855Z AUTO 24008G14KT 210V270 9SM FEW049 SCT070 SCT100 33/21 A2994 RMK AO2 KRVS 271853Z 19011KT 10SM FEW036 SCT048 33/23 A2973 RMK AO2 SLP070 T03330233 KSMS 271855Z AUTO 24010KT 10SM FEW060 32/18 A2995 RMK AO2 LIVT 271855Z 04002KT CAVOK 23/17 Q1018 RMK SKC QUK 1 QUL 0 VIS MAR 15 KM VIS MIN 9999 KSNK 271855Z AUTO 27007KT 10SM CLR 36/04 A2986 RMK AO2 T03590041 KRWL 271853Z AUTO 32011KT 10SM SCT047 SCT060 BKN080 11/M02 A3022 RMK AO2 SLP190 T01061017 KSNL 271855Z AUTO 22014G18KT 10SM SCT040 31/22 A2976 RMK AO2 T03100224 FNHU 271600Z 13008KT 9999 BKN018 23/13 Q1023 FMSD 271900Z VRB02KT 9999 FEW016 23/21 Q1015 KRXE 271853Z AUTO 10SM SCT100 13/06 A3025 RMK AO2 SLP236 T01280061 KSMX 271851Z 30013KT 10SM CLR 19/10 A3009 RMK AO2 SLP192 T01890100 $ KTDZ 271853Z AUTO 07010KT 020V100 10SM CLR 23/13 A2991 RMK AO2 SLP124 T02280133 KSNS 271853Z 28008KT 250V340 10SM CLR 18/09 A3011 RMK AO2 SLP203 T01830094 KSPA 271855Z AUTO 24006KT 10SM CLR 28/17 A2994 RMK AO2 KSNT 271851Z AUTO VRB05KT 16/M04 A3028 RMK AO1 SLP202 T01561044 KSPB 271853Z AUTO 05004KT 10SM CLR 24/13 A3005 RMK AO2 SLP175 T02390128 KSPD 271856Z AUTO 05007KT 19/11 A3001 RMK AO1 SLP117 T01940111 KTEW 271853Z AUTO 10005KT 10SM BKN043 OVC050 22/14 A2990 RMK AO2 T02220138 KSPF 271855Z AUTO 31010G15KT 280V340 10SM CLR 18/04 A3004 RMK AO2 KTEX 271855Z AUTO 29014G24KT 270V330 10SM CLR 13/M08 A3027 RMK AO2 T01251083 KSNY 271853Z AUTO 33013KT 10SM BKN047 15/07 A3008 RMK AO2 SLP163 T01500072 KSPG 271853Z 11007KT 10SM CLR 29/21 A3006 RMK AO2 SLP180 T02890206 KSOP 271856Z AUTO 23010G14KT 10SM SCT060 31/18 A2993 RMK AO2 SLP144 T03110183 KTFP 271855Z AUTO 10SM SCT016 SCT021 31/26 A2989 RMK AO2 T03140255 KSPI 271852Z VRB06KT 10SM CLR 27/18 A2987 RMK AO2 SLP110 T02670178 KTGI 271857Z AUTO 15009KT 10SM BKN095 OVC110 24/16 A2988 RMK AO1 KTHA 271855Z AUTO 23012KT 10SM FEW028 SCT075 27/20 A2999 RMK KRYM 271856Z AUTO 22009KT 10SM SCT070 23/07 A2987 RMK AO2 SLP118 T02300067 TSNO $ KRYN 271845Z 25005KT 10SM CLR 31/M07 A3001 KSOW 271855Z AUTO 19006G18KT 10SM CLR 20/M09 A3020 RMK AO2 KSQI 271856Z VRB03KT 10SM FEW018 22/17 A2990 RMK AO2 SLP142 T02220172 PNO $ KSPR 271855Z AUTO 14010KT 8SM FEW019 SCT028 OVC035 30/25 A3005 RMK A01 KSPS 271852Z AUTO 19017G21KT 10SM CLR 35/22 A2975 RMK AO2 SLP057 T03500222 MBGT 271800Z 09013KT 9999 SCT018 31/21 Q1018 KRYT 271831Z AUTO 00000KT 3SM -RA BR SCT040 OVC055 16/16 A2991 RMK AO2 P0012 TSNO $ EVVA 271850Z AUTO 23008KT CAVOK 13/11 Q1019 KSRB 271855Z AUTO 20005KT 10SM SCT022 BKN027 OVC050 26/21 A2996 RMK A01 KRZL 271855Z AUTO 00000KT 10SM OVC022 22/16 A2990 RMK AO2 KSQL 271847Z 01005KT 10SM FEW027 18/09 A3011 KSRC 271856Z AUTO 22006KT 10SM OVC021 29/25 A2989 RMK AO2 SLP122 T02940250 KRYV 271855Z AUTO 19003KT 10SM SCT032 22/15 A2989 RMK AO2 T02210145 KSPW 271853Z AUTO 07003KT 10SM OVC075 18/11 A2994 RMK AO2 RAE03 SLP138 P0000 T01830111 $ KRYW 271855Z AUTO 18009G16KT 5SM HZ OVC025 30/23 A2992 RMK AO2 T03000232 KRZN 271855Z AUTO 22006KT 10SM CLR 21/07 A2989 RMK AO2 T02060067 KTIF 271855Z AUTO 02004KT 10SM SCT013 BKN025 OVC032 14/10 A3004 RMK AO2 T01400104 KRYY 271847Z 27006KT 10SM BKN040 OVC050 28/19 A3003 WMKA 271900Z 08001KT 9999 FEW030 SCT140 BKN300 26/25 Q1007 LJPZ 271900Z 13003KT 100V160 CAVOK 22/13 Q1019 WMKB 271900Z 06002KT 8000 FEW022 SCT140 BKN270 27/26 Q1006 KRZR 271855Z AUTO 22015KT 10SM BKN032 BKN038 28/21 A2995 RMK A01 WMKC 271900Z 22001KT 9999 FEW020 BKN140 27/25 Q1007 WMKD 271900Z 32002KT 9000 FEW006 SCT160 BKN280 25/24 Q1008 NOSIG KRZT 271855Z AUTO 03004KT 3SM -RA SCT014 SCT029 BKN046 22/20 A2987 RMK AO2 P0009 LTG DSNT E KTIK 271858Z AUTO 21013G22KT 10SM FEW200 33/22 A2976 RMK AO2 SLP069 T03250215 $ WMKE 271900Z AUTO 00000KT //// // 23/23 Q1007 KSSC 271858Z AUTO 27006G16KT 10SM SCT060 31/18 A2993 RMK AO2 SLP135 T03140181 $ GEML 271900Z AUTO 06004KT 030V100 9999 OVC017/// 21/18 Q1014 KTHV 271853Z AUTO 21003KT 10SM -RA SCT041 OVC070 18/15 A2992 RMK AO2 RAE1755B16E26B52 SLP131 P0000 T01780150 TSNO FNLU 271900Z 21006KT 9999 FEW022 25/21 Q1014 NOSIG KW13 271855Z AUTO 00000KT 10SM SCT046 BKN065 OVC085 26/19 A2990 RMK AO1 T02600193 KSSF 271853Z 15010G17KT 120V200 10SM SCT041 36/23 A2984 RMK AO2 SLP091 T03560228 $ WMKI 271900Z 17001KT 9000 FEW030 SCT140 BKN280 28/26 Q1007 KTIP 271855Z AUTO 08004KT 10SM OVC017 22/18 A2990 RMK AO2 T02200178 WMKJ 271900Z 27002KT 7000 FEW008 BKN280 25/25 Q1007 KSRQ 271853Z AUTO 26010KT 10SM CLR 29/17 A3007 RMK AO2 SLP182 T02890172 WMKK 271900Z 00000KT 9999 FEW017CB BKN140 BKN280 26/24 Q1007 NOSIG KSSI 271853Z AUTO 14010KT 10SM -RA CLR 31/18 A3003 RMK AO2 RAB1757 SLP169 P0000 T03060183 KSRR 271855Z AUTO 28015G21KT 10SM CLR 24/M11 A3017 RMK AO2 WMKL 271900Z 08003KT 9999 FEW025 SCT140 BKN270 27/25 Q1007 WMKM 271900Z 04001KT 9999 FEW017CB SCT140 BKN260 26/25 Q1008 LKKB 271900Z 11006KT CAVOK 19/08 Q1022 NOSIG WMKN 271900Z 20003KT 9999 FEW022 SCT150 BKN300 25/24 Q1007 KSTC 271853Z 23008KT 10SM CLR 21/07 A2989 RMK AO2 SLP128 T02110067 KTKC 271853Z AUTO 26005KT 10SM SCT090 BKN110 21/10 A2992 RMK AO2 T02060099 KW22 271855Z AUTO VRB04KT 10SM SCT019 BKN027 OVC085 23/19 A2992 RMK AO2 WMKP 271900Z 33001KT 8000 FEW025 BKN270 28/26 Q1007 NOSIG KTIW 271853Z 03007KT 10SM CLR 23/08 A3009 RMK AO2 SLP188 T02280078 KUBE 271855Z AUTO 25008G14KT 10SM SCT060 19/07 A2991 RMK AO2 KSTE 271855Z AUTO 29008KT 10SM SCT060 23/10 A2987 RMK AO2 T02260097 KTIX 271848Z 09009KT 7SM SKC 33/15 A3004 KUAO 271853Z 00000KT 10SM CLR 26/12 A3006 RMK AO2 SLP176 T02560117 KSTF 271855Z AUTO 20009KT 172V242 10SM SCT029 SCT039 BKN048 29/22 A3000 RMK AO2 LLBG 271850Z VRB01KT CAVOK 28/08 Q1009 NOSIG KTKI 271853Z 18016KT 10SM FEW029 FEW036 OVC043 32/24 A2983 RMK AO2 SLP094 T03170244 KSTJ 271853Z 14003KT 10SM CLR 19/17 A2979 RMK AO2 SLP082 T01940172 KSUA 271847Z 08010KT 7SM FEW045 32/26 A3006 KW29 271850Z AUTO 02004KT 10SM OVC090 21/15 A2990 RMK AO2 KSTL 271851Z 12008KT 10SM SCT150 BKN250 27/17 A2986 RMK AO2 LTG DSNT SE-W SLP100 CB DSNT SW MOV NE T02670172 KW31 271855Z AUTO 26004KT 10SM SCT049 29/20 A2987 RMK AO1 T02900198 KSUE 271856Z AUTO 18014KT 10SM CLR 22/12 A2987 RMK AO2 SLP135 T02170117 KSTP 271853Z 22006KT 10SM FEW080 BKN110 21/08 A2990 RMK AO2 RAB18E36 SLP122 P0000 T02060083 KTLH 271853Z 28010KT 10SM FEW050 32/15 A3006 RMK AO2 SLP179 T03170150 VVNB 271900Z 03002KT 7000 NSC 24/22 Q1009 NOSIG KSTS 271853Z 23004KT 10SM SCT021 17/10 A3009 RMK AO2 SLP184 T01720100 KTMA 271850Z AUTO 26008KT 10SM CLR 31/14 A3006 RMK AO2 T03090135 KTMB 271853Z 07010KT 10SM TS SCT035 BKN050 34/24 A3003 RMK AO2 LTG DSNT SW TSB46 SLP166 T03390239 $ LKKU 270900Z 01015KT 9999 FEW045 20/09 Q1022 KSVC 271855Z AUTO 24012G18KT 10SM CLR 26/M13 A3014 RMK AO2 T02571132 KTKV 271855Z AUTO 27008KT 10SM BKN060 22/09 A2987 RMK AO2 T02230087 LKKV 271900Z 07006KT CAVOK 19/08 Q1022 FOGM 271400Z /////KT 9999 SCT010 BKN030 28/24 Q//// LKLN 271900Z AUTO 05004KT 020V100 CAVOK 20/09 Q1021 KSVE 271855Z AUTO 10005KT 020V030 10SM CLR 22/M01 A3017 RMK AO2 KSUN 271857Z 12009KT 10SM SCT070 16/07 A3026 KTME 271855Z AUTO 19016G21KT 5SM HZ FEW032 33/24 A2992 RMK AO2 KW43 271855Z AUTO 30009G14KT 10SM SCT065 SCT085 17/00 A3007 RMK AO2 KTKX 271855Z AUTO 20009G14KT 4SM HZ FEW019 SCT025 BKN029 29/25 A2985 RMK AO2 FOGO 271400Z 14004KT 9999 SCT011 BKN020 27/21 Q//// KUCP 271856Z AUTO 00000KT 10SM OVC036 22/14 A2992 RMK AO2 SLP142 T02170144 KUDG 271856Z AUTO 24014KT 10SM SCT060 32/19 A2993 RMK AO2 SLP138 T03220189 KSVH 271855Z AUTO 23008KT 10SM SCT075 29/18 A2993 RMK AO2 T02910178 FOGR 271400Z /////KT 9999 SCT012 BKN030 29/24 Q//// LKNA 271900Z 12005KT CAVOK 18/08 Q1023 NOSIG RMK BLU BLU KSUS 271854Z 10005KT 10SM TS BKN049 BKN070 BKN080 24/19 A2983 RMK AO2 LTG DSNT E-SW TSB43 SLP094 T02440189 KSUT 271905Z AUTO 23008G15KT 190V250 10SM CLR 28/22 A2995 RMK AO2 T02770216 KTMK 271855Z AUTO 30003KT 10SM OVC007 14/11 A3013 RMK AO2 KTNB 271858Z AUTO 30007KT 10SM BKN036 BKN047 BKN065 24/14 A3004 RMK AO2 KSUU 271858Z AUTO 25014KT 10SM CLR 20/10 A3006 RMK AO2 SLP186 T01960099 $ KSVN 271858Z AUTO 29008KT 10SM CLR 33/22 A2998 RMK AO2 SLP155 T03290218 KSUX 271852Z 36010KT 10SM CLR 23/11 A2990 RMK AO2 SLP124 T02280111 KSWF 271845Z 00000KT 20SM SCT030 BKN050 20/14 A2988 KUCY 271855Z AUTO 21010G16KT 180V240 8SM BKN021 BKN029 OVC033 29/23 A2987 RMK A01 VVPB 271900Z 24003KT 3000 -RA BR SCT013 BKN040 24/24 Q1009 NOSIG KTOA 271856Z 31009KT 10SM FEW023 BKN030 18/12 A3007 FNSA 271600Z 00000KT 9999 SCT030 31/14 Q1016 KTOB 271854Z AUTO 32005KT 10SM CLR 20/06 A2993 RMK AO2 KTMT 271855Z AUTO 03006KT 10SM CLR 20/M06 A3022 RMK AO2 T01991059 LKMT 271900Z 06004KT CAVOK 16/09 Q1023 NOSIG KTOC 271854Z AUTO 22011G15KT 10SM SCT044 BKN050 31/20 A2998 RMK AO2 KW63 271855Z AUTO 23007KT 10SM SCT049 30/20 A2988 RMK AO1 KSWO 271853Z 19006KT 10SM CLR 33/19 A2973 RMK AO2 SLP054 T03280189 KTOI 271853Z AUTO 25005KT 10SM CLR 29/21 A3007 RMK AO2 SLP178 T02890206 KTPA 271853Z 26010KT 10SM CLR 32/14 A3008 RMK AO2 SLP185 T03170139 KUES 271845Z 23005KT 10SM BKN034 22/13 A2991 LLET 271850Z VRB03KT CAVOK 30/12 Q1008 KTOL 271852Z VRB04KT 10SM BKN037 22/14 A2990 RMK AO2 SLP121 T02220139 KTNU 271855Z AUTO 01008KT 5SM BR FEW042 FEW055 FEW065 17/16 A2985 RMK AO2 P0006 PWINO LKPD 271900Z 06005KT CAVOK 20/07 Q1022 NOSIG RMK BLU BLU KSWW 271855Z AUTO 24006KT 10SM CLR 35/11 A2989 RMK AO2 T03460114 VVPQ 271900Z 04003KT 6000 -SHRA SCT015 FEW017CB BKN040 25/24 Q1007 NOSIG CB/SW KTPF 271855Z AUTO 29007KT 10SM CLR 33/08 A3008 RMK AO2 KSYF 271855Z AUTO 34015G22KT 10SM SCT039 OVC090 18/09 A3003 RMK AO2 T01790086 KTOP 271853Z VRB03KT 10SM CLR 23/17 A2979 RMK AO2 SLP080 T02280167 KW75 271855Z AUTO 09004KT 10SM OVC110 25/17 A2988 RMK AO1 T02480170 KTPH 271856Z AUTO 10SM CLR 21/M07 A3018 RMK AO2 SLP164 T02061072 KTOR 271900Z AUTO 01005G15KT 2 1/2SM RA SCT041 BKN050 BKN110 12/07 A3010 RMK AO2 VIS 1V5 P0002 T01170067 KSYI 271855Z AUTO 23010G16KT 10SM FEW032 SCT044 BKN050 27/21 A2996 RMK A01 LLHA 271850Z VRB01KT CAVOK 25/19 Q1009 KW78 271855Z AUTO 25004KT SCT048 30/17 A2988 RMK AO1 T02990174 KSXS 271858Z AUTO 26005KT 10SM SCT043 30/19 A3007 RMK AO2 SLP181 T02980192 KSXT 271856Z AUTO VRB03KT 10SM CLR 24/08 A3014 RMK AO2 SLP156 T02440078 FNUB 271500Z 11010KT 9999 SCT025 27/// Q1025 KTPL 271851Z AUTO 18012KT 6SM HZ FEW026 SCT033 29/24 A2989 RMK AO2 SLP122 T02940244 KSXU 271855Z AUTO 21009G19KT 170V230 10SM CLR 28/M07 A2998 RMK AO2 T02811071 KW81 271855Z AUTO 22005KT 10SM SCT050 29/15 A2986 RMK AO1 T02940145 FNSU 271500Z 20008KT 9999 BKN011 25/// Q1016 KSYM 271850Z AUTO 20009KT 10SM FEW025 SCT030 SCT075 27/20 A2992 RMK AO2 KSYN 271854Z AUTO 32004KT 10SM SCT042 SCT070 BKN090 19/08 A2991 RMK AO2 T01850081 KTQE 271854Z AUTO 04012G18KT 10SM CLR 24/09 A2987 RMK AO2 SLP105 T02390089 KUGN 271855Z 13007KT 10SM CLR 21/13 A2990 RMK AO2 SLP122 T02060133 FNUE 271600Z 13005KT 9999 SCT030 27/17 Q1018 FNUG 271600Z 27006KT 9999 OVC017 23/19 Q1016 WMSA 271900Z VRB03KT 7000 FEW025 SCT140 BKN270 26/25 Q1008 KTQH 271855Z AUTO 17011G19KT 3SM HZ SCT026 31/22 A2978 RMK AO2 KSYR 271854Z 23007KT 10SM BKN028 BKN070 18/14 A2989 RMK AO2 SLP117 T01780139 LKPR 271900Z 13006KT CAVOK 19/08 Q1022 NOSIG LLIB 271550Z 12005KT 090V160 CAVOK 31/07 Q1009 KSZL 271859Z 09010KT 5SM -RA VCTS FEW033 OVC055 17/17 A2981 RMK PK WND 33039/34 RAB28 TSB27E59 SLP094 P0030 T01670167 $ MBPV 271900Z 15005KT 9999 SCT015 32/23 Q1017 GFLL 271900Z 24006KT 9999 TS BKN012 FEW027CB 28/25 Q1011 RMK CB-NE KW96 271855Z AUTO 20004KT 10SM SCT090 BKN120 A2985 RMK AO1 KTRI 271853Z 25008KT 10SM SCT037 SCT060 BKN085 OVC250 26/19 A2997 RMK AO2 SLP125 T02610194 $ MDAB 271900Z 09010KT 9999 SCT022 SCT300 30/25 Q1016 KSZT 271855Z AUTO 12006KT 10SM CLR 21/08 A3014 RMK AO2 KTRK 271845Z 13013G17 10SM SKC 18/M03 A3021 KW99 271855Z AUTO 00000KT 10SM SCT037 BKN046 OVC049 22/18 A2991 RMK AO2 T02170178 KUIL 271853Z AUTO 25005KT 10SM CLR 19/12 A3009 RMK AO2 SLP191 T01940117 KTRL 271853Z AUTO 18009KT 4SM HZ OVC023 28/23 A2987 RMK AO2 SLP107 T02830233 KTRM 271852Z AUTO VRB03KT 10SM CLR 31/02 A2989 RMK AO2 SLP122 T03110022 KVAD 271858Z AUTO 28005KT 10SM FEW200 32/15 A3004 RMK AO2 SLP173 T03180153 $ KUIN 271854Z AUTO 09006KT 10SM CLR 25/17 A2988 RMK AO2 SLP112 T02500172 KVAF 271855Z AUTO 17011KT 4SM BR OVC020 27/27 A2997 RMK A01 KSZY 271855Z AUTO 26009G15KT 230V310 10SM SCT023 BKN028 OVC065 28/23 A2993 RMK A01 KTTA 271840Z AUTO 21008KT 10SM CLR 30/17 A2991 RMK AO2 T02990171 LKTB 271900Z 07004KT 040V100 CAVOK 18/09 Q1022 NOSIG FOOB 271400Z /////KT 9999 BKN020TCU 28/21 Q1012 KTTD 271853Z VRB03KT 10SM CLR 24/12 A3004 RMK AO2 SLP172 T02440117 KTTF 271851Z AUTO 12009KT 10SM CLR 21/12 A2990 RMK AO2 T02110119 KUKF 271855Z AUTO 19008KT 10SM SCT060 BKN070 OVC080 27/18 A2998 RMK AO2 KVBG 271858Z AUTO 33012KT 10SM CLR 16/10 A3011 RMK AO2 SLP199 T01640102 TSNO $ KTSP 271855Z AUTO 31012KT 9SM CLR 20/07 A3011 RMK AO2 MDBH 271900Z 13016KT 9999 FEW021CB FEW023 SCT300 31/24 Q1016 CB/W FOOG 271800Z 18008KT 9999 FEW010 28/24 Q1013 VVTS 271900Z 23002KT 9999 FEW015 SCT050 27/26 Q1006 NOSIG KUKI 271856Z AUTO VRB03KT 10SM CLR 19/12 A3007 RMK AO2 SLP177 T01940117 KVCB 271853Z AUTO 20006KT 10SM CLR 23/11 A3007 RMK AO2 SLP182 T02280111 TSNO FOOK 271500Z VRB02KT 9999 SCT010TCU FEW020CB 27/22 Q1014 FOOL 271800Z 24006KT 200V270 9999 FEW013 FEW020CB 28/24 Q1013 NOSIG KTTN 271853Z 24006KT 10SM BKN029 OVC038 21/13 A2988 RMK AO2 RAE1758 SLP112 P0000 T02110133 FOON 271800Z /////KT 9999 SCT010 FEW020CB 25/22 Q1015 KVAY 271854Z AUTO 22006KT 10SM SCT044 OVC100 23/12 A2987 RMK AO2 SLP115 T02330117 FOOR 271400Z /////KT 9999 SCT005 BKN008 27/23 Q//// KVBS 271900Z AUTO VRB04G11KT 10SM FEW016 28/25 A2999 RMK A01 KTTS 271858Z AUTO 07010KT 10SM CLR 30/21 A3002 RMK AO2 SLP170 T03030214 $ KVBT 271855Z AUTO 19016G22KT 10SM SCT031 BKN038 OVC045 29/22 A2979 RMK AO1 KUKT 271855Z AUTO 24004KT 10SM BKN033 BKN043 20/14 A2990 RMK AO1 FOOT 271400Z 28004KT 9999 SCT011 OVC033 30/23 Q1014 KTVC 271853Z 02005KT 10SM BKN060 BKN250 23/11 A2985 RMK AO2 SLP107 T02330111 KTUL 271853Z 18010KT 10SM FEW035 BKN046 32/24 A2972 RMK AO2 SLP055 T03170239 KULM 271854Z AUTO 23006KT 10SM SCT090 20/07 A2992 RMK AO2 KVBW 271850Z AUTO 24007KT 210V300 10SM SCT048 BKN050 BKN070 27/18 A2986 RMK AO2 T02680180 KVDF 271915Z AUTO 26004KT 10SM CLR 34/11 A3007 RMK AO2 KTVF 271601Z AUTO 25014G19KT 10SM CLR 20/06 A2979 RMK AO2 SLP090 T02000056 KTUP 271853Z 22008G15KT 10SM BKN033 BKN043 BKN070 30/22 A2995 RMK AO2 SLP137 T03000217 RJAA 271900Z 33007KT 9999 FEW015 BKN020 BKN/// 15/13 Q1009 NOSIG RMK 1CU015 5CU020 A2982 KTVI 271455Z AUTO 25005KT 10SM CLR 27/17 A3010 RMK AO2 KVDI 271855Z AUTO 26008KT 220V300 10SM CLR 32/16 A3003 RMK AO2 KTUS 271853Z 00000KT 10SM CLR 31/M11 A3002 RMK AO2 SLP117 T03111106 KVCT 271851Z 16017KT 10SM SCT025 SCT034 32/24 A2991 RMK AO2 SLP125 T03220239 KTVK 271855Z AUTO 14005KT 10SM CLR 22/15 A2985 RMK AO2 KTVL 271853Z AUTO 05009G16KT 10SM CLR 18/M02 A3020 RMK AO2 SLP186 T01781022 KVCV 271855Z AUTO 02007KT 340V040 10SM SCT100 24/00 A3004 RMK AO2 RJAF 270700Z 35011KT 9999 FEW070 21/10 Q1006 KTWF 271853Z VRB04KT 10SM CLR 18/06 A3023 RMK AO2 SLP208 T01780061 MDCY 271900Z 06012KT 9999 SCT022 SCT300 31/25 Q1015 RJAH 271900Z 01004KT 9999 FEW030 BKN050 15/13 Q1009 KTVR 271853Z AUTO 19008KT 10SM BKN034 BKN065 30/24 A2998 RMK AO2 SLP156 T03000239 KUNI 271855Z AUTO 25009KT 10SM SCT036 SCT044 27/19 A2987 RMK AO2 T02700193 RJBB 271900Z AUTO 09003KT 050V120 9999 FEW049 17/12 Q1013 NOSIG KX60 271855Z AUTO 23009KT 180V240 10SM 34/17 A3005 RMK A01 RJBD 271000Z 33010KT 9999 FEW030 SCT/// 20/11 Q1010 KVEL 271853Z AUTO VRB03KT 10SM BKN080 18/M02 A3017 RMK AO2 SLP174 T01831022 SABE 271900Z 12011KT 090V160 9999 BKN025 SCT200 14/07 Q1028 RJBE 271200Z 04007KT 9999 FEW025 19/13 Q1012 KTWM 271854Z AUTO 33003KT 10SM CLR 24/08 A2981 RMK AO2 KUNO 271853Z AUTO 20010KT 10SM FEW028 SCT034 29/23 A2983 RMK AO2 SLP088 T02890228 KTVY 271855Z AUTO 36008KT 10SM CLR 16/02 A3025 RMK AO2 SAAR 271900Z 11008KT 9999 SCT027 OVC100 14/08 Q1027 KVER 271855Z AUTO 03005KT 10SM RA OVC050 25/14 A2987 RMK AO2 LTG DSNT E THRU W T02520144 RJAT 262145Z 16009KT 6000 FEW000 SCT005 BKN010 16/16 Q1008 RMK 1ST000 3ST005 5ST010 A2978 RJCB 271127Z 16004KT 5000 -SHRA BR FEW003 SCT020 BKN030 10/09 Q1009 RMK 1ST003 3CU020 7CU030 A2981 KVES 271855Z AUTO 00000KT 10SM BKN024 BKN032 OVC050 23/20 A2988 RMK AO2 RJCC 271900Z 15007KT 2000 -DZ BR SCT001 BKN002 09/09 Q1008 RMK 4ST001 7ST002 A2978 KTXK 271853Z 21014G19KT 7SM BKN028 BKN033 OVC050 30/24 A2988 RMK AO2 SLP114 T03000244 EYKA 271850Z 24003KT 220V290 CAVOK 15/08 Q1021 KUNU 271855Z AUTO 22007KT 10SM BKN034 21/14 A2990 RMK AO2 T02130143 RJAW 271800Z 18006KT 3500 BR SCT001 OVC002 25/24 Q1014 RMK 4ST001 8ST002 A2995 KUNV 271853Z 22005KT 10SM SCT048 SCT060 21/13 A2990 RJCH 271100Z 14003KT 9999 FEW003 BKN005 BKN007 11/10 Q1008 RJBT 270900Z 30004KT 260V330 9999 FEW020 SCT050 17/17 Q1012 RJCK 271143Z 04008KT 2300 R17/2000N BCFG -SHRA BR FEW001 SCT002 BKN003 08/07 Q1010 RMK 2ST001 4ST002 7ST003 A2984 RJDC 271200Z 03003KT 9999 FEW030 19/08 Q1013 RJCM 271141Z 02002KT 3500 -SHRA BR FEW002 SCT005 BKN020 10/09 Q1009 RMK 1ST002 3ST005 5CU020 A2982 RJCN 270928Z 06008KT 1500 R08/P1800N +SHRA BR FEW002 BKN003 06/06 Q1010 RMK 2ST002 7ST003 A2984 RJCO 270715Z 11003KT 9999 -SHRA FEW008 SCT010 BKN040 14/14 Q1008 RMK 1ST008 3ST010 6CU040 A2978 SADF 271900Z 10009KT 050V130 9999 BKN029 BKN200 14/05 Q1028 SACO 271900Z 18004KT 9999 FEW030 13/02 Q1026 KUOX 271855Z AUTO 22009G19KT 020V020 10SM SCT027 28/22 A2996 RMK AO2 KTYQ 271855Z AUTO 36003KT 10SM OVC025 21/17 A2991 RMK AO2 T02120165 KTYR 271853Z 19011KT 8SM HZ BKN028 OVC036 29/24 A2989 RMK AO2 SLP113 T02890244 FQCH 271900Z 15006KT 9999 FEW020 19/17 Q1019 RJEB 270700Z VRB02KT 9999 -SHRA FEW004 SCT005 BKN020 07/06 Q1010 KTYS 271853Z 25011KT 10SM BKN035 BKN060 OVC250 26/19 A2997 RMK A02 SLP137 T02610189 FQBR 271800Z /////KT 9999 FEW020 25/24 Q1013 RJEC 271100Z 18003KT 9999 FEW003 SCT010 BKN050 13/12 Q1008 KVGT 271853Z AUTO VRB05KT 10SM CLR 29/M02 A2999 RMK AO2 SLP150 T02941022 RJCW 270900Z 12008KT 090V170 9999 -SHRA FEW008 BKN110 08/05 Q1008 KVIH 271853Z AUTO 11007KT 10SM SCT090 24/20 A2986 RMK AO2 LTG DSNT ALQDS SLP102 T02440200 KTZR 271755Z 00000KT 10SM BKN023 BKN034 OVC050 23/19 A2989 RJDT 271100Z 26002KT CAVOK 19/13 Q1012 MDJB 271900Z 18010KT 9999 SCT020 SCT300 32/24 Q1016 LLSD 271850Z VRB03KT CAVOK 26/21 Q1009 RJFF 271900Z AUTO 12002KT 9999 NCD 15/09 Q1013 RMK A2993 KUSE 271855Z AUTO 07008KT 10SM OVC037 22/14 A2990 RMK AO2 RJFG 270900Z 26003KT 190V330 9999 FEW025 BKN/// 20/12 Q1012 KVJI 271855Z AUTO 30007KT 10SM SCT028 BKN033 OVC075 25/19 A3001 RMK AO2 T02500190 RJFK 271200Z 27005KT 9999 FEW030 BKN/// 17/12 Q1013 RMK 1CU030 A2993 VOLCANIC ASH CLOUD SE-S KUTA 271855Z AUTO 22013G19KT 10SM SCT026 SCT038 30/23 A2991 RMK AO2 TSNO KVIS 271856Z AUTO 29004KT 10SM SCT042 24/11 A3006 RMK AO2 SLP186 T02390111 KY19 271855Z AUTO 29019KT 10SM FEW075 FEW095 22/03 A2985 RMK AO2 RJFM 271200Z 16007KT 9999 FEW035 SCT/// 20/14 Q1013 KWAL 271854Z AUTO 15009KT 10SM FEW120 23/14 A2990 RMK AO2 SLP123 T02330139 RJFO 271300Z 26003KT 220V280 CAVOK 15/12 Q1013 KY23 271855Z AUTO 26005KT 10SM SCT060 BKN070 20/09 A2991 RMK AO2 T02010090 RJGG 271900Z 31013KT 9999 FEW025 SCT/// 17/12 Q1011 NOSIG SAEZ 271900Z 10010KT 9999 SCT038 BKN046 14/06 Q1028 RJFR 271900Z 31002KT CAVOK 16/11 Q1013 RJFS 271900Z 03004KT CAVOK 14/10 Q1013 RJFT 271200Z 21005KT CAVOK 19/13 Q1013 RJFU 271200Z 33009KT CAVOK 19/13 Q1013 EYPA 271850Z 20006KT CAVOK 13/07 Q1021 KY31 271853Z AUTO 15005KT 10SM BKN043 BKN050 OVC060 23/12 A2988 RMK AO2 T02300120 KVLD 271853Z 10SM CLR 32/16 A3005 RMK AO2 SLP183 T03170161 RJFY 262339Z 25005KT 9999 FEW030 BKN230 19/11 Q1011 RMK 1CU030 A2988 KUTS 271853Z AUTO 18011G18KT 10SM SCT038 BKN049 33/22 A2991 RMK AO2 SLP122 T03280222 KUVA 271855Z AUTO 15006KT 7SM SCT035 SCT043 33/25 A2988 RMK AO2 T03320245 KVKS 271855Z AUTO 23007G17KT 10SM CLR 31/24 A2996 RMK A01 KVLL 271854Z AUTO 00000KT 10SM SCT050 23/11 A2992 RMK AO2 T02330108 GGOV 271900Z 28012KT CAVOK 30/22 Q1012 NOSIG KVKY 271855Z AUTO 20006KT 10SM CLR 28/24 A3010 RMK A01 KWDG 271850Z 00000KT 10SM SCT040 BKN200 34/20 A2973 SBAA 262000Z 00000KT 9999 SCT025 34/22 Q1012 MDLR 271900Z 12013KT 9999 SCT022 32/22 Q1016 KY50 271856Z AUTO 17010KT 10SM SCT037 24/15 A2986 RMK AO2 SLP134 T02390150 KY49 271855Z AUTO 23009G18KT 10SM SCT080 SCT110 23/04 A2980 RMK AO2 T02280040 LMML 271845Z 30005KT CAVOK 20/12 Q1017 NOSIG KVNC 271855Z AUTO 30011KT 10SM CLR 28/20 A3010 RMK AO2 KUUU 271853Z AUTO 18006KT 10SM BKN040 17/12 A2988 RMK AO2 SLP115 T01720122 KY51 271855Z AUTO 24007KT 230V320 10SM SCT050 22/08 A2992 RMK AO1 T02230079 SBAF 271800Z 28009KT CAVOK 26/20 Q1018 RJKA 271000Z 34003KT 300V010 9999 FEW030 BKN130 BKN170 21/16 Q1012 KWDR 271855Z AUTO 22008KT 175V235 10SM SCT044 BKN050 30/18 A3004 RMK AO1 KVOA 271855Z AUTO VRB04KT 8SM FEW020 30/25 A3009 RMK A01 EYSA 271850Z 25006KT CAVOK 16/06 Q1020 BLU NOSIG SBAN 271800Z 09006KT 9999 BKN040 24/11 Q1021 SBBE 271900Z 02003KT 9999 4500E TS FEW030 FEW031CB SCT070 29/24 Q1011 KY63 271854Z AUTO 23009KT 10SM OVC100 20/05 A2986 RMK AO2 T02000050 SBBG 262000Z 18006KT 9999 BKN015 SCT067 16/15 Q1018 FQIN 271300Z 00000KT 9999 FEW020 29/14 Q1013 SBAQ 270200Z 15002KT CAVOK 21/18 Q1021 SBBH 271800Z 07005KT CAVOK 26/10 Q1021 SBBI 271700Z 09005KT 9999 SCT006 OVC007 19/18 Q1023 SBAR 271900Z 13010KT 9999 SCT015 BKN070 27/22 Q1015 SBCA 271700Z 01016KT 9999 SCT012 SCT080 23/19 Q1020 SBAT 271800Z 03004KT 9999 SCT030 32/24 Q1014 SBCB 271900Z 07008KT CAVOK 28/19 Q1017 SBAU 262300Z 19004KT CAVOK ///// Q1018 SBCC 271800Z 36003KT 9999 BKN045 FEW047TCU 29/21 Q1014 KY70 271857Z AUTO 00000KT 10SM SCT050 23/11 A2989 RMK AO2 T02330111 KVOK 271858Z AUTO 25010KT 10SM FEW070 SCT140 SCT160 BKN210 24/12 A2988 RMK AO2 SLP120 T02350121 KVPC 271853Z AUTO VRB06KT 10SM FEW038 SCT050 28/20 A3001 RMK AO2 SLP151 T02780200 MDPC 271900Z 06009KT 9999 FEW024 30/23 Q1016 NOSIG KUXL 271855Z AUTO 17013G17KT 10SM BKN022 OVC028 31/25 A2999 RMK AO2 T03070248 SBAX 262200Z 09002KT 9999 FEW020 ///// Q1022 SBCF 271900Z 07006KT CAVOK 25/10 Q1021 KUYF 271855Z AUTO 35003KT 10SM SCT025 BKN033 OVC050 25/19 A2988 RMK AO2 SBCG 271900Z 15004KT 9999 VCSH BKN040 FEW045TCU 27/21 Q1017 SBBQ 271800Z 09005KT 9999 FEW030 22/13 Q1024 SBCH 271700Z 08008KT 9999 FEW030 BKN080 23/21 Q1018 KVNY 271851Z VRB03KT 10SM CLR 21/09 A3005 RMK AO2 SLP168 T02110094 SBCI 262000Z 11004KT 9999 FEW030 34/21 Q1012 SBBR 271900Z 17006KT 9999 BKN045 26/16 Q1021 SBCJ 271900Z 05002KT 9999 SCT030 FEW035TCU 28/22 Q1015 KUZA 271854Z AUTO 28008KT 10SM FEW050 29/18 A2996 RMK AO2 SLP133 T02940178 TSNO SBBU 271700Z 05006KT 9999 SCT035 29/21 Q1020 SBCM 271700Z 12005KT 3000 -RA BKN005 OVC012 18/18 Q1022 FPST 271700Z 18010KT 9999 TS FEW017CB BKN030 27/24 Q1013 NOSIG SBBV 271900Z 14006KT 9999 FEW030 FEW035TCU 35/22 Q1011 SBBW 262100Z /////KT 9999 FEW020 30/22 Q1016 FQLC 270400Z 35002KT CAVOK 14/12 Q1022 SAME 271900Z 09004KT 9999 BKN045 12/02 Q1025 SBCO 271800Z 15009KT 4000 -RA BR BKN004 OVC011 18/17 Q1021 SBCP 271900Z 08018KT CAVOK 27/22 Q1018 MDPP 271900Z 05010KT 9999 SCT022 SCT300 30/25 Q1016 SBCR 271900Z 24010KT 9999 BKN023 BKN100 21/18 Q1017 SBCT 271900Z 13006KT 8000 SCT004 OVC006 18/17 Q1022 KVPS 271857Z 20011KT 10SM SCT050 29/22 A3007 RMK AO2A SLP188 T02910224 $ KVRB 271853Z 09009KT 10SM CLR 31/21 A3005 RMK AO2 SLP173 T03110211 FQMA 271900Z 14006KT 9999 FEW025 22/19 Q1016 NOSIG SBDN 271800Z 11007KT 9999 FEW048 31/17 Q1017 SBCX 271800Z 15006KT 0000 RA FG VV/// 14/14 Q1022 RJNG 270241Z 32007KT 210V020 9999 FEW020 SCT030 22/08 Q1009 RMK 1CU020 4CU030 A2980 SBEG 271900Z 08006KT 9999 SCT025 FEW030TCU 33/22 Q1011 SBCY 271900Z 16006KT 9999 SCT020 32/21 Q1013 KWHP 271855Z 00000KT 10SM SKC 20/09 A3008 SBCZ 271900Z 00000KT 9999 SCT025 BKN100 28/24 Q1013 KVQQ 271850Z 27008KT 10SM CLR 33/15 A3004 KVPZ 271856Z AUTO 00000KT 10SM OVC023 23/17 A2991 RMK AO2 SLP125 T02280167 RJOA 271200Z 32005KT 9999 FEW030 17/09 Q1013 SBEK 262100Z 19002KT 9999 FEW020 31/25 Q1010 RJOB 271200Z 36004KT 310V020 9999 FEW030 SCT060 16/11 Q1013 RJNK 271900Z 19004KT 9999 FEW030 SCT050 14/11 Q1013 EYVI 271850Z 21003KT CAVOK 16/07 Q1021 NOSIG SAOC 271900Z 05010KT 9999 BKN025 12/00 Q1026 RJOC 271100Z 33004KT 270V350 9999 FEW025 18/11 Q1013 KVQT 271855Z AUTO 13009KT 6SM HZ OVC020 29/25 A3002 RMK A01 MDSD 271900Z 17006KT 9999 FEW020CB FEW020 BKN300 31/24 Q1015 CB/N RJOF 270449Z 20013KT 9999 FEW025 SCT040 23/11 Q1012 RMK 1CU025 3CU040 A2989 KVSF 271854Z AUTO 27004KT 10SM OVC049 20/08 A2987 RMK AO2 SLP116 T02000083 KWJF 271856Z 06008KT 10SM CLR 27/01 A3003 RMK AO2 SLP158 T02720011 RJOH 271900Z 18006KT 9999 FEW030 12/10 Q1014 SBFI 271900Z 29003KT 4000 -RA BKN005 BKN020 FEW030TCU 23/23 Q10 16 RETSRA RJOI 271855Z 31005KT 9999 FEW030 15/09 A2993 RMK SLP135 T01500089 SBES 271800Z 05007KT 9999 FEW012 27/19 Q1017 RJNS 271200Z 26014KT 9999 FEW030 18/09 Q1008 SANT 271900Z 18007KT 9999 SCT035 OVC100 15/04 Q1024 RJNT 271200Z 26010KT 200V290 9999 FEW040 BKN060 16/12 Q1012 RJOK 271100Z VRB02KT 9999 FEW025 BKN070 20/14 Q1012 KVTA 271854Z AUTO VRB03KT 10SM SCT023 BKN050 OVC065 24/18 A2988 RMK AO2 SLP110 T02440178 SBFL 271900Z 16007KT 6000 -RA FEW007 BKN013 BKN020 20/19 Q1020 RJOM 271200Z 14005KT 9999 FEW030 18/10 Q1013 SBFN 271900Z 13005KT 9999 SCT019 29/25 Q1013 RJNW 271000Z 25010KT 9999 FEW010 SCT020 BKN030 14/11 Q1011 LOAN 271800Z 05004KT 35KM SKC RJOO 271100Z 34007KT 9999 FEW030 19/10 Q1012 RMK 1CU030 A2989 RJNY 270902Z 26018G28KT 9999 FEW025 SCT230 23/10 Q1005 RMK 1CU025 A2970 RJOR 271200Z 26005KT 200V290 9999 FEW020 SCT030 BKN040 17/12 Q1013 FQNP 271800Z 08007KT 9999 BKN020 25/20 Q1017 SBFS 271700Z /////KT 9999 FEW020 ///// Q//// KVTI 271915Z AUTO 19003KT 10SM CLR 16/16 A2988 RMK AO2 RJOT 271200Z 14007KT 9999 FEW030 SCT060 16/12 Q1013 VYMD 271130Z 12003KT 6000 BKN020 FEW025CB BKN110 30/25 Q1002 SBGL 271900Z 21006KT 9999 FEW040 27/19 Q1017 MDST 271900Z 12008KT 9999 SCT027 BKN300 33/20 Q1015 SBGM 271700Z 27004KT 9999 FEW020TCU BKN030 30/25 Q1014 FQPB 271900Z 10005KT 070V130 9999 FEW020 BKN100 26/23 Q1016 LOAV 271800Z 06009KT 40KM SKC 21/07 RJOW 271000Z VRB02KT CAVOK 18/11 Q1013 KWLD 271854Z AUTO 10010KT 10SM SCT025 BKN035 BKN044 27/19 A2978 RMK AO2 SLP074 T02670189 KVTN 271852Z AUTO 30006KT 10SM BKN100 17/09 A3002 RMK AO2 SLP162 T01670094 SBGO 271900Z 14008KT CAVOK 28/13 Q1018 RJOY 271000Z 36007KT 300V050 9999 FEW030 BKN045 22/09 Q1011 RJOZ 270523Z 28006KT 220V320 9999 FEW030 25/10 Q1011 RMK 1CU030 A2988 SBFZ 271900Z 08003KT 9999 FEW025 BKN100 29/23 Q1011 KXBP 271855Z AUTO 20013G19KT 10SM SCT043 35/22 A2981 RMK AO2 T03500215 SBGR 271900Z 13005KT 9999 BKN030 BKN040 24/19 Q1021 KVUJ 271955Z AUTO 26006KT 30/18 A2997 RMK AO2 T03020182 PWINO SBIC 262100Z 06002KT 9999 FEW018 31/23 Q1011 SARC 271900Z 18011KT 0500 +DZ BKN005 OVC007 14/13 Q1020 KWMC 271856Z AUTO VRB04G18KT 10SM CLR 22/M01 A3017 RMK AO2 SLP188 T02221011 SBGW 271800Z VRB02KT 9999 SCT030 27/19 Q1019 SARE 271900Z 19010KT 3500 DZ BR OVC012 14/13 Q1020 SARF 271900Z 23010KT 0700 +DZ OVC007 16/16 Q1019 KVUO 271853Z AUTO 24006KT 10SM CLR 23/13 A3005 RMK AO2 SLP174 T02330133 SBIH 271800Z 17002KT 9999 FEW027 34/24 Q1011 KVVG 271850Z AUTO 10SM 33/13 A2996 RMK A01 SARI 271900Z 36005KT 9000 -TSRA BKN015 FEW050CB BKN100 23/23 Q1017 RJSA 271200Z VRB03KT 5000 R24/1100VP1800U BCFG BR FEW001 SCT004 BKN030 12/12 Q1008 SASA 271900Z 36005KT 9999 BKN015 SCT025 11/06 Q1022 SBHT 271800Z 05004KT 9999 BKN025 33/25 Q1012 RKJB 271900Z 09005KT CAVOK 14/10 Q1013 NOSIG SBIL 271700Z 17005KT 9999 VCSH SCT017 BKN040 25/22 Q1017 RJSC 271000Z 19005KT 160V230 9999 FEW040 SCT050 BKN070 17/09 Q1009 SARL 271900Z 14016KT 5000 -RADZ OVC035 15/12 Q1021 FQQL 271800Z 14004KT CAVOK 25/24 Q1014 SBJF 271700Z 00000KT 9999 FEW020 25/16 Q1022 RJSF 271100Z 02006KT 9999 BKN040 15/11 Q1011 SBIP 271500Z 36008KT CAVOK 24/17 Q1022 SARP 271900Z 11005KT 9999 -DZ BKN008 OVC045 19/18 Q1017 RJSH 271827Z 21004KT 5000 BR FEW005 BKN080 10/10 Q1008 RMK 2ST005 7AC080 A2979 RJSI 271000Z 27004KT 230V310 9999 FEW030 SCT070 18/11 Q1009 SASJ 271900Z 18007KT 9999 SCT030 OVC100 13/04 Q1023 SCBA 271900Z 29012KT 9999 SCT030 BKN200 06/00 Q1020 RJSK 271200Z 19003KT 130V260 9999 -SHRA FEW008 SCT015 BKN035 15/12 Q1010 RKJK 271858Z AUTO 09005KT 10SM FEW120 14/13 A2990 RMK AO2 SLP129 T01400125 $ RJTC 262312Z 36007KT 2000 BR SCT002 SCT005 BKN010 19/17 Q1006 RMK 3ST002 4ST005 5ST010 A2973 HAAB 271800Z 35010KT 9000 BKN025 BKN080 15/12 Q1024 RJTE 262145Z 17007KT 130V220 9999 SCT010 SCT020 21/19 Q1006 RMK 4ST010 3CU020 A2971 RJSN 271200Z 25009KT 9999 FEW020 SCT030 17/11 Q1011 KVVV 271852Z AUTO 28009KT 10SM SCT080 22/05 A2988 RMK AO2 RJSO 271409Z 28005KT 9999 FEW008 SCT012 BKN030 11/11 Q1008 RMK 1ST008 4CU012 7CU030 A2979 RJTF 270800Z 01010KT 320V060 9999 FEW020 SCT/// 22/16 Q1006 SBKG 271700Z 09002KT 9999 SCT040 30/19 Q1014 SCAP 271900Z AUTO /////KT ///V/// //// // NSC 09/02 Q1029 SBJP 271900Z 13010KT 9999 FEW020 28/23 Q1013 SBIZ 271800Z 18009KT 9999 FEW015 SCT025 27/22 Q1012 RESHRA SBJR 271700Z 21007KT 9999 FEW030 26/20 Q1017 RJTI 270700Z 17014KT 9999 FEW020 BKN/// 22/16 Q1006 RJSR 271000Z 22007KT 190V250 6000 SHRA FEW010 SCT020 BKN040 14/13 Q1008 SCAR 271900Z 21013KT 170V230 CAVOK 20/14 Q1016 SCAS 262000Z 25008KT 9999 SCT040 10/06 Q1027 RJSS 271200Z 12008KT 9999 FEW015 SCT060 BKN070 15/14 Q1010 SBLB 271800Z /////KT 9999 SCT040 27/20 Q1019 W///S4 RJTK 270530Z 20021G33KT 9999 FEW025 BKN240 24/13 Q1006 RMK 1CU025 6CI240 A2971 SCAT 271900Z 23016KT CAVOK 18/11 Q1019 SCCC 262000Z 13003KT CAVOK 11/01 Q1023 RJTL 270322Z 05010KT 020V080 9999 FEW020 SCT230 23/18 Q1006 RMK 2CU020 A2972 SBJU 271700Z 18008KT 9999 BKN020 SCT070 30/20 Q1017 SBJV 271700Z 24001KT 3000 -RA BR OVC005 21/20 Q1020 KVWU 271853Z AUTO 24012G17KT 10SM SCT037 SCT050 BKN070 22/07 A2977 RMK AO2 SBLE 262100Z 00000KT 9999 BKN040 24/19 Q1019 RJTO 270800Z 21016KT 9999 FEW030 BKN/// 21/15 Q1006 SCCF 271900Z 29021G31KT 9999 SCT060 21/M01 Q1027 RJSY 271200Z 25013KT 9999 FEW020 SCT040 BKN050 16/11 Q1010 SBKP 271900Z 15010KT 9999 FEW040 26/18 Q1019 SCCH 271900Z 00000KT 9000 VCFG NSC 11/07 Q1021 RJTR 262238Z AUTO 15006KT 7SM SCT007 SCT011 20/19 A2971 RMK AO2 $ SCCI 271900Z 28015KT 9999 SCT030 BKN100 09/05 Q1008 NOSIG SBMA 271900Z 01008KT 9999 BKN023 28/23 Q1012 SCDA 271900Z 20010KT 9999 FEW020 SCT300 18/12 Q1017 RJTT 271900Z 01009KT 9999 SCT020 BKN040 19/14 Q1009 NOSIG RMK 3CU020 6SC040 A2982 RJTU 270213Z 05008KT 8000 FEW007 SCT013 BKN020 16/13 Q1009 RMK 1ST007 4CU013 7SC020 A2980 SAVC 271900Z 29010KT CAVOK 14/M00 Q1019 SBMD 262000Z 05002KT 9999 FEW027 36/25 Q1012 SBME 271800Z 08004KT CAVOK 29/19 Q1017 SBLO 271900Z 08006KT 9999 SCT025 28/21 Q1018 SBMG 271700Z 13003KT 9999 FEW040 26/21 Q1018 RJTY 271858Z AUTO 32006KT 10SM BKN035 17/13 A2984 RMK AO2 SLP105 T01740132 SBLS 271800Z 14005KT 070V190 9999 FEW043 25/15 Q1021 SBMK 271700Z 07006KT 320V110 CAVOK 29/06 Q1019 KVYS 271855Z AUTO 00000KT 10SM CLR 22/16 A2989 RMK AO2 T02240158 SBML 262300Z 00000KT CAVOK 26/17 Q1019 KWRB 271858Z AUTO 23010KT 10SM CLR 32/14 A3003 RMK AO2 SLP169 T03180139 FQTT 271800Z 02003KT 9999 FEW020 25/17 Q1014 SAWE 271900Z 29008KT CAVOK 06/04 Q1006 SBMN 271900Z 17003KT 9999 SCT020 31/23 Q1011 SBNF 271900Z 13008KT 6000 BKN010 BKN025 21/20 Q1019 SBMO 271900Z 15007KT 6000 FEW010 SCT015 BKN070 25/23 Q1014 SCCY 271900Z 04006KT CAVOK 08/02 Q1020 SAWG 271900Z 26009KT 9999 FEW035 BKN060 07/M01 Q1010 SAWH 271900Z 36005KT 9999 SCT049 BKN080 06/02 Q1004 SBMQ 271900Z 07010KT 9999 SCT030 BKN100 33/24 Q1011 KXIH 271855Z AUTO 21011KT 6SM HZ CLR 30/25 A2996 RMK A01 SBMS 271700Z 17003KT 9999 BKN030 35/19 Q1010 KWRI 271858Z AUTO 28005KT 10SM OVC110 22/13 A2986 RMK AO2 SLP111 T02190128 SCFA 271900Z 20011KT 9999 FEW009 16/12 Q1016 NOSIG SBMT 271800Z 16006KT 9999 SCT030 SCT040 24/17 Q1021 SCEL 271900Z 18005KT 120V230 CAVOK 18/06 Q1019 NOSIG KWRL 271853Z AUTO 36004KT 10SM CLR 18/03 A3015 RMK AO2 SLP197 T01780033 $ SBMY 262100Z 04003KT 9999 FEW025TCU 34/25 Q1011 SBOI 271900Z 24008KT 9999 FEW025TCU SCT040 BKN070 28/24 Q1012 SBPA 271900Z 10010KT 5000 -RA BR BKN009 BKN040 OVC090 18/17 Q10 22 SBPB 271900Z 02009KT 9999 FEW020 31/25 Q1011 SBNT 271900Z 11011KT CAVOK 29/23 Q1011 SBPC 271800Z 01002KT 9999 SCT020 26/17 Q1023 RKPC 271900Z 12001KT CAVOK 15/04 Q1013 NOSIG SCFM 271700Z 31014KT 9999 FEW030 OVC100 08/05 Q1008 SCGE 271900Z 05004KT CAVOK 14/07 Q1022 SBPF 271300Z 15016KT 8000 -RA FEW005 SCT040 BKN090 17/16 Q1022 RKNY 271900Z AUTO 26011KT 9999 NCD 20/08 Q1010 SBPJ 271800Z 26005KT 9999 SCT040 34/20 Q1013 SBPK 271900Z 16010KT 9999 OVC040 17/14 Q1024 LPBJ 271900Z 22009KT 9999 BKN042 22/15 Q1013 RKPK 271900Z 01002KT CAVOK 15/12 Q1013 NOSIG SCFT 271900Z AUTO VRB02KT 9999 ///008 03/01 Q1024 MGCB 271900Z 25006KT 9999 FEW018 OVC060 27/16 QFE 870.7 KWST 271853Z AUTO 18010KT 10SM OVC041 19/10 A2989 RMK AO2 SLP121 T01890100 $ SBPL 271900Z 15011KT 9999 FEW040 BKN100 30/18 Q1015 SBPP 271900Z 21006KT 8000 BKN015 23/21 Q1018 SBPR 271700Z 00000KT CAVOK 25/11 Q1022 LPAZ 271900Z 31019KT 9999 BKN012 BKN017 17/15 Q1011 SBPS 271900Z 16003KT 100V250 9999 FEW020 BKN050 25/22 Q1018 SBRB 271900Z 10005KT 9999 SCT033 FEW035TCU 32/22 Q1012 SCIC 271900Z 27004KT 7000 NSC 16/07 Q1020 SAZM 271900Z 11005KT 9999 BKN044 12/04 Q1030 SBPV 271900Z 10004KT 9999 SCT040 FEW045TCU 32/21 Q1010 KXLL 271855Z AUTO 27005KT 10SM BKN034 BKN045 20/13 A2991 RMK AO2 SAZN 271900Z 02010KT CAVOK 14/05 Q1024 SCIE 271900Z 24006KT 180V280 CAVOK 13/07 Q1022 SBRF 271900Z 11006KT 9999 FEW012 SCT018 27/25 Q1013 SCGZ 271600Z 00000KT 9999 FEW043 BKN060 BKN100 02/01 Q1003 SCHR 262000Z 30005KT CAVOK 08/01 Q1022 SAZR 270830Z 14001KT 0300 FG NSC 00/00 Q1030 SAZS 271900Z 31004KT 260V020 CAVOK 09/M02 Q1022 KWVI 271853Z AUTO 20007KT 10SM CLR 18/11 A3011 RMK AO2 SLP197 T01780111 SBRJ 271900Z 16010KT CAVOK 24/19 Q1017 LPCS 271900Z 03007KT 9999 FEW020 19/13 Q1012 KXNA 271853Z 19015G25KT 10SM FEW030 FEW036 31/23 A2978 RMK AO2 PK WND 19032/1834 SLP066 T03060228 SBSC 271800Z 20008KT CAVOK 25/21 Q1017 FSIA 271900Z 15010KT 9999 BKN015 28/25 Q1012 NOSIG SBQV 271800Z 14014KT 9999 BKN030 22/16 Q1021 KWVL 271856Z AUTO 00000KT 10SM BKN038 BKN047 17/09 A2982 RMK AO2 SLP125 T01720089 KWWD 271856Z AUTO 33006KT 10SM BKN075 22/14 A2991 RMK AO2 SLP130 T02220139 SAZY 262000Z 00000KT CAVOK 10/M02 Q1023 SBSG 271900Z 16011KT 9999 FEW030 30/23 Q1011 RKSG 271858Z AUTO 13003KT 10SM SCT110 13/09 A2991 RMK AO2 SLP131 T01300087 $ SCIP 271900Z 29009KT 260V340 9999 FEW020 SCT030 23/18 Q1025 NOSIG SBRP 271900Z 13006KT 9999 FEW040 29/16 Q1017 SCIR 262100Z 10013KT 9999 FEW023 15/08 Q1025 RKSI 271900Z 13005KT CAVOK 16/11 Q1012 NOSIG SBTA 271800Z 06002KT 9999 SCT033 28/18 Q1020 SBSJ 271900Z 22003KT 9999 SCT030 25/18 Q1020 KXMR 271858Z AUTO 13007KT 10SM CLR 32/19 A3002 RMK AO2 SLP169 T03210192 $ SBTC 271700Z 17006KT 9999 SCT015 BKN070 25/22 Q1018 SBSL 271900Z 01007KT 9999 SCT017 30/25 Q1011 SBSM 271800Z 11012KT 5000 RA BKN006 OVC011 15/14 Q1021 RKSM 271800Z 18003KT 9999 SKC 13/07 A2991 RMK SLP129 SBSN 271900Z 06006KT 9999 FEW020 BKN100 30/24 Q1011 SBTE 271900Z 19006KT 9999 FEW040 33/21 Q1011 SCJO 271900Z 02001KT 9999 OVC015 07/03 Q1023 SBTF 271900Z 12006KT 9999 SCT020 33/22 Q1011 RKSO 271855Z 08001KT 7SM SCT120 13/07 A2992 RMK AO2A SLPNO WND DATA ESTMD ALSTG ESTMD $ SBSP 271900Z 17009KT 9999 SCT021 BKN023 23/17 Q1022 KXNO 271858Z AUTO 25011G22KT 10SM CLR 32/15 A2997 RMK AO2 SLP148 T03230154 $ SBSR 271700Z 16005KT 9999 BKN025 29/16 Q1019 SBUA 271800Z 20003KT 9999 SCT025 FEW027TCU 32/26 Q1012 RKSS 271900Z 09001KT CAVOK 13/08 Q1013 NOSIG KWWR 271855Z AUTO 36009KT 10SM SCT033 25/16 A2987 RMK AO2 SBTK 262200Z 03002KT 9999 FEW030 28/26 Q1012 MGES 271900Z 14004KT 9999 SCT020TCU BKN080 28/20 QFE 909.8 TCU ENE/E/S SBST 271800Z 24007KT 7000 FEW030 BKN048 BKN058 24/19 Q1018 KXNT 271855Z AUTO VRB05KT 10SM FEW027 BKN033 OVC047 17/12 A2993 RMK AO2 LPFL 271900Z 34013KT 9999 SCT028 16/10 Q1016 SBSV 271900Z 09006KT 5000 SHRA BR SCT007 BKN013 FEW015TCU BKN07 0 24/22 Q1016 RKTN 271900Z 08001KT CAVOK 13/10 Q1013 NOSIG SBUF 271700Z 14009KT 9999 SCT018 BKN070 26/22 Q1016 SBUG 271900Z 14015KT 9999 FEW021 SCT025 15/11 Q1021 SBSY 271700Z AUTO VRB04KT 9000 FEW039 27/18 Q1020 LPFR 271900Z 25006KT 9999 FEW015 19/16 Q1013 SBTT 271900Z 30003KT 9999 FEW020 31/22 Q1012 SBTU 262000Z /////KT 9999 FEW025 BKN100 ///// Q1013 SBUL 271700Z 03005KT 9999 SCT045 25/15 Q1021 RKTU 271900Z 11002KT CAVOK 11/07 Q1013 NOSIG VYYY 271700Z 09004KT 6000 RA BKN015 FEW018CB BKN100 25/25 Q1005 SBVH 271800Z 08009G22KT 060V120 9999 TS VCSH SCT030 FEW033CB 28/23 Q1016 SBUR 271700Z 12008KT 9999 BKN040 26/15 Q1020 SCMK 271700Z 18012KT 9999 BKN020 09/// Q1020 MGGT 271900Z 36006KT 9999 FEW020CB BKN080 24/16 Q1026 A3030 CB S/W KXPY 271855Z AUTO 15008KT 8SM FEW014 FEW029 29/25 A3006 RMK A01 YABA 271900Z AUTO 20003KT 3300 // BKN017 BKN023 OVC029 11/10 Q1026 LPHR 271900Z 31012KT 280V340 9999 SCT013 BKN028 17/12 Q1014 KXSA 271855Z AUTO 00000KT 10SM SCT090 SCT110 28/16 A2987 RMK AO2 T02760155 SBVT 271900Z 07009KT 9999 FEW025 BKN065 25/21 Q1019 MGHT 271900Z 18006KT 9999 FEW025 BKN060 23/14 QFE 820.0 WSAP 271500Z 05003KT 9999 FEW018 BKN150 28/26 Q1009 KYIP 271853Z 08004KT 10SM SCT040 OVC050 23/13 A2990 RMK AO2 SLP120 T02330133 MHAM 271900Z 23008KT 9999 FEW030 BKN090 32/25 SCON 271900Z AUTO 15005KT 120V180 9999 ///019 10/07 Q1023 LPLA 271900Z 31019KT 9000 -SHRA SCT012 BKN020 17/15 Q1012 MHCA 271900Z 07006KT 9999 SCT028CB BKN070 27/23 CB PCPN N TCU TDS HZ LQBK 271900Z 31002KT CAVOK 16/12 Q1020 NOSIG KYKM 271853Z 10006KT 10SM CLR 28/07 A3009 RMK AO2 SLP184 T02780067 KYKN 271856Z AUTO 31007KT 10SM BKN065 17/11 A2996 RMK AO2 SLP158 T01670111 PWINO $ SCPQ 271900Z 16003KT 110V210 9999 OVC015 09/05 Q1022 MHCH 271900Z 18006KT 9999 SCT035TCU SCT070 33/25 TCU E S HZ SBYS 271800Z 16005KT 9999 FEW040 28/17 Q1019 LPMA 271900Z 04006KT 350V070 9999 FEW016 21/15 Q1014 SCRD 271900Z 33004KT CAVOK 17/09 Q1020 SCRG 262100Z 22006KT CAVOK 17/03 Q1020 SCQP 271900Z 36005KT 340V050 9999 FEW012 09/06 Q1022 KXVG 271856Z AUTO 22008KT 10SM SCT110 23/04 A2982 RMK AO2 FSPP 271800Z 15007KT //// //// 27/25 Q1013 SCRM 271900Z 32013KT 9999 OVC025 M06/M09 Q1004 MGMM 271900Z 14006KT 9999 SCT020 BKN200 34/24 Q1014 A2994 SCSE 271900Z 30010KT 9999 FEW012 16/12 Q1019 KYNG 271851Z 05005KT 10SM BKN037 22/13 A2990 RMK AO2 SLP122 T02220133 LOWG 271850Z AUTO 11003KT 9999 NCD 19/10 Q1021 NOSIG LPMR 271900Z 34006KT 9999 SCT035 18/14 Q1013 LOWI 271850Z 08007KT 050V120 CAVOK 23/10 Q1019 NOSIG SCTB 271900Z 20005KT 180V240 CAVOK 18/00 Q1020 MGMT 271900Z 18004KT CAVOK 33/24 QFE 1009.9 BKN080 SCT200 LPMT 271900Z 23005KT 190V260 9999 SCT040 20/15 Q1012 LOWK 271850Z 08009KT 050V110 9999 FEW070 22/10 Q1020 NOSIG SEAM 271900Z 17010KT 9999 VCSH SCT030 BKN100 17/11 Q1028 LOWL 271850Z AUTO 11005KT 9999 NCD 21/11 Q1020 NOSIG SCTE 271900Z 14006KT 110V190 9999 FEW020 10/06 Q1023 NOSIG SCSN 271900Z 24011KT CAVOK 14/09 Q1021 SECA 271900Z 09006KT 030V170 9999 BKN040 29/18 Q1018 LOWS 271850Z 02007KT CAVOK 23/09 Q1020 NOSIG MGPB 271900Z 36004KT 9999 FEW018 BKN090 31/26 Q1012 A2988 LPPD 271900Z 30013G23KT 280V340 9999 FEW010 BKN018 17/15 Q1010 SCTN 271900Z AUTO 20010KT //// R/////// NCD 10/07 Q1023 LOWW 271850Z 02006KT CAVOK 18/09 Q1022 NOSIG LOXT 271850Z 06005KT 50KM SKC 19/09 Q1022 RMK SKC SCVD 271900Z VRB02KT 9999 OVC012 08/05 Q1022 LPOV 271900Z 32004KT 9999 FEW020 SCT030 19/15 Q1014 SECO 271800Z 22006KT 9999 VCSH SCT025 SCT100 27/24 Q1015 LOXZ 271850Z 11007KT 30KM FEW070SC 20/09 Q1022 LPPR 271900Z 32003KT 260V360 9999 FEW015 SCT048 18/15 Q1014 LPPS 271900Z 14007KT 9999 FEW015 21/15 Q1014 LPPT 271900Z 32003KT 280V360 9999 SCT038 21/15 Q1013 SECU 271900Z 11007KT 9999 BKN040 21/08 Q1027 SCVM 271900Z 26005KT CAVOK 18/11 Q1020 MGQZ 271900Z 05012KT 9999 BKN020 SCT080 20/11 QFE 773.9 YBAS 271900Z AUTO 32003KT 9999 // NCD 09/M03 Q1020 MGSJ 271900Z 00000KT CAVOK 31/25 Q1012 A2988 SCT070 SCT090 MGRT 271900Z 22006KT 9999 FEW020 FEW025CB BKN080 31/22 Q1015 A2997 CB N/NE/E VOL. STA. MARIA Y SANTIAGUITO EN ACTIVIDAD YBBN 271900Z 21007KT CAVOK 14/14 Q1018 NOSIG LRBC 271900Z 34007KT CAVOK 14/13 Q1020 YBCG 271909Z AUTO 21001KT 6000 // NCD 14/14 Q1018 YBCK 271900Z AUTO 11003KT //// // ////// 11/05 Q1017 RMK LRAR 271900Z 04005KT CAVOK 17/11 Q1019 YAMB 271900Z AUTO 00000KT 0200 // OVC002 10/10 Q1018 MHLC 271900Z 33004KT 9999 BKN020TCU OVC070 29/25 Q1013 A2992 NOSIG LRBM 271900Z AUTO VRB02KT 9999 FEW075/// SCT230/// 14/09 Q1021 YBDG 271900Z AUTO 31006KT 9999 // BKN017 OVC022 09/08 Q1008 MHLE 271900Z 03002KT 9999 SCT024CU 25/16 TCU TDS LRBO 271900Z 03012KT 9999 SCT040 BKN090 15/10 Q1018 BLU BLU YBCS 271900Z 19011KT 9999 FEW025 23/18 Q1014 SEGS 271900Z 14011KT 9999 BKN020 28/20 Q1013 A2992 LRBS 271900Z 33002KT 300V010 9999 FEW032 BKN041 FEW045CB 15/13 Q1019 R07/29//95 NOSIG YBCV 271900Z AUTO 03001KT 9999 // NCD 12/08 Q1017 LRCK 271900Z 33005KT 9999 -RA BKN036 BKN049 15/14 Q1017 R36/29//95 NOSIG SEGU 271900Z 16005KT 9999 SCT026 BKN100 30/23 Q1011 NOSIG RMK A2986 LRCL 271900Z VRB03KT 9999 SCT063 15/10 Q1020 MHLM 271900Z 02006KT 9999 FEW030 BKN080 31/26 Q1012 A2989 NOSIG YANG 271900Z AUTO 09005KT 9999 // SCT072 BKN100 16/13 Q1020 LRCT 271900Z 35004KT 9999 BKN070 15/12 Q1020 BLU BLU YBDV 271900Z AUTO 23006KT //// // ////// 14/03 Q1017 SEJD 271900Z 09004KT 9999 VCSH SCT020 SCT100 29/25 Q1016 LRCV 271900Z AUTO 28005KT 9999 FEW110/// BKN140/// 13/12 Q1018 LQMO 271900Z 01010KT 340V040 9999 FEW050 SCT094 23/07 Q1016 BGBW 271850Z 22012KT 180V240 9999 FEW060 SCT090 BKN200 12/M03 Q1006 ROAH 271900Z 03008KT 9999 FEW025 BKN090 23/17 Q1011 RMK 1CU025 6AC090 A2987 YBGD 271900Z AUTO 05003KT 9999 // BKN120 17/07 Q1017 RMK GMAD 271900Z 24013KT 210V270 9999 FEW020 20/15 Q1015 NOSIG MHNO 271900Z 00000KT 9999 SCT035CB 29/23 CB N NE ENE TCU TDS HZ GMAG 271800Z 35016KT 9999 FEW016 23/15 Q1013 NOSIG FTTA 271800Z 00000KT 9999 FEW050CB 32/22 Q1012 FTTC 271500Z 00000KT CAVOK 42/15 Q1009 FTTD 271500Z 22006KT 9999 SCT040 34/22 Q1011 HDAM 271600Z 07008KT 9999 FEW023 35/24 Q1006 YBHI 271900Z AUTO 26007KT 9999 // ////// 10/06 Q1014 RMK KZPH 271855Z AUTO 27008G17KT 10SM CLR 34/08 A3007 RMK AO2 T03380079 MGZA 271900Z 00000KT 9999 FEW028 BKN090 31/21 QFE 987.1 SEMC 271900Z 14005KT 9999 SCT030 SCT100 25/19 Q1018 FTTJ 271800Z 31005KT CAVOK 37/12 Q1008 NOSIG YBHM 271900Z AUTO 17012KT 9999 // NCD 21/20 Q1016 MHPL 271800Z 06009KT 9999 BKN028TCU BKN250 30/23 Q1012 TCU TDS HZ GMAT 271800Z 34014KT CAVOK 22/12 Q1015 NOSIG YARG 271900Z AUTO 24001KT 9999 // NCD 21/06 Q1014 LRIA 271900Z 33008KT CAVOK 14/10 Q1019 R14/09//95 BGGH 271850Z 02009KT 9999 FEW005 04/01 Q1009 SELT 271900Z 16014KT 9999 BKN026 16/10 Q1031 FVBU 271500Z 18004KT 140V220 CAVOK 24/07 Q1020 NOSIG RODN 271856Z AUTO 01006KT 10SM OVC100 22/21 A2989 RMK AO2 SLP128 T02170207 $ YCBA 271900Z AUTO 03007KT 9999 // NCD 09/06 Q1013 PRESENT WEATHER SENSOR US HCMH 271300Z 06008KT 9999 SCT030 30/13 Q1015 NOSIG YCBB 271900Z AUTO 36012KT //// // ////// 11/10 Q1015 SEMT 271900Z 30008KT 9999 FEW023 BKN030 28/23 Q1013 RMK A2989 WSSL 271500Z 02004KT 9999 FEW020 BKN140 27/26 Q1009 RMK 1430Z Q1009 LQSA 271900Z 30004KT 270V060 9999 FEW050 15/09 Q1020 SENL 271900Z 21003KT 05002KT 9999 FEW010 SCT130 27/24 Q1014 YBKE 271900Z AUTO 30005KT //// // ////// 06/04 Q1014 RMK MHSC 271358Z AUTO 31005KT 9999 CLR 24/24 A3004 RMK AO2 SLP133 T02420240 VISNO RWY35 $ HCMM 271300Z 23010KT 9999 FEW023 30/27 Q1008 NOSIG MHRO 271900Z 09015KT 9999 FEW025 SCT080 31/25 Q1013 A2992 NOSIG YCAR 271900Z AUTO 15012KT 9999 // NCD 17/09 Q1016 YCAS 271900Z AUTO 00000KT //// // ////// 09/08 Q1018 WSSS 271900Z 12004KT 080V140 9999 FEW016 BKN140 28/26 Q1008 NOSIG FVCZ 271200Z 27001KT CAVOK 31/08 Q1018 FVFA 271300Z 15006KT CAVOK 30/05 Q1017 NOSIG MHTE 271900Z 36004KT 9999 SCT026TCU BKN090 31/25 Q1012 TCU TDS HZ YCBP 271900Z AUTO 23009KT 9999 // NCD 10/08 Q1020 MHTG 271900Z 11006KT 9999 BKN028TCU 28/20 Q1019 A3009 NOSIG GMFF 271900Z 30011KT 9999 FEW030 SCT230 25/16 Q1015 NOSIG YBMA 271900Z AUTO 17005KT 9999 // NCD 16/02 Q1017 YBKT 271900Z AUTO 16007KT //// // ////// 17/08 Q1014 MHSR 271900Z 0000KT 9999 BKN020TCU BKN100 27/19 TCU E SE S HZ YBLN 271900Z AUTO 18003KT //// // ////// 07/07 Q1027 RMK GMFK 271800Z 19007KT 9999 SCT030 35/M13 Q1014 NOSIG GMFM 271900Z 31009KT 8000 FEW020 SCT200 23/16 Q1015 NOSIG BGJN 271850Z 26005KT 9999 VCFG FEW001 SCT200 02/M01 Q1012 GMFO 271900Z 33013KT CAVOK 21/16 Q1014 NOSIG YBNA 271800Z AUTO 00000KT 0900 // ////// 12/11 Q1018 MHTR 271900Z 07008KT 9999 SCT024CB BKN080 32/25 CB S SSW TCU TDS HZ YBMK 271900Z AUTO 25004KT 9999 // NCD 16/16 Q1016 RMK FVHA 271900Z 02002KT CAVOK 12/08 Q1024 NOSIG YCEE 271900Z AUTO 30009KT //// // ////// 10/07 Q1016 SEQM 271900Z 36012KT 9999 BKN030 BKN300 21/10 Q1026 NOSIG RMK A3030 YCDO 271900Z AUTO 36011KT //// // ////// 10/08 Q1013 RMK BGKK 271850Z 07017G28KT 040V100 9999 -SHRA FEW003 SCT018 BKN023 02/M02 Q1014 YCCY 271900Z AUTO 21005KT //// // ////// 14/M02 Q1016 ROIG 271100Z 06018KT 9999 FEW020 SCT025 BKN050 25/21 Q1010 LQTZ 271900Z VRB01KT 9999 FEW045 14/10 Q1020 SESA 271900Z 25008KT CAVOK 26/22 Q1012 YCDU 271900Z AUTO 24012KT 9999 // SCT059 14/07 Q1018 RMK YCEM 271900Z AUTO 34004KT //// // ////// 11/10 Q1007 RMK GLRB 271900Z 00000KT 4000 -TSRA SCT003 BKN013 FEW024CB 25/24 Q1013 CB-NE/SW/NW TEMPO TSRA SERO 271900Z 34004KT 9999 SCT016 32/27 Q1011 SESG 271700Z 00000KT 8000 NSC 29/04 Q1010 YBNS 271900Z AUTO 27008KT 9999 // SCT055 OVC067 10/08 Q1006 YBOK 271900Z AUTO 11007KT 9999 // BKN096 11/10 Q1019 YCFL 271900Z AUTO 14014KT //// // ////// 24/20 Q1013 RMK SESM 271900Z 34006KT 9999 SCT030 SCT100 24/20 Q1019 A3010 YAYE 271900Z AUTO 20008KT 9999 // NCD 10/02 Q1020 LROD 271900Z 03007KT 9999 FEW045 17/08 Q1020 YCFS 271900Z AUTO 33012KT 9999 // NCD 17/14 Q1016 RMK SGAS 271900Z 25007KT 210V280 5000 DZ BKN008 OVC015 18/16 Q1018 SEST 271900Z 15017KT 9999 FEW016 BKN130 28/23 Q1012 A2991 HEBA 271800Z 34012KT CAVOK 21/18 Q1012 NOSIG FVKB 271200Z 27004KT 9999 FEW045 29/17 Q1014 YBPN 271800Z AUTO 21003KT 9999 // NCD 17/16 Q1017 LSGC 271850Z AUTO VRB02KT 9999 NSC 18/16 Q1023 SETN 271900Z 30007KT 270V330 9999 SCT030 BKN300 29/27 Q1012 A2989 LROP 271900Z 36003KT 320V020 9999 SCT047 FEW050CB 14/12 Q1018 R88/19//95 NOSIG LSGG 271850Z 25004KT 9999 FEW065 25/14 Q1019 NOSIG YCHK 271900Z AUTO 16006KT 9999 // NCD 19/10 Q1018 RMK YAYT 271700Z 03008KT CAVOK 36/M09 Q1007 HEAR 271800Z 00000KT CAVOK 25/16 Q1009 NOSIG SETU 271900Z 09008KT 9999 BKN020 14/09 Q1034 HECA 271900Z 31013KT CAVOK 28/09 Q1012 NOSIG HEAT 271800Z 30009KT CAVOK 33/12 Q1012 NOSIG HEBL 271800Z 01004KT CAVOK 34/02 Q1010 NOSIG HEAX 271800Z 35011KT CAVOK 22/17 Q1011 NOSIG MHYR 271900Z 09006KT 9999 SCT025TCU BKN080 30/21 TCU TDS HZ YBRK 271900Z AUTO 00000KT 9999 // SCT011 SCT023 15/14 Q1017 YBRL 271900Z AUTO 00000KT //// // ////// 14/11 Q1013 RMK LSGS 271850Z AUTO 25011KT CAVOK 26/12 Q1018 YBRM 271900Z AUTO 20004KT 9999 // BKN002 23/22 Q1012 GMMB 271900Z AUTO 33007KT //// ////// 21/16 Q1016 NOSIG YCIN 271900Z AUTO 21004KT 9999 // NCD 18/14 Q1012 FWCL 271600Z 00000KT 9999 FEW035 25/14 Q1018 NOSIG GMMC 271900Z 34010KT 9999 BKN016 21/18 Q1013 YBSG 271900Z AUTO 17004KT //// // ////// 22/19 Q1012 RMK GMMD 271900Z 22011KT 9999 FEW026 27/14 NOSIG GMME 271900Z 34007KT 8000 FEW026 SCT200 21/15 Q1015 NOSIG GMMH 271900Z 36015KT CAVOK 22/17 Q1016 NOSIG GMMI 271900Z AUTO 33005KT 9999NDV NCD 20/17 Q1016 NOSIG LRSB 271900Z 19006KT 170V230 8000 SHRA SCT040CB OVC086 12/11 Q1020 R27/29//95 LTAC 271850Z 10004KT 060V130 9999 SCT040 BKN100 12/08 Q1014 NOSIG LTAD 271611Z 23008KT 190V250 4000 TSRA SCT020CB BKN030 13/10 Q1014 BECMG TL1710 9999 NSW RMK RWY29 22008KT SGEN 271900Z 09005KT 3000 DZ OVC006 19/18 Q1016 KZZV 271900Z AUTO 36003KT 10SM SCT029 OVC080 25/18 A2988 RMK AO2 LTG DSNT S T02500178 GMML 271900Z 34014KT CAVOK 22/16 Q1016 NOSIG YBRY 271900Z AUTO 16011KT 9999 // SCT110 18/11 Q1019 RMK LTAE 271101Z 24005KT 9999 -SHRA FEW030CB BKN035 15/10 Q1013 NOSIG RMK RWY21 26007KT ROMY 271100Z 06012KT 9999 SCT020 BKN060 24/19 Q1011 LTAF 271850Z 00000KT 9999 SCT035 20/17 Q1011 NOSIG GMMN 271900Z 33012KT 9999 BKN020 22/17 Q1016 NOSIG LTAG 271850Z 10001KT 9999 FEW035 20/16 Q1011 NOSIG SGES 271900Z 34010KT 9999 BKN013 BKN070 23/21 Q1016 LTAI 271850Z VRB02KT 9999 FEW020CB BKN030 18/14 Q1011 NOSIG LTAJ 271850Z VRB02KT CAVOK 15/06 Q1013 NOSIG LTBA 271850Z 02013KT 9999 SCT025 18/12 Q1015 NOSIG YBTL 271900Z AUTO 00000KT 9999 // ////// 18/17 Q1016 YBUD 271900Z AUTO 19004KT 9999 // NCD 15/14 Q1018 YCKN 271900Z AUTO 14006KT 9999 // NCD 23/20 Q1014 LRTC 271900Z AUTO 33003KT 290V360 9999 -RA FEW043/// SCT050/// BKN065/// 16/16 Q1017 LTAL 270850Z 02006KT 9999 SCT030 BKN090 18/09 Q1013 LRSM 271900Z AUTO 07007KT 9999 NCD 16/10 Q1020 FVMV 271200Z 28005KT CAVOK 26/03 Q1018 LTAN 271850Z 32008KT 9999 SCT040 12/08 Q1015 NOSIG LTBF 271850Z VRB01KT 9999 SCT035 BKN100 15/14 Q1014 RESHRA NOSIG GMMW 271900Z 04010KT 9999 FEW023 20/15 Q1014 NOSIG LTAP 271850Z 34004KT 300V020 9999 SCT040 BKN100 13/11 Q1013 NOSIG GMMX 271900Z VRB02KT 9999 BKN023 25/12 Q1015 NOSIG BGSF 271850Z AUTO 26009KT 9999NDV BKN055/// 09/01 Q1008 LTBH 271850Z 03010KT 9999 SCT030 BKN100 17/15 Q1014 RESHRA LTBI 271619Z 15004KT 9999 SCT035 BKN100 13/11 Q1013 RESHRA NOSIG RMK RWY09 00000KT LTAR 271850Z 04004KT 9999 SCT035 08/07 Q1017 RETSRA GMMZ 271900Z 17008KT 9999 FEW040 34/M03 Q1013 NOSIG LTAS 271430Z 26008KT 230V290 9999 BKN025 17/13 Q1013 RMK RWY18 34009KT LTBJ 271850Z 01005KT 350V050 CAVOK 17/14 Q1012 TEMPO TL2000 -TSRA LTCA 271850Z 27007KT 190V330 9999 SCT035 16/09 Q1012 NOSIG LTAT 271850Z VRB02KT 9999 SCT035 BKN090 17/10 Q1012 NOSIG LTCB 271850Z VRB01KT 9999 FEW012 BKN033 14/13 Q1014 LTBL 270718Z VRB03KT 9999 TS FEW025CB SCT035 BKN100 22/13 Q1012 TEMPO -TSRA RMK RWY17 VRB03KT LTAU 271850Z 08002KT 9999 FEW027CB SCT035 11/09 Q1015 NOSIG LTCC 271850Z 24009KT CAVOK 20/06 Q1011 NOSIG LRTM 271900Z AUTO 04002KT 330V090 9999 BKN054/// SCT068/// 15/11 Q1020 LRSV 271900Z 33010KT 9999 -SHRA SCT043CB 12/10 Q1021 R16/29//95 LTCD 271850Z 00000KT 9999 FEW033CB SCT038 14/09 Q1014 TEMPO TL2000 -TSRA LTAW 271250Z 25006KT 9999 -TSRA FEW025CB BKN035 16/12 Q1011 YDBY 271900Z AUTO 15006KT 9999 // NCD 20/14 Q1012 RMK LTCE 271904Z 12008KT 9999 -TSRA FEW025CB BKN035 09/07 Q1018 RESHRA BECMG TL1920 NSW TEMPO FM1930 -TSRA RMK RWY08R 10006KT RWY26R 12009KT RWY08L 11005KT 080V220 LTCF 271850Z 15005KT 120V200 9999 BKN030 BKN070 08/06 Q1018 RESHRA LTCG 271850Z 11006KT 070V130 9999 SCT009 SCT035 BKN100 16/14 Q1014 NOSIG LTAY 271850Z 07006KT 9999 SCT035 BKN100 13/10 Q1014 LTAZ 271850Z 21005KT 9999 BKN035 13/10 Q1015 LTBQ 271850Z VRB01KT 9999 FEW015 SCT028 BKN080 16/14 Q1015 NOSIG LRTR 271900Z 01007KT CAVOK 17/10 Q1019 NOSIG LTBR 271850Z VRB02KT 9999 FEW027CB SCT030 BKN090 17/15 Q1013 TEMPO TL2000 -TSRA LTCI 271850Z 18006KT 070V230 9999 FEW035 15/01 Q1016 NOSIG LSMA 271850Z AUTO VRB02KT 9999NDV SCT092 24/16 Q1019 RMK LTBS 271850Z 08004KT 040V110 9999 SCT030 BKN090 19/14 Q1011 RESHRA NOSIG LTDA 271850Z 21006KT 180V270 CAVOK 21/11 Q1011 LTCJ 271850Z VRB02KT CAVOK 20/08 Q1011 YCMM 271900Z AUTO 36005KT //// // ////// 07/07 Q1015 RMK LTCK 271350Z 22015KT 9999 SCT040 21/04 Q1012 BIAR 271900Z 34010KT 9999 BKN053 OVC069 08/06 Q1009 LTCL 270750Z VRB01KT CAVOK 26/13 Q1010 LTBU 271850Z 01009KT 9999 SCT021 BKN080 15/12 Q1015 LSMD 271850Z AUTO 14002KT 9999NDV NCD 24/12 Q1019 RMK LTCM 271250Z 02005KT 9999 SCT033 BKN100 17/12 Q1013 LSME 271850Z AUTO 33003KT 9999NDV NCD 26/14 Q1019 RMK LTCN 271850Z 25010KT 210V280 CAVOK 18/11 Q1012 NOSIG BGTL 271858Z AUTO 30008KT 9999 OVC003 00/M01 A2989 RMK AO2 SLP107 T10031015 FZRANO $ HEGN 271800Z 00000KT CAVOK 32/02 Q1009 NOSIG LTCO 271850Z VRB01KT 9999 FEW040 10/05 Q1017 LTBY 271850Z 00000KT 9999 BKN035 12/11 Q1015 LTCP 271250Z 22012KT 150V250 9999 SCT035 27/05 Q1009 LRTZ 271900Z 02008KT 9999 FEW050 BKN090 16/14 Q1016 BLU BLU LTBZ 271850Z 20003KT 170V240 9999 SCT015 BKN030 10/10 Q1016 RESHRA YCMT 271900Z AUTO 00000KT //// // ////// 09/08 Q1017 RMK YCNK 271900Z AUTO 29001KT //// // ////// 05/05 Q1014 RMK LTCR 271150Z 23010KT 190V260 CAVOK 29/05 Q1009 LTCS 271850Z 25010KT CAVOK 18/05 Q1014 YCNM 271900Z AUTO 05008KT //// // ////// 11/10 Q1014 RMK LTCT 271250Z VRB04KT 9999 FEW036 SCT070 23/07 Q1010 RESHRA YCOE 271900Z AUTO 20001KT //// // ////// 20/17 Q1013 LTCU 271450Z 19012KT 9999 SCT035 23/06 Q1011 LTCV 271350Z 22012KT CAVOK 30/02 Q1009 LSMM 271850Z AUTO VRB01KT 9999NDV SCT070 BKN095 24/14 Q1019 RMK LTCW 271050Z 23016KT 170V270 9999 FEW040 22/01 Q1016 YBWP 271900Z AUTO 14005KT 9999 // OVC078 23/19 Q1012 LSMP 271850Z AUTO VRB02KT 9999NDV SCT069 24/17 Q1019 RMK RORS 271000Z 06016KT 9999 SCT023 BKN060 25/19 Q1011 LSMS 271850Z AUTO 25011KT CAVOK 26/12 Q1018 YCOM 271900Z AUTO 01008KT 9999 // SCT032 06/03 Q1010 RMK YBWW 271900Z AUTO 14003KT 9999 // SCT093 09/08 Q1018 RMK LTFC 271850Z 31005KT 9999 SCT035 BKN100 11/10 Q1015 LTFD 271850Z 07005KT 9999 SCT030 BKN100 17/14 Q1013 YBWX 271900Z AUTO 29010KT //// // ////// 20/18 Q1013 YCNY 271900Z AUTO 18003KT //// // ////// 13/02 Q1015 RMK LTFE 271850Z 13005KT 9999 FEW020CB SCT035 17/13 Q1012 TEMPO TL2000 -TSRA RORY 271900Z AUTO 07003KT 9999 NSC 22/19 Q1012 LTFG 271850Z VRB01KT CAVOK 19/17 Q1010 LTFH 271850Z 20001KT 9999 SCT036 BKN100 13/12 Q1014 NOSIG BIEG 271900Z 36012KT 9999 VCSH FEW020 SCT030 BKN045 09/07 Q1007 RPLB 271900Z 06004KT 9999 FEW018 25/23 Q1007 NOSIG RMK A2974 LTFJ 271850Z 03012KT 9999 SCT035 BKN100 16/12 Q1014 NOSIG HEIS 271600Z 24012KT CAVOK 33/08 Q1008 RPLC 271900Z 36002KT 9999 SCT020 BKN100 25/25 Q1009 RMK A2980 GMTA 271900Z 28004KT CAVOK 24/19 Q1013 NOSIG ROTM 271858Z VRB04KT 9999 BKN095 22/16 A2991 RMK SLP113 STNPR29605 T02170161 RPLI 271800Z 00000KT 8000 -RA SCT018 OVC090 25/25 Q1008 RMK A2977 YBYU 271900Z AUTO 10015KT 9999 // ////// 28/21 Q1010 YDGU 271900Z AUTO 11009KT 9999 // NCD 17/10 Q1020 RMK FWKI 271600Z 07006KT CAVOK 20/13 Q1020 NOSIG RPLL 271900Z 32003KT 9999 SCT023 OVC100 27/27 Q1008 NOSIG RMK A2977 RPMD 271800Z 25004KT 9999 BKN016 27/25 Q1008 A2977 GMTN 271900Z 05010KT 8000 FEW020 BKN200 21/17 Q1014 NOSIG HEMA 271800Z 28011KT CAVOK 31/M02 Q1009 NOSIG GMTT 271900Z 17007KT 8000 FEW016 BKN200 23/15 Q1014 NOSIG RPMR 270900Z 20002KT 9999 FEW018 BKN080 31/25 Q1008 NOSIG RMK A2977 HEMM 271800Z 01010KT 9999 SCT020 21/17 Q1013 NOSIG BIHN 271300Z 20008KT 9999 FEW002 SCT006 OVC012 11/// Q1007 HELX 271800Z 30004KT CAVOK 34/10 Q1008 NOSIG RPMZ 271800Z 27002KT 9999 FEW017 BKN100 28/25 Q1010 RMK A2983 NCAI 271800Z AUTO 10010KT 060V130 //// ////// 25/21 Q1019 FVWN 271200Z 09006KT CAVOK 29/04 Q1018 MKJP 271900Z 15017KT 9999 FEW018 31/24 Q1015 MKJS 271900Z 09010KT 9999 FEW022 31/25 Q1015 YCUN 271900Z AUTO 09003KT 9999 // NCD 02/01 Q1026 RMK BIIS 271700Z VRB02KT 9999 SCT014 OVC022 07/04 Q1008 ROYN 271900Z AUTO 07014KT 4700 BR BKN014 OVC017 23/21 Q1010 YDLQ 271900Z AUTO 36007KT //// // ////// 11/11 Q1009 RMK YCWA 271900Z AUTO 13013KT 9999 // OVC094 17/12 Q1019 RMK GOGG 271900Z 26006KT CAVOK 32/22 Q1012 BIKF 271900Z 19012KT 9999 FEW015 BKN019 BKN022 09/06 Q1008 GOGK 271800Z 24004KT 9999 FEW020CB 38/21 Q1009 HEPS 271800Z 32013KT CAVOK 25/19 Q1009 NOSIG GOGS 271900Z VRB04KT CAVOK 28/23 Q1012 YCWR 271900Z AUTO 10002KT //// // ////// 05/05 Q1013 HESC 271800Z 25009KT CAVOK 25/00 Q1020 NOSIG HESG 271800Z 25004KT CAVOK 34/15 Q1009 NOSIG HESH 271800Z 25004KT CAVOK 32/M01 Q1008 NOSIG HESN 271800Z 03005KT CAVOK 34/M01 Q1010 NOSIG LSZA 271850Z 17003KT CAVOK 23/15 Q1019 NOSIG LSZB 271850Z VRB02KT CAVOK 23/15 Q1019 NOSIG RPVD 271800Z 00000KT 9999 SCT014CB SCT015 BKN220 26/25 Q1007 A2974 RMK OCNL LTG SW NW AND NE LSZC 271850Z AUTO 24005KT 200V290 9999 FEW080 BKN100 23/15 Q1019 LSZG 271850Z AUTO VRB02KT 9999 NCD 23/17 Q1019 LSZH 271850Z VRB02KT CAVOK 23/12 Q1019 NOSIG HETR 271800Z 12011KT CAVOK 29/14 Q1008 RPVM 271900Z VRB01KT 9999 FEW020 BKN300 28/25 Q1008 NOSIG RMK A2977 LSZL 271850Z AUTO 28003KT 240V320 9999NDV NCD 22/16 Q1019 RMK RPVP 271100Z 27004KT 9999 SCT019 OVC080 28/26 Q1008 RMK A2977 LSZR 271850Z AUTO VRB02KT CAVOK 22/10 Q1018 MMAA 271845Z 22008KT 7SM FEW080 SCT300 31/25 A2986 RMK 8/055 HZY CU E LSZS 271850Z AUTO 17010KT 150V220 CAVOK 15/09 Q1025 FXMM 271400Z 30014KT 9999 FEW035 15/M01 Q1021 NOSIG YELD 271900Z AUTO 00000KT //// // ////// 23/21 Q1011 RMK CAHR 271900Z AUTO 05011G16KT 09/06 RMK AO1 PK WND 03018/1811 SLP106 T00850062 53010 BIRK 271900Z 19012KT 9999 SCT019 BKN029 10/05 Q1009 GOOD 271800Z 32004KT CAVOK 40/19 Q1010 MMAN 271840Z 12010KT 4SM BKN100 32/19 A2991 RMK 8/030 HZY YFBS 271900Z AUTO 01004KT //// // ////// 05/04 Q1013 RMK GOOG 271800Z 36006KT CAVOK 42/22 Q//// MMAS 271840Z 33004KT 10SM SKC 30/M02 A3023 MMCB 271850Z 15011KT 5SM SCT015 BKN070 BKN220 27/17 A3013 RMK 8/132 HZY LUKK 271900Z 33007KT CAVOK 15/10 Q1018 R26/CLRD// NOSIG GOOK 271800Z 22014KT CAVOK 36/21 Q1011 YFDF 271900Z AUTO 15007KT 9999 // NCD 19/11 Q1018 RMK CBBC 271900Z AUTO 32006KT 9SM CLR 18/11 A3011 RMK SLP198 DENSITY ALT 200FT MMCE 271845Z 09005KT 7SM FEW020TCU SCT100 BKN300 35/23 A2987 RMK 8/238 FYGF 271200Z 08006KT CAVOK 27/10 Q//// YEML 271909Z AUTO 01001KT 9999 // BKN002 12/12 Q1017 MMBT 271843Z E18008KT 6SM SCT060 ///// A2994 RMK 8/400 MMCL 271840Z 14006KT 10SM SKC 34/14 A2990 MMCM 271845Z 13019KT 7SM BKN015CB OVC300 32/25 A2995 RMK 8/307 MMCN 271840Z 20004KT 10SM SKC 34/10 A2990 RMK HZY MMCP 271844Z 12010G20KT 7SM SCT035 BKN250 36/24 A2986 RMK 8/408 HZY GOOY 271900Z 34011KT 9999 SCT010 25/22 Q1013 NOSIG MMCS 271843Z 26020KT 10SM SKC 31/09 A2997 RMK ISOL CI MMCT 271848Z 12013KT 8SM BKN020 BKN200 35/22 A2996 RMK 8/407 MSGTX MMMD MMCU 271840Z 00000KT 10SM SCT200 32/03 A3013 RMK 8/002 MMCV 271842Z 14011G23KT 6SM FEW200 35/21 A2984 RMK 8/002 HZY MMDO 271847Z 00000KT 10SM SCT020TCU 31/M02 A3021 RMK 8/200 TCU ARND HZY MMCZ 271841Z 12010KT 8SM SCT015 OVC250 31/24 A3000 RMK 8/107 VC TCU FZAA 271900Z 22002KT 8000 FEW020 26/22 Q1015 NOSIG BIVM 271800Z 23010KT 9999 SCT010 BKN020 09/08 Q1009 MMEP 271845Z 36008KT 7SM SKC 31/17 A3004 RMK HZY GOSM 271800Z 00000KT CAVOK 43/14 Q1008 GOSP 271800Z 04002KT CAVOK 42/12 Q1008 GOSS 271800Z 32008KT 280V360 CAVOK 27/21 Q1011 GOTK 271800Z 18008KT 8000 -TSRA SCT015 FEW030CB OVC130 25/22 Q1011 MMGL 271845Z 12005KT 6SM FEW080 30/10 A3016 RMK 8/030 HZY CU MMGM 271847Z 22010KT 10SM SKC 31/19 A2988 RMK HZY MMIA 271841Z 20006KT 8SM FEW025 SCT200 32/18 A2999 RMK 8/108 HZY YERN 271900Z AUTO 17003KT //// // ////// 10/01 Q1022 GOTT 271800Z 24008KT CAVOK 40/17 Q1008 FYKT 271800Z 23005KT CAVOK 14/M02 Q1025 MMHO 271841Z 25012KT 10SM SKC 35/06 A2995 RMK HZY NCPY 271900Z AUTO 10008KT //// //// 30/26 Q1012 NCRG 271900Z 09008KT 9999 FEW023 26/20 Q1021 YESP 271900Z AUTO 31005KT 9999 // SCT040 09/08 Q1025 RMK MMIO 271840Z 36007KT 10SM FEW040 SCT200 37/14 A3013 RMK 8/102 YGBI 271900Z AUTO 12010KT //// // ////// ///// Q1011 RMK YGAY 271900Z AUTO 00000KT //// // ////// 12/12 Q1018 RMK YFLI 271900Z AUTO 31009KT 9999 // SCT034 BKN057 OVC100 14/11 MNBL 271900Z 08008KT 9999 BKN017 30/26 Q1012 YGDH 271900Z AUTO 00000KT //// // ////// 12/10 Q1016 RMK MNCH 271900Z 23004KT 9999 BKN025TCU 31/25 Q1011 TCU N NE E MMMA 271841Z 14015KT 6SM SCT200 34/24 A2987 RMK 8/006 HZ MMLM 271842Z 22010KT 10SM SKC 32/11 A2993 RMK HZY MMMD 271845Z 11014KT 7SM BKN020 BKN300 37/23 A2992 RMK 8/108 MDT CU HZY MMLO 271842Z 24008KT 9SM FEW030 BKN250 31/08 A3026 RMK 8/508 HZY MMLP 271840Z 36009KT 10SM SKC 31/09 A2993 YGEL 271900Z AUTO 13012KT 9999 // NCD 12/04 Q1022 MMLT 271846Z 00000KT 8SM SKC 31/24 A2989 MMML 271845Z 00000KT 10SM SKC 30/09 A2992 FZIC 271400Z 33006KT 9999 SCT024 FEW028TCU 30/23 Q1012 NOSIG MMMM 271844Z 05003KT 7SM FEW025 29/10 A3022 RMK 8/100 AC/CI MMMT 271840Z 09010KT 7SM BKN140 35/21 A2984 RMK 8/020 MMNL 271841Z 15014KT 5SM BKN240 34/23 A2982 RMK 8/002 HZ YGFN 271900Z AUTO 00000KT 0200 // OVC001 12/12 Q1017 MMMV 271840Z 01007KT 8SM FEW080 37/19 A2984 RMK 8/020 HZY FYRN 271500Z 18006KT 9999 VCSH FEW030CB SCT040TCU 29/11 Q1019 MMMX 271845Z 04004KT 6SM SCT020TCU BKN200 25/05 A3032 NOSIG RMK 8/202 HZY SKBG 271900Z 35005KT 9999 VCSH SCT015 SCT080 25/22 A3004 RERA RMK VCSH/S/SW MMMY 271843Z 11008KT 6SM SCT100 BKN200 33/19 A2985 RMK 8/072 HZ SKAR 271900Z 14003KT 9999 SCT025 SCT100 27/20 A3007 MMMZ 271841Z 24007KT 15SM SKC 30/20 A2991 MMPA 271843Z 00000KT 5SM SCT020TCU 36/26 A2990 RMK 8/200 HZY MMPB 271841Z 31002KT 7SM SCT020 26/06 A3033 RMK 8/100 HZY CI SKCC 271900Z 18019KT 9999 SCT022 33/20 A2986 MMPE 271451Z 00000KT 10SM SKC 24/12 A2989 SKBO 271900Z 12008KT 9999 FEW025 BKN200 20/05 A3036 SKCG 271900Z 25008KT 9999 TS SCT017CB SCT200 32/26 A2987 RMK CB/NE MMPG 271846Z 11005KT 4SM BKN015 33/25 A2987 RMK 8/500 HZ SKBQ 271900Z 32006KT 9999 SCT015 SCT070 30/26 A2987 RERA SKCL 271900Z 34009KT 9999 SCT030TCU BKN300 29/20 A2999 RMK TCU NW/SE MMPN 271847Z 20010KT 6SM SKC 26/15 A3017 RMK FU HZ TCU 1-4 QUAD MMOX 271907Z 07020KT 7SM RA BKN020CB BKN090 OVC200 22/15 A3019 RMK 8/963 RAB05/TCU W MMPQ 271841Z 00000KT 5SM FEW040 BKN080 BKN200 34/23 A2975 RMK 8/111 HZY MSGTX MMMD MMPR 271845Z 22013KT 10SM SKC 28/24 A2989 RMK HZY MMPS 271841Z 00000KT 7SM BKN020 30/25 A2996 RMK 8/400 HZY SKEJ 271900Z 36003KT 9999 FEW015 BKN200 33/25 A2984 YFRT 271900Z AUTO 25007KT //// // ////// 06/05 Q1023 MMQT 271845Z 14010KT 7SM SCT020 BKN250 28/06 A3027 RMK 8/102 HZY FZNA 271400Z 23006KT 9000 FEW018 FEW020TCU 26/14 Q1019 NOSIG BKPR 271900Z VRB02KT 9999 FEW040 BKN080 12/09 Q1019 NOSIG FYWB 271200Z 27006KT CAVOK 21/10 Q1019 MMSD 271848Z 14010KT 10SM SKC 31/09 A2992 RMK HZY FYWE 271800Z 16012KT CAVOK 15/M04 Q1026 MNJG 271900Z 00000KT 9999 BKN020 27/20 Q1013 YGLA 271900Z AUTO 21007KT 9999 // NCD 16/14 Q1017 RMK YGLB 271900Z AUTO 35005KT 9999 // NCD 01/00 Q1013 RMK FYWH 271900Z 17006KT CAVOK 11/M00 Q1028 TAPA 271900Z 09010KT 9999 SCT020 29/22 Q1016 NOSIG GQNI 271500Z 18012KT 5000 HZ BKN130 39/17 Q//// MMSL 271843Z 15005KT 8SM SKC 29/15 A2998 RMK HZY MMTC 271842Z 32004KT 10SM SKC 36/06 A3001 RMK ISOL CI YHAY 271900Z AUTO 36006KT //// // ////// 09/08 Q1010 RMK MMRX 271842Z 15008G18KT 7SM FEW040 BKN250 34/21 A2983 RMK 8/508 HZY FU BLDU YGLI 271900Z AUTO 15003KT 9999 -SHRA SCT025 BKN039 BKN046 MMSP 271844Z 06006KT 10SM SKC 31/M01 A3021 RMK HZY ISOL CU CI GQNO 271900Z 32017KT 8000 NSC 25/18 Q1010 NOSIG MMTG 271849Z 09006KT 10SM SCT025 BKN070 BKN300 29/20 A2995 RMK 8/152 TCU FRMG MMTJ 271849Z 27007KT 10SM SCT030 20/10 A3008 RMK 8/500 HZY GQPA 271800Z 30010KT 8000 NSC 41/08 Q1011 MNJU 271900Z 09008KT 9999 SCT020TCU SCT080 32/25 Q1012 MMTM 271845Z 09012KT 6SM FEW025 32/25 A2986 RMK 8/100 HZY YFTZ 271900Z AUTO 01002KT //// // ////// 17/08 Q1014 RMK FYWW 271500Z 26007KT CAVOK 25/M07 Q1023 MMTO 271851Z 24003KT 5SM SCT015 BKN200 22/08 A3040 RMK 8/102 AC HZY MMTP 271846Z 00000KT 10SM SCT020TCU BKN200 32/24 A2989 RMK 8/206 HZY YGLS 271900Z AUTO 14008KT //// // ////// 17/01 Q1021 RMK SKIB 271900Z 12003KT 9999 FEW030 BKN200 29/21 A3010 MMVA 271842Z 07004KT 7SM SCT020 SCT120 SCT210 35/23 A2986 RMK 8/126 HZY FZQA 271200Z 36004KT 9999 FEW018 28/15 Q1020 NOSIG K06D 271855Z AUTO 24017KT 10SM FEW070 SCT090 SCT110 21/03 A2973 RMK AO2 MMUN 271844Z 12016KT 5SM SCT018 BKN300 31/23 A3002 RMK 8/108 HZ K04W 271855Z AUTO 22009KT 10SM CLR 21/08 A2988 RMK AO2 MNMG 271900Z 12010KT 9999 FEW024TCU SCT070 33/24 Q1010 A2984 NOSIG GQPP 271900Z 35019KT 7000 DRSA NSC 22/15 Q1014 NOSIG K05U 271855Z AUTO 35007KT 10SM CLR 19/M01 A3025 RMK A01 SKIP 271900Z 15007KT 9999 BKN016 13/10 A3047 GQPZ 271500Z 32008KT 260V360 CAVOK 36/M01 Q1014 MMVR 271843Z 06014KT 6SM FEW015 SCT250 33/26 A2985 RMK 8/101 HZY DSNT TCU 3TH QUAD SLAL 271900Z 03019KT 9999 FEW020 16/09 Q1028 K08D 271855Z AUTO 30016KT 10SM FEW075 FEW100 21/01 A2982 RMK AO2 LWOH 271830Z 32003KT 9999 SCT050 14/07 Q1016 SLCA 271900Z 18004KT 9999 OVC013 14/11 Q1023 SLCB 271900Z 04004KT 9999 FEW030 SCT080 22/05 Q1025 SKLC 271900Z 24003KT 9999 VCSH BKN015 BKN300 30/25 A2990 RMK VCSH/E LXGB 271850Z AUTO 07006KT 9999 // BKN023/// 22/18 Q1015 MNPC 271900Z 08010KT 7000 SCT018 31/25 Q1012 HZ NFFN 271900Z 07005KT 9999 FEW030 21/19 Q1015 NOSIG YHID 271900Z AUTO 13012KT 9999 // BKN022 OVC033 26/23 Q1010 SKMD 271900Z 20010KT 9999 SCT035TCU SCT080 BKN200 26/16 A3015 RMK TCU N/S MMZC 271853Z 00000KT 8SM SKC 28/05 A3029 SLCO 271900Z 00000KT 9999 FEW023 FEW025CB BKN080 30/24 Q1013 SLCP 271900Z 16010KT 9999 OVC015 23/19 Q1019 MMZH 271843Z 21007KT 6SM FEW100 33/24 A2987 RMK 8/030 HZY ISOL CU SKLT 271900Z 33006KT 9999 SCT020 31/26 A2988 MMZO 271844Z 25010KT 8SM SCT250 28/24 A2986 RMK 8/001 HZ FU SKMR 271900Z 00000KT 9999 BKN016 SCT100 30/25 A2987 K11R 271855Z AUTO 17013G18KT 10SM BKN036 OVC044 34/24 A2990 RMK AO2 T03360236 YGTE 271900Z AUTO 00000KT 9999 // NCD 19/19 Q1011 RMK YGTH 271900Z AUTO 30010KT 9999 // SCT071 SCT110 11/08 Q1012 K12N 271854Z AUTO 00000KT 21/13 A2988 RMK AO1 SLP115 T02060133 YHLC 271900Z AUTO 00000KT 9999 // NCD 12/06 Q1016 RMK MNRS 271900Z 00000KT 9999 FEW012CB SCT015 29/25 Q1011 CB NE E SE S SLET 271900Z 14010G21KT 9999 SCT017 BKN080 BKN200 20/14 Q1018 TBPB 271900Z 10016KT 9999 SCT014 SCT036 30/24 Q1014 NOSIG SKPC 271800Z 09005KT 9999 FEW020 BKN080 29/23 A2984 LWSK 271900Z 35004KT 280V060 9999 SCT056 18/07 Q1017 NOSIG YGTN 271900Z AUTO 18004KT 9999 // NCD 15/14 Q1016 SKNV 271900Z 20008KT 160V230 9999 VCSH FEW040 BKN110 33/17 A2990 RMK VCSH/S SKPE 271900Z VRB02KT 9999 FEW018 SCT090 28/19 A3007 LYBE 271900Z 03005KT CAVOK 19/12 Q1019 NOSIG MPBO 271900Z 04008KT 9999 SCT020 SCT090 Q1014 SKPS 271900Z 35008KT 9999 BKN028 22/17 A3020 YHML 271900Z AUTO 32010KT 9999 // SCT032 SCT040 BKN047 07/06 MPDA 271900Z 16010KT 9999 SCT014 31/26 Q1011 LYBT 271900Z 35007KT CAVOK 20/09 Q1019 NOSIG SKPV 271900Z 08008KT 9999 FEW018 BKN200 29/25 A//// SKRG 271900Z 09010KT 9999 FEW020TCU BKN200 22/13 A3034 RMK TCU S/W SKRH 271900Z 02012KT 9999 FEW020 30/25 A2988 K14Y 271853Z AUTO 21007KT 10SM SCT075 OVC095 20/05 A2988 RMK AO2 NFNA 271900Z 00000KT 9999 FEW020 20/20 Q1016 K0A9 271855Z AUTO 24005KT 10SM BKN035 OVC043 25/19 A2998 RMK AO2 PWINO SLJE 271900Z 18006KT 6000 VCSH OVC012 19/14 Q1020 YIFL 271900Z AUTO 23006KT //// // BKN020 BKN024 BKN063 18/17 K18A 271855Z AUTO 26007KT 10SM CLR 29/19 A2999 RMK AO2 T02920188 SKSM 271900Z 34008KT 9999 FEW020 SCT200 33/25 A2988 YHOO 271900Z AUTO 19002KT //// // ////// 12/05 Q1016 RMK SLJO 271900Z 18006KT 9999 SCT017 FEW023CB BKN200 27/24 Q1013 SKSP 271900Z 07015KT 9999 SCT018 OVC200 30/24 A2990 K18H 271855Z AUTO 14015KT 3SM BR CLR 28/26 A2998 RMK A01 SKUC 271900Z 10003KT 9999 SCT015 SCT200 30/24 A2992 TDCF 271900Z 13008G20KT 9999 SCT018 31/21 Q1014 SKUI 271900Z 14006KT 9999 SCT020 30/24 A2986 K0E0 271855Z AUTO 27016G23KT 10SM CLR 25/M08 A3012 RMK AO2 T02521077 K21D 271852Z AUTO 26003KT 10SM CLR 20/08 A2991 RMK AO2 SLMG 271900Z 18006KT 8000 VCSH FEW015 FEW023CB BKN070 27/24 Q1014 SLLP 271900Z 08010KT 6000 FEW003 SCT015 FEW017CB BKN200 09/05 Q1038 YJAB 271900Z AUTO 08004KT //// // ////// 25/18 Q1011 RMK K19S 271855Z AUTO 04008KT 10SM OVC047 23/12 A2994 RMK AO2 T02320119 K20U 271855Z AUTO 29019KT 10SM BKN090 BKN110 21/02 A2993 RMK AO2 K0F2 271855Z AUTO 16011G18KT 10SM CLR 34/24 A2979 RMK AO2 T03430235 SKVP 271900Z 17004KT 9999 SCT020 SCT200 33/21 A2990 SKVV 271900Z 05005KT 9999 SCT020 SCT200 30/20 A2994 K22N 271855Z AUTO 22004KT 10SM SCT041 SCT048 SCT050 21/12 A2990 RMK AO2 K24A 271855Z AUTO 23004KT 10SM SCT039 23/16 A3007 RMK AO2 LTG DSNT NW T02300163 HKEL 271800Z 00000KT 9999 FEW018CB SCT019 BKN080 16/15 Q1026 YHUG 271900Z AUTO 12004KT 9999 // NCD 12/03 Q1016 RMK NFTF 271900Z 00000KT 9999 SCT016TCU 23/22 Q1018 SLOR 271900Z 36005KT 9999 SCT015 15/09 Q1038 K24J 271855Z AUTO VRB05G11KT 10SM CLR 32/16 A3007 RMK A01 NFTL 271800Z 12007KT 9999 FEW010 SCT017 25/24 Q1016 SLPO 271400Z 00000KT 9999 NSC 10/M03 Q1042 SLPS 271900Z 21010KT 9999 OVC010 21/19 Q1016 SLRB 271900Z 00000KT 9999 OVC006 19/18 Q1022 NFTV 271900Z 11007KT 9999 SCT008 BKN016 BKN100 25/24 Q1016 RERA LYKV 271900Z 16001KT 9999 BKN040 14/12 Q1020 NOSIG MPMG 271900Z 16006KT 110V210 9999 SCT016TCU BKN080 29/24 Q1012 NOSIG K0J4 271858Z AUTO 00000KT 10SM SCT041 BKN055 29/19 A3009 RMK AO2 SLP185 T02890189 SLRI 271900Z 00000KT 9999 SCT017 FEW020CB BKN200 33/24 Q1012 K1A5 271855Z AUTO 00000KT 10SM BKN041 OVC049 26/17 A3001 RMK AO2 T02560169 SLSA 271900Z 14010KT 8000 TS VCSH BKN017 FEW023CB BKN200 27/24 Q1013 K1A6 271855Z AUTO 17007KT 10SM SCT028 BKN036 27/20 A2995 RMK AO2 T02650196 K1A9 271855Z AUTO 19004KT 10SM BKN033 BKN039 29/22 A3004 RMK AO2 T02900217 SLRQ 271900Z 00000KT 9999 FEW016 FEW017CB BKN200 32/27 Q1012 SLSI 271900Z 18010KT 9999 OVC017 24/21 Q1017 LYNI 271900Z VRB02KT 9999 SCT040 14/12 Q1019 SLRY 271900Z 00000KT 6000 VCSH SCT020 FEW023CB BKN200 27/25 Q1013 SMJP 271900Z 06006KT 9999 FEW025CB SCT035 33/22 Q1011 NOSIG SLTJ 271900Z 13008KT 9999 FEW025 SCT080 BKN200 17/09 Q1020 MPPA 271900Z 21003KT 9999 FEW018 SCT090 30/// Q1014 K28J 271855Z AUTO 28009KT 10SM CLR 33/14 A3004 RMK AO2 HKJK 271830Z 03004KT CAVOK 20/15 Q1022 NOSIG K1AM 271858Z AUTO 27013G19KT 10SM FEW075 BKN095 19/04 A3011 RMK AO2 SLP145 T01920041 $ K1AN 271856Z AUTO 28021G26KT 10SM FEW100 22/03 A2973 RMK AO2 SLP087 T02200033 $ LYPG 271900Z 36013KT 9999 FEW040 SCT060 22/06 Q1016 NOSIG SLTR 271900Z 15010KT 100V180 9999 FEW017 SCT080 BKN200 26/21 Q1014 HKKI 271700Z 2004KT 9999 FEW024CB BKN080 24 /18 Q1017 K1BM 271858Z AUTO 28020G26KT 10SM FEW090 FEW110 19/03 A3009 RMK AO2 PK WND 28026/07 SLP191 T01930030 $ K1AW 271858Z AUTO 33013G20KT 10SM BKN032 13/04 A3011 RMK AO2 SLP174 T01250044 $ K1BN 271856Z AUTO 27016G23KT 10SM FEW070 22/03 A2979 RMK AO2 SLP089 T02160034 $ ZBAA 271900Z VRB01MPS 6000 NSC 19/15 Q1003 NOSIG LZIB 271900Z 36007KT CAVOK 19/09 Q1021 SLVM 271800Z 18008KT 9999 BKN020 OVC070 16/11 Q1023 K1F0 271855Z AUTO 22011G16KT 180V240 10SM BKN035 32/22 A2978 RMK AO2 K1CM 271858Z AUTO 30019G26KT 10SM FEW090 FEW100 19/01 A3010 RMK AO2 PK WND 32028/39 SLP190 T01870009 $ K1BW 270858Z AUTO 28008KT 10SM FEW001 BKN090 07/07 A3004 RMK AO2 SLP142 T00700065 50008 $ K1CN 271856Z AUTO 28015G24KT 10SM SCT070 SCT090 21/03 A2981 RMK AO2 SLP100 T02110032 $ SLVR 271900Z 15014KT 9999 FEW015 BKN023 BKN070 20/15 Q1018 HKML 271800Z 18010KT 9999 FEW020TCU 26/23 Q1013 K1DM 271858Z AUTO 29018G29KT 10SM BKN090 20/02 A3003 RMK AO2 PK WND 30030/42 SLP179 T01980020 $ K1DN 271856Z AUTO 29016G20KT 10SM FEW070 FEW100 22/01 A2980 RMK AO2 PK WND 29026/41 SLP096 T02150014 $ HKMO 271800Z 19005KT 9999 FEW019 25/22 Q1014 NOSIG GUCY 271900Z 25006KT 8000 -TSRA BKN015 FEW023CB BKN110 28/25 Q1012 CB N/NW TEMPO 6000 TSRA SLYA 271900Z 00000KT 9999 BKN017 OVC070 13/11 Q1022 YJLC 271900Z AUTO 10005KT //// // ////// 13/M02 Q1016 RMK NGTA 271900Z 05011KT 9999 SCT018TCU SCT019 28/26 Q1009 TDPD 271900Z 11007KT 9999 BKN016 29/24 Q1016 MPSM 271900Z 21003KT 9999 SCT030 OVC100 30/25 Q1012 K1EM 271858Z AUTO 29010G19KT 10SM CLR 20/04 A3005 RMK AO2 SLP178 T02020036 $ K1H2 271855Z AUTO 20003KT 10SM CLR 26/19 A2990 RMK AO2 T02560186 K1DW 271858Z AUTO 35012KT 10SM BKN031 13/06 A3014 RMK AO2 SLP180 T01330063 $ CERM 271900Z AUTO 21004KT 20/05 RMK AO1 SLP100 T02040047 56008 K1EN 271856Z AUTO 29016G22KT 10SM FEW060 BKN090 20/02 A2979 RMK AO2 PK WND 28026/1757 SLP099 T02040021 $ K0R0 271855Z AUTO 21007G13KT 10SM FEW035 FEW046 SCT055 32/23 A3005 RMK AO2 K1FM 271858Z AUTO 31003KT 10SM CLR 21/M01 A3012 RMK AO2 SLP193 T02101007 $ HKNW 271800Z 00000TKT 9999 SCT023 21/15 MPTO 2721100Z 18003KT 9000 -RA SCT016 BKN080 24/24 Q1011 RWY WET NOSIG K1FN 271856Z AUTO 29012KT 10SM -SHRA FEW024 BKN060 17/06 A2973 RMK AO2 PK WND 30028/38 RAB37E49SHRAB49 SLP109 T01650061 $ K0R4 271855Z AUTO 17009KT 10SM BKN027 OVC038 29/25 A2998 RMK AO2 T02870247 NGTT 270000Z 03006KT 9999 SCT018 31/26 Q//// K1J0 271458Z AUTO 10SM SCT024 26/20 A3011 RMK AO2 SLP154 T02610200 51006 YIVO 271900Z AUTO 26005KT //// // ////// 12/07 Q1012 RMK LYTV 271900Z 02004G20KT 9999 SCT060 23/06 Q1016 K1GM 271858Z AUTO 00000KT 10SM FEW085 20/M01 A3011 RMK AO2 SLP188 T01961008 $ K1FW 271858Z AUTO 33017G28KT 10SM BKN033 14/07 A3010 RMK AO2 PK WND 33028/51 SLP169 T01420065 $ K1GN 271856Z AUTO 32018G28KT 10SM FEW070 BKN080 20/00 A2979 RMK AO2 PK WND 31028/44 SLP101 T01980002 $ LZKZ 271900Z 02008KT CAVOK 17/06 Q1022 K0S9 271855Z AUTO 20005KT 10SM CLR 22/14 A3010 RMK AO2 K1K1 271855Z AUTO 08005KT 10SM BKN042 OVC050 26/16 A2980 RMK AO2 T02570157 K1HM 271858Z AUTO 28009G15KT 10SM FEW095 22/M02 A3009 RMK AO2 SLP174 T02171018 $ K1HN 271856Z AUTO 29015KT 10SM FEW065 SCT110 21/03 A2981 RMK AO2 SLP102 T02070033 $ LYUZ 271900Z AUTO 32004KT 290V020 9999 SCT043/// BKN081/// OVC097/// 12/12 Q1021 LYVR 271900Z VRB04KT CAVOK 17/12 Q1018 NOSIG GVAC 271900Z 05014KT 9999 BKN014 25/18 Q1015 NOSIG K36U 271859Z AUTO 36008KT 10SM CLR 18/M02 A3020 RMK AO2 K1IM 271858Z AUTO 28009KT 10SM BKN080 20/05 A3010 RMK AO2 SLP197 T02000046 $ K1HW 271858Z AUTO 33018G24KT 10SM SCT032 15/08 A3007 RMK AO2 SLP166 T01450083 $ K1IN 271856Z AUTO 29013G24KT 10SM FEW080 SCT100 20/01 A2980 RMK AO2 RAB01E24SHRAB24E39 SLP099 T02000013 $ SOCA 271900Z AUTO 03005KT 350V060 9999 FEW034 30/23 Q1012 NOSIG GVBA 271900Z 03017KT 9999 BKN015 25/19 Q1015 NOSIG K2C8 271855Z AUTO 29012G17KT 10SM FEW055 BKN080 BKN110 21/03 A2971 RMK AO2 K40B 271816Z AUTO VRB02KT 17/07 A2985 RMK AO1 SLP118 T01710068 10172 20070 57010 K1JM 271858Z AUTO 32013G23KT 10SM FEW100 21/M01 A3008 RMK AO2 SLP187 T02141006 $ K1IW 270258Z AUTO 33006G45KT 10SM SHRA FEW013 SCT022 SCT060 BKN080 BKN120 13/08 A2989 RMK AO2 PK WND 33045/46 LTG DSNT SE-NE SHRAB26E51SHRAB55 SLP103 P0001 60014 T01320082 53020 $ ZBHH 271900Z 06002MPS CAVOK 16/00 Q1009 NOSIG K1JN 271856Z AUTO 28017G24KT 10SM FEW070 20/04 A2978 RMK AO2 PK WND 28029/04 SLP091 T01970043 $ K1M4 271856Z AUTO 21009KT 10SM SCT020 SCT025 OVC055 27/22 A3001 RMK AO2 SLP169 T02720217 K0V4 271855Z AUTO 25009G14KT 10SM SCT048 SCT055 31/16 A2986 RMK AO1 T03050162 K1M5 271855Z AUTO VRB06G12KT 10SM BKN020 BKN024 BKN028 27/22 A2993 RMK A01 K40J 271855Z AUTO 28008KT 10SM CLR 30/16 A3009 RMK AO2 T02950162 K1JW 270758Z AUTO M M M OVC004 10/09 A2997 RMK AO2 SLP125 T00960088 TSNO $ K1KN 271856Z AUTO 30014G22KT 10SM SCT075 20/02 A2978 RMK AO2 PK WND 31031/19 SLP089 T01990015 $ LZPP 271900Z 02007KT CAVOK 18/08 Q1021 K1LM 271858Z AUTO 34016G28KT 10SM FEW080 19/02 A3010 RMK AO2 PK WND 33030/21 SLP197 T01900017 $ HLLM 271850Z 10011KT 6000 SCT040 21/17 Q1016 K1KW 271858Z AUTO 35014KT 10SM FEW032 15/08 A3007 RMK AO2 SLP164 T01450078 $ K1LN 271856Z AUTO 30018G23KT 10SM FEW080 SCT095 SCT130 20/02 A2977 RMK AO2 PK WND 31030/1758 SLP083 T02000016 $ K2F5 271855Z AUTO 31008G16KT 280V340 10SM CLR 36/M02 A2991 RMK AO2 K0VG 271855Z AUTO RMK AO2 YLBD 271900Z AUTO 21002KT 9999 // NCD 22/18 Q1012 RMK K42J 271855Z AUTO 00000KT 10SM CLR 32/11 A3005 RMK AO1 TSNO MSAC 271850Z 23005KT 9999 FEW030 32/25 Q1009 A2981 K1P1 271855Z AUTO 32003KT 10SM OVC050 20/08 A2984 RMK AO2 T02030082 TFFF 271900Z AUTO 11014KT 9999 SCT031 SCT049 31/23 Q1015 TEMPO 4000 SHRA SCT018TCU K1LW 271858Z AUTO 34013G19KT 10SM SCT033 14/05 A3011 RMK AO2 SLP167 T01400053 $ K1MN 271856Z AUTO 30020G27KT 10SM FEW075 SCT095 21/00 A2976 RMK AO2 PK WND 31032/08 SLP081 T02080003 PWINO $ K2G4 271850Z AUTO 31004KT 1/2SM FG OVC001 15/15 A2996 RMK AO1 K2DP 271856Z AUTO 24010KT 10SM FEW048 30/18 A2989 RMK AO2 SLPNO T02950176 $ K2G9 271855Z AUTO 00000KT 10SM BKN007 OVC015 15/14 A2995 RMK AO2 LZSL 271900Z VRB02KT CAVOK 17/06 Q1022 K1MW 271858Z AUTO 01012KT 10SM BKN038 16/07 A3007 RMK AO2 SLP164 T01560065 $ K1NN 271856Z AUTO 32024G31KT 10SM FEW075 22/01 A2976 RMK AO2 PK WND 32033/13 SLP079 T02160013 $ TFFR 271900Z AUTO 11013KT 9999 SCT036 BKN043 BKN049 30/22 Q1015 NOSIG MRLB 271900Z 10009KT 9999 FEW035 SCT080 SCT200 32/23 A2985 NOSIG K2I0 271855Z AUTO 23012KT 10SM SCT036 SCT048 SCT080 31/21 A2987 RMK AO2 T03050213 K1NW 271858Z AUTO 02011G17KT 10SM SCT042 15/06 A3007 RMK AO2 SLP158 T01470057 $ K1ON 271856Z AUTO 31019G31KT 10SM FEW070 SCT095 SCT160 22/02 A2974 RMK AO2 PK WND 31031/44 SLP077 T02240022 $ K1R7 271735Z AUTO 18009G15KT 10SM FEW029 SCT100 32/23 A3005 RMK AO2 YLEC 271900Z AUTO 18005KT //// // ////// 11/08 Q1017 RMK LZTT 271900Z 06011KT CAVOK 12/05 Q1024 MRLM 271900Z 11008KT 9999 FEW020 BKN220 30/26 A2986 YKMP 271900Z AUTO 30004KT //// // ////// 12/11 Q1016 RMK SMZO 271900Z 05010KT 9999 VCSH FEW012 FEW020CB 31/24 Q1011 NOSIG K1OW 271858Z AUTO 34019G23KT 10SM SCT034 14/04 A3009 RMK AO2 PK WND 36027/42 SLP162 P0001 T01440043 PWINO $ K1S5 271855Z AUTO 00000KT 10SM CLR 25/07 A3009 RMK AO2 T02450071 YLEO 271900Z AUTO 11007KT 9999 // NCD 08/05 Q1024 RMK YKNT 271900Z AUTO 07004KT //// // ////// 17/06 Q1018 MROC 271900Z 27007KT 9999 SCT035 SCT050 28/22 A3001 NOSIG K46U 271840Z AUTO VRB05KT 10SM BKN080 14/02 A3026 RMK A01 K1QW 271858Z AUTO 10010KT 080V160 10SM CLR 23/05 A3017 RMK AO2 SLP204 WND DATA ESTMD T02260045 AYMO 270800Z 18005KT 9999 SCT018 BKN140 BKN300 28/24 Q1007 YKOW 271900Z AUTO 09001KT 9999 // NCD 19/17 Q1013 RMK K3D2 271855Z AUTO 16007KT 10SM SCT075 SCT085 22/12 A2987 RMK AO2 T02170119 YLHI 271900Z AUTO 02007KT 9999 // SCT029 19/15 Q1020 K1V4 271854Z AUTO 20/08 A2985 RMK AO1 SLP104 T02000078 SPCL 271900Z 02004KT 9999 SCT020 31/24 Q1015 RMK PP000 K3AU 271855Z AUTO 03010G14KT 10SM OVC037 25/16 A2980 RMK AO2 YLHR 271900Z AUTO 00000KT 9999 // BKN029 BKN033 21/20 Q1012 LZZI 271900Z 06005KT CAVOK 15/06 Q1023 YKSC 271900Z AUTO 25006KT 9999 // NCD 08/06 Q1012 RMK AYNZ 270300Z 09008KT 9999 SCT020 BKN140 30/23 Q1009 HZ MRPV 271900Z 27005KT 270V320 9999 FEW030 SCT080 27/19 A3002 NOSIG K3F3 271855Z AUTO 18011G18KT 10SM SCT032 BKN041 BKN048 32/24 A2996 RMK AO2 T03240238 YMBA 271900Z AUTO 16010KT //// // ////// 17/15 Q1017 YLIS 271900Z AUTO 36003KT 0300 // OVC001 10/10 Q1018 ZBSJ 271900Z 26001MPS 3000 BR NSC 21/20 Q1001 NOSIG OAHR 271555Z 01002KT CAVOK 30/08 Q1010 RMK BLU YMBD 271900Z AUTO 30007KT 9999 // SCT110 08/06 Q1012 RMK K2LS 271855Z AUTO 19007KT 160V230 9SM SCT031 29/23 A3006 RMK AO2 YKRY 271900Z AUTO 00000KT 0050 // OVC001 09/08 Q1019 K2P2 271855Z AUTO 19012G15KT 10SM SCT110 17/10 A2987 RMK AO2 T01720100 ZBTJ 271900Z 11002MPS 4000 BR NSC 19/16 Q1002 NOSIG OAKB 271850Z 35009KT CAVOK 24/M06 Q1016 NOSIG RMK BLU BLU YMAV 271900Z AUTO 31011KT 9999 // SCT031 SCT046 BKN055 10/09 Q1006 YLLE 271900Z AUTO 34007KT 9999 // NCD 17/02 Q1015 OAJL 271855Z 28010G16KT 240V320 9999 CLR 37/M05 A2955 RMK AO2A SLP953 T03721054 YMAY 271900Z AUTO 33006KT 9999 // SCT032 BKN038 OVC046 12/10 Q1010 GVNP 271900Z 03014KT 9999 FEW015 25/19 Q1015 NOSIG OBBI 271830Z 31009KT CAVOK 32/22 Q1004 NOSIG K54J 271855Z AUTO 24006KT 10SM SCT050 31/19 A3008 RMK AO2 T03070190 SPGM 271900Z /////KT 9999 SCT040 28/22 Q1017 RMK BIRD HAZARD RWY19 PP000 YMCO 271900Z AUTO 33005KT //// // ////// 11/07 Q1007 NIUE 271800Z AUTO 10013KT //// // ///////// 25/23 Q1017 YMDG 271900Z AUTO 00000KT 9999 // SCT049 SCT065 BKN080 04/03 Q1015 K3I2 271855Z AUTO 22008KT 200V260 10SM SCT034 29/21 A2988 RMK AO2 T02930213 OAKN 271855Z 22003KT 9999 CLR 30/M06 A2974 RMK AO2A SLPN981 Q1007 DA6048 MTCH 271700Z 04010KT 9000 FEW030CB 29/21 Q1017 A3004 CB/SSE/SSW SPHI 271900Z 20016KT CAVOK 26/18 Q1013 RMK PP000 SPHO 271900Z 06004KT 9999 VCSH SCT030 OVC080 18/14 Q1029 RMK SH QUAD N PP000 MSLP 271850Z 20009KT 180V240 9999 FEW037CB SCT040 32/25 Q1011 A2987 CB TO E TCU TO N MDT CU TO NW NOSIG YMEK 271900Z AUTO 11013KT 9999 // NCD 14/06 Q1021 K4A6 271855Z AUTO 23012G21KT 10SM FEW070 28/20 A2999 RMK AO2 K3J7 271855Z AUTO 20009KT 180V270 10SM CLR 30/16 A2999 RMK AO2 SPJC 271900Z 27008KT 9999 FEW025 SCT170 23/17 Q1015 NOSIG RMK PP000 MSLU 271850Z 13005KT 9999 FEW037 FEW040CB 35/24 Q1010 A2985 YMEN 271900Z AUTO 33010KT 9999 // SCT048 BKN060 OVC069 11/08 Q1006 K1YT 271858Z AUTO 23005KT 10SM CLR 26/05 A3007 RMK AO2 SLPNO T02610048 $ K4A9 271855Z AUTO 25010KT 10SM SCT034 SCT044 BKN050 26/18 A2999 RMK AO2 TSNO K57C 271855Z AUTO 00000KT 10SM SCT032 22/14 A2990 RMK AO2 T02190144 SPHY 271900Z /////KT 8000 VCSH SCT016 OVC070 10/07 Q1037 RMK BIRD HAZARD RWY03/21 PP000 K3K3 271855Z AUTO 01008G15KT 10SM BKN045 21/10 A2997 RMK AO2 YMER 271900Z AUTO 32002KT 9999 // ////// 10/09 Q1009 YMES 271900Z AUTO 26005KT 240V320 9999 // ////// 10/10 Q1006 SPJI 271900Z 00000KT 9999 SCT040 33/23 Q1021 RMK PP000 YMGB 271900Z AUTO ///07KT //// // ////// 23/21 Q1011 OAMS 271850Z 15004KT 9999 SKC 31/00 Q1007 BLU+BLU+ YMGD 271900Z AUTO 18004KT 9999 // NCD 22/21 Q1011 RMK SPJL 271900Z VRB02KT 9999 SCT026 16/03 Q1035 RMK PP000 K3L4 271855Z AUTO 19015KT 9SM BKN020 30/25 A2999 RMK A01 SPJR 271900Z 14007KT 9999 SCT027 SCT033 19/08 Q1028 RMK PP000 YMHB 271900Z 28003KT 9999 -SHRA FEW040 BKN055 10/09 Q1000 ZBYN 271900Z 10002MPS CAVOK 18/09 Q1009 NOSIG YMIA 271900Z AUTO 28008KT 9999 // BKN048 BKN056 10/10 Q1012 K2V5 271855Z AUTO 36014G20KT 10SM SCT034 SCT042 BKN090 19/08 A3005 RMK AO2 YLRE 271900Z AUTO 00000KT 9999 // NCD 10/M02 Q1017 SPME 271900Z /////KT 9999 SCT014 29/24 Q1011 RMK BIRD HAZARD RWY 32/14 PP000 SPLO 271900Z 15009KT 9999 SCT020 20/16 Q1016 RMK PP000 GVSV 271900Z 07025G35KT 9999 SCT020 26/19 Q1015 NOSIG K3LF 271855Z AUTO 09004KT 5SM HZ CLR 25/17 A2988 RMK AO2 LTG DSNT S T02460170 K2W6 271853Z AUTO 04003KT 10SM BKN080 BKN090 BKN120 23/16 A2991 RMK AO1 YMHU 271900Z AUTO 00000KT 9999 // NCD 14/11 Q1014 K3N8 271855Z AUTO 25012G17KT 230V290 10SM SCT100 24/02 A2979 RMK AO2 T02350020 YMIN 271900Z AUTO 24006KT //// // ////// 09/07 Q1014 RMK SPMS 271900Z 07004KT 9999 FEW015 32/25 Q1016 RMK BIRD HAZARD RWY 09/27 PP000 MSSA 271850Z 36003KT 9999 FEW037 30/21 Q//// A//// YNAR 271900Z AUTO 27006KT 250V320 //// // ////// 12/07 Q1011 YLST 271900Z AUTO 13007KT 9999 // NCD 10/06 Q1022 RMK YLTN 271900Z AUTO 13008KT //// // ////// 09/05 Q1024 MSSM 271850Z 20002KT 9999 SCT033 34/24 Q1010 A2985 DAAD 271800Z 12008KT 8000 NSC 34/04 Q1011 YNBR 271900Z AUTO 03014KT 9999 -SHRA BKN055 OVC078 15/12 Q1016 DAAE 271900Z 29006KT 9999 FEW026CB 23/17 Q1014 YMMB 271900Z AUTO 34008KT 9999 // BKN037 OVC043 OVC052 11/08 DAAG 271900Z 04007KT CAVOK 22/17 Q1013 MSSS 271850Z 16006KT 9999 RA BKN033 28/23 Q1016 A3001 YLTV 271900Z AUTO 17002KT 9999 // SCT008 OVC056 10/08 Q1006 DAAJ 271900Z 06005KT 9999 SCT046 34/07 Q1017 MUCC 271850Z 08010KT 9000 SCT020 31/23 Q1017 DABB 271900Z 04009KT 8000 FEW026 21/16 Q1015 DABC 271900Z 01003KT 9999 FEW030TCU SCT033 25/09 Q1017 K4I3 271856Z AUTO 07004KT 10SM SCT025 SCT034 23/19 A2991 RMK AO2 MUCF 271850Z 21011KT 7000 FEW020 31/25 Q1017 K2WX 271856Z AUTO 30020G32KT 21/01 A2990 RMK AO1 PK WND 30033/1844 SLP119 T02110011 DAAP 271900Z 00000KT 9999 SCT046 38/07 Q1012 YMLT 271900Z AUTO 34009KT 9999 RA SCT008 SCT018 SCT047 10/09 Q1001 YMML 271900Z 34010KT CAVOK 11/07 Q1007 INTER 1900/2100 5000 SHRA BKN015 FM1900 MOD TURB BLW 5000FT K3R7 271855Z AUTO 19009G17KT 10SM CLR 29/23 A2999 RMK AO2 T02890228 YMNE 271900Z AUTO 10007KT 9999 // NCD 11/07 Q1023 RMK MUCL 271850Z 10005KT 030V150 9000 SCT020 31/22 Q1017 DAAS 271900Z 08008KT 9999 SCT030 FEW033CB 26/12 Q1019 DAAT 271900Z 03004KT 8000 FEW040CB SCT046 28/04 Q1022 MUCM 271850Z 07011KT 030V140 9000 FEW020 33/15 Q1018 TGPY 271900Z 09019KT 9999 FEW018 30/25 Q1013 NOSIG DAAV 271900Z 19004KT 9999 FEW020 24/18 Q1013 DAAY 271900Z 00000KT 9999 SCT030 31/M05 Q1017 K5A6 271855Z AUTO 22008G15KT 180V260 10SM BKN029 OVC034 28/23 A2998 RMK AO2 T02830230 AZUH 271850Z VRB02KT CAVOK 19/11 Q1012 SPQT 271900Z 28003KT 9999 BKN025 30/23 Q1012 NOSIG RMK BIRD HAZARD PP000 K3S8 271855Z AUTO 00000KT 10SM CLR 25/10 A3007 RMK AO2 K65S 271850Z AUTO 21004KT 10SM CLR 20/07 A3013 RMK AO2 SPQU 271900Z 27007KT 220V300 9999 SCT100 20/02 Q1028 NOSIG RMK PP000 DABS 271900Z 18004KT 9999 FEW033CB SCT040 26/09 Q1019 MUCU 271850Z 19008KT 160V220 9000 SCT020 29/21 Q1017 DABT 271900Z 16011KT 9999 FEW023 23/17 Q1018 YMOG 271900Z AUTO 10009KT //// // ////// 12/05 Q1023 RMK K3T5 271855Z AUTO 18012G20KT 7SM BKN041 BKN047 35/25 A2986 RMK AO2 T03500247 K66R 271855Z AUTO 18013G20KT 10SM BKN029 BKN034 32/23 A2992 RMK AO2 T03170229 SPRU 271900Z 17009KT CAVOK 22/18 Q1014 RMK PP000 K5C1 271855Z AUTO 16007KT 5SM OVC031 30/22 A2992 RMK AO1 SPSO 271900Z 24012KT CAVOK 23/17 Q1014 RMK BIRD HAZARD RWY 22/04 PP000 YMOR 271900Z AUTO 06006KT 9999 // SCT029 BKN055 BKN064 14/12 Q1017 SPST 271900Z 29004KT 9999 VCSH SCT020TCU SCT080 31/24 Q1013 RMK SH QUAD S/SE BIRD HAZARD RWY 17/35 PP000 SPTN 271900Z 23007KT 190V280 9999 FEW030 22/13 Q1017 RMK PP000 YNHL 271900Z AUTO 30009KT //// // ////// 09/08 Q1009 RMK DAFH 271800Z 12012KT CAVOK 34/03 Q1014 MUHA 271855Z 01009KT 340V040 7000 FEW030 32/23 Q1017 SPTU 271900Z VRB02KT 9000 VCSH SCT020 BKN050 24/23 Q1012 RMK BIRD HAZARD RWY 01/19 PPTRZ K4M9 271815Z AUTO 24008KT 10SM FEW017 BKN025 OVC037 28/25 A2988 RMK AO2 MUGM 271856Z 14012KT 9999 FEW035 FEW250 31/24 A3001 RMK SLP163 T03110239 MTPP 271900Z 29011KT 9999 SCT026 31/23 Q1014 A2996 MUHG 271850Z 05012KT 9000 SCT025 33/15 Q1016 K4O4 271855Z AUTO 21008KT SCT027 SCT035 SCT041 30/22 A2987 RMK AO2 YMRY 271900Z AUTO 35004KT 9999 // NCD 08/07 Q1010 RMK YMTG 271900Z AUTO 32007KT 9999 // SCT046 SCT071 BKN088 07/06 YMTI 271900Z AUTO 16005KT //// // ////// 22/18 Q1013 RMK K4MR 271859Z AUTO 29012G23KT 10SM CLR 30/M07 A2997 RMK AO2 WSHFT 55 SLP084 $ K5H4 271855Z AUTO 31013G18KT 10SM 22/04 A2979 RMK AO2 PWINO SPYL 271900Z 19013KT CAVOK 28/20 Q1012 RMK BIRD HAZARD RWY 17/35 PP000 DBBB 271800Z 18009KT 9999 FEW013 29/25 Q1011 NOSIG K4R5 271855Z AUTO 24004KT CLR 22/05 A2984 RMK AO2 T02160050 PWINO K6A1 271855Z AUTO 24004KT 10SM 33/15 A3005 RMK AO2 T03310146 K74V 271855Z AUTO 18007KT 10SM CLR 19/M01 A3019 RMK AO2 K4S2 271855Z AUTO 31005KT 10SM CLR 25/10 A3007 RMK AO2 K6A2 271855Z AUTO 23008KT 10SM CLR 30/20 A3005 RMK AO2 SPZO 271900Z 34007KT 270V030 9999 SCT050 BKN080 20/03 Q1032 NOSIG RMK BIRD HAZARD RWY 28 PP000 UAAA 271900Z 00000MPS 9999 FEW100 15/11 Q1012 R23R/CLRD65 NOSIG K6B0 271855Z AUTO 00000KT 10SM OVC095 19/10 A2989 RMK AO2 T01940095 UAAH 271130Z 18005MPS CAVOK 26/M04 Q1013 R05/0///60 NOSIG RMK QFE723/0964 K6B9 271855Z AUTO 00000KT 10SM FEW018 OVC044 17/13 A2992 RMK AO2 UACC 271900Z 13009MPS 9999 SCT043CB OVC150 16/13 Q1004 R22/2/0350 NOSIG RMK QFE722/0963 K4V0 271855Z AUTO 04006KT 10SM BKN095 16/02 A3018 RMK AO2 T01640021 DAOB 271900Z 30008KT 9999 FEW026 26/18 Q1016 TJBQ 271850Z 09013G18KT 10SM SCT046 29/23 A3004 DAOF 271900Z 27017KT CAVOK 32/01 Q1011 YNRC 271900Z AUTO 33005KT //// // ////// 08/07 Q1009 RMK UACK 271530Z 17005MPS CAVOK 21/07 Q1003 R20/010070 NOSIG RMK QFE729/0972 DAOI 271800Z 02010KT CAVOK 30/17 Q1010 K79J 271856Z AUTO 25004KT 10SM CLR 32/20 A3006 RMK AO2 SLP176 T03170200 UADD 271900Z 17002MPS 9999 SCT050CB OVC100 18/10 Q1011 R13/0///65 NOSIG RMK QFE701/0935 K5M9 271855Z AUTO 23007KT 10SM SCT035 SCT048 SCT055 29/20 A2988 RMK AO2 T02910201 DAOL 271900Z 05012KT 7000 NSC 21/19 Q1013 UACP 271130Z 11006MPS 9999 SCT033CB 22/05 Q1008 R05/0/0060 NOSIG RMK QFE744/0992 DAON 271900Z 34008KT CAVOK 21/16 Q1013 DAOO 271900Z 06010KT 9999 FEW023 21/18 Q1013 YPAD 271900Z 25019G30KT 9999 FEW028 SCT050 13/09 Q1013 INTER 1900/2200 5000 SHRA SCT020 BKN030 DAOR 271900Z 20003KT CAVOK 35/M01 Q1012 K82C 271855Z AUTO 25009KT 10SM SCT060 24/11 A2988 RMK AO2 T02370111 YPAG 271900Z AUTO 25003KT 9999 // NCD 07/06 Q1017 RMK DAOV 271900Z 36010KT 9999 FEW030 25/15 Q1014 DAOY 271900Z 19006KT 9999 FEW030TCU SCT233 29/M02 Q1017 YNSM 271900Z AUTO 00000KT //// // ////// 05/05 Q1025 RMK OEAB 271800Z 06008KT CAVOK 26/02 Q1024 NOSIG MUSC 271851Z 07008KT 020V110 9000 FEW020 34/18 Q1018 OEAH 271800Z 01005KT CAVOK 37/00 Q1005 NOSIG OEBA 271800Z 11010KT CAVOK 31/02 Q1019 NOSIG YPCC 271900Z AUTO 12020KT 9999 // SCT023 BKN036 OVC044 27/22 Q1011 YOLD 271900Z AUTO 26006KT 9999 // NCD 10/09 Q1018 RMK YNTN 271900Z AUTO 12004KT 9999 // NCD 19/13 Q1014 YPBO 271900Z AUTO 06011KT 9999 // BKN100 OVC120 21/11 Q1017 K82V 271855Z AUTO 36014G19KT 10SM SCT037 SCT044 SCT050 15/04 A3011 RMK AO2 OEAO 271800Z 00000KT CAVOK 34/M06 Q1013 OEBH 271800Z 11010KT CAVOK 32/07 Q1015 NOSIG OEAR 271800Z 00000KT CAVOK 35/15 Q1008 MWCB 271900Z 13007KT 9999 FEW018 31/25 Q1016 K6I2 271855Z AUTO 00000KT 10SM SCT029 28/20 A2990 RMK AO2 YPEA 271900Z AUTO 15001KT 9999 // NCD 05/03 Q1026 YPED 271900Z AUTO 26013KT 9999 // SCT075 12/08 Q1013 RMK K5R8 271855Z AUTO 17008G17KT 10SM SCT028 BKN035 30/24 A2998 RMK AO2 T03020235 YOLW 271900Z AUTO 23009KT //// // ////// 19/12 Q1014 RMK YPDN 271900Z AUTO 09006KT 9999 // BKN066 25/19 Q1011 DAUA 271900Z 23010KT 8000 NSC 40/// Q1008 DAUB 271900Z 13010KT CAVOK 33/11 Q1012 TJIG 271855Z 10010KT 10SM SCT030 SCT080 29/23 A3004 DATM 271800Z 11018KT 4000 DRSA NSC 42/18 Q1008 OEDF 271800Z 35004KT CAVOK 32/09 Q1004 NOSIG DAUE 271900Z 24016KT 8000 DRSA SCT040 BKN200 37/07 Q1008 UAII 271900Z 16002MPS CAVOK 19/12 Q1010 R10/0///70 NOSIG RMK QFE723/0964 MWCR 271900Z 13009KT 9999 SCT023 31/24 Q1016 DAUG 271900Z 07016KT 7000 FEW046 BKN233 36/03 Q1012 DAUH 271900Z 06013KT 9999 SCT040 SCT100 39/05 Q1008 YOOD 271900Z AUTO 21005KT //// // ////// 11/02 Q1019 RMK YNWN 271900Z AUTO 16004KT 9999 // NCD 16/11 Q1019 RMK OEDM 271800Z 04016KT CAVOK 36/M05 Q1012 DAUK 271900Z 06008KT 5000 NSC 34/14 Q1010 DAUL 271900Z 09010KT 9000 NSC 31/09 Q1014 DAUO 271900Z 09010KT 6000 NSC 33/14 Q1011 OEDR 271800Z 34009KT CAVOK 36/03 Q1002 NOSIG MUVR 271850Z 36012KT 9000 FEW020 32/24 Q1017 UBBB 271900Z 29008KT 9999 BKN039 OVC100 18/14 Q1011 R88/CLRD// NOSIG YOOM 271900Z AUTO 23008KT 9999 // NCD 13/04 Q1016 RMK DAUT 271900Z 25012KT CAVOK 40/// Q1008 DAUU 271900Z 02010KT 9999 FEW046 BKN233 37/// Q1008 ZGGG 271900Z 10001MPS CAVOK 24/21 Q1009 NOSIG UBBG 271900Z 21006KT 9999 FEW050CB BKN100 19/15 Q1012 R30/290060 NOSIG K6L4 271855Z AUTO 23005KT 10SM SCT041 BKN055 OVC090 24/19 A2995 RMK AO2 ZGHA 271900Z 17001MPS CAVOK 20/17 Q1010 NOSIG DAUZ 271900Z 33004KT 9999 FEW046 SCT080 36/M02 Q1012 UAKK 271900Z 11003MPS 9999 VCTS SCT040CB 13/06 Q1008 R05/0///70 TEMPO VRB15MPS 3000 TSRA SQ BKN020CB RMK QFE709/0945 TIST 271853Z 14012KT 10SM SCT036 31/23 A3001 RMK AO2 SLP162 T03060233 UBBL 271900Z VRB02KT 9999 SCT100 19/17 Q1010 R33/CLRD// RMK MT OP UBBN 271900Z 22004KT 9999 FEW100 19/09 Q1010 R14R/CLRD// NOSIG RMK MT OP QFE683 TISX 271853Z 12012KT 10SM SCT028 30/23 A3002 RMK AO2 SLP165 T03000233 UBBQ 271900Z 00000KT 9999 SCT036CB BKN100 18/17 Q1011 R34/CLRD// TEMPO TS SCT030CB RMK MT OBSC YPGV 271900Z AUTO 14006KT 9999 // SCT064 24/21 Q1011 YORG 271900Z AUTO 00000KT 9999 // SCT049 03/02 Q1015 RMK OEGN 271800Z 24004KT 9999 FEW030 34/26 Q1007 NOSIG UBBY 271900Z 08008KT 9999 -SHRA SCT040CB OVC080 17/12 Q1015 R33/////// NOSIG RMK MT OP OEGS 271800Z 04010KT CAVOK 37/10 Q1010 OEGT 271800Z 23008KT CAVOK 29/01 Q1012 NOSIG OEHL 271800Z 03004KT CAVOK 30/02 Q1015 NOSIG UBEE 271500Z 33003KT 9999 FEW026CB BKN100 23/19 Q1009 R30/CLRD// NOSIG YPKA 271900Z AUTO 21004KT 9999 // NCD 20/12 Q1013 RMK YPKG 271900Z AUTO 15005KT 9999 // OVC035 11/06 Q1025 TJNR 271853Z AUTO 08007KT 10SM CLR 29/23 A3004 RMK AO2 SLP173 T02890233 $ YPJT 271900Z AUTO 16004KT 9999 // NCD 05/05 Q1026 RMK YPLC 271900Z AUTO 27009KT 9999 // NCD 10/07 Q1015 RMK ZHCC 271900Z 19003MPS 150V230 CAVOK 26/12 Q1006 NOSIG ZGKL 271900Z 28001MPS CAVOK 17/16 Q1011 NOSIG K6P9 271855Z AUTO 20012G16KT 10SM CLR 32/23 A2984 RMK AO2 T03240228 UAOO 271900Z 32002MPS CAVOK 16/08 Q1011 R05/CLRD70 NOSIG RMK QFE747/0996 OEJN 271900Z 35012KT CAVOK 31/16 Q1007 NOSIG YPKS 271900Z AUTO 03004KT //// // ////// 06/05 Q1013 RMK YPKT 271900Z AUTO 12006KT //// // ////// 25/08 Q1011 RMK OEKJ 271800Z 110117KT 8000 SKC 39/07 Q1010 YPKU 271900Z AUTO 12009KT 7000 // NCD 24/08 Q1013 RF00.0/000.0 OEKK 271800Z 36010KT CAVOK 36/11 Q1008 NOSIG YPLM 271900Z AUTO 24007KT 9999 // NCD 18/08 Q1014 OEKM 271800Z 09008KT CAVOK 26/01 Q1024 NOSIG K6R3 271855Z AUTO 18009G16KT 7SM SCT030 SCT037 BKN044 31/25 A2994 RMK AO2 T03140251 TJPS 270550Z 00000KT 10SM HZ FEW030 24/22 A3006 K6R6 271853Z AUTO VRB05KT 36/15 A2989 RMK AO1 SLP080 T03610150 OEMA 271900Z 30008KT CAVOK 39/M03 Q1012 NOSIG K6S0 271855Z AUTO 28007G15KT 10SM SCT075 BKN100 17/01 A3016 RMK A01 K8A0 271855Z AUTO 23014G18KT 10SM SCT026 SCT033 BKN047 27/23 A3000 RMK AO2 K6S2 271855Z AUTO 27004KT 10SM OVC011 12/10 A3012 RMK AO2 YPMQ 271900Z AUTO 34002KT 3100 // SCT001 OVC105 10/10 Q1015 K8A3 271855Z AUTO 25007G13KT 10SM SCT019 BKN024 25/21 A2996 RMK A01 SUAA 271900Z 12010KT 9999 OVC016 12/05 Q1029 YPOD 271900Z AUTO 35006KT 9999 // BKN029 BKN040 OVC057 08/06 OEMK 271800Z 33004KT CAVOK 34/14 Q1007 ZGNN 271900Z 34001MPS CAVOK 19/17 Q1010 NOSIG K8B0 271855Z AUTO 00000KT 10SM SCT045 17/06 A2987 RMK AO2 OENG 271800Z 04004KT 8000 SKC 31/04 Q1015 NOSIG UARR 271900Z 00000MPS 9999 BKN040CB BKN100 15/13 Q1007 R22/190065 NOSIG RMK QFE752/1002 TJSJ 271856Z 08019KT 10SM FEW022 SCT045 SCT090 31/23 A3002 RMK AO2 SLP166 VCSH S-SW T03060228 UASK 271900Z 00000MPS 9999 SCT230 08/M01 Q1013 R30/090060 NOSIG RMK QFE735/0980 YPPD 271900Z AUTO 11003KT //// // ////// 19/17 Q1013 YPPF 271900Z AUTO 26009KT 9999 // SCT059 12/09 Q1013 RMK UATE 271900Z 04006MPS CAVOK 20/10 Q1010 R30/0///70 NOSIG RMK QFE756/1008 K7L2 271855Z AUTO 27013G20KT 10SM FEW070 SCT100 22/08 A2987 RMK AO2 YPPH 271900Z 00000KT CAVOK 05/04 Q1026 NOSIG UATG 271900Z 23004MPS CAVOK 17/14 Q1010 R32/CLRD70 NOSIG RMK QFE760/1013 UASP 271900Z 12005MPS 9999 FEW040 SCT100 15/M01 Q1010 R21/0///70 NOSIG RMK QFE746/0995 SUCA 271900Z 12012KT 9999 FEW015 SCT023 BKN200 14/06 Q1026 UASS 271230Z 34002MPS 310V010 CAVOK 26/M06 Q1015 NOSIG RMK QFE743/0990 OEPA 271800Z 02009KT CAVOK 35/08 Q1009 NOSIG ZGOW 271900Z 32003MPS 8000 NSC 22/20 Q1010 NOSIG ZHHH 271900Z 08002MPS CAVOK 21/20 Q1009 NOSIG K8D3 271856Z AUTO 27016KT 24/07 A2984 RMK AO1 SLP096 T02390067 UATT 271900Z 24005MPS CAVOK 12/11 Q1007 R31/CLRD70 NOSIG RMK QFE735/0981 K7N0 271856Z AUTO 19011G16KT 10SM 33/22 RMK AO2 SLPNO T03280222 $ CMGB 271900Z AUTO 22003KT 20/08 RMK AO1 SLP111 T01960082 57008 CMFM 271900Z AUTO 24006KT 19/01 RMK AO1 SLP107 T01890011 57009 UAUU 271900Z 33004MPS 9999 BKN071CB 13/12 Q0999 R33/290050 TEMPO 3000 TSRA RMK QFE734/0978 OERF 271800Z 35003KT CAVOK 31/M02 Q1011 SUDU 271900Z 15008KT 9999 SCT026 BKN080 14/05 Q1026 OERK 271900Z 05005KT 8000 SKC 37/00 Q1010 NOSIG OESH 271800Z 04008KT 9999 SCT035 36/M05 Q1010 NOSIG OERR 271800Z 00000KT CAVOK 29/05 Q1012 NOSIG OETB 271800Z 36005KT CAVOK 29/M05 Q1013 NOSIG OESK 271800Z 30012KT CAVOK 30/M02 Q1014 NOSIG UCFL 271900Z 06002MPS 9999 FEW030CB SCT100 13/05 Q1020 RMK G/O YPTN 271900Z AUTO 15005KT 9999 // NCD 18/12 Q1013 UCFM 271900Z 11005MPS CAVOK 18/13 Q1011 R08/CLRD70 NOSIG UCFO 271900Z 17005MPS 9999 FEW050CB SCT140 22/11 Q1014 R12/CLRD70 NOSIG OETF 271800Z 27008KT 9999 FEW030 29/11 Q1018 NOSIG ZGSZ 271900Z 14002MPS CAVOK 25/19 Q1009 NOSIG TKPK 271900Z 05009KT 9999 SCT020 29/23 Q1016 TKPN 271900Z 10010KT 9999 SCT022 30/21 Q1016 OETR 271800Z 26006KT CAVOK 26/03 Q1015 K9A5 271855Z AUTO 19006G15KT 7SM SCT036 SCT044 BKN050 29/20 A2999 RMK AO2 T02850196 SVAC 262200Z METAR SVBI 262200Z METAR SVVL 262200Z METAR SVSO 262200Z METAR SVGU 262200Z METAR SVSP 262200Z YREN 271900Z AUTO 29009KT 9999 // NCD 09/09 Q1013 RMK OEWD 271800Z 12008KT CAVOK 35/14 Q1009 NOSIG YPWR 271900Z AUTO 27006KT 9999 // NCD 09/08 Q1018 OEWJ 271800Z 33010KT CAVOK 29/18 Q1008 YPXM 271900Z AUTO 13013KT 9999 // BKN012 25/25 Q1012 SVBM 271900Z 14011KT 9999 BKN016 29/18 Q1017 MYGF 271900Z 20003KT 9999 -SHRA FEW014CB BKN016TCU 29/26 A3004 RMK CB NE-E TCU NW/S/OVHD HTAR 271700Z 13008KT 9999 FEW030 19/17 Q1018 OEYN 271800Z 28010KT CAVOK 32/15 Q1005 NOSIG K7W4 271855Z AUTO 18003KT 10SM BKN110 28/18 A2986 RMK AO1 T02760178 K7W6 271855Z AUTO 18011G16KT 10SM CLR 28/20 A2990 RMK AO2 T02810201 SULS 271900Z 12007KT 9999 BKN026 13/06 Q1028 HTDA 271800Z 18008KT 9999 FEW012 SCT070 25/23 Q1014 NOSIG HTBU 271800Z 00000KT 9999 FEW017 FEW019CB BKN080 21/17 Q1018 SUMU 271900Z 13007KT 9999 BKN030 SCT200 13/05 Q1028 NOSIG HTDO 271800Z 08006KT 9999 FEW027 SCT280 23/16 Q1019 NOSIG YSCB 271900Z AUTO 00000KT 9999 // NCD 02/02 Q1012 TLPC 271900Z 09006KT 9999 SHRA BKN021 28/25 Q1015 NOSIG HSOB 271900Z 35011KT CAVOK 32/09 Q1009 HSNN 271600Z 04003KT CAVOK 39/04 Q1008 YRMD 271900Z AUTO 11004KT //// // ////// 12/03 Q1016 RMK TLPL 271900Z 08016KT 9999 BKN027 30/24 Q1014 NOSIG YSCO 271900Z AUTO 09003KT //// // ////// 06/06 Q1014 RMK YSCR 271900Z AUTO 11007KT //// // ////// 07/06 Q1025 RMK HSPN 271700Z 35008KT CAVOK 32/15 Q1008 MZBZ 271900Z 10010G20KT 9999 BKN022 32/26 A2991 Q1013 NOSIG HRYR 271830Z 09003KT 050V150 9999 FEW025 SCT100 23/12 Q1021 NOSIG YSDU 271900Z AUTO 15006KT 9999 // BKN080 OVC088 07/06 Q1014 YROM 271900Z AUTO 00000KT 9999 // OVC099 14/10 Q1018 RMK YSGE 271900Z AUTO 01008KT //// // ////// 17/11 Q1015 SUSO 271900Z 15010KT 9999 FEW015 BKN083 16/09 Q1024 K9L2 271858Z AUTO 14004KT 8SM CLR 25/03 A3002 RMK AO2 SLP149 T02450025 MYNN 271908Z 07012KT 5000 -TSRA SCT012CB BKN016TCU BKN220 28/24 A3008 RMK CB/TCU/OVHD AND ALQDS TS OVHD TB08 TNCA 271900Z 08019KT 9999 SCT025 31/25 Q1012 A2990 NOSIG HTIR 271800Z 00000KT 9999 FEW016 SCT080 18/14 Q1022 TNCB 271855Z 10015KT 060V150 9999 SCT021 SCT025 BKN033 30/23 Q1013 HTKA 271800Z 00000KT 9999 FEW022 FEW023CB BKN240 23/20 Q1018 TNCC 271800Z 09014KT 9999 FEW019 30/22 Q1014 NOSIG TNCE 271855Z AUTO 07012KT 360V100 //// // ///////// 30/23 Q1016 RE// DFFD 271800Z 28001KT 9999 FEW020 FEW033CB 32/23 Q1013 NOSIG YSHK 271900Z AUTO 15009KT //// // ////// 15/06 Q1018 RMK ZJHK 271900Z VRB01MPS CAVOK 23/22 Q1008 NOSIG HTKJ 271800Z 06010KT 9999 FEW028 22/19 Q1017 NOSIG HSSS 271900Z 36010KT CAVOK 37/00 Q1008 NOSIG TNCM 271900Z 10006KT 070V130 9999 VCSH SCT018 30/22 Q1016 A3002 NOSIG RMK MIN VIS 12KM S SHWRS S LGT HZ ALQDS K8W2 271855Z AUTO 00000KT 10SM SCT110 26/17 A2985 RMK AO1 T02580171 SVMG 271300Z /////KT 9999 SCT010 29/24 Q1015 NOSIG SVMI 271900Z 02003KT 9999 SCT016 31/20 Q1013 YSHT 271900Z AUTO 35009KT //// // ////// 11/11 Q1008 RMK HTMB 270600Z 00000KT 9999 FEW016 15/10 HTMG 271800Z 00000KT 9999 FEW024 23/21 Q1018 OIAA 271900Z 31008KT CAVOK 35/07 Q1005 OIAD 271700Z 00000KT 6000 NSC 31/09 Q1006 A2972 K9MN 271852Z AUTO 00000KT 10SM SCT095 20/06 A2992 RMK AO1 T02040062 YTAR 271900Z AUTO 25006KT //// // ////// 09/08 Q1020 RMK YRTI 271900Z AUTO 11010KT //// // ////// 14/08 Q1026 RMK OIAG 271900Z 32008KT 4500 DU NSC 35/08 Q1005 OIAH 271900Z 27004KT CAVOK 32/01 Q1011 OIAI 271900Z 33004KT 7000 NSC 35/M04 Q1007 OIBA 271500Z 29010KT CAVOK 30/27 Q1001 OIBB 271900Z 33012KT 8000 NSC 31/20 Q1003 A2963 HTMT 271800Z 19006KT 9999 SCT021 FEW022CB SCT080 24/23 Q1016 DGAA 271800Z 18008KT 9999 FEW030CB 24/24 Q1011 NOSIG HTMU 271800Z 00000KT 9999 FEW020CB 22/18 Q1018 OIAM 271900Z 32010KT CAVOK 35/12 Q1004 HTMW 271800Z 00000KT 9999 FEW023 25/19 Q1016 NOSIG HUEN 271800Z 18003KT 9999 FEW020 FEW022CB 23/16 Q1018.7.2 886.7 NOSIG OIBJ 271500Z 25006KT CAVOK 37/14 Q1007 OIBK 271900Z 29004KT 4000 BR NSC 28/27 Q1002 OIBL 271800Z 26006KT 4000 BR NSC 29/28 Q1002 OICC 271900Z 30006KT 9000 NSC 21/M02 Q1016 A3002 OIAW 271900Z 32006KT CAVOK 36/14 Q1005 YSMI 271900Z AUTO 28003KT //// // ////// 10/09 Q1001 OIBP 271700Z 00000KT CAVOK 31/24 Q1001 A2956 OIBQ 271500Z 29012KT CAVOK 34/21 Q1002 OICI 271900Z 10004KT CAVOK 19/M02 Q1017 A3005 OICJ 271850Z AUTO 12004KT //// // ////// 23/00 Q1019 OIBS 271500Z 22006KT CAVOK 31/28 Q1002 OICK 271850Z 30010KT CAVOK 23/M03 Q1015 YTEE 271900Z AUTO 28005KT 9999 // NCD 14/M04 Q1017 RMK OICM 271700Z 31006KT CAVOK 34/M02 Q1005 OIBV 271600Z 00000KT 5000 BR NSC 29/27 Q1002 YTEF 271900Z AUTO 16010KT 9999 // SCT105 OVC125 23/08 Q1015 YSNF 271900Z AUTO 17007KT 9999 // BKN030 OVC044 OVC051 18/12 Q1020 OICS 271856Z 11002KT CAVOK 20/M03 Q1016 YTEM 271900Z AUTO 02007KT //// // ////// 08/07 Q1012 RMK CPBT 271800Z AUTO 33006KT 22/05 RMK AO1 T02220053 UDSG 271900Z 04005KT 9000 BKN036CB 10/06 Q1017 R02/290255 NOSIG YSOL 271900Z AUTO 19003KT 9999 // BKN100 17/08 Q1017 RMK YSNW 271900Z AUTO 30009KT 9999 // NCD 12/09 Q1011 CPEH 271800Z AUTO 32006KT 24/04 RMK AO1 T02440040 YTGM 271900Z AUTO 36004KT //// // ////// 09/05 Q1016 OIFK 271900Z 00000KT CAVOK 28/M00 Q1011 HTTB 271800Z 33006KT CAVOK 22/11 Q1020 OIFM 271900Z 29008KT CAVOK 24/M03 Q1018 A3007 HTSO 271800Z 00000KT 9999 FEW020 19/17 Q1021 OIGG 271900Z VRB02KT 9999 BKN020 21/18 Q1009 YTIB 271900Z AUTO 28011KT //// // ////// 14/02 Q1015 RMK OIFS 271900Z 07002KT CAVOK 16/M01 Q1023 CPFI 271900Z AUTO 31010KT 25/04 RMK AO1 T02450035 OIGK 271850Z AUTO 26004KT //// // ////// 19/M07 Q1017 K9V9 271855Z AUTO 24006KT 10SM SCT060 SCT110 19/10 A2997 RMK AO2 T01910095 HTSU 271800Z 00000KT CAVOK 16/09 Q1024 YSRI 271900Z AUTO 00000KT 0100 // OVC001 06/05 Q1013 DFOO 271800Z 18004KT 9999 FEW016 29/22 Q1013 OIHH 271850Z 00000KT CAVOK 16/00 Q1018 OIHM 271850Z 14004KT CAVOK 20/M04 Q1018 OIIE 271900Z 26004KT CAVOK 29/M06 Q1011 OIHR 270700Z 01006KT 7000 NSC 26/M00 Q1020 OIII 271900Z 35006KT 9999 FEW040 SCT100 28/M04 Q1013 A2992 NOSIG OIIK 271900Z 02004KT CAVOK 21/04 Q1013 PAAD 271855Z AUTO 00000KT 10SM CLR 03/00 A3012 RMK AO2 T00261003 YSTH 271900Z AUTO 29006KT 9999 // SCT030 BKN056 OVC067 12/09 Q1002 OIIP 271800Z 21004KT 7000 NSC 26/M04 Q1013 OJAI 271900Z 00000KT CAVOK 22/01 Q1014 NOSIG OIIS 271900Z 00000KT CAVOK 29/M09 Q1012 PABA 271852Z AUTO 06010KT 10SM CLR 03/00 A3013 RMK AO2 SLP190 T00280000 TSNO OIKB 271900Z 17004KT 6000 NSC 31/25 Q1001 A2958 PAAK 271856Z 11016KT 10SM OVC030 06/M01 A2974 RMK AO1 OJAM 271900Z 00000KT 5000 HZ NSC 25/06 Q1013 NOSIG YSSY 271900Z 34006KT CAVOK 11/10 Q1013 FM1900 MOD TURB BLW 5000FT ZJSY 271900Z 00000MPS 9999 SCT040 25/24 Q1006 NOSIG PABE 271853Z 16008KT 10SM FEW019 BKN025 BKN031 06/01 A2993 RMK AO2 SLP137 CIG RGD T00560006 $ OJAQ 271900Z 15008KT CAVOK 30/14 Q1007 PAAQ 271853Z 14013KT 10SM BKN100 OVC180 09/00 A3011 RMK AO2 SLP198 T00890000 PABI 271853Z 21010KT 10SM FEW060 FEW080 SCT120 BKN200 09/M07 A3007 RMK SLP193 SHRA DSNT ALQDS ACSL DSNT S CIG THN T00941067 VIA AUTODIAL CPIR 271800Z AUTO 31007KT 23/03 RMK AO1 T02340029 OIKK 271900Z 32004KT CAVOK 26/M15 Q1018 A3007 PABL 271856Z AUTO 16010G15KT 10SM BKN026 08/01 A2996 RMK AO2 SLP148 T00780006 YSTW 271900Z AUTO 33005KT 9999 // BKN100 12/10 Q1016 PACD 271853Z 36012KT 10SM OVC025 04/01 A2989 RMK AO2 RAB16E34 SLP124 P0000 T00440011 OIKO 271850Z 14004KT 7000 NSC 30/14 Q1003 OIKQ 271900Z 23016KT 6000 NSC 28/27 Q1001 PABR 271853Z 14007KT 10SM SCT200 00/M01 A3005 RMK AO2 SLP177 T00001011 HTZA 271800Z 15008KT 9999 SCT016 BKN080 26/23 Q1014 NOSIG OIMB 271900Z 05008KT CAVOK 26/M07 Q1015 PABT 271853Z VRB05KT 10SM FEW070 BKN150 09/M03 A3007 RMK AO2 SLP192 T00941028 OIMC 271900Z AUTO 29002KT //// // ////// 27/12 Q1008 YTMO 271900Z AUTO 03005KT //// // ////// 13/M01 Q1017 RMK OIMD 271900Z AUTO 18006KT //// // ////// 29/01 Q1009 PACM 271856Z AUTO VRB03KT 10SM SCT016 BKN026 OVC050 03/00 A2990 RMK AO2 RAE09 SLP122 P0000 T00330000 PABV 271856Z AUTO 26005KT 10SM BKN075 BKN090 08/01 A3012 RMK AO2 SLP209 T00830006 $ YTNG 271900Z AUTO 10004KT 9999 // NCD 10/09 Q1018 PADE 271753Z AUTO 15015KT 10SM FEW021 BKN110 07/01 A2989 RMK AO2 SLP121 T00720011 10072 20033 50004 TSNO $ YSWG 271900Z AUTO 17001KT 9999 // BKN078 BKN096 08/07 Q1011 YSWH 271900Z AUTO 30011KT 9999 // SCT043 BKN058 11/09 Q1010 PADG 271900Z 11005KT 15SM -RA SCT010 BKN020 03/01 A2993 UDYZ 271900Z 25002KT 9999 NSC 15/08 Q1013 R09/010070 NOSIG YTNK 271900Z AUTO 08007KT 9999 // ////// 19/03 Q1016 OINB 271900Z 07004KT CAVOK 22/19 Q1007 PADK 271856Z AUTO 14016G21KT 10SM BKN022 OVC031 06/M03 A2974 RMK AO1 PAEC 271853Z 00000KT 10SM SCT016 BKN026 06/M01 A3007 RMK NOSPECI PADL 271856Z 12007KT 10SM -RA BKN020 OVC045 06/03 A2994 RMK AO2 SLP145 P0001 T00610033 OIMM 271900Z 18004KT CAVOK 25/08 Q1014 A2995 PACV 271853Z 08009KT 4SM RA BR FEW015 BKN023 OVC065 05/04 A3024 RMK AO2 SLP240 P0002 T00500039 $ PADM 271856Z AUTO 17010KT 10SM BKN021 OVC027 05/01 A2996 RMK AO2 SLP154 T00500006 PAED 271858Z AUTO 32005KT 10SM SCT047 OVC065 08/00 A3010 RMK AO2 SLP189 T00761001 OINE 271800Z 00000KT CAVOK 22/13 Q1009 OIMN 271900Z 00000KT CAVOK 22/12 Q1014 OING 271900Z 09006KT CAVOK 19/17 Q1008 PAEG 271853Z AUTO VRB05KT 10SM BKN110 13/M02 A3004 RMK AO2 SLP179 T01281022 TSNO OIMQ 271900Z AUTO 10008KT //// // ////// 30/00 Q1013 PACZ 271855Z AUTO 32006KT 10SM BKN015 02/00 A2985 RMK AO2 SLP116 T00210001 PADQ 271853Z 08010KT 10SM -RA BKN013 BKN025 OVC040 06/04 A2997 RMK AO2 RAE22B51 SLP151 P0000 T00610044 PAEH 271903Z AUTO 01003KT 10SM FEW003 02/02 A2992 RMK AO2 SLP141 PAEI 271858Z AUTO 00000KT 10SM BKN100 11/M03 A3004 RMK AO2 SLP178 T01091035 $ OIMS 271400Z 31010KT 9999 FEW035 SCT200 37/01 Q1011 NSFA 271800Z 10004KT 9999 FEW024 25/23 Q1013 PAFA 271853Z 00000KT 10SM SCT045 SCT085 BKN150 10/M01 A3005 RMK AO2 RAE13 SLP180 P0000 T01001011 OINK 271700Z 00000KT CAVOK 24/12 Q1008 PAFB 271858Z AUTO 00000KT 10SM SCT060 OVC085 11/M03 A3005 RMK AO2 SLP180 T01061030 $ PAEL 271853Z VRB05KT 20SM FEW025 SCT180 09/07 A3026 RMK SPB E23010KT SEA 0 SWELL 1 SW NOSPECI PADU 271856Z VRB04KT 10SM OVC027 06/00 A2993 RMK AO2 SLP136 CS T00560000 PAEM 271855Z AUTO 18007KT 10SM FEW012 SCT017 OVC045 03/01 A2989 RMK AO2 RAB15E50 SLP182 P0000 T00330011 PAFE 271756Z AUTO 26004KT 10SM 09/04 A3027 RMK AO2 SLP262 T00940044 10100 20011 51004 $ OINN 271900Z 00000KT 9999 OVC015 21/19 Q1008 PAEN 271853Z 08010KT 10SM OVC080 08/00 A3008 RMK AO2 SLP189 T00830000 OINR 271900Z 00000KT 9999 FEW023CB SCT027 BKN100 20/18 Q1007 PAGA 271857Z AUTO 15010KT 10SM BKN029 OVC070 08/02 A3002 RMK AO2 SLP173 T00830017 PAFM 271756Z AUTO 12007G15KT 10SM BKN043 BKN050 06/02 A3006 RMK AO2 RAE12B37E49 SLP192 P0000 60000 T00560022 10056 20033 50006 YTRA 271900Z AUTO 18002KT 9999 // NCD 05/03 Q1024 RMK OINZ 271900Z 01004KT CAVOK 18/16 Q1007 PAGH 271857Z AUTO 14009KT 10SM BKN034 OVC060 08/01 A3004 RMK AO2 RAE05 SLP203 T00780006 PNO $ PAFR 271856Z AUTO 34006KT 10SM SCT085 08/01 A3010 RMK AO1 SYCJ 271900Z 34006KT 9999 FEW017CB SCT019 28/25 Q1012 CB-ALQDS NOSIG PAFS 271901Z AUTO VRB03KT CLR 11/M01 A3002 RMK AO2 SLP185 T01061011 PWINO PAGK 271853Z AUTO 16014KT BKN085 07/M06 A3013 RMK AO2 SLP221 T00721061 TSNO $ PAGL 271856Z AUTO 17009KT 10SM FEW024 FEW032 OVC040 04/M01 A2996 RMK AO1 PAHC 271856Z AUTO 21003KT 8SM -RA FEW008 BKN021 OVC032 04/03 A2994 RMK AO2 SLP143 T00440028 PNO $ YTRE 271900Z AUTO 20002KT 9999 // SCT100 08/08 Q1014 PAGM 271856Z AUTO 00000KT 10SM OVC034 02/M02 A2988 RMK AO2 SLP126 T00171022 FZRANO PAGN 271856Z AUTO 00000KT 10SM CLR A3027 RMK AO2 SLPNO FZRANO $ PAGS 271856Z AUTO 20007KT 10SM CLR 11/04 A3027 RMK AO2 SLP250 T01110039 SYEC 271900Z 07010KT 9999 FEW020CB 30/24 Q1012 CB SW-W PAHL 271856Z AUTO 15008KT 10SM OVC032 08/00 A3002 RMK AO2 SLP178 T00830000 PAHN 271854Z AUTO 15007KT 10SM CLR 11/06 A3023 RMK AO2 SLP241 T01110056 TSNO PAHO 271853Z AUTO 11005KT 10SM SCT075 09/02 A3006 RMK SLP179 T00890017 TSNO VIA AUTODIAL PAGY 271853Z AUTO 25004KT 10SM CLR 11/03 A3022 RMK AO2 SLP234 T01110033 TSNO PAHP 271856Z AUTO 30009KT 10SM SCT020 BKN028 OVC033 03/M01 A2989 RMK AO2 SLP158 T00331006 PAIG 271856Z AUTO 05016KT 10SM FEW043 BKN070 08/03 A2995 RMK AO2 SLP154 T00830028 $ PAII 262256Z AUTO 12011KT 10SM FEW018 SCT035 BKN055 07/03 A2996 RMK AO2 RAE25 SLP149 P0001 T00670028 OISA 271900Z 34006KT CAVOK 24/M02 Q1022 NTAA 271900Z VRB01KT 9999 FEW020 SCT066 29/23 Q1018 PAIK 271901Z AUTO 13009KT 10SM SCT027 OVC060 07/01 A3000 RMK AO2 PAIL 271853Z 09015G18KT 10SM BKN038 OVC080 08/02 A3002 RMK AO2 SLP166 T00780017 PAJC 271845Z AUTO 00000KT 10SM -RA BKN013 OVC019 04/04 A2986 RMK AO2 P0006 PAIM 271855Z AUTO 18009KT 110V200 10SM BKN070 06/00 A3004 RMK AO2 SLP182 T00641005 $ PAIN 271856Z 14005KT 10SM FEW055 06/M04 A3005 RMK AO1 OISF 271900Z 35004KT CAVOK 26/01 Q1011 PAHX 271856Z AUTO VRB06KT 10SM BKN018 BKN028 OVC036 07/03 A2995 RMK AO2 RAE32 SLP145 P0000 T00720028 YTTI 271900Z AUTO 11009KT //// // ////// 27/19 Q1011 RMK PAHY 271856Z AUTO RMK AO2 SLPNO PWINO FZRANO RVRNO $ YTST 271900Z AUTO 17003KT 9999 // NCD 21/12 Q1011 OISL 271900Z 00000KT CAVOK 30/06 Q1007 PAJN 271853Z 23008KT 10SM FEW040 FEW250 FEW300 12/04 A3024 RMK AO2 SLP240 T01220044 PAIW 271858Z AUTO 33005KT 7SM 02/01 A2987 RMK AO2 RAB36E51 SLP116 P0000 T00220006 FZRANO DIAD 271700Z 06004KT 9999 FEW013 29/26 Q1011 NOSIG PAKF 271901Z AUTO 32009KT 10SM -RA SCT016 OVC025 04/02 A2991 RMK AO2 RAB1811 SLP223 P0000 T00440017 $ CPRO 271900Z AUTO 30014KT 25/03 RMK AO1 PK WND 28025/1900 T02540034 OISR 271500Z 34006KT CAVOK 40/08 Q1004 ZLLL 271900Z 32002MPS CAVOK 11/01 Q1017 NOSIG OISS 271900Z 30004KT CAVOK 29/01 Q1016 A3002 OKBK 271900Z 36014KT CAVOK 38/05 Q1006 NOSIG PAKK 271856Z AUTO 19005KT 10SM BKN050 04/M07 A2994 RMK AO1 OITL 271851Z 20004KT 9000 VCFG SCT007 11/10 Q1013 OITM 271800Z 08004KT CAVOK 19/M01 Q1014 PAKN 271854Z 06009KT 10SM FEW037 SCT080 BKN130 11/01 A2990 RMK AO2 SLP124 T01060006 OITP 271900Z 00000KT CAVOK 19/15 Q1009 OISY 271900Z 10004KT CAVOK 21/01 Q1022 PAKP 271856Z AUTO 20012KT 10SM OVC070 06/M06 A3001 RMK AO1 PALG 271856Z AUTO 25004KT 10SM OVC014 04/03 A2994 RMK AO2 SLP142 T00440028 PALH 271853Z VRB03KT 10SM BKN065 OVC080 08/00 A3012 RMK AO2 SLP201 T00780000 PAJZ 271908Z AUTO 14013KT 8SM BKN024 BKN032 BKN075 07/02 A3000 RMK AO2 $ YTWB 271900Z AUTO 02006KT 9999 // SCT085 13/12 Q1020 RMK CPRY 271800Z AUTO 32010KT 22/03 RMK AO1 T02200029 OITR 271900Z 21006KT CAVOK 18/01 Q1013 DIAP 271900Z 20005KT 9999 SCT012 FEW020CB 28/25 Q1012 NOSIG PALJ 271858Z 06012KT 30SM BKN060 10/04 A2997 RMK EST PASS OPEN NOSPECI OITT 271900Z 25004KT CAVOK 20/M00 Q1015 A2997 PAKT 271853Z 33011KT 10SM CLR 16/07 A3019 RMK AO2 SLP226 HARBOR WIND 29014KT T01560067 PAMB 271856Z AUTO 14011G18KT 10SM -RA BKN014 OVC022 06/04 A2993 RMK AO2 SLP142 P0000 T00560039 $ PAKU 271850Z 28007KT 10SM R24/P6000FT SKC 03/01 A3010 OITU 271850Z 36010KT CAVOK 17/07 Q1013 PAMC 271853Z 10006KT 10SM FEW020 SCT080 09/M01 A3002 RMK AO2 SLP170 T00891006 DIBK 271800Z 16004KT 9999 TS SCT010 BKN100 FEW023CB 27/23 Q1013 NOSIG CPST 271900Z AUTO 33013KT 23/04 RMK AO1 PK WND 32030/1805 T02320035 PAKV 271853Z AUTO 00000KT 8SM OVC013 06/02 A3002 RMK AO2 SLP169 T00560022 TSNO PAMD 271856Z AUTO 12016KT 10SM FEW050 BKN075 07/02 A3015 RMK AO1 PAKW 271853Z AUTO 29004KT 4SM HZ CLR 16/03 A3019 RMK AO2 SLP223 T01560033 TSNO $ CPSV 271900Z AUTO 32012KT 25/01 RMK AO1 PK WND 31023/1811 T02480012 PALP 271851Z 00000KT 10SM SKC 03/M01 A3010 OITZ 271500Z 22019KT 9000 FEW035 28/M10 Q1014 PAMH 271856Z AUTO 19004KT 10SM FEW043 09/M04 A3004 RMK AO2 SLP194 T00941039 PAMK 271856Z AUTO 14006KT 10SM OVC070 05/01 A2993 RMK AO2 SLP139 T00500006 $ PANC 271853Z 08004KT 10SM FEW035 BKN070 BKN090 08/01 A3011 RMK AO2 SLP198 VIRGA ALQDS T00780006 PALU 271855Z AUTO 19008KT 10SM BKN018 BKN047 BKN055 05/02 A2992 RMK AO2 SLP130 T00520020 PAMM 271856Z AUTO 25003KT 10SM CLR 13/07 A3020 RMK AO2 SLP217 T01330072 DIBU 271700Z 00000KT 9999 SCT016 31/22 Q1013 NOSIG PAMO 271656Z AUTO 14011KT OVC003 02/02 A2988 RMK AO2 SLP135 T00220017 PWINO FZRANO $ PAMR 271853Z 35003KT 10SM -RA OVC070 08/01 A3011 RMK AO2 SLP196 P0000 T00780006 PANI 271856Z AUTO 00000KT 10SM SCT014 BKN023 OVC032 05/03 A2994 RMK AO1 P0002 UHBB 271900Z 19004MPS 9999 FEW033CB 16/07 Q0998 R36/090060 NOSIG RMK QFE731/0975 DIDK 271700Z ///// 9999 FEW015TCU FEW023CB 26/25 Q1011 NOSIG DIDL 271800Z ///// 9999 BKN015 FEW020CB 29/24 Q1013 NOSIG PANN 271853Z AUTO 19007KT CLR 12/M05 A3003 RMK AO2 SLP175 T01171050 TSNO $ PAMY 271856Z AUTO 32007KT 10SM OVC012 03/01 A2991 RMK AO2 SLP130 T00280006 PANT 271853Z AUTO 33006KT 10SM CLR 19/08 A3019 RMK AO2 SLP222 T01890078 TSNO PAPB 271853Z AUTO 24005KT 10SM OVC024 04/02 A2990 RMK AO2 SLP113 T00440017 TSNO PAOM 271902Z 15003KT 10SM OVC009 02/02 A2986 RMK AO2 T00220022 PANV 271856Z AUTO 11008KT 8SM SCT010 BKN017 OVC030 04/00 A2993 RMK AO1 PANW 271856Z AUTO 10008KT 10SM SCT020 07/02 A2996 RMK AO2 SLP161 T00670022 UGKO 271900Z 28006KT 9999 SCT043 BKN065 15/14 Q1014 R25/09//70 NOSIG PAOO 271903Z AUTO 23006KT 10SM -RA SCT010 OVC020 03/01 A2990 RMK AO2 P0000 PAPG 271856Z 06006KT 10SM CLR 11/04 A3023 RMK AO2 SLP242 T01110044 $ PAPH 271856Z AUTO 21003KT 10SM -RA BKN022 OVC033 07/03 A2987 RMK AO2 SLP118 P0000 T00670028 PAOR 271853Z 30005KT 10SM CLR 11/M07 A3004 RMK AO2 SLP189 T01061067 OIZB 271900Z 32004KT CAVOK 29/11 Q1004 PAOT 271853Z 13017KT 10SM -RA SCT039 BKN046 OVC055 06/01 A2994 RMK AO2 RAB52 SLP138 P0000 T00560011 $ DIGA 271700Z 10006KT 9999 FEW013 29/25 Q1013 NOSIG OIZC 271600Z 24012KT 2700 DU NSC 35/16 Q0998 A2947 PAOU 271856Z AUTO 32013KT 10SM OVC012 04/02 A2989 RMK AO2 SLP123 T00390017 PAPM 271856Z AUTO 36004KT 10SM FEW007 BKN022 03/01 A2993 RMK AO2 SLP139 T00330011 CPXL 271900Z AUTO 29008KT 25/01 RMK AO1 PK WND 28017/1815 T02480010 PAPN 271856Z AUTO 12020G26KT 10SM BKN055 OVC070 07/02 A2988 RMK AO2 PK WND 12026/1854 SLP119 T00720022 PAPO 271856Z AUTO 15006KT 10SM BKN003 OVC006 02/01 A2992 RMK AO2 SLP131 T00170006 FZRANO OIZH 271900Z 16004KT CAVOK 26/M02 Q1013 A2993 OIZI 271900Z 00000KT CAVOK 35/02 Q1004 OIZJ 271800Z 31010KT 6000 NSC 32/24 Q0999 PAPT 271853Z 09004KT 18SM FEW025 OVC070 04/01 A3002 RMK NOSPECI PARC 271856Z AUTO 11005KT 10SM CLR 07/M08 A3003 RMK AO2 SLP208 T00721078 OIYY 271850Z 22006KT 9999 FEW090 31/M08 Q1014 PASA 271856Z AUTO VRB03KT 10SM OVC034 02/M02 A2989 RMK AO2 SLP122 T00171022 FZRANO $ PAQT 271853Z AUTO 25003KT 10SM CLR 06/00 A3011 RMK AO2 SLP195 T00610000 TSNO PASC 271853Z 23005KT 10SM CLR 02/00 A3010 RMK AO2 SLP192 T00220000 PASD 271856Z 36011KT 10SM FEW015 SCT024 BKN050 06/03 A2984 RMK AO1 WEA YWCA 271900Z AUTO 28006KT //// // ////// 10/03 Q1014 RMK PASH 271856Z AUTO 12006KT 10SM BKN016 BKN023 OVC049 02/01 A2992 RMK AO1 PNO PASI 271853Z 24003KT 10SM CLR 10/04 A3025 RMK AO2 SLP243 T01000039 YWBL 271900Z AUTO 31011KT 9999 // ////// 09/08 Q1006 RMK OLBA 271900Z VRB02KT 9999 SKC 27/11 Q1010 PATA 271852Z 24006KT 10SM FEW090 BKN180 09/02 A3006 RMK AO2 SLP181 T00940017 $ PARS 271856Z AUTO 14003KT 10SM -RA BKN006 BKN027 OVC035 03/02 A2993 RMK AO2 SLP141 P0002 T00330022 $ PASK 271856Z AUTO 15007KT 110V170 10SM FEW055 08/01 A3000 RMK AO2 SLP156 T00780006 $ PATC 271855Z AUTO 16012KT 10SM BKN017 02/01 A2984 RMK AO2 SLP109 T00170014 PASL 271856Z AUTO 16006KT 10SM FEW019 BKN024 BKN035 06/02 A3003 RMK AO1 PASM 271856Z AUTO 15009KT 10SM -RA FEW017 SCT024 04/01 A2991 RMK AO2 SLP145 P0000 T00440011 PASN 271853Z AUTO 26009KT 10SM FEW010 OVC026 05/02 A2988 RMK AO2 SLP118 T00500022 TSNO $ PATE 271856Z AUTO 00000KT 9SM -RA BKN006 BKN012 OVC018 02/02 A2986 RMK AO2 UPE1758B41E43RAB1758 CIG 003V008 SLP119 P0002 T00220017 FZRANO PASO 271853Z AUTO 19005KT 10SM -RA OVC017 06/03 A3006 RMK AO2 RAE24B41 SLP178 P0000 T00560028 TSNO $ YWBR 271900Z AUTO 13010KT //// // ////// 15/06 Q1022 PATG 271830Z AUTO 06004KT 10SM -RA SCT010 BKN025 OVC046 05/03 A2993 RMK AO2 RAB11 P0000 MSV 271900Z AUTO 01005KT 9999 // NCD 08/05 Q1013 RMK PATK 271853Z 32005KT 10SM SCT029 BKN120 08/01 A3012 RMK AO2 SLP206 T00830006 $ PATL 271855Z AUTO VRB05KT 10SM BKN060 06/M01 A3003 RMK AO2 SLP180 T00631006 $ PASV 271855Z AUTO 15017G20KT BKN070 06/M04 A2996 RMK AO2 SLP156 T00641039 PWINO $ MUI 271900Z AUTO 31015KT 9999 // NCD 11/08 Q1016 RMK PATO 271853Z AUTO VRB06G14KT 6SM -RA BR OVC026 03/01 A3017 RMK AO2 SLP217 P0000 T00330011 TSNO PASX 271856Z AUTO 07008KT 10SM OVC055 08/M01 A3008 RMK AO2 SLP195 T00781011 $ UHHH 271900Z 24002MPS CAVOK 12/06 Q1004 R23L/090060 NOSIG RMK QFE747/0996 PASY 271856Z 17017KT 7SM -RA OVC004 04/04 A2946 RMK AO2 SLPNO WND DATA ESTMD T00390039 $ PATQ 271856Z AUTO 12007KT 10SM CLR 03/00 A3003 RMK AO2 SLP177 T00330000 TSNO PAVA 271906Z AUTO 00000KT 5SM UP BR BKN015 OVC020 03/01 RMK AO2 UPB03SNE03 P0000 $ NSTU 271850Z 11014KT 12SM SCT017 BKN035 29/26 A2995 RMK SLP142 T02850264 PAVC 271856Z AUTO VRB03KT 10SM CLR 07/M01 A2988 RMK AO2 SLP122 T00671006 PAVD 271856Z 00000KT 10SM FEW010 SCT040 BKN250 06/01 A3022 RMK AO1 1847Z WEA PAUN 271856Z AUTO 07004KT 10SM -RA SCT026 BKN035 OVC042 06/02 A2996 RMK AO2 SLP150 P0001 T00560022 DIKO 271800Z 22008KT 9999 TS SCT013 SCT20CB 29/24 Q1013 NOSIG UIAA 271900Z 29011MPS 9999 NSC 05/M08 Q1013 R29/CLRD70 NOSIG RMK QFE701/0935 UGSB 271900Z 30005KT 9999 FEW016 BKN140 16/15 Q1016 R13/CLRD70 NOSIG PAUT 271855Z AUTO 33012G17KT 10SM OVC019 06/01 A2990 RMK AO2 T00610014 PAVL 271853Z AUTO 18007KT 10SM FEW032 OVC045 03/01 A2992 RMK AO2 SLP132 T00330011 TSNO PNO $ PAWD 271902Z AUTO 13004KT 10SM -RA FEW009 SCT027 OVC040 05/03 A3013 RMK AO2 P0000 T00500033 TSNO PAWG 271856Z 27004KT 10SM CLR 13/06 A3023 RMK AWOS IS NOT RELIABLY AUTO TRANSMITTING HOURLY OBSERVATIONS (KB) PAWI 271853Z AUTO 12008KT 10SM CLR 02/00 A2999 RMK AO2 SLP157 T00220000 TSNO UIBB 271900Z 26001MPS 9999 NSC 03/M01 Q1021 R30/CLRD60 NOSIG RMK QFE722/0963 UGTB 271900Z 00000KT 9999 -TSRA FEW022 SCT026 BKN038CB 18/16 Q1015 R13R/CLRD70 NOSIG PAWM 271908Z AUTO 17011KT 8SM BKN009 OVC014 03/02 A2992 RMK AO2 CIG 006V012 DIMN 271700Z 14002KT 9999 TS BKN015CB 31/23 Q1013 NOSIG YWHA 271900Z AUTO 31008KT 9999 // NCD 09/08 Q1016 PAWS 271856Z AUTO 06006KT 10SM OVC070 08/M02 A3012 RMK AO2 SLP216 T00831022 PAYA 271853Z AUTO VRB04KT 10SM SCT033 SCT041 11/03 A3026 RMK AO2 SLP246 T01060033 TSNO ZLXY 271900Z 00000MPS CAVOK 16/11 Q1008 NOSIG DIOD 271800Z 36004KT 8000 MR BKN013 24/24 Q1014 RETS YWGT 271900Z AUTO 35008KT 9999 SHRA SCT011 BKN017 OVC055 11/10 Q1009 YVRD 271900Z AUTO 29001KT //// // ////// 14/08 Q1014 PAZK 271856Z AUTO 11003KT 10SM FEW035 02/M07 A3004 RMK AO2 SLP003 T00221072 FZRANO UHMM 271900Z 00000MPS 9999 SCT040 00/00 Q1004 RMK QFE738 YWIS 271900Z AUTO 00000KT //// // ////// 13/13 Q1017 RMK OMAA 271900Z 08006KT 040V190 CAVOK 31/19 Q1003 NOSIG OMAD 271900Z VRB02KT CAVOK 30/26 Q1003 NOSIG ZMUB 271900Z 32003MPS CAVOK 05/M02 Q1022 NOSIG RMK QFE658.9 60 OMAL 271900Z 03008KT CAVOK 31/21 Q1005 NOSIG YWLG 271900Z AUTO 25003KT 9999 // SCT100 12/09 Q1014 RMK TQPF 271900Z 10009KT 9999 FEW022 29/22 Q1017 YWLM 271900Z AUTO 00000KT 1400 // OVC001 08/08 Q1014 DITB 271700Z 00000KT 9999 SCT013 FEW020CB 27/25 Q1012 RETS NOSIG UHPP 271900Z 34006MPS 9999 NSC 07/02 Q1006 R34L/CLRD70 NOSIG RMK QFE751/1001 EBBE 271855Z AUTO 20008KT 6000 RA FEW050/// BKN095/// BKN110/// 22/18 Q1017 WHT DISP 271800Z 20008KT 9999 SCT013 28/26 Q1011 NOSIG OMDB 271900Z 10009KT CAVOK 31/21 Q1003 NOSIG DISS 271700Z ///// 9999 SCT015 FEW020CB 28/25 Q1012 NOSIG EBBL 271855Z AUTO VRB02KT 9999 NCD 27/14 Q1016 BLU EBAW 271850Z 32009KT CAVOK 21/14 Q1016 NOSIG UIII 271900Z 14001MPS CAVOK 01/01 Q1023 R30/CLRD60 NOSIG RMK QFE722/0963 EBCI 271850Z 26005KT 230V290 9999 SCT049TCU 26/17 Q1017 NOSIG EBBR 271850Z 36004KT 330V030 9999 FEW050CB 22/18 Q1016 NOSIG CTCK 271900Z AUTO 30003KT 21/10 RMK AO1 SLP106 T02110103 58008 VAAH 271900Z 21004KT 4000 FU NSC 32/26 Q1002 NOSIG YWOL 271900Z AUTO 04001KT 9999 // NCD 07/07 Q1012 RMK VABB 271900Z 23008KT 4000 HZ SCT020 30/25 Q1006 NOSIG KA08 270900Z AUTO 00000KT 10SM CLR 16/16 A3001 RMK AO2 T01550155 OMDW 271900Z 12009KT CAVOK 27/22 Q1004 NOSIG EBCV 271855Z AUTO 29007KT 9999 NCD 22/17 Q1017 BLU UHSS 271900Z 35004MPS 2200 BR BKN002 05/05 Q1008 R19/CLRD70 NOSIG RMK QBB060 MT OBSC QFE755/1006 OMFJ 271900Z 12004KT 6000 NSC 31/28 Q1002 A2961 VAAU 271800Z 27005KT 6000 SCT020 31/23 Q1007 NOSIG EBDT 271855Z AUTO 32008KT 9999 SCT140/// BKN170/// 25/17 Q1016 BLU VABO 271400Z 20008KT 6000 NSC 36/22 Q1000 NOSIG VABP 271800Z 23006KT 6000 SCT100 33/16 Q1004 NOSIG VABV 271300Z 17018KT 6000 FEW025 37/23 Q0999 EBFN 271855Z AUTO 25007KT 9999 NCD 18/13 Q1017 BLU KA39 271855Z AUTO 21004KT 10SM CLR 30/M01 A3000 RMK AO2 EBFS 271855Z AUTO VRB02KT 9999 BKN160/// BKN250/// 26/17 Q1017 BLU DIYO 271800Z 00000KT 9999 SCT010 BKN260 27/24 Q1012 NOSIG YWUD 271900Z AUTO 31007KT //// // ////// 08/06 Q1017 YWTN 271900Z AUTO 05006KT //// // ////// 11/M01 Q1017 RMK UHWW 271900Z 03002MPS 9000 NSC 04/04 Q1010 R25L/0///70 NOSIG RMK QFE756 TRPG 271900Z 12013KT 9999 FEW023 28/23 Q1016 VAID 271800Z 29012KT 6000 NSC 33/19 Q1005 NOSIG EBLB 271855Z AUTO 19004KT 9999 NCD 23/12 Q1019 BLU EBLG 271850Z VRB02KT 9999 TS SCT050CB 28/15 Q1016 TEMPO VRB20G35KT 2000 TSRAGR YWWL 271900Z AUTO 36004KT //// // ////// 07/06 Q1012 RMK VAJB 271500Z 18002KT 6000 SCT200 36/14 Q1000 VAJJ 271230Z 29011KT 200V330 6000 SCT020 SCT025 35/29 Q1004 NOSIG UKBB 271900Z 34002MPS CAVOK 13/09 Q1018 R88/CLRD// NOSIG YWYM 271900Z AUTO 10003KT //// // ////// 19/10 Q1012 RMK CTNK 271900Z AUTO 17002KT 20/07 RMK AO1 SLP119 T01960074 58006 UKDD 271900Z 01002MPS CAVOK 17/10 Q1014 R08/090070 NOSIG UKDE 271900Z 34003MPS CAVOK 15/10 Q1014 R02/CLRD70 NOSIG YWYY 271900Z AUTO 29005KT 9999 // SCT043 BKN058 OVC070 10/09 TTCP 271900Z 14006KT 9999 FEW012CB BKN015 27/23 Q1014 NOSIG RMK CB-NW UIUU 271900Z 29004MPS 9999 NSC 04/M02 Q1023 R26/CLRD60 NOSIG RMK QFE723/0964 EBOS 271850Z 28008KT 9999 FEW035 17/14 Q1017 NOSIG UKDR 271900Z 34003MPS CAVOK 16/10 Q1015 R36/09//70 NOSIG OMRK 271900Z 20004KT CAVOK 27/20 Q1003 A2965 NVSC 270300Z 00000KT 9999 BKN020 OVC040 28/26 Q1011 RMK RESH CTRA 271900Z AUTO 23007KT 21/02 RMK AO1 SLP050 T02080016 56009 VANP 271800Z 18009KT 3000 HZ SCT020 FEW030CB 31/19 Q1004 NOSIG OMSJ 271900Z 10006KT CAVOK 28/22 Q1004 EDAC 271650Z 06009KT 030V090 CAVOK 25/// Q1020 EDAH 271850Z 09004KT CAVOK 20/12 Q1021 VAPO 262030Z 27009KT 6000 NSC 25/19 Q1010 NOSIG UKHH 271900Z 36002MPS 9999 SCT040 BKN100 17/10 Q1015 R07/0///66 NOSIG VAPR 271000Z 25008G18KT 6000 SCT015 SCT025 33/27 Q1003 PFCL 271856Z AUTO 12016G20KT BKN019 OVC024 06/03 A2993 RMK AO2 SLP137 T00560033 PWINO $ YYNG 271900Z AUTO 23003KT //// // ////// 01/01 Q1013 RMK VARK 271000Z 26008KT 6000 SCT020 40/21 Q1001 EDDB 271850Z 08007KT CAVOK 22/08 Q1021 NOSIG EDDC 271850Z 10007KT CAVOK 21/07 Q1021 NOSIG EDDE 271850Z 06006KT 040V100 CAVOK 21/13 Q1020 NOSIG EDDF 271850Z 11008KT CAVOK 26/13 Q1017 NOSIG EDDG 271850Z 11004KT 030V160 CAVOK 27/13 Q1016 NOSIG EDDH 271850Z 15010KT CAVOK 24/11 Q1018 NOSIG KAAA 271855Z AUTO 07006KT 10SM CLR 26/17 A2988 RMK AO2 T02590168 PFEL 271904Z AUTO 20005KT 10SM -RA BKN013 OVC018 03/02 A2995 RMK AO2 P0000 KC09 271855Z AUTO 00000KT 10SM CLR 24/16 A2989 RMK AO2 T02380160 NVVV 270000Z 12013KT 9999 BKN020 27/24 Q1015 RMK RESH EDDK 271850Z 13007KT CAVOK 27/12 Q1016 NOSIG EDDL 271850Z 14008KT CAVOK 28/11 Q1015 NOSIG EDDM 271850Z 06004KT CAVOK 22/09 Q1020 NOSIG KAAF 271853Z AUTO 29015G19KT 10SM -RA SCT039 31/21 A3009 RMK AO2 RAB09 SLP188 P0000 T03110211 TSNO $ EDDN 271850Z 08005KT CAVOK 24/08 Q1020 NOSIG VCBI 271810Z 24009KT 210V270 9999 FEW018 29/25 Q1008 NOSIG EDDP 271850Z 10007KT CAVOK 21/10 Q1020 NOSIG UKKK 271900Z 35004MPS CAVOK 16/07 Q1019 R08/CLRD70 NOSIG VASU 271200Z 20018KT 6000 FEW020 32/26 Q1002 EDDR 271850Z VRB02KT 9999 FEW060CB 27/13 Q1018 NOSIG VAUD 271500Z 28004KT 5000 HZ NSC 36/18 Q1003 NOSIG EDDS 271850Z 10004KT CAVOK 23/12 Q1019 NOSIG UKKM 271900Z AUTO 33002MPS 9999 ///093/// 14/08 Q1019 EDDT 271850Z 08005KT 050V120 CAVOK 24/09 Q1021 NOSIG ZPPP 271900Z 12002MPS 080V180 9999 FEW026 SCT043 16/09 Q1022 NOSIG KABE 271851Z 27007KT 10SM CLR 21/13 A2989 RMK AO2 RAE1753 SLP120 P0000 T02110128 EDDV 271850Z 13008KT CAVOK 24/11 Q1019 NOSIG KAAO 271854Z AUTO 07009KT 10SM BKN041 BKN055 26/16 A2980 RMK AO2 SLP081 T02560161 EDDW 271850Z 13009KT CAVOK 24/13 Q1017 NOSIG UKLI 271900Z 30002MPS 9999 FEW040 13/08 Q1022 R28/090070 NOSIG KABH 271856Z AUTO 04013G19KT BKN038 BKN047 BKN060 A3010 RMK AO2 PRESRR SLPNO $ KABI 271852Z 22011G20KT 10SM CLR 35/18 A2984 RMK AO2 SLP073 T03500178 $ EDFH 271850Z 14008KT CAVOK 24/10 Q1019 UKLL 271900Z 36001MPS CAVOK 11/08 Q1023 R31/CLRD// NOSIG KACB 271855Z AUTO 27007KT 10SM CLR 25/10 A2987 RMK AO2 T02490104 KAAT 271855Z AUTO 21009KT 180V250 10SM CLR 22/M01 A3017 RMK AO2 SLP190 T02221011 $ KC29 271855Z AUTO 25005KT 10SM OVC030 24/16 A2990 RMK AO1 T02350161 UKLN 271900Z 32002MPS 9999 SCT033CB BKN100 15/12 Q1021 R33/19//65 NOSIG EDFM 271750Z 12005KT CAVOK 29/11 Q1017 KC35 271855Z AUTO 21006KT 10SM CLR 21/15 A2990 RMK AO2 T02080150 UKLR 271500Z 03005MPS 9999 SCT030 BKN100 18/06 Q1020 R29/090070 NOSIG KABQ 271852Z 25011G20KT 10SM CLR 25/M08 A3007 RMK AO2 SLP111 T02501083 KABR 271853Z AUTO 24012G20KT 10SM FEW080 SCT095 24/02 A2987 RMK AO2 SLP111 T02440017 KACJ 271855Z AUTO 26008KT 230V290 10SM CLR 30/10 A3007 RMK AO2 UKLU 271900Z 36002MPS 300V040 9999 FEW200 18/05 Q1022 NOSIG KACK 271853Z 36008KT 10SM BKN026 BKN039 14/09 A2990 RMK AO2 SLP125 T01390089 KADC 271852Z AUTO 25010G16KT 10SM SCT075 SCT090 BKN110 21/06 A2984 RMK AO2 KADF 271856Z AUTO 19008KT 10SM FEW029 SCT035 BKN046 31/24 A2988 RMK AO2 SLP118 T03060244 KADG 271853Z AUTO 13007KT 10SM SCT042 22/13 A2990 RMK AO2 SLP125 T02220128 TSNO KABY 271853Z 26008KT 10SM CLR 31/18 A3008 RMK AO2 SLP182 T03060178 KACP 271855Z AUTO 20009G14KT 160V220 10SM SCT029 BKN036 31/24 A2998 RMK AO2 T03090239 KACQ 271853Z AUTO 34007KT 10SM SCT045 SCT060 BKN090 18/06 A2994 RMK AO2 KADH 271855Z AUTO 19011G17KT 10SM CLR 32/23 A2977 RMK AO2 EDHI 271750Z 14010KT 100V160 CAVOK 25/12 Q1018 EDGS 271850Z 11008KT CAVOK 21/13 Q1020 KACT 271851Z 20013KT 4SM HZ OVC033 31/24 A2987 RMK AO2 SLP105 T03110239 EDHK 271620Z 15008KT 110V180 CAVOK 25/14 Q1019 KACV 271853Z AUTO 25006KT 10SM OVC014 13/11 A3013 RMK AO2 SLP209 T01330106 EDHL 271820Z 14005KT 100V170 CAVOK 25/12 Q1019 KADM 271855Z 19009G19KT 10SM SKC 34/24 A2977 UKOH 271900Z 36002MPS 9999 BKN033CB BKN100 16/14 Q1015 R03/CLRD// NOSIG KACY 271854Z 31009KT 10SM OVC050 23/12 A2989 RMK AO2 SLP119 T02280122 KAEG 271850Z 23008G19KT 10SM FEW120 25/M06 A3011 KAEJ 271855Z AUTO 27005KT 10SM SCT024 SCT033 SCT050 10/03 A3016 RMK AO2 T01020034 KADS 271847Z AUTO 17013G20KT 8SM SCT030 OVC039 31/23 A2984 DNAA 271700Z 28005KT 250V310 9999 FEW012 FEW020CB 30/21 Q1013 EDJA 271850Z 07005KT CAVOK 21/11 Q1021 KAEL 271854Z AUTO 00000KT 10SM CLR 22/09 A2993 RMK AO2 KADU 271855Z AUTO 05011G15KT 10SM SCT047 BKN060 16/13 A2990 RMK AO2 P0001 UKON 271700Z 00000MPS 9999 FEW030 SCT100 19/12 Q1014 NOSIG UKOO 271900Z 02005MPS 9999 SCT046 BKN056 17/12 Q1016 R34/090060 NOSIG KC62 271855Z AUTO 13004KT 10SM BKN025 OVC032 21/16 A2990 RMK AO2 T02150162 KADW 271858Z AUTO 08005KT 10SM OVC070 21/16 A2989 RMK AO2 RAB14E24 SLP127 P0000 T02140158 CWAE 271900Z 05003KT 15SM FEW240 24/05 A3011 RMK CI2 WND ESTD SLP192 DENSITY ALT 3400FT KAFF 271858Z AUTO 02006KT 10SM -RA SCT031 OVC045 08/06 A3014 RMK AO2 SLP172 P0009 T00800061 CWAF 271900Z AUTO 21003KT 08/05 RMK AO1 T00820051 KAFJ 271855Z 00000KT 10SM BKN027 OVC031 19/16 A2994 RMK AO1 CWBA 271900Z AUTO 15004KT 19/12 RMK AO1 T01850120 CWAJ 271900Z AUTO RMK AO1 KAFK 271855Z AUTO 04012G17KT 10SM OVC014 20/16 A2984 RMK AO2 T01990158 KAGC 271853Z 21004KT 10SM SCT014 BKN032 OVC039 19/15 A2991 RMK AO2 SLP129 T01940150 $ TTPP 271900Z 12014KT 9999 VCSH FEW010CB SCT014TCU 30/23 Q1013 NOSIG RMK CB-SSW TCU-NW VCSH-NW NE S SSW KAFN 271852Z AUTO 35003KT 10SM OVC055 20/09 A2987 RMK AO2 SLP118 T02000089 DNBE 271700Z 23006KT 9999 FEW010 31/26 Q1013 CWBE 271900Z AUTO 26002KT 12/10 RMK AO1 SLP143 T01220096 56004 KAEX 271853Z 20013G21KT 10SM SCT038 BKN045 32/23 A2995 RMK AO2 SLP143 T03170228 KAFO 271855Z AUTO 33006KT 10SM CLR 12/01 A3026 RMK AO2 TSNO KAFP 271855Z AUTO 22008KT 180V260 10SM SCT065 31/18 A2992 RMK AO2 T03090178 KC75 271855Z AUTO 18004KT 10SM SCT023 23/18 A2988 RMK AO2 T02320176 CWAQ 271900Z AUTO 30022G28KT 18/02 RMK AO1 PK WND 30034/1810 SLP115 T01780021 53008 PFKT 271856Z AUTO 25003KT 6SM UP BR OVC010 02/02 A2989 RMK AO2 UPB04E26B45RAB06E16 CIG 008V013 SLP120 P0000 T00220017 FZRANO CWCA 271900Z 36009KT 15SM OVC015 00/M02 A3009 RMK SC8 SLP192 CWBK 271900Z AUTO 03011KT 08/06 RMK AO1 SLP096 T00760056 53013 CWAV 271900Z AUTO 30010G17KT 22/02 RMK AO1 PK WND 27019/1846 SLP169 T02190019 55002 KAFW 271853Z 19016G20KT 10SM BKN041 34/24 A2980 RMK AO2 SLP075 T03390239 CWCF 271900Z AUTO 24006KT 14/10 RMK AO1 SLP045 T01380103 51006 CWBO 271900Z AUTO 30012G20KT 25/06 RMK AO1 PK WND 28020/1855 SLP140 T02520058 55001 CWCI 271800Z AUTO 14007KT 11/07 RMK AO1 SLP105 T01130069 50002 KAIA 271853Z AUTO 02012G26KT 10SM SCT038 OVC070 16/06 A3006 RMK AO2 PK WND 01026/1844 SLP161 T01560061 $ KAGS 271853Z 28014G20KT 10SM CLR 34/14 A2998 RMK AO2 SLP150 T03390139 CWDA 271800Z AUTO 07009KT 04/M00 RMK AO1 SLP165 T00361004 55003 CWCJ 271900Z AUTO 18006G15KT 15/09 RMK AO1 SLP101 T01530088 50002 CWBS 271900Z AUTO 05004KT 16/09 RMK AO1 T01630090 KAIB 271855Z AUTO 32005KT 10SM SCT090 20/M05 A3016 RMK AO2 EDMA 271850Z 11005KT CAVOK 22/11 Q1020 CWBT 271900Z AUTO 11006KT 06/ RMK AO1 SLP128 T0064 58011 KAID 271854Z 30010KT 10SM BKN050 A2990 CWBU 271900Z AUTO 32013KT 15/06 RMK AO1 PK WND 32017/1826 SLP082 T01450055 53012 CWDC 272300Z AUTO 22003KT 11/09 RMK AO1 2PAST HR 3005 SLP078 P0001 T01120088 50005 CWBV 271900Z AUTO 09007KT 07/ RMK AO1 SLP083 T0065 51014 KAHN 271851Z VRB05KT 10SM SCT047 29/19 A3001 RMK AO2 SLP155 T02940194 EDLN 271750Z 14005KT 100V180 CAVOK 29/13 Q1015 CWCO 271900Z AUTO 35005KT 14/11 RMK AO1 SLP127 T01400109 55006 KAIG 271855Z AUTO 25007G15KT 10SM SCT060 22/12 A2987 RMK AO2 T02190116 CWBY 271900Z AUTO 17009KT 11/02 RMK AO1 SLP120 T01140022 56007 EDLP 271850Z 15007KT CAVOK 25/10 Q1018 KAHQ 271855Z AUTO 04011G17KT 10SM CLR 23/08 A2987 RMK AO2 T02310083 OOMS 271850Z 28003KT CAVOK 36/15 Q1002 NOSIG CWBZ 271900Z AUTO 27004KT 22/10 RMK AO1 SLP113 T02170101 56007 UMBB 271300Z 01002MPS 9999 BKN040 19/06 Q1022 NOSIG KD07 271856Z AUTO 30016G23KT 20/02 A2995 RMK AO1 PK WND 30026/1808 SLP137 T02000022 CWDJ 271800Z AUTO 33012G19KT 18/M00 RMK AO1 PK WND 33019/1757 SLP092 T01821003 58003 KBAB 271858Z AUTO 20007KT 10SM CLR 22/11 A3005 RMK AO2 SLP179 T02240105 $ KAIK 271855Z AUTO 24014G19KT 10SM CLR 31/16 A3003 RMK AO2 CWDK 271900Z AUTO 32006KT 23/03 RMK AO1 PK WND 31018/1810 SLP173 T02340027 52002 CWEB 271900Z AUTO 15007KT 15/12 RMK AO1 SLP202 T01490124 53010 CWCT 271900Z AUTO 32013G18KT 24/06 RMK AO1 PK WND 32021/1807 SLP139 T02350056 53003 KBAC 271855Z AUTO 26015KT 10SM FEW080 SCT100 23/04 A2982 RMK AO2 KBAD 271858Z AUTO 19012G17KT 10SM FEW035 32/23 A2990 RMK AO2 SLP126 T03210232 CWDM 271800Z AUTO 05014G20KT 04/M00 RMK AO1 PK WND 05021/1720 SLP152 T00351004 55001 EDLV 271850Z 13005KT CAVOK 28/11 Q1015 PFNO 271858Z AUTO 13012KT 10SM BKN039 BKN050 OVC060 08/02 A2998 RMK AO2 SLP155 T00780017 CWEE 271800Z AUTO 22/06 RMK AO1 SLP075 T02240058 57007 KBAF 271853Z 00000KT 10SM BKN095 21/10 A2987 RMK AO2 SLP115 T02110100 EDLW 271850Z 14006KT CAVOK 25/08 Q1017 KAIO 271855Z AUTO 04012G17KT 10SM OVC039 17/13 A2987 RMK AO2 EDMO 271450Z 04010KT 360V070 CAVOK 24/09 Q1020 CWEF 271800Z AUTO 09007KT 07/03 RMK AO1 SLP107 T00670034 53012 CWDO 271800Z AUTO 06011KT 02/M02 RMK AO1 SLP157 T00211022 51001 KAJG 271855Z AUTO 00000KT 10SM OVC032 27/19 A2986 RMK AO2 T02700191 CWDQ 271900Z AUTO 16003KT 23/02 RMK AO1 SLP098 T02290023 56014 CWEH 271900Z AUTO 31017G23KT 22/02 RMK AO1 PK WND 32024/1812 SLP146 T02170019 52009 EEEI 271650Z 32004KT CAVOK 15/04 Q1016 NOSIG KBAK 271845Z 25006KT 10SM SCT041 BKN050 28/16 A2986 KAIT 271853Z AUTO 22010G16KT 10SM SCT080 22/06 A2984 RMK AO2 KBBB 271854Z AUTO 27009KT 10SM SCT075 OVC090 21/06 A2990 RMK AO2 CWDT 271800Z AUTO 26005KT 22/02 RMK AO1 17 6010 SLP085 T02220023 CWEK 271800Z AUTO 34009KT 11/09 RMK AO1 SLP214 T01120089 56001 CWEL 271900Z AUTO 32003KT 16/12 RMK AO1 SLP196 T01570124 52002 KBAM 271855Z AUTO 12006KT 10SM CLR 21/M02 A3020 RMK AO1 NWWW 271900Z AUTO 15002KT CAVOK 16/14 Q1017 NOSIG CWDV 271900Z AUTO 28009G17KT 19/06 RMK AO1 PK WND 29017/1853 SLP088 T01930056 55003 CWFD 271900Z AUTO ///// ////SM //// NCD M03/M04 A2994 KBAN 271852Z AUTO 10SM CLR 18/M06 A3019 RMK AO2 SLP147 T01831056 $ DNEN 271700Z 14003KT 9999 SCT011 FEW020CB 31/25 Q1012 KAJO 271856Z AUTO 30007KT 10SM CLR 22/11 A3006 RMK AO2 SLP186 T02170106 KBBF 271855Z AUTO 18014KT 4SM HZ CLR 27/24 A2993 RMK A01 CWFF 271900Z AUTO 34011G16KT 16/05 RMK AO1 PK WND 33019/1812 SLP092 T01560052 53008 ULLI 271900Z 13002MPS 9999 SCT028CB BKN046 07/00 Q1018 R10R/090060 NOSIG KD25 271855Z AUTO 22009G14KT 190V300 10SM SCT065 SCT075 22/08 A2984 RMK AO2 T02190083 KBBG 271845Z 19010G16KT 10SM SCT038 BKN048 BKN250 29/22 A2982 CWEP 271900Z AUTO 04017KT 07/05 RMK AO1 PK WND 04021/1817 SLP107 T00710048 51014 KAKH 271854Z AUTO 20006KT 10SM CLR 29/18 A2994 RMK AO2 PRESFR SLP132 T02940178 KAIZ 271856Z AUTO 05006KT 10SM OVC034 26/20 A2984 RMK AO2 LTG DSNT NE TSB34E49 SLP097 T02560200 CWDZ 271800Z AUTO 35012KT 24/05 RMK AO1 PK WND 01017/1754 T02390046 CWEQ 271900Z AUTO 31012KT 16/08 RMK AO1 SLP055 T01620077 51003 KAJR 271855Z AUTO 25012G17KT 7SM SCT036 SCT044 27/18 A3003 RMK AO2 T02700183 CWER 271900Z AUTO 21003KT RMK AO1 CWFJ 271900Z AUTO 30005KT 22/05 RMK AO1 T02180049 KALB 271851Z 00000KT 10SM SCT038 BKN085 BKN200 21/10 A2988 RMK AO2 SLP118 T02060100 KBCB 271855Z AUTO 29003KT 10SM BKN036 BKN045 OVC060 25/18 A2999 RMK AO2 T02500175 CWGB 271900Z AUTO 29004KT 16/12 RMK AO1 SLP192 T01570123 53001 CWEU 271900Z 11003KT 15SM SKC M04/M09 A3029 RMK SLP260 CWGD 271900Z AUTO 31007KT 15/12 RMK AO1 SLP130 T01460119 56004 KBCE 271853Z AUTO 30011G28KT 10SM CLR 17/M04 A3024 RMK AO2 PK WND 32028/1850 SLP147 T01671044 CWEW 271900Z AUTO 10004KT 21/11 RMK AO1 SLP117 T02090109 57009 KAKO 271853Z AUTO 36013KT 10SM FEW036 BKN070 BKN080 13/08 A3009 RMK AO2 RAB11E25 SLP165 P0000 T01330083 $ KBAX 271858Z AUTO 00000KT 10SM BKN055 21/12 A2991 RMK AO2 T02110120 KBBP 271855Z AUTO 27012G16KT 10SM SCT055 35/17 A2991 RMK AO2 EDOP 271520Z 14011KT 110V170 CAVOK 27/10 Q1021 EDNY 271850Z AUTO 04003KT 9999 22/10 Q1019 KBAZ 271851Z 17014KT 9SM BKN039 34/23 A2986 RMK AO2 SLP101 T03440233 KAJZ 271815Z AUTO 28008KT 10SM CLR 22/M02 A3010 RMK AO2 T02151019 KAKQ 271854Z AUTO 22005KT 10SM CLR 30/17 A2986 RMK AO2 SLP112 T03000172 CWFQ 271900Z AUTO 23004KT 19/08 RMK AO1 SLP115 T01880077 57004 CWEZ 271900Z AUTO 31004KT 19/11 RMK AO1 SLP196 T01900114 53001 KALI 271853Z AUTO 16011G21KT 10SM CLR 36/22 A2984 RMK AO2 SLP100 T03560217 KAKR 271854Z AUTO 00000KT 10SM OVC036 23/14 A2989 RMK AO2 SLP117 T02330144 TSNO KAMA 271853Z 34009KT 10SM CLR 28/11 A2995 RMK AO2 SLP087 T02780106 ULMM 271900Z 30003MPS 9999 SCT033 03/M06 Q1018 R31/090070 NOSIG RMK QFE756 KD39 271853Z AUTO 22009KT 10SM SCT075 OVC100 21/07 A2989 RMK AO2 T02050072 KALK 271856Z AUTO 17009G18KT 10SM CLR 27/M09 A3012 RMK AO2 SLP112 T02721089 KBCK 271855Z AUTO 28008KT 10SM BKN060 24/08 A2989 RMK AO2 T02350080 CWGL 271900Z AUTO 24005KT 16/13 RMK AO1 SLP124 T01580126 58004 KALM 271855Z AUTO 27012G17KT 10SM CLR 29/M08 A3005 RMK AO2 CWGM 271900Z AUTO 23011G18KT 21/03 RMK AO1 PK WND 23018/1817 T02090031 KBDE 271853Z AUTO 23013G17KT 10SM SCT110 24/04 A2973 RMK AO2 SLP068 T02390039 KBBW 271853Z AUTO 36010KT 10SM FEW025 OVC042 18/11 A2998 RMK AO2 SLP139 T01830111 KALN 271847Z 07007KT 10SM SCT120 BKN200 25/18 A2986 KALO 271854Z 00000KT 10SM BKN065 22/11 A2989 RMK AO2 LTG DSNT SW SLP119 T02220111 KAMG 271853Z AUTO 31009G16KT 10SM CLR 32/17 A3003 RMK AO2 SLP167 T03220167 KBDG 271855Z AUTO 23007G18KT 10SM CLR 22/M06 A3018 RMK AO1 T02171058 KBDH 271855Z AUTO 23011G15KT 10SM CLR 22/07 A2990 RMK AO2 NZAA 271900Z AUTO 28001KT 9999 BKN028/// OVC034/// 14/13 Q1013 NOSIG OOSA 271850Z 21011KT 9999 SCT025 30/25 Q1008 NOSIG CWHI 271800Z AUTO 30017KT 23/03 RMK AO1 PK WND 31023/1759 T02320032 CWGR 271900Z AUTO 06009KT 08/04 RMK AO1 SLP120 T00770040 51008 ZSAM 271900Z 03003MPS 9000 NSC 23/17 Q1010 NOSIG KALS 271852Z AUTO 23022G28KT 10SM CLR 22/M10 A3007 RMK AO2 PK WND 24028/1851 SLP103 T02171100 KBEA 271855Z AUTO 15015G19KT 10SM BKN032 BKN038 34/26 A2988 RMK AO2 T03360257 KBCT 271849Z 14006KT 10SM SCT030 32/25 A3005 KANB 271853Z AUTO 24011G17KT 10SM SCT027 BKN036 BKN049 27/21 A3003 RMK AO2 SLP162 T02720206 KD50 271855Z AUTO 31010KT 10SM SCT075 SCT095 SCT120 19/03 A2978 RMK AO2 LTG DSNT N AND NE DNIB 271700Z 12005KT 9999 FEW012 31/23 Q1012 CWGT 271900Z AUTO 33003KT 17/11 RMK AO1 SLP196 T01650109 50000 KBDL 271851Z 00000KT 10SM SCT040 BKN220 BKN250 19/09 A2988 RMK AO2 SLP118 T01940089 KBEC 271855Z AUTO 06007G14KT 10SM BKN037 OVC050 25/16 A2980 RMK AO2 T02520155 CWHL 271900Z AUTO 27004KT 09/08 RMK AO1 SLP215 T00940075 51002 KAND 271856Z AUTO 24012KT 10SM FEW044 30/18 A2997 RMK AO2 SLP140 T03000178 KBED 271856Z 14008KT 10SM FEW050 20/10 A2985 RMK AO2 SLP119 T02000100 EDQM 271550Z VRB03KT CAVOK 24/06 Q1022 CWID 271900Z AUTO 31011G16KT 14/01 RMK AO1 PK WND 31017/1843 SLP201 T01410006 51021 KALW 271853Z 21007KT 10SM CLR 27/04 A3010 RMK AO2 SLP186 T02670044 KANE 271845Z 24004KT 10SM OVC120 22/07 A2990 KAMN 271851Z AUTO 20004KT 10SM BKN060 24/13 A2990 RMK AO2 T02370125 KBDN 271855Z AUTO VRB03KT 10SM CLR 23/M00 A3010 RMK AO2 CWGW 271900Z AUTO 18007KT 21/03 RMK AO1 SLP192 T02050032 56014 CWHN 271900Z AUTO 31009G17KT 270V050 9SM CLR 20/04 A2989 RMK SLP132 KALX 271855Z AUTO 21006KT 10SM SCT027 SCT046 27/21 A3005 RMK AO2 T02660209 CWGX 271900Z AUTO 34006KT 14/10 RMK AO1 5PAST HR 3003 SLP031 P0025 T01370104 50065 CWHO 271900Z AUTO 00003KT M01/M04 RMK AO1 SLP209 T10051044 58006 KD55 271855Z AUTO 27019KT 10SM FEW070 BKN100 21/04 A2974 RMK AO2 PFSH 271856Z AUTO 15009KT 9SM -RA 04/02 A2997 RMK AO2 SLP148 P0001 T00390017 $ CWHP 271800Z AUTO 04012KT 04/01 RMK AO1 SLP136 T00400012 51002 CWIG 271900Z AUTO 24005KT RMK AO1 CWGY 271900Z AUTO 31011G18KT 24/04 RMK AO1 PK WND 31018/1858 SLP128 T02420041 56004 KBEH 271853Z AUTO 31006KT 10SM FEW037 20/14 A2990 RMK AO2 SLP124 T02000144 $ CWGZ 271900Z 14004KT 30SM FEW030 M02/M06 A3014 RMK SC1 SC TR SLP213 CWHQ 271900Z AUTO 21003KT 20/08 RMK AO1 T01980077 KBDR 271852Z 11009KT 10SM BKN060 18/12 A2988 RMK AO2 SLP117 T01830117 $ KD57 271855Z AUTO 29019G26KT 10SM FEW075 BKN090 21/02 A2985 RMK AO2 CWII 271900Z AUTO 23008KT 16/09 RMK AO1 T01620094 KANJ 271855Z AUTO 22010G17KT 10SM BKN050 24/12 A2985 RMK AO2 SLP104 T02390122 CWIJ 271800Z AUTO 18006KT 07/02 RMK AO1 SOG 25 SLP163 T00670024 OPKC 271855Z 22010KT 6000 SCT020 30/26 Q0999 NOSIG KANK 271855Z AUTO 32011G28KT 10SM SCT085 17/M01 A3018 RMK AO1 T01721014 KD60 271855Z AUTO 27012KT 10SM FEW070 BKN090 BKN100 20/01 A2981 RMK AO2 CWHT 271800Z AUTO 20004KT 07/M06 RMK AO1 SOG 02 8007 SLP213 T00741057 CWIK 271900Z AUTO 29011KT 18/03 RMK AO1 PK WND 27022/1844 SLP082 T01780032 58002 CWJB 271900Z AUTO 20003KT 18/05 RMK AO1 T01820047 EDSB 271850Z 35004KT CAVOK 26/14 Q1017 UKWW 271700Z 36002MPS 9999 BKN021CB BKN100 17/10 Q1018 R31/0///65 NOSIG ULOO 271900Z AUTO 11001MPS 7000 // ///056/// 13/07 Q1017 RMK QFE758 CWIL 271900Z AUTO 14009KT 02/ A3004 RMK SLP182 KBFD 271853Z AUTO VRB06KT 10SM BKN040 19/11 A2993 RMK AO2 SLP126 T01940106 DNIM 271600Z 00000KT 9999 BKN014 FEW020CB 30/25 Q1012 NOSIG CWHV 271900Z AUTO 03003KT 18/06 RMK AO1 SLP112 T01790057 56004 CWJD 271900Z AUTO 29006KT 14/10 RMK AO1 SLP039 T01400099 53010 UMGG 271900Z 18003MPS CAVOK 15/09 Q1019 R10/CLRD// NOSIG KAMW 271903Z AUTO 36008KT 3SM +RA BR SCT045 BKN060 OVC070 15/14 A2989 RMK AO2 P0002 T01500139 NZAP 271900Z 04003KT 15KM VCSH BKN055 11/10 Q1015 RMK ALT VATSIM USE ONLY KBFF 271853Z AUTO 01007KT 350V050 10SM FEW044 SCT060 SCT090 17/06 A3008 RMK AO2 SLP166 T01720061 CXAF 271800Z AUTO 03008KT 21/02 RMK AO1 T02080020 TUPJ 271900Z VRB08KT 9999 FEW020 31/22 Q1017 RMK A3003 CXAG 271800Z AUTO 07006KT 22/03 RMK AO1 T02180027 CWIP 271800Z AUTO 10007KT 07/ RMK AO1 T0072 KAOH 271853Z AUTO 05005KT 10SM FEW024 BKN050 23/19 A2988 RMK AO2 SLP114 T02330189 $ KANQ 271855Z AUTO 14005KT 10SM SCT027 OVC036 21/16 A2990 RMK CWJH 271900Z AUTO 34006KT 09/08 RMK AO1 SLP092 T00920075 53012 OPLA 271855Z 03005KT 400O FU NSC TN28/2800Z KBFI 271853Z 31006KT 10SM FEW250 23/11 A3009 RMK AO2 SLP188 T02280111 CWJI 271900Z AUTO 31024G31KT 20/01 RMK AO1 PK WND 31033/1804 SLP116 T02020012 51007 KAPA 271853Z 06011KT 6SM -RA SCT025 OVC040 11/07 A3011 RMK AO2 LTG DSNT W RAB49 SLP172 OCNL LTGICCG DSNT W CB DSNT W MOV E P0002 T01060072 PHBK 271856Z AUTO 30004KT 10SM FEW100 A3001 RMK AO2 SLP166 $ CXBA 271800Z AUTO 30010KT 21/05 RMK AO1 T02090051 CXAJ 271800Z AUTO 36007KT 20/04 RMK AO1 T01950041 CWIS 271900Z AUTO 17004KT 15/04 RMK AO1 SLP114 T01510037 57003 EEKA 270750Z 05004KT 360V100 9999 OVC043 12/04 Q1021 CXAK 271800Z AUTO 30015KT 23/07 RMK AO1 PK WND 31020/1749 T02270070 KAPC 271854Z 18007KT 10SM SCT016 18/10 A3011 RMK AO2 SLP186 T01780100 KBFL 271854Z 10SM CLR 23/11 A3005 RMK AO2 SLP172 T02330111 KBFM 271853Z 15010KT 10SM FEW020 SCT028 SCT037 29/26 A3008 RMK AO2 SLP184 T02890256 KBGD 271851Z AUTO 10SM CLR 26/14 A2992 RMK AO2 SLP090 T02560144 CWKD 271800Z AUTO 29013KT 18/01 RMK AO1 18 8005 SLP080 T01820008 KANW 271855Z AUTO 00000KT 10SM OVC013 13/11 A3003 RMK AO2 T01270110 KBGE 271855Z AUTO 24006G14KT 10SM CLR 30/17 A3007 RMK AO2 CWIW 271800Z AUTO 33022G31KT 19/M01 RMK AO1 PK WND 33031/1754 SLP093 T01921006 55001 EEKE 271850Z AUTO 26007KT 220V290 9999NDV NCD 12/11 Q1017 KAPF 271853Z 30010KT 10SM FEW030 32/21 A3007 RMK AO2 SLP180 T03170211 KAOO 271907Z AUTO 17004KT 10SM OVC015 18/14 A2993 RMK AO2 T01830144 $ KBGF 271855Z AUTO 24010KT 10SM FEW036 SCT043 BKN050 27/20 RMK CWIX 271800Z AUTO 04004KT 22/03 RMK AO1 SLP090 T02180030 58012 CWJO 271800Z AUTO 07001KT 20/03 RMK AO1 SLP105 T02020029 58013 NZCH 271900Z AUTO 30001KT 9999 BKN007/// 01/01 Q1022 TEMPO 1500 BR KAPG 271858Z AUTO 00000KT 6SM -RA BR FEW023 SCT055 BKN070 OVC090 18/16 A2991 RMK AO2 SLP132 P0000 T01840161 $ NZCI 271900Z 24008KT 45KM BKN017 13/11 Q1014 RMK ALT NZNR VATSIM USE ONLY CWKG 271900Z AUTO 07003KT 10/07 RMK AO1 SLP091 T00960070 52014 CWKH 271900Z AUTO 20/09 RMK AO1 SLP187 T02020087 52004 CWIZ 271900Z AUTO 26004KT 20/10 RMK AO1 T01990102 CWJR 271900Z AUTO 26002KT 21/09 RMK AO1 SLP201 T02130088 57008 CXBI 271900Z AUTO 22002KT 19/14 RMK AO1 SLP126 T01870137 58006 CXCA 271900Z AUTO 17007KT 18/12 RMK AO1 SLP075 T01810119 58006 KBHB 271856Z AUTO 07004KT 10SM OVC030 12/07 A2987 RMK AO2 SLP119 T01220067 NZCM 271755Z 00000KT 9999 -SN OVC014 M18/M21 A2907 RMK SNB1600 SLP850 CWKK 271800Z AUTO 16004KT 13/08 RMK AO1 SLP075 T01290076 58005 CXAT 271800Z AUTO 29010KT M01/M04 RMK AO1 SLP221 T10111035 CWLB 271900Z AUTO 36003KT 22/02 RMK AO1 SLP134 T02160015 51008 CWJT 272300Z AUTO 26001KT 13/11 RMK AO1 SLP080 T01330113 53015 CXBK 271900Z AUTO 32023G31KT 21/M01 RMK AO1 PK WND 32032/1840 SLP085 T02141014 55003 KBHC 271855Z AUTO 27008KT 10SM CLR 32/19 A3003 RMK AO2 PNO CWLC 271900Z AUTO 28010KT 11/ RMK AO1 T0112 CWJU 271900Z AUTO 27004KT 10/08 RMK AO1 SLP236 T01030076 53001 KBGM 271853Z 34005KT 10SM BKN037 OVC055 17/12 A2991 RMK AO2 SLP126 T01670117 CXCD 271800Z AUTO 33007KT 19/M03 RMK AO1 T01901029 CWJV 271900Z AUTO 24004KT 24/08 RMK AO1 SLP183 T02350075 56006 CWKM 271900Z AUTO 03003KT A3014 KAPN 271854Z AUTO 11011KT 10SM CLR 22/12 A2990 RMK AO2 SLP125 T02170117 KBFW 271854Z AUTO 27006KT 10SM SCT065 23/05 A2981 RMK AO2 CWLE 271900Z AUTO 33024G31KT 21/M00 RMK AO1 PK WND 33031/1856 SLP114 T02061002 50002 DNKN 271700Z 27006KT 9999 FEW020CB 35/20 Q1012 NOSIG CWJW 271900Z AUTO 31003KT 22/M00 RMK AO1 SLP171 T02231004 56013 VCRI 271810Z 24013KT 9999 FEW017 28/25 Q1007 NOSIG CWJX 271900Z AUTO 32015G24KT 24/M00 RMK AO1 PK WND 30024/1856 SLP123 T02441004 57004 CXBO 271900Z AUTO 00000KT RMK AO1 CWKO 271900Z AUTO 34012G20KT 19/02 RMK AO1 PK WND 31026/1800 SLP130 T01910023 50005 UMII 271600Z 34002MPS 9999 FEW033 BKN100 18/05 Q1017 R23/CLRD// NOSIG UNAA 271900Z 24002MPS CAVOK 05/01 Q1019 R02/090065 NOSIG RMK QFE742 CWKP 271900Z AUTO 22021G28KT 02/ A2984 RMK SLP131 CXCH 271900Z AUTO 11/04 RMK AO1 T01070041 KBGR 271853Z 03007KT 10SM BKN030 BKN050 16/08 A2986 RMK AO2 SLP111 T01560078 CXBR 271800Z AUTO 25005KT 22/02 RMK AO1 T02210023 CWLI 271900Z AUTO ///// ////SM //// BKN004 BKN008 OVC027 ///// A//// KARA 271853Z 19011KT 10SM SCT026 31/23 A3002 RMK AO2 SLP166 T03110228 KAPS 271855Z AUTO 20005KT 10SM BKN037 BKN044 BKN065 32/24 A3003 RMK AO2 T03230235 KARB 271853Z 00000KT 10SM BKN043 23/13 A2989 RMK AO2 SLP120 T02280133 KBHK 271851Z AUTO 29020G31KT 10SM FEW065 FEW110 21/02 A2995 RMK AO2 PK WND 29031/1840 SLP135 T02060022 CXDB 271800Z AUTO 32012KT 19/01 RMK AO1 PK WND 34021/1744 T01940012 CXCK 271900Z AUTO 17010G16KT 14/M10 RMK AO1 PK WND 12017/1825 SLP198 T01381101 56015 NZDN 271900Z 04001KT 0500 FG SCT002 M02/M02 Q1020 RMK ALT VATSIM USE ONLY KBHM 271902Z 21010KT 10SM BKN030 BKN035 28/21 A3004 RMK AO2 T02830206 KBID 271856Z AUTO 25009KT 10SM CLR 18/09 A2990 RMK AO2 SLP128 T01780094 CWLM 271900Z AUTO 20003KT 15/10 RMK AO1 SLP196 T01500104 52004 KBIE 271855Z AUTO 36012G15KT 10SM BKN018 20/16 A2985 RMK AO2 T02030156 EDVE 271750Z 12010KT CAVOK 24/11 Q1019 CXBW 271800Z AUTO 31009KT 24/03 RMK AO1 T02380032 CWME 271800Z AUTO 06010KT 16/10 RMK AO1 T01640099 CXDE 271800Z AUTO 29014G21KT 14/M00 RMK AO1 PK WND 29024/1715 SLP198 T01371003 51007 CWKW 271900Z AUTO ///// A3005 KBIF 271858Z AUTO 23016G19KT 9SM FEW250 31/M02 A3002 RMK AO2 PK WND 23027/15 SLP094 T03101020 $ KAQO 271855Z AUTO 21008KT 5SM HZ BKN025 31/24 A2992 RMK AO2 CWKX 271900Z AUTO 27001KT 14/M06 RMK AO1 SLP232 T01421055 57013 OPNH 271900Z 18008KT 5000M HZ NSC 32/23 Q.0996 NOSIG KD95 271854Z AUTO 00000KT 10SM BKN042 OVC055 22/12 A2990 RMK AO2 T02240118 KARG 271855Z AUTO 20011KT 10SM FEW027 BKN037 BKN047 31/23 A2983 RMK AO1 KAQP 271854Z AUTO 22005KT 10SM BKN100 22/03 A2988 RMK AO2 KAPY 271855Z AUTO 15007G16KT 7SM CLR 35/20 A2980 RMK AO2 T03540205 EDTY 271750Z 09006KT CAVOK 23/15 Q1019 CXCP 271900Z AUTO 31011KT 23/01 RMK AO1 PK WND 32020/1828 T02330011 CWLP 271900Z AUTO 15007KT 10/09 RMK AO1 SLP201 T00950091 56001 KBIH 271856Z AUTO VRB03KT 10SM CLR 24/M04 A3009 RMK AO2 SLP144 T02441039 UNBB 271900Z 09004MPS CAVOK 11/M01 Q1015 R06/CLRD66 NOSIG RMK QFE739 KAQR 271855Z AUTO 34011G17KT 297V357 10SM SCT030 32/22 A2980 RMK AO2 CXDI 271900Z AUTO 01002KT 20/10 RMK AO1 SLP123 T02000095 58004 KBIJ 271855Z AUTO 24009KT 10SM CLR 31/17 A3008 RMK AO2 OPMT 271850Z 00000KT 4000 HZ NSC 36/234 Q0997 NOSIG CXCS 271800Z AUTO 33012KT 23/06 RMK AO1 PK WND 34019/1754 T02290055 CWMJ 271900Z AUTO 23004KT 22/09 RMK AO1 SLP108 T02200086 56008 CXEA 271900Z AUTO 26008G15KT 19/04 RMK AO1 PK WND 26020/1831 SLP059 T01890044 56004 CWLS 271900Z AUTO 00000KT 19/11 RMK AO1 SLP127 T01920113 56010 KBJC 271849Z 36012G18KT 1 1/4SM SCT018 BKN029 OVC039 09/06 A3015 EDVK 271850Z 12009KT CAVOK 23/13 Q1019 CXDK 271800Z AUTO 05003KT 17/01 RMK AO1 SLP206 T01660014 50001 KBIL 271853Z 32018G27KT 10SM BKN090CB BKN200 20/01 A3007 RMK AO2 PK WND 32027/1851 SLP169 VIRGA CB OHD MOV SE CB DSNT NE SW T02000006 KE11 271855Z AUTO 29011G19KT 10SM CLR 34/M03 A2994 RMK AO2 T03381034 CWNC 271900Z AUTO 22002KT 13/11 RMK AO1 SLP124 T01340111 58005 CXEC 271900Z AUTO 32008KT 23/07 RMK AO1 SLP136 T02340072 52010 KASD 271853Z AUTO 21009KT 10SM BKN036 31/22 A3004 RMK AO2 SLP170 T03110217 KCAD 271855Z AUTO 16007KT 10SM SCT060 23/11 A2989 RMK AO2 T02380117 KAQV 271856Z AUTO VRB05KT 10SM SCT036 BKN049 31/23 A2994 RMK AO2 SLP136 T03110228 $ KARM 271855Z AUTO 17012KT 7SM SCT025 31/22 A2993 RMK AO2 T03090222 CWND 272218Z M01/M01 RMK 8008 T10131013 DNMM 271900Z 27005KT 9999 FEW012 29/25 Q1014 NOSIG CWMM 271900Z AUTO 25003KT 23/10 RMK AO1 SLP191 T02340096 58002 KASE 271853Z 00000KT 10SM FEW022 BKN039 OVC048 07/03 A3021 RMK AO2 LTG DSNT N RAB26E28 SLP153 P0000 T00720033 KAQW 271852Z AUTO VRB03KT 10SM OVC090 20/11 A2986 RMK AO2 SLP113 T02000111 KCAE 271856Z 27015G21KT 10SM SCT055 BKN180 33/18 A2996 RMK AO2 SLP141 T03330178 CWNE 271900Z AUTO 06013KT 07/05 RMK AO1 SLP118 T00720047 52005 KAQX 271855Z AUTO 26009G15KT 230V310 8SM CLR 32/15 A2998 RMK AO2 KASG 271848Z 17020G27KT 10SM BKN033 BKN038 29/22 A2981 VEBI 270630Z 00000KT 5000 BR SCT020 BKN1000 26/21 Q1011 CWLX 271900Z AUTO 32011KT M04/ A3014 RMK SLP223 KCAG 271853Z AUTO 36008G14KT 10SM FEW040 BKN048 OVC090 13/02 A3020 RMK AO2 RAB30E39 SLP196 P0000 T01280022 CXDP 271800Z AUTO 36005KT 22/04 RMK AO1 T02150037 CXEG 271800Z AUTO 22/M01 RMK AO1 T02241012 CWLY 271900Z AUTO 19007KT 9SM CLR 26/07 A3004 RMK SLP171 DENSITY ALT 2000FT KASH 271856Z VRB03KT 10SM BKN050 OVC060 21/10 A2986 RMK AO2 SLP120 T02060100 UMKK 271900Z 24003MPS CAVOK 16/04 Q1022 R24/CLRD60 NOSIG RMK QFE765/1020 CWMQ 271900Z AUTO 31010G15KT 23/02 RMK AO1 PK WND 33019/1804 SLP141 T02330022 53004 CWNH 271900Z AUTO 26004KT 15/05 RMK AO1 SLP107 T01520054 56012 VEAT 271430Z 00000KT 5000 BR SCT020 SCT100 31/27 Q1002 NOSIG ZSHC 271900Z 00000MPS CAVOK 20/16 Q1011 NOSIG KARR 271852Z 00000KT 10SM FEW027 24/17 A2990 RMK AO2 SLP124 T02390167 KBJI 271853Z AUTO 27011G19KT 10SM CLR 23/03 A2980 RMK AO2 T02260027 PFWS 271856Z AUTO 11004KT 10SM FEW049 BKN065 OVC080 08/02 A2994 RMK AO2 SLP146 T00780022 VECC 271900Z 20005KT 3200 HZ FEW020 SCT100 30/26 Q1002 NOSIG KBIS 271852Z 28017G24KT 10SM SCT080 24/04 A2984 RMK AO2 PK WND 27029/1825 SLP102 T02440039 KBJJ 271903Z AUTO 00000KT 10SM FEW027 OVC041 22/16 A2991 RMK AO2 T02170156 KCAK 271851Z VRB05KT 10SM FEW027 BKN041 22/14 A2990 RMK AO2 SLP120 T02220144 KBKB 271854Z AUTO VRB03KT 10SM SCT034 BKN041 32/24 A2994 RMK AO2 SLP164 T03170239 KART 271906Z AUTO 24008KT 2SM HZ FEW055 OVC095 19/12 A2989 RMK AO2 T01940122 $ VEBN 271830Z 09007KT 5000 TS SCT020 FEW030CB SCT100 28/23 Q1002 NOSIG CWMT 271900Z AUTO 30009KT 09/04 RMK AO1 SLP199 T00870042 51022 CWNK 271900Z AUTO 28014G19KT 20/02 RMK AO1 PK WND 27023/1824 T02040015 CWOB 271900Z AUTO 27002KT 230V340 ////SM //// NCD ///// A3003 KASL 271855Z AUTO 19007KT 5SM SCT028 SCT034 BKN048 30/24 A2992 RMK AO1 T02950237 CWNL 271800Z AUTO 17004KT 11/08 RMK AO1 SLP135 T01110078 55001 CWOC 271900Z AUTO 10008KT 08/05 RMK AO1 SLP129 T00750053 52002 KBIV 271853Z AUTO 28011KT 10SM BKN045 24/13 A2990 RMK AO2 SLP123 T02390128 KBKD 271855Z AUTO 23014G20KT 5SM HZ CLR 36/21 A2980 RMK AO2 T03560208 KARV 271855Z AUTO 22010KT 10SM SCT065 22/08 A2985 RMK AO2 T02220084 KARW 271855Z AUTO 22006KT 7SM CLR 32/18 A2999 RMK AO2 CWOD 271900Z AUTO 12010KT 22/07 RMK AO1 SLP065 T02220072 56016 CWNM 271900Z AUTO 04005KT 23/05 RMK AO1 SLP188 T02270047 58012 ZSFZ 271900Z 01003MPS 9999 FEW017 21/19 Q1011 NOSIG KBKE 271853Z AUTO 13007KT 10SM CLR 21/01 A3019 RMK AO2 SLP214 T02110011 KASN 271855Z AUTO 21008KT 10SM BKN050 28/21 A3004 RMK AO2 T02830210 KCBE 271853Z AUTO 00000KT 10SM SCT009 BKN016 OVC025 17/16 A2995 RMK AO1 CXDW 271900Z AUTO 31014G21KT 20/02 RMK AO1 PK WND 27023/1847 SLP062 T01970015 57008 CWOE 271900Z AUTO 30012G20KT 21/03 RMK AO1 PK WND 31020/1816 SLP159 T02110032 51005 KBKF 271858Z 02012KT 7SM -RA SCT035 BKN045 OVC090 12/05 A3012 RMK AO2A RAB58 SLP161 P0000 T01160046 KCBF 271855Z AUTO 04012KT 10SM CLR 19/15 A2987 RMK AO2 KCAO 271855Z AUTO 05013G22KT 10SM FEW036 21/11 A3004 RMK AO2 SLP119 T02060111 KBIX 271858Z AUTO 19011KT 10SM CLR 29/25 A3006 RMK AO2 SLP182 T02930249 KCBG 271855Z AUTO 21006KT 10SM CLR 22/10 A2988 RMK AO2 VEBS 271900Z 00000KT 4000 HZ FEW020 30/26 Q1003 NOSIG CWNP 271900Z AUTO 27002KT 22/06 RMK AO1 SLP192 T02150055 56009 CWNQ 271800Z AUTO 30005KT 18/09 RMK AO1 SLP114 T01790093 58005 CWMZ 271800Z AUTO 31005KT 11/10 RMK AO1 SLP130 T01070099 58003 KCAR 271854Z AUTO 13008KT 10SM FEW050 19/07 A2983 RMK AO2 SLP105 T01890067 KCCA 271855Z AUTO 19010KT 6SM HZ FEW027 SCT034 SCT050 30/24 A2983 RMK AO2 KAST 271855Z AUTO 26006KT 10SM OVC008 14/11 A3011 RMK AO2 SLP194 T01440111 KCBK 271855Z AUTO 34013G19KT 10SM BKN028 OVC034 18/13 A3000 RMK AO2 CXET 271900Z AUTO 36003KT 19/11 RMK AO1 SLP119 T01900113 58008 KBKL 271853Z 03009KT 10SM CLR 19/14 A2989 RMK AO2 SLP121 T01890139 KATL 271852Z 22010KT 10SM BKN040 BKN049 BKN250 28/19 A3003 RMK AO2 SLP160 T02780189 EFET 271850Z AUTO 01001KT CAVOK 04/M08 Q1019 CWPC 271900Z AUTO 25005KT 13/11 RMK AO1 SLP134 T01320113 58002 KCAV 271855Z AUTO 35006KT 10SM BKN065 BKN075 19/07 A2994 RMK AO2 PWINO KCBM 271858Z AUTO 17012KT 10SM FEW025 SCT035 BKN070 BKN160 30/24 A2997 RMK AO2 SLP150 T02960244 $ CXFM 271800Z AUTO 30008KT 22/02 RMK AO1 T02190018 VEDG 271030Z 14004KT 5000 HZ SCT025 BKN090 33/22 Q1002 NOSIG CWPD 271900Z AUTO 03005KT 18/M07 RMK AO1 SLP089 T01771073 56005 UMMG 271500Z 33005G08MPS 9999 FEW040 BKN066 19/06 Q1021 NOSIG KBKN 271855Z AUTO 05013KT 10SM CLR 31/23 A2976 RMK AO2 KASW 271855Z AUTO 00000KT 10SM OVC031 21/17 A2989 RMK AO2 CWPE 271900Z AUTO 04008G16KT 10/07 RMK AO1 17 3011 SLP108 T01000066 KASX 271853Z AUTO 25009KT 10SM FEW065 22/07 A2986 RMK AO2 SLP110 T02170067 KBLF 271852Z AUTO 26007KT 10SM BKN025 BKN033 BKN070 23/17 A3001 RMK AO2 SLP133 T02280167 KAUG 271853Z AUTO 33012KT 10SM CLR 19/08 A2985 RMK AO2 SLP108 T01890083 CWPF 271900Z AUTO 17006KT 12/09 RMK AO1 SLP193 T01230094 51004 KATP 271855Z AUTO 13010KT 5SM BR FEW014 28/26 A3006 RMK A01 KBLH 271852Z AUTO 00000KT 10SM CLR 31/03 A2992 RMK AO2 SLP126 T03060028 KAUH 271855Z AUTO 04009KT 10SM CLR 23/08 A2990 RMK AO2 T02250080 PHHI 271858Z AUTO 06004KT 10SM CLR 24/17 A3002 RMK AO2 SLP156 T02400172 $ NZGS 271900Z 34004KT 25KM BKN031 12/12 Q1013 RMK ALT VATSIM USE ONLY CWNZ 271900Z AUTO 21006KT 24/11 RMK AO1 SLP081 T02390108 57015 CXGH 271900Z AUTO 25009G16KT 22/05 RMK AO1 PK WND 29017/1819 T02160048 KBLI 271853Z VRB05KT 10SM CLR 23/11 A3010 RMK AO2 SLP197 T02280111 OPPS 271900Z 13006KT 4000 HZ SKC 31/06 Q998 NZHK 271900Z 15006KT 30KM SKC 08/04 Q1018 RMK ALT VATSIM USE ONLY ULWC 271900Z 34002MPS 9999 SCT026 04/M03 Q1016 R03/120060 NOSIG RMK QFE752/1003 CXFR 271900Z AUTO 31010KT 20/M00 RMK AO1 T01971002 KATS 271855Z AUTO 24006KT 10SM CLR 32/M02 A2994 RMK AO2 KCDA 271855Z AUTO 36004KT 10SM SCT049 18/08 A2989 RMK AO2 T01840080 KBKS 271855Z AUTO 16011G19KT 10SM CLR 36/20 A2983 RMK AO1 T03550204 KE38 271855Z AUTO 29015G20KT 10SM CLR 33/M01 A3011 RMK AO2 T03331012 CXHA 271900Z AUTO 14008KT 20/12 RMK AO1 SLP118 T02020118 56009 EFHA 271850Z AUTO 12005KT 4400 BR VCSH FEW004 OVC015 07/07 Q1015 KATT 271851Z AUTO VRB04KT 8SM OVC036 32/23 A2989 RMK AO2 SLP106 T03170233 PFYU 271856Z 00000KT 10SM FEW080 13/M03 A3006 RMK AO2 SLP206 T01281033 KBKT 271855Z AUTO 00000KT 10SM BKN050 29/14 A2987 RMK AO1 T02940144 UNEE 271900Z 15002MPS CAVOK 11/01 Q1017 R23/CLRD60 NOSIG RMK QFE739 CWPK 271900Z AUTO 05003KT 20/08 RMK AO1 SLP099 T02040078 55002 KCDC 271853Z AUTO 10SM CLR 19/M01 A3018 RMK AO2 SLP166 T01941011 KAVC 271856Z AUTO 22009KT 10SM CLR 29/20 A2994 RMK AO2 T02930202 KBMC 271855Z AUTO 00000KT 10SM CLR 17/02 A3023 RMK AO1 T01680020 NZHN 271900Z 20003KT 15KM VCSH BKN050 14/14 Q1012 RMK ALT NZTG VATSIM USE ONLY KCDD 271842Z AUTO 25007KT 213V303 10SM BKN085 BKN100 22/03 A2979 RMK AO2 KBKV 271853Z 25009KT 10SM -RA CLR 32/13 A3008 RMK AO2 SLP186 P0000 T03170128 KAUM 271856Z AUTO 00000KT 10SM SCT110 20/09 A2993 RMK AO2 KBLM 271856Z AUTO 16007KT 10SM CLR 20/14 A2989 RMK AO2 RAB41E56 SLP126 P0000 T02000139 CXHD 271800Z AUTO 36007KT 21/09 RMK AO1 T02110090 50007 KBKW 271858Z AUTO 27011KT 10SM BKN029 BKN037 OVC070 23/17 A2998 RMK AO2 T02330167 TSNO KAUN 271855Z AUTO 26003KT 10SM CLR 20/11 A3009 RMK AO1 KATW 271845Z 2011KT 10SM SCT040 SCT060 23/12 A2987 EDXW 271850Z 14011KT CAVOK 23/14 Q1017 KAUO 271856Z AUTO VRB05KT 10SM FEW026 OVC038 27/21 A3008 RMK AO2 SLP197 T02670206 KBKX 271856Z AUTO 22008KT 10SM FEW110 20/09 A2993 RMK AO2 SLP146 T02000089 KCCO 271855Z AUTO 24007KT 10SM SCT034 SCT050 29/21 A3005 RMK AO2 T02860206 DNPO 271700Z VRB02KT 9999 BKN011 FEW020CB 30/26 Q1011 TEMPO TS CXHF 271900Z AUTO 22/07 RMK AO1 T02240073 CWPO 271900Z AUTO 28010G16KT 20/02 RMK AO1 PK WND 31018/1833 SLP076 T01960015 57010 KBMG 271853Z 26005KT 10SM SCT037 27/17 A2987 RMK AO2 SLP107 T02720172 KATY 271853Z AUTO 32008KT 10SM BKN100 21/06 A2990 RMK AO2 SLP123 T02110056 CWOY 271900Z AUTO 33009G16KT 16/04 RMK AO1 PK WND 34020/1822 SLP092 T01610042 53002 UMMS 271900Z 29003MPS CAVOK 15/05 Q1020 R31/CLRD// NOSIG KCDH 271855Z AUTO 21009KT 8SM FEW030 SCT042 SCT050 31/23 A2989 RMK AO2 NZHS 271900Z 24008KT 45KM BKN017 13/11 Q1014 RMK ALT NZNR VATSIM USE ONLY CWQH 271900Z AUTO 27003KT 19/08 RMK AO1 T01920078 KCCR 271853Z 20007KT 170V230 10SM CLR 21/10 A3009 RMK AO2 SLP174 T02060100 KCDI 271905Z AUTO 02003KT 10SM SCT027 BKN034 OVC040 24/18 A2989 RMK AO2 T02380177 KBMI 271856Z 00000KT 8SM CLR 25/16 A2990 RMK AO2 SLP138 T02500156 NZHT 271900Z 14011KT 50KM FEW018 10/06 Q1017 RMK ALT VATSIM USE ONLY CWPR 271900Z AUTO 17002KT 24/04 RMK AO1 SLP176 T02400039 57018 KBNA 271853Z 07009KT 10SM BKN033 BKN042 26/22 A2992 RMK AO2 RAB04E35 SLP126 P0001 T02610222 KAUS 271853Z 19014G22KT 7SM OVC039 34/23 A2986 RMK AO2 SLP100 BINOVC T03390233 KCDJ 271852Z AUTO 09004KT 23/15 A2980 RMK AO1 SLP082 T02330150 CWPS 271800Z AUTO 13002KT 17/12 RMK AO1 SLP132 T01660115 51007 CWRA 271900Z AUTO 04025G32KT 04/04 RMK AO1 PK WND 04036/1800 SLP090 T00360035 53014 KAVK 271855Z AUTO 04010G16KT 10SM SCT046 27/18 A2981 RMK AO2 CWQK 271900Z AUTO 15005KT 15/10 RMK AO1 SLP197 T01510095 51004 CXIB 271900Z AUTO 05002KT 07/03 RMK AO1 SLP121 T00730034 51015 KBML 271852Z AUTO VRB04KT 10SM SCT055 21/06 A2984 RMK AO2 SLP106 T02110056 KBLU 271852Z AUTO VRB04KT 10SM CLR 18/10 A3018 RMK AO2 SLP152 T01780100 TSNO KCEC 271856Z AUTO 23007KT 10SM OVC012 12/09 A3014 RMK AO2 SLP208 T01170094 EFHK 271850Z 12005KT 9999 FEW035 BKN040 BKN050 10/01 Q1016 NOSIG KAVL 271854Z 18005KT 10SM CLR 26/16 A3000 RMK AO2 SLP135 T02610156 OPRN 271730Z 05006KT 6000 NSC 32/13 Q1001.5/29.57 EEPU 271250Z 20010KT 170V230 CAVOK 16/05 Q1018 KBLV 271758Z AUTO 09003KT 10SM FEW090 SCT160 SCT190 28/19 A2988 RMK AO2 SLP118 T02770189 10279 20202 50000 CXHM 271900Z AUTO 21001KT 20/10 RMK AO1 SLP114 T01950101 58008 PGRO 270950Z 09008KT 7SM FEW012 SCT100 27/24 A2991 RMK WIND DATA ESTIMATED LAST KAUW 271854Z AUTO 26010G15KT 10SM BKN055 23/10 A2985 RMK AO2 SLP110 T02330100 KCDN 271855Z AUTO 22013KT 10SM FEW050 32/18 A2996 RMK AO2 KCEF 271858Z 00000KT 10SM SCT040 BKN210 20/10 A2986 RMK AO2A SLP117 T02020100 PHJH 271845Z 00000KT 15SM FEW035 27/17 A3003 CWQO 271800Z AUTO 20004KT 10/06 RMK AO1 T00970059 CWRF 271900Z AUTO ///// A3012 CWPX 271900Z AUTO 06010KT ////SM //// OVC065 01/01 A2990 KAVP 271854Z 00000KT 10SM FEW028 OVC060 19/12 A2989 RMK AO2 SLP117 T01940122 KAWG 271855Z AUTO VRB04KT 10SM SCT120 22/18 A2988 RMK AO2 KCCY 271855Z AUTO 00000KT 10SM CLR 22/07 A2991 RMK AO2 CWQP 271900Z AUTO 22005KT 13/11 RMK AO1 SLP130 T01330108 58002 CXHP 271900Z AUTO 33008KT 21/01 RMK AO1 T02100005 KBMQ 271853Z AUTO 19012KT 5SM HZ OVC020 28/23 A2992 RMK AO2 SLP114 T02830228 KAVQ 271855Z AUTO 32005KT 10SM CLR 31/M09 A2997 RMK AO2 T03111093 CWPZ 271900Z AUTO 20003KT 19/M00 RMK AO1 SLP205 T01911001 58005 CWRH 271900Z AUTO 31023KT M01/ A3007 RMK SLP217 KCDR 271853Z AUTO 34009KT 10SM SCT060 BKN070 OVC090 17/06 A3005 RMK AO2 SLP176 T01670056 CXHR 271800Z AUTO 32016KT 22/04 RMK AO1 PK WND 30023/1718 T02210042 CWQR 271900Z AUTO 11016KT 04/ RMK AO1 PK WND 12022/1846 T0039 KCDS 271853Z AUTO 36012G19KT 10SM CLR 38/M03 A2980 RMK AO2 SLP057 T03781028 OPSK 271900Z 18010KT 4000 HZ NSC 34/23 Q994 NOSIG KAXA 271855Z AUTO 00000KT 10SM BKN095 20/09 A2994 RMK AO2 CWRJ 271900Z AUTO 32016G24KT 22/02 RMK AO1 PK WND 31026/1814 SLP118 T02150017 51007 CWQS 271800Z AUTO 34012KT 10/08 RMK AO1 SLP218 T00950076 58001 CWSA 271900Z AUTO 04018G23KT 6SM BR OVC003 06/05 A2966 RMK SLP044 EGAA 271850Z 32011KT 9999 -RA BKN006 BKN009 14/13 Q1010 KBMT 271855Z AUTO 10SM SCT028 32/24 A2997 RMK AO2 T03210235 CWRK 271900Z AUTO 20003KT 19/10 RMK AO1 SLP123 T01880098 58005 KBNL 271855Z AUTO 22012G17KT 10SM CLR 33/17 A2998 RMK AO2 ORBD 271855Z 28012KT 8000 DUFU CLR 28/02 A2981 RMK SLP097 WND DATA/ALSTG/SLP ESTMD EGAC 271850Z 29012KT 260V330 9999 6000S -SHRA FEW007 SCT027 BKN031 14/13 Q1009 UMOO 271300Z 33004G07MPS 9999 BKN034 BKN/// 19/05 Q1018 NOSIG KAWM 271853Z AUTO 22009KT 8SM SCT027 BKN035 OVC050 29/24 A2988 RMK AO2 SLP114 T02890239 PGSN 271854Z 09009KT 10SM FEW090 BKN110 27/24 A2988 RMK AO2 RAB28E42 SLP139 P0000 T02670244 $ KCFD 271855Z AUTO 18012G17KT 10SM BKN040 OVC046 33/23 A2991 RMK AO2 T03250232 CWSD 271900Z AUTO 06015KT 09/06 RMK AO1 PK WND 05021/1804 SLP110 T00900055 53006 CWQV 271900Z AUTO 09008KT 17/04 RMK AO1 T01670035 CWRM 271900Z AUTO 34010G18KT 23/02 RMK AO1 PK WND 31018/1821 SLP154 T02300022 51003 KCDW 271853Z 28004KT 10SM SCT035 OVC055 23/12 A2988 RMK AO2 SLP121 T02280117 KCFE 271855Z AUTO 24004KT 10SM CLR 21/08 A2991 RMK AO2 T02050080 CWRN 271900Z AUTO 04009KT 07/05 RMK AO1 PK WND 04021/1801 SLP089 T00670050 51015 KBNO 271853Z AUTO 18007KT 10SM CLR 20/01 A3021 RMK AO2 SLP215 T02000006 EGAE 271620Z 27008KT 9999 -RA FEW006 OVC012 15/14 Q1009 KAVX 271904Z AUTO 26010KT 10SM BKN008 OVC015 14/10 A3009 RMK AO2 CIG 006V011 T01390100 TSNO $ KAWO 271855Z AUTO 00000KT 10SM CLR 23/10 A3011 RMK AO1 CWSF 271900Z AUTO 05006KT 08/05 RMK AO1 SLP117 T00810050 56010 CWRO 271900Z AUTO 28009KT 12/ RMK AO1 T0121 NZKI 271900Z 24011KT 15KM VCSH SCT033 08/06 Q1021 RMK ALT VATSIM USE ONLY CWSG 271900Z AUTO 06011KT 10/06 RMK AO1 SLP109 T00960060 55013 ORBI 271900Z 30005KT CAVOK 27/03 Q1010 NOSIG PHJR 271853Z 15006KT 10SM CLR 27/17 A3003 RMK AO2 SLP174 T02670172 KAXH 271855Z AUTO 18008G14KT 10SM BKN029 31/24 A2993 RMK AO2 T03110241 CYAH 271900Z AUTO 08014G24KT 030V100 9SM CLR 16/M06 A2987 RMK SLP129 DENSITY ALT 1300FT KBOI 271853Z 34006KT 10SM CLR 22/05 A3018 RMK AO2 SLP204 T02220050 PGUA 271858Z 10014G20KT 10SM SCT015 BKN020 27/24 A2988 RMK AO2A RAB13E24DZB24E25RAB25E28 SLP109 P0000 T02660243 $ NZKK 271900Z 29004KT 40KM BKN015 13/13 Q1013 RMK ALT NZAA VATSIM USE ONLY KCFJ 271855Z AUTO 35003KT 10SM OVC019 M31/M33 A2990 RMK AO2 P0001 T13061327 OPST 271900Z 05002KT 4000 HZ NSC 31/13 Q0998 NOSIG RH32 CXKA 271900Z AUTO 21006KT 22/11 RMK AO1 SLP078 T02220110 57016 KBOK 271856Z AUTO 21004KT 4SM BR OVC002 11/10 A3014 RMK AO2 SLP223 T01060100 CYBB 271900Z 00000KT 15SM BKN150 BKN170 BKN220 06/M02 A3016 RMK AS6AC1CC1 AC TR CC TR SLP217 CWSK 271900Z AUTO 19003KT 26/06 RMK AO1 SOG 00 6012 SLP182 T02580064 CWRT 271900Z AUTO 29010G18KT 21/02 RMK AO1 PK WND 32018/1853 T02100017 KCEU 271854Z AUTO VRB05KT 10SM CLR 29/19 A2997 RMK AO2 SLP138 T02940189 KBPC 271855Z AUTO 29004KT 10SM CLR 26/15 A2989 RMK AO2 KCGC 271855Z AUTO 25007KT 10SM CLR 30/17 A3008 RMK AO2 EGBB 271850Z 21009KT 160V240 9999 BKN024 17/13 Q1013 CWRU 271800Z AUTO 16003KT 14/ RMK AO1 SLP178 T0138 51008 CWSL 271900Z AUTO 01003KT 21/12 RMK AO1 SLP189 T02060121 57007 CYBC 271900Z AUTO 18007KT 150V230 9SM CLR 14/07 A2983 RMK SLP103 CYBD 271900Z 26005KT 230V310 15SM SCT270 22/11 A3007 RMK CI4 SLP185 DENSITY ALT 800FT VDPP 271900Z VRB03KT 9000 FEW017 SCT040 28/25 Q1005 CYAM 271900Z 20007KT 140V230 15SM FEW048 SCT150 24/12 A2985 RMK CU2AC1 SLP111 DENSITY ALT 1800FT KAXN 271853Z AUTO 21017KT 10SM FEW075 BKN095 22/06 A2988 RMK AO2 SLP119 T02170056 KCEW 271853Z AUTO 29007KT 10SM FEW041 SCT050 31/19 A3008 RMK AO2 SLP184 T03060189 EFIV 271850Z AUTO 34001KT 9999 FEW046 BKN065 04/M06 Q1019 PHKO 271853Z 24006KT 10SM CLR 26/19 A2999 RMK AO2 SLP156 T02610194 KBNW 271855Z AUTO 02010KT 5SM -RA FEW040 SCT060 BKN070 15/14 A2988 RMK AO2 P0003 KCGE 271850Z AUTO 00000KT 10SM FEW049 FEW070 OVC085 24/14 A2990 RMK A01 KCGF 271845Z 01010KT 10SM FEW030 22/13 A2991 EGBE 271650Z 22023KT 9999 BKN031 19/14 Q1012 CXKE 271900Z AUTO 29001KT 20/09 RMK AO1 SLP116 T02010091 57007 EFKE 271850Z AUTO 06003KT 9999 BKN048 06/01 Q1019 CWRX 271900Z AUTO 27006KT 7SM //// BKN004 M01/M03 A3022 EFJO 271850Z AUTO 26003KT CAVOK 07/M01 Q1017 KCEY 271855Z AUTO 21010G16KT 10SM BKN019 BKN026 28/24 A2990 RMK AO1 KBPG 271855Z AUTO 28010G22KT 10SM CLR 36/00 A2990 RMK AO2 T03600001 CWSP 271900Z AUTO 10006KT 16/09 RMK AO1 SLP196 T01630088 52002 CWRY 271800Z AUTO 32015G21KT 21/05 RMK AO1 PK WND 33022/1735 SLP173 T02140050 52007 CWTG 271900Z AUTO 14004KT 11/07 RMK AO1 SLP109 T01060067 56010 CYBG 271900Z 34003KT 25SM BKN190 21/M02 A2981 RMK AC7 SLP098 ZSNB 271900Z VRB01MPS CAVOK 18/15 Q1012 NOSIG KCEZ 271853Z AUTO 25011G16KT 10SM CLR 22/M02 A3012 RMK AO2 SLP129 T02171022 PHLI 271853Z 01006KT 10SM FEW022 25/19 A3002 RMK AO2 SLP164 T02500194 $ VEGT 271530Z 00000KT 4000 BR FEW020 28/26 Q1005 NOSIG CWRZ 271900Z AUTO 08007KT 08/06 RMK AO1 SLP125 T00810058 58001 KBPI 271853Z AUTO 02013G16KT 10SM BKN070 13/M05 A3025 RMK AO2 SLP196 T01331050 KCGI 271853Z 22009G18KT 10SM SCT040 30/21 A2985 RMK AO2 SLP104 T03000206 CWSR 271900Z AUTO 32015G22KT 18/01 RMK AO1 PK WND 32022/1846 SLP107 T01760010 53006 CXKI 271900Z AUTO 17/13 RMK AO1 SLP113 T01710132 53001 KCHA 271853Z 21014G22KT 10SM FEW035 SCT045 BKN060 30/19 A2997 RMK AO2 SLP139 T03000194 $ EFKI 271850Z AUTO 29003KT CAVOK 06/00 Q1018 KBOS 271854Z 10012KT 10SM FEW035 SCT250 15/09 A2988 RMK AO2 SLP117 T01500094 KCFS 271854Z AUTO 35003KT 10SM BKN065 24/14 A2989 RMK AO2 T02430142 KAXS 271855Z AUTO 36006KT 10SM CLR 37/06 A2978 RMK AO2 T03650064 NZMC 271900Z 14011KT 50KM FEW018 10/06 Q1017 RMK ALT NZHT VATSIM USE ONLY CYAS 271900Z 06007KT 15SM FEW080 07/M02 A3017 RMK AC1 AC TR CONTRAILS SLP229 EGBJ 271750Z 25011KT 9999 FEW014 SCT018 17/13 Q1014 CWSS 271900Z AUTO 02008KT 11/07 RMK AO1 SLP112 T01130068 50005 KBPK 271853Z AUTO 19009KT 10SM CLR 30/22 A2981 RMK AO2 SLP084 T03000222 TSNO KE80 271855Z AUTO 24010G17KT 10SM CLR 26/M08 A3007 RMK AO2 T02621084 CXLB 271900Z AUTO 33007KT 10/08 RMK AO1 SLP086 T01030079 53012 CWST 271900Z AUTO 26006KT 14/07 RMK AO1 SLP106 T01380073 56011 CYAT 271900Z AUTO 14004KT 110V170 9SM FEW120 BKN150 21/14 A2975 RMK TS/LTNG TEMPO UNAVBL SLP075 DENSITY ALT 900FT CYBK 271900Z 08005KT 20SM OVC013 04/01 A3000 RMK SC8 SLP163 CYCB 271900Z 09006KT 5SM BR FEW002 BKN003 BKN120 02/02 A2998 RMK SF1ST7AC1 SF TR AC TR BLN DSAPRD 540FT SLP157 KBOU 271900Z AUTO 00000KT 2000 HZ CLR 22/07 A2477 RMK A02 EFKK 271850Z AUTO 05003KT 9999 FEW003 BKN008 06/06 Q1017 PGUM 271854Z 09007KT 10SM FEW030 28/26 A2987 RMK AO2 SLP106 T02830256 $ KAZC 271855Z AUTO 34003KT 10SM CLR 25/00 A3015 RMK AO2 CYBL 271900Z 02004KT 340V090 30SM FEW300 21/09 A3010 RMK CI2 SLP195 DENSITY ALT 900FT KCHD 271847Z VRB04KT 10SM CLR 31/M08 A2995 CXLC 271800Z AUTO 30010G16KT 12/05 RMK AO1 SLP146 T01200051 53006 KCFV 271852Z AUTO 36008KT 8SM BKN021 BKN029 OVC036 26/25 A2974 RMK AO2 SLP062 T02610250 $ EGCC 271850Z AUTO 21010KT 170V230 9999 BKN020 OVC027 17/13 Q1011 KAXV 271851Z AUTO 00000KT 10SM SCT024 BKN033 BKN040 23/15 A2989 RMK AO2 NZMF 271900Z 04005KT 45KM SKC 02/02 Q1021 RMK ALT NZQN VATSIM USE ONLY CYCD 271900Z 01006KT 320V100 30SM SCT250 23/11 A3010 RMK CI3 HZ SLP195 DENSITY ALT 800FT CXKM 271800Z AUTO 35010KT 22/07 RMK AO1 PK WND 32017/1707 T02230066 KBOW 271845Z 30006KT 10SM SKC 33/09 A3006 KAZE 271855Z AUTO 27005KT 10SM CLR 32/17 A3003 RMK AO2 T03240169 VEGY 271800Z 06004KT 3000 BR FEW018 28/24 Q1002 CYAW 262036Z 10006KT 2 1/2SM -DZ BR OVC003 09/09 A2957 RMK SF8 DA-26FT LAST OBS/NXT 291000 UTC SLP014 CWSW 271900Z 18006G15KT 150V220 20SM FEW065 20/04 A3010 RMK CF1 CF TR SLP193 DENSITY ALT 5000FT CWTN 271900Z AUTO 17004KT 16/10 RMK AO1 SLP110 T01610097 56014 CYBN 271900Z AUTO 03003KT 300V070 9SM OVC032 OVC087 20/12 A2989 RMK SLP123 EETN 271850Z 16003KT 9999 BKN049 13/04 Q1016 NOSIG KAXX 271855Z AUTO 26011G22KT 10SM CLR 16/M04 A3020 RMK AO2 T01611036 ZSNJ 271900Z 16003MPS CAVOK 23/14 Q1010 NOSIG CYCG 271900Z 32002KT 15SM FEW070 FEW250 23/05 A3009 RMK CF1CI1 CF TR CI TR CONTRAILS SLP189 DENSITY ALT 2700FT TVSA 271900Z 08011KT 9000 BKN018 29/24 Q1014 CYAY 271900Z AUTO 05012G17KT 9SM BKN012 OVC060 02/M01 A3003 RMK SLP171 EFJY 271850Z AUTO 12005KT 9999 OVC007 05/04 Q1016 CYAZ 271900Z 21005KT 170V230 3SM BR SCT003 11/11 A3012 RMK SF4 VIS ALG SHR 1/2 VIS NW-NE 15 SLP202 CYBQ 271900Z AUTO 05010G15KT 9SM OVC007 04/03 A2976 RMK SLP095 CYBR 271900Z 32019G24KT 15SM SCT058 BKN080 BKN220 18/06 A2972 RMK CU3AC2CI2 SLP074 DENSITY ALT 2200FT PHMK 271854Z VRB03KT 10SM CLR 26/18 A3003 RMK AO2 SLP170 T02610183 KCGS 271853Z AUTO 02003KT 10SM OVC070 22/16 A2990 RMK AO1 T02150155 KAYS 271855Z AUTO 25010G16KT 210V290 10SM CLR 34/19 A3003 RMK AO2 T03420194 CYDA 271900Z 08012G18KT 020V090 20SM FEW050 SCT100 BKN210 14/M04 A3004 RMK CU1AC2CI2 SLP191 EFKS 271850Z AUTO 34002KT CAVOK 03/M05 Q1018 KBPT 271857Z 18013G21KT 10SM BKN024 31/23 A2996 RMK AO2 T03060233 EFMA 271850Z AUTO 00000KT CAVOK 12/09 Q1016 KBQK 271855Z AUTO 22008KT 10SM CLR 33/18 A3003 RMK AO2 KCHK 271855Z AUTO 22008KT CLR 35/21 A2976 RMK AO2 PWINO KF00 271855Z AUTO 18012KT 10SM BKN033 BKN041 31/24 A2983 RMK AO2 VEIM 271300Z 35005KT 4000 TS BR FEW008 SCT018 FEW025CB OVC090 25/22 Q1008 TEMPO 3000 -TSRA CXKT 271900Z AUTO 03006KT 10/06 RMK AO1 SLP094 T00960064 53007 CWTT 271800Z AUTO 30003KT 18/06 RMK AO1 T01820063 CYCK 271900Z AUTO 16009KT 9SM FEW038 20/13 A2990 RMK SLP128 DENSITY ALT 1300FT CYDB 271900Z 12014G20KT 30SM FEW120 SCT200 09/M08 A3003 RMK AC1CS3 SLP199 ZSOF 271900Z 19003MPS CAVOK 21/15 Q1009 NOSIG EFKT 271850Z AUTO 25003KT CAVOK 05/M06 Q1019 KCIC 271852Z 16007KT 10SM SKC 22/11 A3006 CYDC 271900Z VRB03KT 25SM FEW065 FEW260 24/04 A3009 RMK CU1CI1 CU TR CI TR CONTRAILS SLP182 DENSITY ALT 3600FT CXLL 271800Z AUTO 36003KT 12/05 RMK AO1 SLP230 T01220047 51010 CWTU 271900Z AUTO ///// M06/ A2996 RMK SLP188 CYBU 271900Z AUTO 31015KT 9SM FEW044 OVC060 16/07 A2975 RMK SLP084 DENSITY ALT 1700FT EETU 271850Z 26006KT 9999 SCT048 13/06 Q1016 KBRD 271853Z AUTO 24008KT 10SM FEW075 SCT100 23/04 A2985 RMK AO2 SLP108 T02280044 KCID 271852Z VRB03KT 10SM CLR 22/17 A2988 RMK AO2 SLP116 T02170172 $ EFKU 271850Z AUTO 19002KT CAVOK 06/02 Q1018 CYBV 262100Z 23005KT 190V250 15SM BKN040 OVC080 16/08 A2952 RMK SC6AC2 LAST OBS/NEXT 291200Z SLP001 DENSITY ALT 1400FT CXMD 271900Z AUTO 26013G19KT 22/01 RMK AO1 PK WND 29021/1821 SLP059 T02150011 58010 CWVD 271900Z AUTO 32004KT M02/ A3000 RMK SLP207 PHNG 271757Z 24003KT 7SM BKN050 25/20 A2998 RMK SLP148 T02500200 10250 20211 53014 CYBW 271900Z AUTO 28005KT 230V330 9SM BKN090 21/02 A3005 RMK SLP181 DENSITY ALT 5400FT KAZO 271853Z 00000KT 10SM OVC041 22/14 A2990 RMK AO2 SLP122 T02220139 KCHO 271853Z 02004KT 10SM BKN110 28/19 A2986 RMK AO2 SLP104 T02780189 EGCN 271850Z 21014KT 9999 FEW024 BKN031 19/14 Q1012 CYBX 271900Z 08014KT 15SM OVC030 04/M02 A3002 RMK SC8 SLP168 CYDF 271900Z 06008G18KT 15SM FEW090 FEW210 12/M01 A2991 RMK AC1CC1 SLP130 CYCO 271900Z 25015KT 15SM FEW012 SCT018 BKN025 OVC070 09/05 A2990 RMK SC1SC4SC3AC1 SC TR SLP127 CWVF 271900Z AUTO 28005KT 15/ RMK AO1 T0150 KF05 271855Z AUTO 22005KT 10SM A2977 RMK AO1 KBQP 271855Z AUTO 19006KT 10SM SCT026 SCT038 OVC055 31/26 A2996 RMK AO2 T03090255 CYCP 271900Z VRB02KT 15SM FEW080 FEW350 23/06 A3007 RMK CU1CI1 CU TR CI TR SLP190 DENSITY ALT 3400FT CXMG 271800Z AUTO 33020KT 20/M01 RMK AO1 PK WND 32026/1756 T01951012 CWTY 271900Z AUTO 20008KT 15/11 RMK AO1 SLP107 T01510109 57009 CWUP 271900Z AUTO ///// M02/ A3003 RMK SLP198 EFLP 271850Z AUTO 07006KT 040V130 9999 -SHRA OVC054 05/03 Q1017 KCGZ 271856Z AUTO VRB05KT 10SM CLR 31/M02 A2996 RMK AO2 SLP133 T03061022 $ CYCQ 271900Z 04005KT 020V130 35SM FEW220 19/M00 A3012 RMK CI1 CI TR SLP211 DENSITY ALT 2700FT CWVH 271900Z AUTO 27015G20KT A3008 CWVI 271800Z AUTO 01005KT 22/04 RMK AO1 SLP119 T02190044 51006 CXMI 271900Z AUTO 02007KT 12/07 RMK AO1 T01200071 ZSPD 271900Z 19003MPS CAVOK 17/15 Q1012 NOSIG EFMI 271850Z AUTO 10005KT 9999 -RA FEW006 OVC020 05/04 Q1017 KCHS 271856Z 27011G15KT 10SM SCT230 33/17 A2997 RMK AO2 SLP148 T03280172 $ KDAA 271858Z AUTO 00000KT 10SM OVC060 22/17 A2989 RMK AO2 RAB27E52 SLP125 P0000 T02170165 CYCS 271900Z 13010KT 15SM SCT100 BKN250 02/00 A3002 RMK AC4CI3 ACC ASOCTD SLP168 CWWA 271900Z AUTO 20002KT 22/06 RMK AO1 SLP196 T02160055 50002 CWUS 271900Z AUTO 05003KT 22/06 RMK AO1 SLP185 T02180062 56005 KDAB 271853Z 05011KT 10SM FEW050 31/20 A3004 RMK AO2 SLP171 FU PLUME NW T03060200 PHNL 271853Z 00000KT 10SM FEW030 FEW038 SCT090 SCT250 25/17 A3001 RMK AO2 SLP162 T02500172 CWWB 271900Z AUTO 08008KT 15/12 RMK AO1 SLP121 T01460115 58007 KBRL 271853Z AUTO 10004KT 10SM CLR 22/17 A2988 RMK AO2 SLP114 T02170172 $ CYDL 271900Z AUTO 00000KT 9SM CLR 14/M05 A3014 RMK SLP218 DENSITY ALT 2900FT CXMM 271800Z AUTO 33004KT 20/02 RMK AO1 SLP114 T02010023 58006 EGDM 271850Z AUTO 21010KT //// // NCD 15/13 Q1016 CYED 271900Z AUTO 32007KT 9SM CLR 23/08 A2993 RMK SLP140 KCIN 271855Z AUTO 05010KT 10SM SCT075 BKN095 17/14 A2989 RMK AO2 P0001 NZNP 271900Z 14015KT 35KM BKN038 13/11 Q1014 RMK ALT VATSIM USE ONLY CWVN 271900Z AUTO 33020G28KT 23/01 RMK AO1 PK WND 33028/1851 SLP129 T02320009 53006 CWWE 271900Z AUTO 09007KT 09/08 RMK AO1 SLP091 T00870078 53017 CYDN 271900Z AUTO 31012G22KT 9SM SCT036 BKN046 17/08 A2968 RMK SLP058 DENSITY ALT 1600FT CWUW 271900Z AUTO 30013KT ////SM //// NCD M04/M05 A3006 KBRO 271853Z 14015G23KT 10SM CLR 35/24 A2987 RMK AO2 SLP113 T03500244 PHOG 271854Z 33005KT 10SM FEW030 26/18 A3001 RMK AO2 SLP166 T02560183 KBQX 271855Z AUTO 16010KT 5SM BR CLR 29/29 A2994 RMK A01 NZOH 271900Z 16010KT 30KM BKN020 13/09 Q1016 RMK ALT NZPM VATSIM USE ONLY CXMO 271800Z AUTO 34011KT 22/06 RMK AO1 PK WND 34020/1726 T02240060 VDSR 271900Z 28002KT 7000 SCT015 SCT040 25/25 Q1006 CWWF 271800Z AUTO 33018G38KT 17/02 RMK AO1 PK WND 36038/1759 SLP093 T01650015 56004 CWUX 271900Z AUTO 06005KT 21/M04 RMK AO1 SLP095 T02141035 56013 CYCX 271900Z 05010G15KT 15SM -DZ OVC017 10/04 A2988 RMK SC8 DA-290FT PCPN VRY LGT SLP118 KDAG 271850Z AUTO 00000KT 10SM CLR 26/03 A3000 RMK AO2 SLP139 T02560028 NZNR 271900Z 24008KT 45KM BKN017 13/11 Q1014 RMK ALT VATSIM USE ONLY CYDP 271900Z 08007KT 15SM FEW250 01/M04 A3011 RMK CI1 CI TR SLP197 ORER 271900Z 24008KT CAVOK 25/M02 Q1012 NOSIG VEJS 271200Z 13002KT 3500 HZ SCT020 32/24 Q1001 CWVP 271900Z AUTO 32009G16KT 19/01 RMK AO1 PK WND 30020/1823 SLP150 T01900010 51009 CYEG 271900Z 31010KT 280V340 15SM FEW064 FEW250 24/07 A2994 RMK CU1CI2 CU TR SLP145 DENSITY ALT 3800FT CYCY 271800Z 24005KT 25SM OVC050 01/M02 A3010 RMK SC8 SLP197 NZNS 271900Z 25002KT 35KM SCT070 09/08 Q1017 RMK ALT VATSIM USE ONLY CWVQ 271900Z AUTO 29003KT 21/09 RMK AO1 SLP109 T02100092 58007 CYDQ 271900Z AUTO 35008KT 330V040 9SM CLR 19/01 A3013 RMK SLP216 DENSITY ALT 2800FT KCIR 271855Z AUTO 21007KT 10SM SCT029 SCT036 29/22 A2987 RMK AO2 T02860216 KF17 271855Z AUTO 19009G17KT 10SM SCT032 BKN040 BKN049 32/25 A2993 RMK AO2 T03220247 UNKL 271900Z 00000MPS CAVOK 02/M02 Q1019 R29/CLRD65 NOSIG RMK QFE739 EGDR 271850Z 23005KT 9999 FEW006 SCT008 BKN010 13/11 Q1017 GRN NOSIG ZSQD 271900Z 19002MPS CAVOK 24/11 Q1006 NOSIG PGWT 270955Z 06007KT 7SM FEW016 FEW100 27/24 A2989 RMK LAST KBTA 271855Z AUTO 04015G19KT 10SM CLR 21/12 A2987 RMK AO2 T02080121 CWXA 271800Z AUTO 26009G15KT 20/M01 RMK AO1 SLP163 T01961009 58001 KCKB 271853Z 23006KT 10SM BKN018 BKN023 OVC036 22/18 A2990 RMK AO2 SLP112 T02220183 NZNV 271900Z 03001KT 0150 FG SCT007 M02/M02 Q1019 RMK ALT VATSIM USE ONLY CWVT 271900Z AUTO 05006KT 16/07 RMK AO1 SLP137 T01580066 53005 CWWK 271800Z AUTO 22003KT 18/11 RMK AO1 SLP199 T01830113 51006 CYFB 271900Z 32019KT 30SM BKN250 03/M03 A3017 RMK CI6 CONTRAILS SLP221 CYEK 271900Z 04013KT 15SM -RA FEW009 OVC065 02/01 A2989 RMK SC1SC7 SLP124 KDAL 271853Z 21010G19KT 10SM FEW027 BKN034 OVC041 31/24 A2983 RMK AO2 SLP094 T03110239 KCKC 271854Z AUTO 21006KT 10SM SCT060 20/03 A2984 RMK AO2 KCIU 271856Z AUTO 21007KT 10SM FEW044 23/12 A2987 RMK AO2 SLP136 T02280117 VEKO 271200Z 07010KT 6000 NSC 42/19 Q0996 CWXC 271800Z AUTO 22004KT 20/01 RMK AO1 SLP092 T01970009 58007 CWWL 271700Z AUTO 36017KT 10/09 RMK AO1 PK WND 35020/1633 SLP214 T00970087 50002 CWVU 271800Z AUTO 36012KT 07/06 RMK AO1 SLP115 T00710055 52014 CYFC 271900Z AUTO 03014KT 9SM OVC021 10/06 A2987 RMK SLP117 CXNM 271900Z AUTO 10011G18KT RMK AO1 PK WND 10023/1830 KDAN 271853Z AUTO 23009KT 10SM CLR 29/20 A2988 RMK AO2 SLP110 T02940200 CYEN 271907Z 35023G36KT 10SM -TSRA BKN060CB 11/08 A2984 RMK CB7 CONTUS LTGICCG PRESRR SLP118 PHNY 271856Z AUTO 17006KT 10SM CLR 23/17 A3007 RMK AO2 SLP163 T02330167 KCKF 271855Z AUTO 25009G14KT 10SM CLR 33/15 A3006 RMK AO2 T03280151 EGDX 271850Z AUTO 26012KT 9999 NCD 15/13 Q1016 EGFF 271850Z AUTO 27011KT 9999 NCD 15/13 Q1016 CXNP 271800Z AUTO 01009KT 09/06 RMK AO1 SLP103 T00870062 51010 EGDY 271850Z AUTO 19010KT 9999 NCD 16/13 Q1016 CXMY 271900Z AUTO 10/06 RMK AO1 T01040060 KCKI 271855Z AUTO 23011KT 10SM SCT050 31/17 A2995 RMK AO2 KCJR 271855Z AUTO 02005KT 10SM BKN055 OVC065 24/18 A2989 RMK AO2 T02410179 CWXI 271900Z AUTO 06014KT 04/00 RMK AO1 PK WND 06019/1847 SLP151 T00350000 55002 CYER 271900Z AUTO 09015G20KT 9SM -RA OVC080 05/04 A2972 RMK SLP066 KDCA 271903Z 06006KT 9SM -RA OVC065 22/17 A2989 RMK AO2 RAB00 P0000 T02170172 CXPA 271800Z AUTO 01010KT 19/M03 RMK AO1 PK WND 35019/1734 T01941027 CWWS 271800Z AUTO 23008KT 08/07 RMK AO1 3009 SLP038 T00790066 50002 NZPM 271900Z 16010KT 30KM BKN020 13/09 Q1016 RMK ALT VATSIM USE ONLY CYET 271900Z AUTO 30009G19KT 9SM CLR 23/02 A3002 RMK SLP166 DENSITY ALT 4400FT KBTL 271853Z 00000KT 10SM BKN038 OVC045 22/14 A2991 RMK AO2 SLP123 T02220139 $ CWWU 271900Z 03006KT 15SM BKN010 BKN026 BKN120 04/02 A2988 RMK SF5SC1AC1 LAST OBS/NXT 280700Z SLP120 CXOL 271800Z AUTO 32015KT 21/05 RMK AO1 PK WND 32022/1749 T02100046 CXPC 271900Z AUTO 16/12 RMK AO1 SLP120 T01550119 55004 CWXL 271800Z AUTO 28008KT 22/06 RMK AO1 T02230055 KBTM 271853Z AUTO 28010KT 10SM BKN070 16/M01 A3022 RMK AO2 SLP208 T01561006 $ KCKM 271915Z AUTO 10SM 31/25 A2992 RMK A01 VELP 271000Z 02005KT 5000 HZ FEW020 SCT025 34/24 Q0999 NOSIG CYEV 271900Z VRB05KT 15SM SCT013 04/M00 A3012 RMK SC3 SLP206 EGGD 271850Z AUTO 27011KT 9999 NCD 14/13 Q1016 KDAW 271851Z AUTO 17008KT 10SM OVC060 18/10 A2985 RMK AO2 SLP103 T01830100 KCLE 271851Z 03011KT 10SM FEW033 FEW250 22/13 A2992 RMK AO2 SLP128 T02220128 KCKN 271854Z AUTO 28012G24KT 10SM SCT090 BKN110 22/04 A2977 RMK AO2 KDBN 271855Z AUTO 29009KT 10SM CLR 31/13 A3005 RMK AO2 NZPP 271900Z 20011KT 25KM BKN026 13/09 Q1016 RMK ALT VATSIM USE ONLY CYGE 271900Z VRB03KT 20SM FEW070 23/02 A3009 RMK CU1 SLP191 DENSITY ALT 3800FT KBUF 271854Z 00000KT 10SM SCT028 BKN047 18/11 A2991 RMK AO2 SLP126 T01830111 CYFO 271900Z 32008G16KT 15SM OVC010 09/07 A2969 RMK SC8 SLP063 VELR 271200Z 11003KT 3000 BR FEW020 SCT100 30/26 Q1003 CWWX 271800Z AUTO 29007KT 13/09 RMK AO1 SLP133 T01290094 55002 KBTP 271855Z AUTO 00000KT 10SM BKN029 OVC038 21/14 A2992 RMK AO1 KCKP 271855Z AUTO 03007KT 10SM OVC085 19/12 A2992 RMK AO2 T01920119 KDAY 271856Z 27006KT 10SM FEW033 SCT041 SCT060 26/18 A2988 RMK AO2 SLP110 T02610183 KDBQ 271853Z 26005KT 10SM FEW021 21/16 A2990 RMK AO2 SLP124 T02110161 CYGH 271900Z 26013G19KT 240V300 20SM SCT052 SCT270 14/01 A3010 RMK CU3CI1 CI TR SLP198 CWWZ 271900Z AUTO 04004KT 16/13 RMK AO1 SLP127 T01590129 58004 KBTR 271853Z 18015KT 10SM SCT035 32/23 A3001 RMK AO2 SLP161 T03170233 KCLI 271855Z AUTO 21012G16KT 10SM SCT039 BKN050 BKN075 24/13 A2985 RMK AO2 CYFR 262200Z 01009G17KT 15SM FEW040 15/05 A2978 RMK CU1 /0/ LAST STFD OBS/NEXT291400Z SLP094 DENSITY ALT 700FT CWXR 271900Z AUTO 30016KT 02/ A2987 RMK SLP125 KCMA 271855Z 25009KT 10SM CLR 21/11 A3006 RMK AO2 SLP188 T02110111 NZRC 271900Z 03001KT 0150 FG SCT007 M02/M02 Q1019 RMK ALT NZNV VATSIM USE ONLY CWZA 271900Z AUTO 32003KT 23/08 RMK AO1 SLP185 T02250081 56004 CWYJ 271900Z AUTO 03003KT 20/09 RMK AO1 SLP195 T01990093 52004 CYFS 271900Z 01008G16KT 310V040 15SM SCT055 14/01 A3018 RMK CU4 SLP229 KCLK 271935Z AUTO 30006KT 10SM CLR 31/10 A2979 RMK AO2 CYGK 271900Z 20008KT 15SM SCT050 BKN220 19/11 A2990 RMK SC4CI1 SLP126 DENSITY ALT 800FT CYFT 271900Z 04007KT 360V060 15SM BKN022 M01/M05 A3011 RMK CU5 SLP204 CWYK 271900Z AUTO ///// M04/ A2996 RMK SLP196 VEMN 270930Z 05006KT 5000 HZ FEW020 FEW025CB BKN100 30/25 Q1004 NOSIG KCLL 271853Z 18013KT 8SM SCT037 BKN047 32/23 A2989 RMK AO2 SLP116 T03220233 KDDC 271852Z AUTO 35009G17KT 10SM BKN047 25/13 A2991 RMK AO2 SLP102 T02500133 NZQN 271900Z 04005KT 45KM SKC 02/02 Q1021 RMK ALT VATSIM USE ONLY EGHC 271650Z 25008KT 220V290 9999 SCT005 BKN011 13/12 Q1016 CXPL 271800Z AUTO 28015KT 24/06 RMK AO1 PK WND 28022/1700 T02390057 CWYL 271900Z AUTO 23009KT 20/01 RMK AO1 SLP194 T01960008 52003 CYGL 271900Z 07018KT 15SM FEW040 BKN240 19/02 A2981 RMK SC1CI6 SC TR SLP103 DENSITY ALT 1400FT KCLM 271853Z AUTO 10004KT 10SM CLR 21/11 A3012 RMK AO2 SLP200 T02060106 KCKV 271852Z AUTO 21011KT 10SM FEW027 FEW037 28/22 A2990 RMK AO2 SLP118 T02830217 EFOU 271850Z AUTO 04006KT 9999 FEW062/// 06/01 Q1018 KBTV 271854Z VRB04KT 10SM FEW034 SCT120 21/07 A2987 RMK AO2 SLP115 T02110072 KCMD 271855Z AUTO 19011G15KT 10SM SCT023 SCT028 BKN034 27/21 A3003 RMK AO2 T02670209 KDCM 271855Z AUTO 24007G14KT 7SM CLR 30/16 A2996 RMK AO2 CWYM 271900Z AUTO ///// 02/ A2997 RMK SLP190 CYHD 271900Z AUTO 22011G22KT 9SM FEW065 SCT078 BKN096 20/05 A2971 RMK SLP068 DENSITY ALT 2500FT KBVE 271851Z AUTO 20007KT 8SM OVC036 29/25 A3008 RMK AO2 SLP184 T02890250 $ EGHE 271720Z 26007KT 9999 FEW007 OVC012 15/12 Q1017 CYHE 271900Z AUTO 25010KT 9SM CLR 24/10 A3006 RMK SLP179 DENSITY ALT 1000FT KF44 271855Z AUTO 18008KT 5SM HZ BKN029 OVC034 28/23 A2987 RMK AO2 CXOX 271900Z AUTO 32012G18KT 13/07 RMK AO1 PK WND 32019/1826 SLP098 T01310074 53014 EFPO 271850Z AUTO 27003KT 9999 FEW071/// SCT100/// 09/07 Q1015 CWZG 271800Z AUTO 22007KT 19/01 RMK AO1 SLP188 T01910005 58012 CXOY 271700Z AUTO 31013KT 21/03 RMK AO1 PK WND 32018/1640 T02090032 CYGP 271900Z 07016KT 15SM BKN220 11/04 A2988 RMK CI5 SLP122 EGGP 271850Z 21015KT 9999 SCT018 BKN030 16/13 Q1010 KCMH 271851Z 00000KT 10SM FEW035 BKN070 OVC250 25/19 A2987 RMK AO2 SLP109 T02500189 KDDH 271854Z AUTO VRB04KT 10SM FEW035 OVC090 19/11 A2988 RMK AO2 SLP118 T01940106 KF46 271855Z AUTO 21015G26KT 7SM SCT023 OVC039 30/25 A2986 RMK AO2 T02980245 KCKZ 271855Z AUTO 24004KT 10SM BKN043 OVC050 19/14 A2991 RMK AO2 KBVI 270047Z 00000KT 10SM CLR 15/11 A2991 RMK LAST CYGQ 271900Z 19012G17KT 180V240 15SM BKN028 BKN032TCU OVC080 22/13 A2974 RMK SC6TCU1AS1 SLP076 DENSITY ALT 2300FT KCMI 271853Z VRB03KT 10SM OVC013 21/17 A2991 RMK AO2 SLP123 T02060167 KBUR 271853Z 09005KT 10SM CLR 20/09 A3005 RMK AO2 SLP165 T02000094 EGHH 271850Z 25009KT 9999 FEW013 16/13 Q1016 CYHI 271900Z 07011KT 15SM BKN020 BKN040 05/02 A2992 RMK SC5SC2 SLP135 CYGR 271900Z 07008KT 20SM SCT040 BKN060 08/04 A2989 RMK SC3SC3 SLP123 KCLS 271855Z AUTO 00000KT 10SM CLR 25/14 A3007 RMK AO2 EGHI 271850Z 20005KT 160V230 9999 FEW014 15/12 Q1017 KCLT 271852Z 24010KT 10SM FEW049 FEW150 BKN200 29/18 A2995 RMK AO2 SLP134 T02890178 KCNB 271854Z AUTO 00000KT 10SM SCT065 SCT075 BKN095 21/08 A2990 RMK AO2 T02130078 CYGT 271900Z 25004KT 15SM SCT220 01/M03 A3019 RMK CI3 SLP231 CXRB 271900Z AUTO 27003KT 00/M06 RMK AO1 SOG 00 6005 SLP223 T00001055 CYHK 271900Z AUTO 11009KT 9SM OVC100 02/00 A3008 RMK SLP192 KDCU 271853Z AUTO 22009G18KT 10SM SCT032 BKN065 29/21 A2997 RMK AO2 SLP142 T02890211 KDEC 271854Z 08007KT 10SM FEW015 22/18 A2989 RMK AO2 SLP115 T02220178 KCNC 271855Z AUTO 28010KT 10SM CLR 22/17 A2983 RMK AO2 KBUU 271855Z AUTO 23005KT 10SM CLR 26/20 A2990 RMK AO2 T02640203 KBWD 271855Z AUTO 18010G15KT 10SM SCT042 33/24 A2985 RMK AO2 CWZL 271800Z AUTO 36012KT 12/06 RMK AO1 SLP225 T01230058 52003 KDED 271855Z AUTO 29006KT 10SM CLR 33/14 A3003 RMK AO2 NZRO 271900Z 20003KT 15KM VCSH BKN050 14/14 Q1012 RMK ALT NZTG VATSIM USE ONLY CYHM 271900Z VRB02KT 15SM SCT038 BKN051 19/13 A2990 RMK SC3SC4 SLP129 DENSITY ALT 1400FT CYGV 271900Z AUTO 11011G19KT 9SM BKN100 BKN220 OVC240 07/01 A2991 RMK SLP131 KCLW 271855Z AUTO 32006KT 10SM CLR 28/17 A3008 RMK AO2 PHSF 271856Z AUTO 23003KT 10SM CLR 17/03 A3031 RMK AO2 SLP159 T01670033 $ KBVN 271855Z AUTO 36005G08KT 10SM OVC065 22/10 A2993 RMK AO2 T02160097 CWZN 271800Z AUTO 07024KT 09/04 RMK AO1 PK WND 06030/1722 SLP093 T00850036 53008 CYGW 271900Z AUTO 09009G15KT 050V120 9SM CLR 22/M03 A2984 RMK SLP106 DENSITY ALT 900FT KBVO 271853Z AUTO 17008KT 10SM FEW033 SCT046 31/23 A2974 RMK AO2 SLP060 T03110228 EGGW 271850Z AUTO 21011KT 9999 FEW021 18/13 Q1015 CWZO 271900Z AUTO 02008KT RMK AO1 CYGX 271901Z 34006KT 290V020 15SM -RA BKN011 14/10 A2961 RMK SC7 SLP034 DENSITY ALT 800FT ZSSS 271900Z 15002MPS CAVOK 20/16 Q1011 NOSIG KBWG 271853Z AUTO 21008KT 10SM FEW028 FEW100 28/22 A2991 RMK AO2 LTG DSNT NE SLP120 T02830217 KBUY 271854Z AUTO 25010KT 10SM CLR 32/18 A2990 RMK AO2 SLP117 T03170178 TSNO KDCY 271855Z AUTO 31004KT 10SM SCT031 BKN075 27/19 A2986 RMK AO2 T02720191 CWYY 271900Z AUTO 24004KT 25/07 RMK AO1 SLP181 T02450069 56008 KDEH 271855Z AUTO 00000KT 10SM CLR 22/12 A2991 RMK AO2 EGHQ 271850Z 25010KT 9999 BKN012 13/11 Q1017 UNNT 271900Z 00000MPS 9000 NSC 10/02 Q1015 R07/090070 R16/090070 NOSIG RMK QFE751/1002 CWZQ 271900Z AUTO 11/06 RMK AO1 18 2016 SLP104 T01080057 CXRH 271900Z AUTO 08007KT 13/M02 RMK AO1 T01331023 KBWI 271854Z 20003KT 10SM OVC080 22/15 A2989 RMK AO2 RAB04E43 SLP122 VCSH W P0001 T02170150 KCMR 271855Z AUTO VRB06G12KT 10SM CLR 20/M05 A3022 RMK AO2 KCNI 271855Z AUTO 22010KT 10SM SCT034 28/13 A3004 RMK AO2 KBVS 271855Z AUTO VRB03KT 9SM CLR 22/12 A3010 RMK A01 KBXA 271855Z AUTO 22008G14KT 10SM SCT033 SCT044 33/22 A3003 RMK AO2 T03300220 EGJA 271820Z 30008KT CAVOK 14/12 Q1017 CWZS 271900Z AUTO 07002KT 20/04 RMK AO1 SLP095 T02030044 56013 EFSA 271850Z AUTO 00000KT 9999 -DZ OVC059 05/04 Q1018 KCNK 271855Z AUTO 34006KT 10SM FEW024 BKN095 22/17 A2986 RMK AO2 SLP101 T02170167 CYIK 271900Z 04008KT 15SM FEW100 FEW150 FEW200 FEW250 03/M01 A3024 RMK AS1AS1CI1CS1 AS TR AS TR CI TR CS TR SLP245 EGJB 271850Z 31007KT CAVOK 14/12 Q1017 KBVU 271855Z AUTO 06008KT 10SM 29/M02 A3001 RMK AO2 CXSC 271800Z AUTO 32014KT 23/M00 RMK AO1 PK WND 30022/1734 T02311002 UNOO 271900Z 15007MPS 9999 BKN033CB 19/00 Q1006 R07/CLRD60 NOSIG RMK QFE746 CXRL 271800Z AUTO 35007KT 19/04 RMK AO1 T01850042 CYHU 271900Z AUTO 00000KT 9SM BKN050 21/12 A2985 RMK SLP111 DENSITY ALT 800FT KCNM 271853Z AUTO 25021G28KT 10SM CLR 34/M05 A2994 RMK AO2 PK WND 27029/1830 SLP076 T03391050 KCOD 271856Z AUTO VRB05KT 10SM FEW075 17/M03 A3018 RMK AO2 SLP209 T01721028 CWZV 271800Z AUTO 17004KT 13/08 RMK AO1 SLP214 T01270080 51007 KDEN 271853Z 03010KT 9SM -RA FEW030 BKN045 OVC100 12/06 A3011 RMK AO2 RAB33 SLP157 P0000 T01170061 KCOE 271856Z AUTO 26004KT 10SM CLR 23/09 A3016 RMK AO2 SLP217 T02330089 NZTG 271900Z 20003KT 15KM VCSH BKN050 14/14 Q1012 RMK ALT VATSIM USE ONLY NZSP 271750Z 03010KT 1200 BLSN BKN040 M49/ A2873 RMK CLN AIR 02015G22KT ALL WNDS GRID CXSE 271800Z AUTO 12012KT 00/M02 RMK AO1 PK WND 12017/1736 SLP207 T00001015 53002 CWZW 271800Z AUTO 19007KT 10/M04 RMK AO1 SOG 11 8007 SLP233 T01021042 CYIN 271900Z AUTO 03007KT 310V090 9SM CLR 21/04 A3013 RMK SLP198 DENSITY ALT 5000FT KCMX 271853Z AUTO 28015KT 10SM CLR 21/09 A2981 RMK AO2 SLP094 T02060094 KCNO 271853Z 00000KT 10SM SCT034 22/09 A3006 RMK AO2 SLP177 T02220094 KBVX 271855Z AUTO 20007KT 10SM SCT028 SCT036 BKN060 30/24 A2986 RMK AO1 KCOF 271858Z AUTO 11010KT 10SM CLR 28/22 A3003 RMK AO2 SLP173 T02800224 CYJF 262200Z 25007G24KT 210V280 15SM FEW110 FEW240 22/M01 A2969 RMK AC1CI1 CI TR 25.3/9.8/0/0 LAST OB/NEXT 291400UTC SLP057 DENSITY ALT 1900FT CYIO 271900Z 25006KT 40SM FEW003 BKN028 00/M03 A3014 RMK SC1SC7 SC TR SLP214 KBVY 271853Z 14010KT 10SM CLR 16/10 A2988 RMK AO2 SLP113 T01560100 EFRO 271850Z AUTO 03005KT CAVOK 04/M04 Q1019 KCMY 271850Z AUTO 27009KT 10SM CLR 23/10 A2991 RMK AO2 T02270104 KBWP 271855Z AUTO 26015G21KT 10SM SCT090 23/01 A2983 RMK AO1 CYHY 271900Z 31015G21KT 15SM VCSH BKN025 OVC034 08/05 A3009 RMK SC6SC2 SHS SE SLP198 ZUCK 271900Z 01002MPS CAVOK 22/17 Q1011 NOSIG KDEQ 271853Z AUTO 22008KT 9SM SCT031 BKN048 30/24 A2984 RMK AO2 SLP100 T03000244 CXSH 271900Z AUTO 19007KT 20/10 RMK AO1 SLP107 T01970102 58009 CYHZ 271900Z 02013KT 15SM OVC020 11/07 A2976 RMK SC8 SLP082 CWZZ 271900Z AUTO 36012KT ////SM //// NCD 00/M10 A3003 KDFI 271853Z AUTO 07006KT 10SM OVC045 22/16 A2989 RMK AO2 SLP120 T02170156 EFSI 271850Z AUTO 36005KT 330V040 7000 SCT003 BKN008 BKN011 08/07 Q1016 EGKA 271850Z 21008KT CAVOK 15/12 Q1017 CYKA 271900Z 18003KT 40SM FEW060 FEW250 24/09 A3006 RMK CU1CI1 CU TR SLP180 DENSITY ALT 2200FT KDET 271853Z 12009KT 10SM CLR 22/13 A2990 RMK AO2 SLP124 T02220133 EGJJ 271850Z 35005KT CAVOK 15/12 Q1017 NOSIG KF70 271855Z AUTO 35003KT 10SM CLR 21/08 A3006 RMK AO1 KBXK 271855Z AUTO 12004KT 10SM CLR 30/00 A2995 RMK AO1 EGKB 271850Z 20010KT CAVOK 16/12 Q1016 KCPC 271855Z AUTO 22007KT 10SM SCT055 31/18 A2992 RMK AO2 T03140182 KCNU 271852Z AUTO 07009KT 10SM OVC016 25/19 A2977 RMK AO2 SLP070 T02500194 EHAK 271855Z AUTO 16024KT 9999 NSC 16/12 Q1012 CXSL 271900Z AUTO 36006KT 22/05 RMK AO1 T02160046 KCOM 271855Z AUTO 19009G17KT 10SM SCT044 35/21 A2985 RMK AO2 T03480206 CYKD 271900Z 35004KT 310V010 15SM SCT020 05/M00 A3013 RMK SC3 SLP204 KCNW 271855Z 19015G20KT 4SM HZ BKN026 OVC031 30/23 A2987 CXTD 271900Z AUTO 01009KT 08/06 RMK AO1 SLP106 T00810061 53011 CYIV 271900Z 28007KT 15SM FEW020 BKN040 18/09 A2961 RMK CU2SC3 SLP033 DENSITY ALT 1600FT KDEW 271853Z AUTO 23006KT 10SM CLR 22/07 A3015 RMK AO2 SLP205 T02220067 $ KCON 271851Z AUTO 00000KT 10SM OVC060 21/08 A2985 RMK AO2 SLP106 T02110083 KBWW 271915Z AUTO 29023G30KT 10SM FEW075 FEW090 21/02 A2983 RMK AO2 PHTO 271853Z VRB03KT 10SM FEW030 FEW200 26/17 A3002 RMK AO2 SLP164 T02610167 EHAM 271855Z 27008KT CAVOK 20/14 Q1016 NOSIG CYKF 271908Z AUTO 00000KT 4SM HZ FEW039 OVC049 20/11 A2989 RMK SLP123 DENSITY ALT 1800FT CZBF 271900Z 03006KT 350V050 15SM FEW030 FEW120 OVC230 13/05 A2989 RMK SC2AC1CS6 AC TR HALO CONTRAILS SLP125 KCNY 271853Z AUTO 31015G21KT 10SM CLR 24/M06 A3007 RMK AO2 SLP133 T02391056 KBYG 271853Z AUTO 36018KT 10SM CLR 18/01 A3013 RMK AO2 PK WND 35030/1843 SLP171 T01780006 KBYH 262050Z 22023G32KT 10SM BKN034 OVC043 27/19 A2981 RMK LAST CYKG 271900Z 33007KT 290V010 60SM FEW270 06/M04 A3017 RMK CI1 SLP231 CXSP 271800Z AUTO 34005KT 20/03 RMK AO1 T01990029 KCOQ 271855Z AUTO 23010KT 10SM CLR 22/02 A2985 RMK AO2 CXTH 271800Z AUTO 03005KT 21/04 RMK AO1 T02100040 VEPT 271830Z 07005KT 3000 HZ FEW100 27/25 Q1002 NOSIG KBYI 271853Z AUTO 36003KT 10SM CLR 18/07 A3023 RMK AO2 SLP219 T01780067 CXSR 271800Z AUTO 01007KT 16/M02 RMK AO1 PK WND 35020/1707 SLP195 T01641022 51017 VERC 271900Z 11004KT 3000 HZ FEW018 SCT100 26/23 Q1006 NOSIG KCOS 271854Z 03017G24KT 10SM -RA BKN043 10/07 A3012 RMK AO2 RAB19GSB19E26B33E43 SLP164 OCNL LTGICCG DSNT W-NW CB DSNT W-NW MOV E P0001 T01000067 $ NZTU 271900Z 01004KT 0400 FG SCT050 04/04 Q1021 RMK ALT VATSIM USE ONLY CYKJ 271900Z AUTO 34009KT 9SM BKN020 BKN028 OVC036 12/08 A2984 RMK SLP122 DENSITY ALT 1700FT KCOT 271853Z AUTO 15009KT 10SM CLR 38/21 A2982 RMK AO2 SLP089 T03780206 KCPK 271855Z AUTO 22007KT 7SM CLR 29/17 A2987 RMK AO2 T02910172 KCQB 271855Z AUTO 21011G15KT 10SM SCT047 32/23 A2975 RMK AO2 T03250228 CYJT 271900Z 07011G17KT 15SM FEW020 FEW200 17/01 A2984 RMK CU1CI1 CI TR SLP108 DENSITY ALT 300FT EGKK 271850Z 21008KT CAVOK 18/12 Q1016 KCOU 271854Z 29006KT 4SM +TSRA BR BKN039 BKN047 OVC055 21/20 A2987 RMK AO2 LTG DSNT ALQDS RAB18 TSB1759E16B26 SLP107 LTGCG TS S MOV E P0032 T02110200 EHBK 271855Z AUTO VRB02KT 9999 NSC 28/13 Q1016 NOSIG KCQC 271853Z AUTO 27016G28KT 10SM CLR 22/M09 A3015 RMK AO2 PK WND 28035/1803 SLP132 T02171094 KBYL 271855Z AUTO 20008KT 170V230 10SM FEW028 SCT035 BKN044 27/21 A2995 RMK AO1 CYKL 271908Z AUTO 06009G16KT 4SM -SN -UP SCT010 SCT019 BKN025 OVC036 01/00 A2998 RMK SLP181 EGLC 271850Z AUTO 22011KT 9999 NCD 20/11 Q1015 CYLD 271900Z 20006KT 180V280 15SM BKN055 22/09 A2983 RMK SC7 C SLP111 DENSITY ALT 2700FT KDFW 271853Z 20018KT 10SM SCT028 BKN040 BKN250 32/24 A2981 RMK AO2 SLP086 T03220244 CXTN 271800Z AUTO 27013KT RMK AO1 PK WND 26019/1722 53015 KCQF 271855Z AUTO 23006KT 10SM CLR 28/23 A3008 RMK AO2 CYKO 271700Z 13016KT 15SM SKC 06/M02 A3020 RMK SLP231 EGLF 271850Z 23011KT CAVOK 16/12 Q1016 CXTO 271900Z AUTO 17/12 RMK AO1 SLP125 T01720120 58004 CXTP 271900Z AUTO 08004KT 04/M01 RMK AO1 SLP136 T00441008 53003 CYKP 271900Z AUTO 18011G21KT 9SM FEW110 24/12 A2967 RMK SLP043 DENSITY ALT 2000FT OSDI 271900Z 19006KT CAVOK 21/02 Q1013 EFTP 271850Z AUTO VRB03KT 9999 OVC027 09/08 Q1015 CYKQ 262100Z 32007KT 15SM BKN290 25/07 A2974 RMK CI7 LAST STFD OBS/NEXT 281300 UTC SLP073 DENSITY ALT 1400FT CYLH 271900Z AUTO VRB03KT 9SM FEW065 SCT110 24/08 A2965 RMK SLP045 DENSITY ALT 2300FT KCPR 271853Z 28018KT 10SM FEW090 13/04 A3018 RMK AO2 PK WND 29027/1821 SLP196 T01280039 $ NZWB 271900Z 25002KT 35KM SCT070 09/08 Q1017 RMK ALT NZNS VATSIM USE ONLY KCPS 271853Z 09003KT 10SM VCTS FEW039 SCT050 26/19 A2985 RMK AO2 LTG DSNT S-NW SLP104 T02610189 KBYS 271855Z AUTO VRB05KT 10SM CLR 29/00 A3002 RMK AO2 SLP138 WND DATA ESTMD T02861004 CYLJ 271900Z 35014G22KT 15SM FEW070 FEW250 20/02 A2986 RMK CU1CI1 CU TR CI TR SLP122 DENSITY ALT 2600FT CYMA 271900Z 10007KT 060V130 20SM FEW050 OVC150 13/M07 A3008 RMK CU2AS6 SLP208 EFVA 271850Z AUTO 36006KT 9999 OVC005/// 07/07 Q1016 KCPT 271855Z AUTO 19015G20KT 4SM HZ SCT021 OVC037 30/26 A2986 RMK AO2 CYLK 271900Z VRB02KT 1/8SM FG VV001 04/04 A2996 RMK FG8 SLP158 ORMM 271900Z 30010KT CAVOK 33/11 Q1007 NOSIG CZDB 271800Z AUTO 03009KT 09/06 RMK AO1 SLP096 T00850055 51014 KCPU 271855Z AUTO 33008KT 10SM CLR 23/10 A3007 RMK AO2 T02280102 CYLL 271900Z 33011G18KT 15SM FEW065 FEW110 21/03 A2990 RMK CF1AC1 SLP135 DENSITY ALT 3300FT EGMC 271850Z 22009KT CAVOK 18/11 Q1015 EFTU 271850Z AUTO 24003KT 190V300 9999 FEW060/// 12/07 Q1015 EGLL 271850Z AUTO 22011KT 9999 NCD 18/12 Q1016 KCQM 271855Z AUTO 24009KT 10SM SCT095 22/05 A2980 RMK AO2 VERP 271800Z 16022KT 5000 HZ SCT025 FEW030CB BKN100 32/14 Q1005 NOSIG CXTV 271800Z AUTO 30011G16KT 03/02 RMK AO1 PK WND 30018/1731 SLP187 T00310017 51014 KDHN 271853Z 27010KT 10SM SCT043 30/19 A3011 RMK AO2 SLP189 T03000194 KDGW 271853Z AUTO 29010KT 10SM SCT055 BKN070 BKN100 14/01 A3014 RMK AO2 SLP183 T01440011 KCRE 271853Z 21014KT 10SM CLR 28/21 A2993 RMK AO1 SLP137 T02830211 EGMD 271850Z AUTO 25009KT 9999 NCD 17/13 Q1017 KBZN 271856Z 01006KT 10SM CLR 18/04 A3018 RMK AO2 SLP209 T01780044 KCRG 271853Z 24009KT 10SM CLR 32/14 A3003 RMK AO2 SLP170 T03170144 KBYY 271855Z AUTO 17012G17KT 7SM OVC022 30/24 A2994 RMK AO2 T03060243 ORNI 271900Z 34008KT 7000 NSC 32/M02 Q1009 NOSIG CYKY 271900Z 33016G23KT 15SM FEW050 BKN120 BKN250 23/02 A2989 RMK CU2AC3CI2 TCU TOPS DIST W SLP123 DENSITY ALT 3700FT CZCP 271900Z AUTO 27012KT ////SM //// OVC002 M00/M00 A2985 CYKZ 271900Z 08005KT 070V160 15SM FEW012 SCT038TCU BKN050 18/13 A2990 RMK CF1TCU4SC3 CF TR SLP127 DENSITY ALT 1100FT CYMH 271900Z AUTO 04009KT 9SM FEW011 BKN019 BKN060 OVC071 03/00 A3005 RMK SLP178 NZWK 271900Z 20003KT 15KM VCSH BKN050 14/14 Q1012 RMK ALT NZTG VATSIM USE ONLY CZCR 271900Z AUTO 08013KT 12/07 RMK AO1 PK WND 08018/1825 SLP121 T01240067 55000 KDIJ 271856Z AUTO 33006KT 10SM SCT047 BKN070 13/01 A3029 RMK AO2 SLP244 T01280006 CYMJ 270025Z 30020KT 15SM SCT082 BKN250 20/01 A2972 RMK AC4CI1 LAST OBS / NXT 281800 UTC SLP069 CYNA 271900Z AUTO 13012G18KT 9SM FEW100 07/M01 A2994 RMK SLP141 KDHT 271853Z AUTO 01013KT 10SM SCT039 24/13 A3000 RMK AO2 SLP113 T02440128 KCQT 271847Z AUTO 27005KT 10SM OVC038 21/11 A3006 RMK AO2 SLP176 T02060106 KDIK 271856Z AUTO 28016G29KT 10SM SCT075 SCT100 22/02 A2986 RMK AO2 PK WND 25029/1803 SLP110 T02170017 CXWB 271700Z AUTO 11018KT 06/M01 RMK AO1 PK WND 11022/1609 SLP200 T00631009 57009 EFUT 271850Z AUTO 18002KT 9999 -RA OVC035 09/04 Q1017 CYNC 262000Z 31008KT 15SM FEW060 FEW300 23/04 A2978 RMK CU1CI1 LAST STFD OBS/NEXT 281600Z SLP086 DENSITY ALT 1100FT CYLU 271900Z 29009KT 15SM FEW052 SCT066 BKN230 04/M03 A3014 RMK SC1AS2CS3 SLP213 NZWN 271900Z AUTO 18023KT 9999 OVC015/// 11/09 Q1019 TEMPO 4000 RADZ BKN006 TXKF 271855Z 28014KT 9999 FEW020 SCT300 26/18 Q1016 EHDL 271855Z AUTO VRB04KT 9999 FEW210 28/13 Q1015 BLU CYND 271900Z 22008KT 15SM SCT054 BKN120 23/11 A2984 RMK CU4AC2 SLP108 DENSITY ALT 1200FT CXVM 271800Z AUTO 01008KT 21/02 RMK AO1 T02080015 CYMM 271900Z AUTO 32010G15KT 270V350 9SM CLR 22/03 A2987 RMK SLP123 DENSITY ALT 2300FT KCQW 271855Z AUTO 27007KT 10SM FEW060 31/ A2992 RMK AO2 NZWP 271900Z 29004KT 40KM BKN015 13/13 Q1013 RMK ALT NZAA VATSIM USE ONLY CXVN 271900Z AUTO 05005KT 18/12 RMK AO1 SLP117 T01800115 58005 CYNE 271900Z AUTO 23008KT 9SM FEW016 SCT037 BKN049 OVC075 14/10 A2959 RMK SLP029 DENSITY ALT 1200FT CYLW 271900Z AUTO 07003KT 320V110 9SM CLR 24/09 A3007 RMK SLP184 DENSITY ALT 2500FT KCQX 271852Z AUTO VRB04KT 10SM FEW025 SCT033 14/09 A2990 RMK AO2 SLP125 T01440094 CYMO 271900Z AUTO 11007KT 050V140 9SM -RA VCTS SCT065 OVC090 17/14 A2979 RMK LTNG DIST ALQDS PRESRR SLP090 DENSITY ALT 300FT KCSG 271851Z 28010G14KT 10SM CLR 29/17 A3004 RMK AO2 SLP169 T02940172 KCRP 271851Z 13015G24KT 10SM FEW028 FEW180 OVC250 32/26 A2987 RMK AO2 SLP113 T03170256 NZWR 271900Z 29004KT 40KM BKN015 13/13 Q1013 RMK ALT NZAA VATSIM USE ONLY KCRQ 271853Z AUTO 26009KT 10SM BKN034 19/12 A3006 RMK AO2 SLP178 T01890122 NZWS 271900Z 14007KT 20KM SCT090 10/07 Q1017 RMK ALT VATSIM USE ONLY EGNH 271850Z 21015KT 5000 -RADZ SCT003 BKN005 15/14 Q1009 EHEH 271855Z AUTO 33008KT 270V030 9999 OVC160 24/16 Q1015 BLU 31011KT CAVOK TEMPO FEW040CB KCRS 271853Z AUTO 19014KT 4SM HZ BKN030 OVC036 31/24 A2988 RMK AO2 SLP111 T03060239 KEBA 271855Z AUTO 27010KT 5SM HZ SCT048 SCT050 31/19 A3001 RMK AO2 T03090185 NZWU 272000Z 03002KT 0600 FG BKN001 03/01 Q1018 RMK FOG DRIFTING OVER FROM RIVER CZFA 271900Z 07003KT 360V150 30SM FEW100 FEW120 FEW180 SCT220 14/M06 A3008 RMK AC1AC1AC1CI2 ACSL LWR AC TR SLP211 DENSITY ALT 2500FT CYOA 271900Z 34003KT 12SM -RA OVC006 06/05 A2994 RMK ST8 EGNJ 271850Z 20018KT 9999 BKN025 19/14 Q1011 KCTB 271856Z AUTO 31010KT 10SM FEW080 23/02 A3008 RMK AO2 SLP170 T02280022 KDKB 271855Z AUTO 00000KT 10SM SCT027 23/17 A2991 RMK AO2 T02270169 CYMT 271900Z AUTO 33013G21KT 9SM SCT110 BKN200 23/05 A2976 RMK SLP082 DENSITY ALT 2600FT CYOC 271900Z 23008KT 170V250 35SM FEW035 12/M05 RMK CU2 DENSITY ALT MISG CZEL 271900Z AUTO 26003KT 19/11 RMK AO1 SLP126 T01910112 58007 KCSM 271853Z AUTO 28008KT 10SM CLR 31/12 A2980 RMK AO2 SLP065 T03060122 CZEM 262000Z 32008KT 15SM FEW040 FEW260 21/06 A2977 RMK SC1CI1 LAST STFD OBS/NEXT 281400 UTC SLP081 DENSITY ALT 900FT CXWM 271800Z AUTO 32011KT 21/03 RMK AO1 T02130027 CYNM 271900Z AUTO VRB04KT 9SM BKN070 BKN093 23/08 A2979 RMK SLP093 DENSITY ALT 2200FT CYOD 271900Z 35011KT 15SM FEW060 FEW140 22/05 A2989 RMK CU1AC1 SLP132 EGNM 271850Z 22011KT 190V260 9999 SCT013 BKN016 16/13 Q1009 KCRW 271854Z 25008KT 10SM SCT027 BKN095 26/18 A2989 RMK AO2 SLP115 BKN V SCT T02560183 KEAN 271855Z AUTO 34011G15KT 10SM SCT040 SCT049 BKN065 15/06 A3014 RMK AO2 T01480055 EHDV 271855Z AUTO 23027KT 190V280 9999 NCD 15/13 Q1012 EHFD 271855Z AUTO 17024KT 9999 NSC 16/12 Q1013 EGMW 271650Z 17017KT CAVOK 17/14 Q1013 CXVW 271800Z AUTO 33015KT 19/02 RMK AO1 PK WND 35021/1743 T01940015 CXWN 271900Z AUTO 22004KT 20/02 RMK AO1 SLP052 T01990019 56008 KCRX 271855Z AUTO 21011KT 10SM SCT026 BKN030 BKN039 29/22 A2993 RMK AO2 CYMX 271900Z 26005KT 140V280 45SM FEW045 SCT140 BKN240 21/11 A2985 RMK CU2AC2CI1 SLP112 DENSITY ALT 1100FT KEBG 271855Z AUTO 15015G20KT 10SM CLR 37/22 A2983 RMK AO2 T03650217 KCSQ 271855Z AUTO 02016G21KT 10SM SCT008 BKN013 BKN025 18/16 A2984 RMK AO2 UNTT 271900Z VRB01MPS CAVOK 05/01 Q1016 NOSIG RMK QFE747 KEAR 271855Z AUTO 33010KT 320V030 10SM FEW049 22/11 A2993 RMK AO1 EGNR 271750Z 21015G25KT 170V230 9999 FEW015 SCT023 18/13 Q1010 KCTJ 271855Z AUTO 24005KT 10SM SCT026 BKN041 OVC047 26/20 A3008 RMK AO2 T02610197 CYPA 271900Z 36013G19KT 310V020 15SM FEW060 19/04 A2978 RMK SC2 SLP095 DENSITY ALT 2300FT CYOJ 271900Z 34014G24KT 290V010 15SM BKN055 18/06 A3006 RMK CU5 SLP190 DENSITY ALT 1500FT KDKK 271853Z AUTO 00000KT 10SM CLR 18/12 A2992 RMK AO2 SLP131 T01830122 $ KCUB 271853Z AUTO 25010KT 10SM SCT055 33/17 A2997 RMK AO2 SLP144 T03280167 EGPA 271850Z AUTO VRB02KT 9999 NCD ///// Q1008 EGNS 271850Z 26005KT 240V300 2500 BR BKN002 BKN016 OVC040 13/13 Q1008 TEMPO 4000 SCT002 BKN007 KEAT 271855Z AUTO 12007KT 10SM CLR 25/04 A3008 RMK AO2 SLP180 T02500044 EGPB 271850Z AUTO 07007KT 9999 BKN005/// 12/11 Q1009 EGNT 271850Z VRB03KT 9999 FEW032 19/15 Q1006 KEAU 271856Z 34008KT 10SM BKN090 OVC110 20/08 A2987 RMK AO2 PRESFR SLP112 T02000078 CYPC 271900Z 28009KT 15SM OVC007 02/01 A2996 RMK ST8 SLP148 ZUGY 271900Z 02002MPS 8000 FEW023 12/10 Q1017 NOSIG KCSV 271906Z AUTO 26007KT 10SM SCT022 SCT031 SCT075 25/19 A3001 RMK AO2 T02500194 EGPC 271850Z AUTO 04002KT 8000 NCD 14/12 Q1007 CZFM 271900Z 33005KT 290V010 35SM FEW074 14/M01 A3008 RMK AC1 SLP188 CZEV 271800Z AUTO 28007KT 02/M01 RMK AO1 SLP203 T00211012 53014 EGOM 271850Z AUTO 23009KT 9000 BR NCD 16/15 Q1007 EGNV 271850Z 20012KT 9999 FEW019 SCT021 18/14 Q1008 EGPD 271850Z 09004KT 050V140 9999 7000NE VCFG FEW003 13/11 Q1008 CYPD 271900Z AUTO 07014G20KT 020V090 9SM OVC016 09/05 A2979 RMK SLP093 CZFN 262300Z VRB10G19KT 25SM FEW022 BKN035 OVC090 12/06 A2976 RMK SC2SC4AC2 5.8/12.7/TR/NIL CIG RAG LAST STFD OBS NEXT 291500 UTC SLP086 CYPE 271900Z 36013G19KT 15SM SCT088 SCT100 BKN250 21/M02 A3007 RMK CU3AC1CI1 SLP191 DENSITY ALT 2800FT EGPE 271850Z 24008KT 9999 FEW032 17/16 Q1007 KDLF 271858Z 14009KT 10SM FEW027 SCT120 BKN180 32/26 A2986 RMK AO2A SLP097 T03200257 CYOO 271900Z AUTO 16004KT 130V220 9SM OVC013 17/13 A2990 RMK SLP127 DENSITY ALT 800FT EGNX 271850Z 22016KT 9999 BKN023 17/12 Q1013 EGPF 271850Z AUTO VRB02KT 9999 //////TCU 19/17 Q1006 KECG 271854Z 21006KT 10SM CLR 30/19 A2988 RMK AO2 SLP117 T03000189 CYPG 262200Z 27009KT 240V300 15SM SCT044 BKN080 18/09 A2961 RMK CU4AC3 LAST OBS/NEXT 291100 UTC SLP032 EGOP 271850Z AUTO 23020KT 9999 // SCT017/// 14/13 Q1015 EHGG 271855Z AUTO 15005KT 120V180 9999 NCD 27/13 Q1015 NOSIG KDLH 271855Z 27006KT 10SM FEW050 22/05 A2984 RMK AO2 SLP105 T02220050 KCUH 271855Z AUTO 21009G16KT 10SM SCT046 SCT050 32/22 A2973 RMK AO2 T03240222 CXYH 271800Z AUTO 14/04 RMK AO1 SLP204 T01440035 51013 CYPH 271900Z AUTO 10018KT 9SM CLR 10/M03 A3008 RMK SLP188 EGPH 271850Z 03005KT 330V060 8000 VCSH SCT012CB 14/12 Q1007 KDKR 271855Z AUTO 19012G17KT 9SM BKN001 BKN016 BKN040 32/24 A2992 RMK AO2 KDMA 271858Z AUTO 33003KT 10SM FEW200 30/M09 A3001 RMK AO2 SLP121 T02991092 CHINO RWY30 $ KEBS 271855Z AUTO 33007KT 4SM RA SCT034 SCT042 SCT050 16/14 A2989 RMK AO2 P0019 EGPI 271850Z AUTO 34011KT 6000 OVC002/// 13/12 Q1009 CZFS 271800Z AUTO 34010KT 13/01 RMK AO1 1014 SLP227 T01290009 50002 EGOS 271850Z AUTO 23017KT 9999 BKN018/// SCT026/// 16/12 Q1012 RERA CYQA 271900Z AUTO 00000KT 9SM BKN055 OVC069 19/11 A2989 RMK SLP123 DENSITY ALT 1600FT KCVB 271855Z AUTO 17008KT 130V200 5SM HZ SCT042 35/21 A2987 RMK AO2 T03460214 EHFS 271855Z AUTO 27012KT 9999 NSC 18/14 Q1016 CYQB 271900Z 26004KT 200V290 30SM FEW040 FEW140 BKN170 18/05 A2985 RMK CU1AC1CI6 CU TR AC TR SLP112 DENSITY ALT 700FT EGPK 271850Z 25009KT 9000 FEW020 SCT045 17/13 Q1007 KCUL 271855Z AUTO 27003KT 7SM -RA SCT060 29/22 A2984 RMK AO2 T02940218 KEDC 271855Z AUTO 20008KT 10SM CLR 32/24 A2988 RMK AO2 KDLL 271855Z AUTO 24005KT 10SM CLR 21/14 A2990 RMK AO2 T02050139 KCVC 271855Z AUTO 27006KT 10SM SCT042 BKN049 30/18 A3001 RMK AO2 CYPL 271900Z 24011G19KT 200V270 15SM SCT045 BKN230 22/07 A2968 RMK CU4CI3 SLP056 DENSITY ALT 2600FT CXZC 271900Z AUTO 10005KT 17/14 RMK AO1 9PAST HR 3003 SLP090 P0007 T01660137 50019 EGPL 271850Z AUTO 34014KT 8000 -RA OVC004/// 12/11 Q1011 EGOV 271850Z AUTO 24020KT 7000 -DZ BKN002/// BKN010/// 14/13 Q1010 CYQD 271900Z 34009KT 15SM -DZ OVC013 10/08 A2966 RMK SF8 CIG ESTD SLP054 KEDE 271900Z AUTO 22005KT 10SM CLR 30/17 A2990 RMK AO2 T03030168 EGPM 271550Z 23016KT CAVOK 18/13 Q1010 NOSIG KDLN 271853Z AUTO 07004KT 10SM OVC095 17/01 A3021 RMK AO2 SLP201 T01720011 VGEG 271700Z 08007KT 6000 FEW018 BKN100 27/23 Q1003 NOSIG EGPN 271450Z 09005KT 9000 VCSH FEW025 16/13 Q1008 CYOW 271900Z 27006KT 250V040 15SM SCT050 BKN120 22/10 A2987 RMK CU3AC3 SLP116 DENSITY ALT 1300FT KDLO 271855Z AUTO 27005KT 10SM SCT040 SCT047 21/09 A3005 RMK AO2 T02100092 KDKX 271855Z AUTO 24008KT 10SM FEW028 FEW045 BKN055 26/21 A2997 RMK A01 CYQF 271900Z 32015G22KT 15SM FEW070 23/04 A2999 RMK CU1 SLP157 DENSITY ALT 4500FT KECP 271853Z 21009KT 10SM FEW036 30/21 A3006 RMK AO2 SLP191 T03000211 EGPO 271850Z 33008KT 9999 -RA BKN004 BKN011 13/12 Q1010 KCVG 271852Z 20008KT 9SM SCT030 SCT055 27/21 A2988 RMK AO2 SLP106 T02720206 CYPO 271900Z AUTO 12009KT 9SM BKN065 BKN080 OVC099 17/11 A2973 RMK TS/LTNG TEMPO UNAVBL SLP069 DENSITY ALT 600FT KDLP 271900Z AUTO 19005KT 8SM CLR 28/27 A3008 RMK A01 KCTY 271855Z AUTO 27009KT 10SM CLR 30/15 A3008 RMK AO2 CYOY 271900Z AUTO 20004KT 120V280 9SM CLR 19/04 A2984 RMK SLP110 CYQG 271900Z 07007KT 020V130 15SM SCT040 SCT260 23/14 A2989 RMK CU3CI1 CI TR SLP122 DENSITY ALT 1700FT KCTZ 271855Z AUTO 23005KT 10SM CLR 32/18 A2991 RMK AO2 T03150179 KCVH 271845Z AUTO 31003KT 10SM CLR 19/10 A3011 RMK AO1 KDMH 271854Z AUTO 22/13 A2989 RMK AO1 SLP123 T02170133 CYQH 271900Z VRB04KT 40SM FEW210 14/M08 A3015 RMK CI1 SLP230 DENSITY ALT 2300FT CYPQ 271900Z AUTO 19005KT 140V220 9SM BKN047 19/15 A2989 RMK SLP125 DENSITY ALT 1200FT EHFZ 271855Z AUTO 21025KT 160V240 9999 NCD 16/13 Q1013 KEDJ 271850Z AUTO 00000KT 10SM BKN037 22/17 A2989 RMK AO1 CYPR 271900Z AUTO 28009KT 250V340 9SM CLR 13/10 A3016 RMK SLP216 CYQI 271900Z 02008KT 15SM OVC016 11/08 A2980 RMK SC8 SLP093 KDLS 271853Z AUTO 13003KT 10SM CLR 27/07 A3006 RMK AO2 SLP177 T02720067 EHGR 271855Z AUTO 29007KT 280V340 9999 SCT150 22/16 Q1016 BLU KECS 271855Z AUTO 32008G15KT 10SM CLR 16/00 A3008 RMK AO2 KCWA 271846Z 23006G15KT 10SM SCT055 23/10 A2988 CYRA 271900Z 33006KT 15SM SCT015 BKN070 08/03 RMK SC3AC3 DENSITY ALT MISG KCUT 271853Z AUTO 01007KT 10SM SCT060 BKN075 OVC090 12/01 A3009 RMK AO2 LTG DSNT SE RAB08E23 SLP165 P0000 T01170011 EGQK 271850Z AUTO 28006KT 9999 FEW100/// SCT140/// 16/14 Q1007 CYRB 271900Z VRB02KT 15SM SKC M00/M06 A3019 RMK SLP231 CYQK 271900Z 18012G19KT 15SM VCSH BKN060TCU BKN100 21/06 A2971 RMK TCU5AC1 SLP064 DENSITY ALT 2500FT KCWC 271855Z AUTO 23012G16KT 220V280 10SM CLR 35/22 A2978 RMK AO2 T03510221 KECU 271855Z AUTO 20007KT 4SM HZ FEW001 BKN011 BKN016 27/23 A2998 RMK AO2 CYQL 271800Z 31009KT 60SM FEW070 FEW270 22/05 A3003 RMK CU1CI1 SLP166 DENSITY ALT 4400FT KEED 271856Z AUTO 36005KT 10SM CLR 34/02 A2992 RMK AO2 SLP099 T03390017 TSNO EGQL 271850Z 33006KT 4000 TSRA FEW006 BKN050CB 13/13 Q1007 GRN EGPU 271850Z AUTO 34014KT 310V010 9999 BKN003/// OVC009/// 12/12 Q1009 CYQM 271900Z 04012KT 15SM BKN012 OVC016 08/05 A2984 RMK SC7SC1 SLP110 KDMN 271853Z AUTO 25013G22KT 10SM CLR 29/M09 A3008 RMK AO2 SLP107 T02941089 KCVN 271855Z AUTO 27025G28KT 10SM CLR 30/M04 A2997 RMK AO1 KEDN 271855Z AUTO 31005KT 10SM SCT049 29/20 A3007 RMK AO2 T02940201 EGQM 271850Z AUTO 16006KT 6000 HZ SCT041/// SCT050/// BKN080/// 13/12 Q1006 CYPW 271900Z 28006KT 50SM FEW250 19/12 A3011 RMK CI1 CI TR SLP199 DENSITY ALT 700FT KDMO 271853Z AUTO 02004KT 10SM TS BKN060 BKN095 OVC110 22/21 A2990 RMK AO2 LTG DSNT ALQDS RAE24 TSE18B52 SLP118 P0001 T02170206 KCVO 271855Z 00000KT 10SM CLR 25/12 A3007 RMK AO1 KCWF 271855Z 22011G17KT 10SM SCT025 31/24 A2998 CYPX 271900Z AUTO 09015KT 9SM FEW250 10/M03 A3017 RMK SLP219 CYPY 271900Z AUTO 10008KT 9SM BKN055 BKN100 BKN120 15/06 A2990 RMK SLP138 DENSITY ALT 900FT KDLZ 271853Z AUTO 00000KT 10SM SCT020 23/17 A2989 RMK AO2 CYQQ 271900Z 32004KT 20SM FEW240 18/12 A3011 RMK CI2 WND ESTD SENT VIA CWPF SLP197 KCWI 271856Z AUTO 12003KT 10SM CLR 22/17 A2990 RMK AO2 SLP146 T02170167 CYQR 271900Z 33019G28KT 15SM SCT072 21/03 A2978 RMK CU3 SLP096 DENSITY ALT 3100FT KCVS 271901Z AUTO 24017G22KT 10SM FEW190 FEW220 30/M09 A2998 RMK AO2 WSHFT 1857 SLP096 $ CYRJ 271900Z 09005KT 050V170 40SM FEW050 SCT190 BKN210 21/06 A2978 RMK CU1AS2CI3 SLP089 DENSITY ALT 1500FT EGQS 271850Z 29010KT CAVOK 16/13 Q1006 BLU EHJA 271855Z AUTO 20025KT 9999 NCD 15/12 Q1013 OTBD 271800Z 32004KT CAVOK 33/16 Q1003 NOSIG CYSB 271900Z 24005KT 210V320 20SM SCT050 BKN100 23/10 A2986 RMK SC4AC2 SLP116 DENSITY ALT 2300FT CYQT 271900Z 04008KT 20SM SCT070 OVC220 16/09 A2977 RMK CU4CS4 SLP086 DENSITY ALT 1100FT KDNL 271853Z AUTO 24008G18KT 190V320 10SM CLR 33/12 A3000 RMK AO2 SLP154 T03280117 KEDU 271855Z AUTO 00000KT 10SM CLR 22/10 A3007 RMK AO1 CYRL 271900Z 28010G19KT 15SM VCSH BKN048TCU BKN060 19/07 A2968 RMK TCU6SC1 SH ALL QUADS SLP057 DENSITY ALT 2200FT EGSC 271650Z 21013KT 9999 FEW035 22/13 Q1013 CYSC 271900Z AUTO 36006KT 260V030 9SM OVC140 19/07 A2986 RMK SLP116 DENSITY ALT 1500FT CYQU 271900Z 09004KT 25SM FEW080 FEW250 20/00 A3011 RMK CU1CI1 SLP203 DENSITY ALT 3000FT KEFD 271850Z 16013KT 10SM SCT030 BKN250 32/24 A2995 CXZV 271900Z AUTO 10007KT 07/03 RMK AO1 SLP120 T00700030 58009 CYQV 271900Z AUTO 29019G27KT 9SM 16/06 A2974 RMK LTNG DIST SE S CLD MISG SLP082 DENSITY ALT 2300FT KEDW 271858Z 35003KT 90SM CLR 24/02 A3001 RMK AO2A SLP148 T02350020 KCWN 271900Z AUTO 32013G22KT 10SM -TSRA SCT012 OVC034 08/05 A3011 RMK AO2 RAB00 SLP071 KEEN 271856Z AUTO 27004KT 10SM OVC050 20/11 A2987 RMK AO2 SLP132 T02000106 PNO $ KDMW 271850Z AUTO 00000KT 7SM RA BKN034 OVC045 17/16 A2992 RMK AO2 P0001 KCVW 271825Z AUTO 18011KT 6SM HZ FEW015 29/25 A2999 RMK A01 KCXE 271855Z AUTO 23003KT 10SM SCT045 SCT100 30/18 A2988 RMK AO1 T02980178 KDNN 271855Z AUTO 19006KT 10SM SCT035 SCT043 SCT055 28/20 A2998 RMK AO2 CYQW 271900Z AUTO 33018G28KT 9SM CLR 21/03 A2987 RMK SLP124 DENSITY ALT 2900FT KEEO 271853Z AUTO VRB03KT 10SM FEW047 BKN060 13/02 A3020 RMK AO2 SLP177 T01330022 KCVX 271855Z AUTO 30008KT 10SM CLR 19/13 A2992 RMK AO2 T01870125 EHHW 271855Z AUTO 17018KT 120V210 9999 NCD 23/12 Q1014 CYQX 271900Z 07012G18KT 360V090 20SM FEW260 08/M02 A2992 RMK CI2 CU TR SLP140 CYSF 271900Z AUTO VRB02KT 9SM OVC140 12/06 A2987 RMK SLP125 OTBH 271858Z 34006KT 9000 HZ CLR 33/12 A2965 RMK AO2A SLP041 T03280119 $ CZHY 271900Z AUTO 00030KT 08/05 RMK AO1 SLP192 T00790049 51034 CYQY 271900Z 06012G21KT 1SM -DZ BR OVC002 06/05 A2983 RMK ST8 CIG VRB 1 SLP106 CYRQ 271900Z AUTO 21010KT 9SM BKN160 19/07 A2986 RMK SLP112 DENSITY ALT 700FT CYQZ 271900Z AUTO VRB04KT 9SM CLR 22/06 A3009 RMK SLP198 DENSITY ALT 2800FT EGSH 271850Z 22011KT 190V250 CAVOK 21/12 Q1014 NOSIG KDPA 271852Z VRB03KT 10SM CLR 23/14 A2989 RMK AO2 SLP121 T02280144 KDNS 271855Z AUTO 05009KT 10SM BKN100 18/12 A2989 RMK AO2 CYSJ 271900Z 01015G21KT 10SM OVC013 08/06 A2984 RMK SC8 SLP108 KEET 271853Z AUTO 24009G16KT 180V270 10SM FEW027 BKN039 BKN060 28/22 A3003 RMK AO2 SLP162 T02830217 OSKL 271900Z 30010KT CAVOK 17/07 Q1011 ORSU 271900Z 31008KT CAVOK 19/04 Q1015 KEFK 271855Z AUTO 05003KT 10SM CLR 18/08 A2989 RMK AO2 T01760078 CYSK 262200Z 04007KT 15SM FEW050 SCT210 08/02 A2988 RMK SC1CS3 14.2/1.7/M/M LAST MANNED OB/NEXT 291200UTC SLP121 CYRT 271900Z 12011KT 10SM BKN170 03/00 A2997 RMK AC7 SLP154 EGTC 271620Z 23014KT 200V260 9999 FEW035 22/14 Q1013 KCWV 271855Z AUTO 24010G14KT 10SM CLR 32/18 A3002 RMK AO2 T03180176 KDNV 271855Z AUTO 00000KT 7SM OVC012 20/17 A2988 RMK AO2 T01950167 CZKD 271900Z AUTO 02006KT 11/10 RMK AO1 SLP028 T01120098 51006 CYRV 271900Z AUTO 20006KT 140V230 9SM CLR 23/06 A3009 RMK SLP192 DENSITY ALT 2400FT CYSM 271900Z 33004KT 15SM -SHRA FEW020 OVC060 11/09 A2996 RMK CU1SC8 CU TR CVCTV CLD EMBD SLP155 EHKD 271855Z AUTO 24007KT 9999 FEW150 19/15 Q1015 BLU KEGE 271850Z 32008KT 10SM -RA OVC070 12/03 A3020 CYSN 271900Z 33004KT 230V050 15SM SCT035 BKN057 20/13 A2989 RMK SC3SC2 SLP123 DENSITY ALT 900FT CYTE 271900Z AUTO 24007KT 9SM CLR 03/M03 A3025 RMK SLP248 EGTE 271850Z 19007KT 9999 FEW034 19/14 Q1016 KCXO 271853Z 16014KT 10SM FEW041 32/23 A2991 RMK AO2 SLP125 T03220228 KCXP 271855Z AUTO 02006KT 10SM CLR 22/M05 A3017 RMK AO2 CYSP 271900Z 20009G15KT 170V240 15SM BKN014 BKN016 OVC110 14/10 A2982 RMK SC5SC2AC1 CIG RAG SLP106 DENSITY ALT 1300FT CYTH 271900Z 01006KT 5SM BR OVC005 09/08 A2962 RMK SC8 SLP040 KEGI 271858Z AUTO 29004KT 10SM FEW045 31/20 A3006 RMK AO2 SLP180 T03070196 $ EHJR 271825Z AUTO 21031G33KT //// ///////// 15/13 Q1014 W12/H6 OSLK 271900Z 05006KT CAVOK 20/10 Q1010 KEHA 271849Z AUTO 21/09 RMK AO1 /PK WND 16 000 T02110095 CYUA 271900Z AUTO 01007KT 310V040 ////SM //// BKN004 OVC075 01/M01 A3011 EGSS 271850Z AUTO 21012KT 9999 NCD 19/13 Q1015 KEFT 271855Z AUTO 21004KT 10SM SCT025 22/14 A2990 RMK AO2 EGTK 271850Z 25010KT 9999 SCT029 SCT036 18/12 Q1015 CYUB 271900Z 29016G21KT 10SM BKN005 OVC020 01/M00 A3008 RMK SC6SC2 SLP186 EGUB 271850Z AUTO 19013KT 9999 // NCD 17/13 Q1015 KDPL 271900Z AUTO 26010KT 10SM SCT055 31/17 A2991 RMK AO2 KCXU 271735Z AUTO 26007KT 10SM CLR 31/15 A3008 RMK AO2 T03070152 KEHC 271855Z AUTO VRB05KT 7SM SCT021 31/25 A3000 RMK A01 CYTL 271900Z AUTO 16003KT 9SM 20/09 A2963 RMK SLP041 DENSITY ALT 1800FT KDOV 271858Z AUTO 06006KT 10SM FEW043 BKN055 22/17 A2989 RMK AO2 VIS 1 1/2 RWY19 SLP125 T02170170 $ KCXW 271855Z AUTO 14007KT 7SM 30/24 A2985 RMK A01 KCXY 271856Z 21005KT 10SM OVC043 22/12 A2990 RMK AO2 SLP126 T02170122 CYSY 271900Z 18005KT 15SM FEW010 OVC030 03/01 A2992 RMK SC2SC6 SLP142 KDQH 271855Z AUTO 29004KT 10SM CLR 31/15 A3006 RMK AO2 VGHS 271900Z 00000KT 4000 HZ SCT100 29/25 Q1002 NOSIG CYTQ 271900Z 06012KT 15SM FEW240 04/M06 A3018 RMK CI1 CI TR SLP223 CYTR 271900Z 21006KT 15SM BKN035 BKN066 18/14 A2990 RMK SC6AC2 SLP127 KCYS 271853Z 34012G23KT 10SM SCT037 SCT048 11/03 A3014 RMK AO2 RAB34E46 SLP175 P0000 T01060028 KDRA 271855Z AUTO VRB05KT 10SM CLR 28/M02 A3004 RMK AO2 SLP127 T02831022 CYTS 271900Z 18007KT 070V210 15SM SCT060TCU BKN110 BKN240 24/11 A2980 RMK TCU4AC2CI1 SLP095 DENSITY ALT 2300FT EHMA 271855Z AUTO 19013KT 9999 NCD 27/14 Q1014 EGVA 271858Z AUTO 26011KT 9999 CLR 16/13 A2998 RMK AO2 SLP154 T01640127 $ KCZL 271855Z AUTO 22013KT 10SM SCT034 29/17 A2999 RMK AO2 T02890172 EICK 271900Z 30011KT 9999 FEW024 BKN280 16/09 Q1015 NOSIG CYVC 271900Z 31014G20KT 15SM BKN028 14/08 A2980 RMK SC7 SLP102 DENSITY ALT 1500FT CYUL 271900Z 20009KT 30SM FEW045 FEW140 SCT240 22/13 A2985 RMK CU1AC1CI1 SLP110 DENSITY ALT 900FT EGUL 271858Z AUTO 21013KT 9999 CLR 21/14 A2992 RMK AO2 SLP135 T02110137 KEGV 271855Z AUTO 25008G16KT 10SM SCT060 23/06 A2984 RMK AO2 T02300055 CZMD 271900Z AUTO 23008KT 9SM FEW050 BKN110 BKN230 20/09 A2963 RMK SLP039 DENSITY ALT 2000FT EHKV 271855Z AUTO 21031KT 9999 NCD 16/13 Q1014 EGUN 271858Z AUTO 21015KT 9999 CLR 21/15 A2993 RMK AO2 SLP138 T02050152 $ KEHO 271900Z AUTO 22005KT 10SM CLR 28/17 A2993 RMK AO2 T02810174 EHMG 271855Z AUTO 24021KT 9999 NSC 21/14 Q1014 CYTZ 271900Z AUTO 06006KT 9SM OVC055 13/12 A2990 RMK SLP129 KEHR 271856Z AUTO 25013KT 10SM SCT034 SCT043 BKN050 30/22 A2986 RMK AO2 SLP114 T03000217 KDRI 271855Z AUTO 17013KT 10SM SCT031 SCT037 31/22 A2999 RMK AO2 T03110221 CZMJ 271900Z AUTO 33022G32KT 22/M03 RMK AO1 PK WND 31033/1830 SLP104 T02231026 53002 CYUS 271900Z AUTO 11009KT ////SM //// BKN130 02/00 A3009 CYWA 271900Z AUTO 12006KT 9SM FEW099 20/12 A2986 RMK SLP113 KCZT 271855Z AUTO 15011G14KT 10SM CLR 35/22 A2982 RMK AO2 CYUT 271900Z 13008KT 25SM BKN050 OVC220 01/M02 A3021 RMK SC7CS1 SLP235 EIDL 271830Z 34014KT 9999 OVC007 13/11 Q1012 EGWC 271350Z 19014KT 9999 FEW015 BKN025 17/14 Q1010 BLU CYVL 271900Z AUTO 28016G22KT 9SM SCT035 BKN100 BKN120 09/02 A3003 RMK SLP186 KDRM 271854Z AUTO 20003KT 10SM CLR 21/11 A2989 RMK AO2 T02100112 CYVM 271900Z 01005KT 360V060 7SM SCT007 BKN010 M00/M02 A3011 RMK ST4ST3 SUN VISBL VIS S-SSW 15 SLP200 EGUW 271850Z AUTO 22011KT 9999 NCD 19/12 Q1014 CYWE 271900Z AUTO 32013G21KT 9SM OVC014 08/04 A2998 RMK SLP172 KDRO 271853Z AUTO 29017G27KT 10SM CLR 21/M04 A3011 RMK AO2 PK WND 25027/1849 SLP138 T02111039 $ EHLW 271855Z AUTO 27012KT 230V300 9999 NCD 23/17 Q1015 BLU EGVN 271850Z 26008KT 9999 FEW034 SCT200 BKN300 17/12 Q1015 NOSIG KFAF 271858Z AUTO 16006KT 10SM CLR 31/18 A2984 RMK AO2 SLP108 T03070176 $ CYVO 271900Z 23004KT 15SM FEW040TCU SCT060 BKN085 BKN200 18/15 A2984 RMK TCU1SC2AC3CI1 SLP111 DENSITY ALT 1700FT EGVO 271850Z 21010KT CAVOK 16/12 Q1016 BLU KEHY 271855Z AUTO 31013G20KT 7SM TS SCT029 SCT038 BKN060 10/01 A3019 RMK AO2 CYUX 271900Z 32006KT 15SM FEW080 BKN230 00/M03 A3021 RMK AC1CI5 CC ASOCTD SLP233 EGVP 271850Z AUTO 20010KT 9999 // FEW013/// 16/13 Q1016 CYUY 271900Z 29008G18KT 15SM VCSH SCT045 BKN097 OVC120 20/12 A2984 RMK CU4AC2AC2 SLP109 DENSITY ALT 1900FT CYWG 271900Z 25010G17KT 15SM FEW060 BKN080 BKN120 20/03 A2968 RMK CU1AC5AC1 TCU NW VIRGA W SLP056 DENSITY ALT 1800FT CYVP 271900Z 03011G16KT 15SM FEW240 09/M03 A3013 RMK CI1 CI TR SLP209 KCZZ 271852Z AUTO 20011KT 21/08 A3002 RMK AO1 SLP146 T02110078 CYWH 271900Z 23006KT 15SM FEW250 13/10 A3011 RMK CI2 SLP196 CYVQ 271900Z 29013G20KT 260V330 30SM SCT060 15/M02 A3012 RMK CU4 SLP206 KEIR 271855Z AUTO VRB04KT 8SM OVC032 28/25 A3006 RMK A01 CYVR 271900Z 24005KT 30SM FEW220 19/12 A3010 RMK CI1 SLP195 DENSITY ALT 200FT KDTA 271855Z AUTO 36004KT 10SM CLR 18/M02 A3020 RMK AO1 CYWJ 271900Z 29016G28KT 50SM BKN053 BKN068 14/M01 A3008 RMK CU5AC1 SLP197 KDRT 271853Z AUTO 09004KT 7SM BKN029 BKN039 31/24 A2985 RMK AO2 SLP091 T03110244 CZMT 271900Z 34011KT 15SM FEW012 SCT240 12/05 A3021 RMK ST1CI3 ST TR CONTRAILS SLP231 CYVT 271900Z 07006KT 15SM FEW045 FEW220 16/05 A2986 RMK CU1CI1 CU TR CI TR SLP125 DENSITY ALT 1900FT CYWK 271900Z 02012KT 2SM -SHSN OVC010 02/00 A2984 RMK CU8 SLP128 CZMU 271800Z AUTO 01005KT 21/05 RMK AO1 T02110047 CYXC 271900Z VRB05KT 25SM FEW050 FEW250 21/04 A3011 RMK CF1CI1 CF TR SLP192 DENSITY ALT 4200FT CYWL 271900Z VRB05KT 15SM FEW050 FEW220 21/03 A3012 RMK CU1CI1 CU TR CI TR SLP201 DENSITY ALT 4200FT KDSM 271854Z 01014G19KT 10SM -RA FEW010 SCT012 OVC075 18/16 A2984 RMK AO2 SLP101 P0002 T01780161 KFAM 271856Z AUTO 33008KT 7SM -TSRA SCT018 BKN026 OVC031 24/22 A2991 RMK AO2 LTG DSNT ALQDS TSE1758B09 SLP119 P0001 T02390222 EGXC 271850Z 22017KT 9999 FEW035 BKN250 18/13 Q1012 BLU CYVV 271900Z 30004KT 210V360 15SM FEW030 18/13 A2991 RMK SC2 SLP133 DENSITY ALT 1300FT EGXE 271850Z AUTO 22012KT 9999 BKN018/// 17/14 Q1008 CYXE 271900Z 33019G27KT 15SM FEW080 20/00 A2983 RMK CU1 CU TR SLP116 DENSITY ALT 2700FT EIDW 271900Z 27014KT 9999 FEW006 BKN012 BKN018 14/13 Q1012 BECMG BKN015 KFBG 271856Z AUTO 23009KT 10SM SCT060 31/16 A2990 RMK AO2 SLP126 T03100162 $ CYXH 271900Z 28010G20KT 30SM SCT085 25/01 A2995 RMK CU4 SLP142 DENSITY ALT 4000FT KFAR 271853Z 26018G24KT 10SM CLR 26/03 A2978 RMK AO2 PK WND 26026/1832 SLP083 T02560033 KDUA 271855Z AUTO 18011G21KT 170V230 10SM CLR 32/23 A2982 RMK AO2 KELA 271855Z AUTO 19010G19KT 10SM BKN029 33/25 A2991 RMK AO2 T03260254 CYXJ 271900Z 01006KT 340V060 15SM FEW080 FEW220 18/M03 A3015 RMK AC1CI1 SLP216 DENSITY ALT 2900FT KFAT 271853Z VRB03KT 10SM FEW050 23/11 A3006 RMK AO2 SLP178 T02280111 KDUB 271855Z AUTO 00000KT 10SM BKN065 10/M05 A3024 RMK AO2 CYYB 271900Z 25005KT 190V300 30SM SCT045 BKN070 21/09 A2987 RMK CU3AC3 SLP119 DENSITY ALT 2200FT KFBL 271854Z AUTO 00000KT 10SM CLR 18/09 A2993 RMK AO2 KDTL 271854Z AUTO 24010G17KT 10SM CLR 23/03 A2983 RMK AO2 KDUC 271855Z AUTO 19013G21KT 10SM CLR 33/22 A2978 RMK AO2 T03310224 KEKM 271850Z 00000KT 10SM OVC029 22/15 A2990 CZOL 271800Z AUTO 33007KT 22/07 RMK AO1 T02220071 CZPC 271900Z AUTO 22010G16KT 200V280 9SM FEW085 23/02 A3008 RMK SLP178 DENSITY ALT 5400FT CYXL 271900Z 23008KT 210V270 15SM FEW045 BKN060 BKN110 20/06 A2972 RMK CU2SC4AC1 SLP071 DENSITY ALT 2300FT CYYC 271900Z 34011G17KT 280V020 40SM SCT065 SCT087 SCT260 23/03 A3003 RMK CU3AC1CI1 AC TR CI TR SLP167 DENSITY ALT 5200FT KELD 271853Z AUTO 20006KT 9SM FEW027 FEW034 OVC055 30/24 A2992 RMK AO2 SLP128 T03000244 $ KDSV 271854Z AUTO 33009KT 10SM FEW039 OVC060 19/13 A2992 RMK AO2 SLP137 T01890128 EGWU 271850Z 23010KT CAVOK 18/11 Q1015 NOSIG EGYD 271850Z AUTO 22023KT 9999 // NCD 18/12 Q1012 CYYD 271900Z 29006KT 240V310 25SM SCT250 20/02 A3012 RMK CI3 SLP203 DENSITY ALT 2400FT KDTN 271853Z 20009G17KT 170V230 7SM SCT035 BKN045 OVC055 31/23 A2990 RMK AO2 SLP122 T03110233 $ KEKN 271851Z AUTO 22007KT 9SM BKN017 OVC022 21/17 A2994 RMK AO2 RAE1752 SLP137 P0000 T02110167 TSNO CYXN 271900Z 08010KT 15SM BKN230 03/00 A2996 RMK CS7 SLP147 CYYE 271900Z 03005G16KT 300V050 30SM SCT065 18/01 A3015 RMK CU4 SLP219 DENSITY ALT 1600FT KDTO 271853Z 19016KT 10SM BKN042 33/24 A2980 RMK AO2 SLP082 T03330239 KEKO 271856Z AUTO VRB05KT 10SM CLR 19/M04 A3023 RMK AO2 SLP208 T01941039 OTHH 271800Z 35007KT CAVOK 31/21 Q1003 NOSIG CYYF 271900Z 36006KT 15SM FEW065 FEW250 24/09 A3006 RMK CF1CI1 SLP181 DENSITY ALT 2200FT KFAY 271853Z AUTO 21010G16KT 10SM CLR 33/18 A2990 RMK AO2 SLP119 T03280178 KDUG 271856Z AUTO 25018G25KT 10SM CLR 31/M08 A3007 RMK AO2 SLP110 T03111083 PWINO CYWY 262200Z 31004KT 280V060 15SM OVC069 15/05 A2968 RMK AC8 16.2/11.2/0/0 LAST OBS/NXT 291400Z SLP058 DENSITY ALT 900FT CYXP 271900Z 26009KT 15SM SCT014 BKN030 BKN220 00/M02 A3010 RMK ST3SC3CI1 CIG ESTD 0.5/-1.8/T LAST STFD OBS/NEXT 281600Z SLP198 EGXP 271850Z AUTO 22019KT 9999 // OVC028/// 18/13 Q1011 CYYG 271800Z 04012G17KT 15SM SCT020 BKN025 BKN080 11/06 A2982 RMK CU3SC3AC1 SLP101 KDUH 271855Z AUTO 12007KT 10SM CLR 22/12 A2990 RMK AO2 T02170123 KEKQ 271908Z AUTO 24017G23KT 10SM -RA FEW029 SCT048 SCT075 27/22 A2995 RMK AO2 TSB1857E08RAB03 P0000 KFCH 271855Z AUTO 30006KT 10SM CLR 23/11 A3006 RMK A01 EHPG 271855Z AUTO 22025KT 9999 NCD 16/12 Q1015 CYXQ 271900Z 33007KT 260V010 30SM FEW100 OVC250 10/M06 A3003 RMK AC1CS7 SLP197 KFBR 271855Z AUTO 34007KT 10SM SCT050 OVC060 13/M02 A3029 RMK AO2 T01251019 CYYH 271900Z 17003KT 120V210 15SM FEW040 FEW140 FEW210 05/00 A3014 RMK SC1AC2CI1 SC TR CI TR SLP209 CYXR 271900Z AUTO 20009KT 9SM CLR 22/12 A2983 RMK SLP105 DENSITY ALT 1900FT KDUJ 271853Z AUTO 27005KT 10SM BKN032 OVC040 19/12 A2992 RMK AO2 SLP126 T01940122 KDTS 271853Z AUTO 19006KT 10SM CLR 29/26 A3008 RMK AO2 SLP185 T02940256 TSNO KEKS 271855Z AUTO 33010KT 10SM SCT060 SCT085 16/M00 A3026 RMK A01 EGXS 271850Z AUTO 21020G31KT 9999 // FEW027/// BKN032/// 19/13 Q1011 CYXS 271900Z AUTO 08003KT 300V110 9SM CLR 21/04 A3011 RMK SLP203 DENSITY ALT 3200FT CYYJ 271900Z 10005KT 070V140 30SM FEW250 21/13 A3010 RMK CI1 SLP195 DENSITY ALT 500FT KELK 271855Z AUTO 31008KT 10SM CLR 29/16 A2980 RMK AO2 T02930159 CYXT 271900Z VRB03KT 20SM BKN210 19/06 A3014 RMK CI5 SLP211 DENSITY ALT 1000FT EGXU 271850Z AUTO 22012KT 9999 // BKN023/// BKN034/// 18/13 Q1009 CYXU 271900Z VRB02KT 15SM FEW030 BKN046 20/11 A2990 RMK CF1CU6 SLP127 DENSITY ALT 1700FT CYYL 271900Z AUTO 35007KT 9SM OVC007 06/05 A2971 RMK SLP079 KFCM 271853Z 19007KT 10SM SCT100 BKN120 20/08 A2989 RMK AO2 SLP120 T02000083 KELM 271853Z VRB03KT 10SM BKN043 OVC060 19/12 A2990 RMK AO2 SLP121 T01890122 EGYM 271850Z 21012KT 9999 FEW040 BKN250 20/13 Q1013 BLU NOSIG KELN 271853Z AUTO 08005KT 10SM CLR 26/08 A3011 RMK AO2 SLP186 T02610083 KDTW 271853Z 14008KT 10SM FEW035 BKN050 22/14 A2991 RMK AO2 SLP125 T02170139 EGXV 271850Z AUTO 21014KT 9999 OVC028/// 18/14 Q1010 CYYN 271900Z AUTO 34016G27KT 9SM BKN085 21/02 A2990 RMK SLP127 DENSITY ALT 3900FT CYZE 271900Z AUTO 23013KT 9SM CLR 20/12 A2989 RMK SLP125 DENSITY ALT 1300FT KEKX 271855Z AUTO 22010G15KT 10SM SCT032 BKN037 29/21 A2989 RMK AO2 T02870210 KELO 271854Z AUTO 28005KT 10SM SCT065 20/05 A2981 RMK AO2 EGXW 271850Z 22017KT 9999 FEW024 BKN026 18/12 Q1012 BLU BECMG BKN020 WHT EHQE 271855Z AUTO ///24KT 9999 NSC 16/14 Q1014 CYZF 271900Z 35011KT 15SM -SHRA SCT012 OVC040 11/08 A3000 RMK CU4SC4 SLP171 CYXX 271900Z 15004KT 030V180 30SM FEW230 24/11 A3009 RMK CI1 SLP190 DENSITY ALT 1000FT KELP 271851Z 25018G28KT 10SM FEW250 31/M02 A3003 RMK AO2 PK WND 24030/1836 SLP087 T03111022 $ KEKY 271856Z AUTO 21007KT 10SM FEW024 BKN030 OVC034 28/22 A3003 RMK AO2 SLP179 T02780222 CYZG 271900Z 02009KT 15SM SCT220 04/M08 A3021 RMK CI3 CONTRAILS SLP249 CYXY 271900Z 12009G17KT 080V180 40SM FEW150 SCT240 12/M06 A3009 RMK AC1CI3 SLP216 EGYP 271850Z 28017KT 9999 FEW015 BKN080 06/03 Q1008 BLU NOSIG CYXZ 271900Z 26004KT 190V360 15SM FEW035 FEW095 SCT220 18/09 A2984 RMK SC1AC1CS3 SC TR SLP113 DENSITY ALT 1500FT EGXZ 271850Z AUTO 21011KT 9999 BKN022/// SCT032/// 18/14 Q1009 CYZH 271900Z AUTO 29011KT 9SM 19/08 A2999 RMK CLD MISG PCPN MISG ICG MISG SLP165 DENSITY ALT 2700FT CYYQ 271900Z 06009KT 15SM OVC010 05/03 A2972 RMK ST8 SLP067 CYYR 271903Z 06013G18KT 1SM -SN OVC004 01/M00 A3002 RMK SN3SF5 SLP170 KFCS 271903Z AUTO 33017G23KT 10SM OVC048 14/05 A3011 RMK AO2 WSHFT 1858 PRESRR SLP174 CZPS 271800Z AUTO 31012KT 22/05 RMK AO1 PK WND 33020/1706 T02170053 KFDK 271847Z 22003KT 10SM SCT050 OVC060 22/17 A2994 KEMK 271855Z AUTO 15012KT 3SM HZ CLR 27/25 A2997 RMK A01 KDVK 271855Z AUTO 23008KT 10SM BKN028 BKN034 BKN041 28/20 A2993 RMK AO2 CYYT 271900Z 05016KT 1/4SM R11/1400V2000FT/N R16/3500V5000FT/U FG VV001 01/01 A2987 RMK FG8 SLP123 KDVL 271856Z AUTO 26014G18KT 10SM CLR 22/05 A2977 RMK AO2 SLP093 T02170050 CYYU 271905Z 21008KT 200V270 15SM BKN053 BKN082 23/11 A2979 RMK CU5AC2 WSHFT 1856 SLP092 DENSITY ALT 1900FT KEMM 271855Z AUTO 24008KT 10SM 11/M02 A3027 RMK AO2 KEND 271858Z AUTO 21003KT 10SM -DZ FEW150 SCT180 SCT200 31/21 A2974 RMK AO2 SLP059 P0000 T03110206 $ KDVN 271852Z AUTO VRB03KT 10SM CLR 23/16 A2990 RMK AO2 SLP122 T02280161 EHRD 271855Z AUTO 26008KT 220V290 9999 NSC 20/14 Q1016 NOSIG CYYW 271900Z AUTO 14008KT 9SM SCT075 BKN089 21/10 A2970 RMK SLP054 DENSITY ALT 2200FT KDUX 271855Z AUTO 02009G15KT 10SM CLR 23/13 A2997 RMK AO2 T02260127 KDVO 271855Z AUTO VRB05KT 10SM CLR 19/11 A3011 RMK AO2 KEMP 271853Z AUTO 11010KT 10SM SCT075 26/16 A2977 RMK AO2 SLP074 T02610161 KELY 271853Z AUTO 10SM CLR 17/M02 A3024 RMK AO2 SLP173 T01721022 KDVP 271905Z AUTO 23009G14KT 10SM OVC075 18/08 A2995 RMK AO2 T01840083 CYZP 271900Z AUTO 05006KT 9SM CLR 15/06 A3019 RMK SLP223 CYYY 271900Z 27004KT 30SM BKN220 12/06 A2984 RMK CI6 SLP108 KDWH 271853Z 20012G23KT 10SM FEW043 33/23 A2991 RMK AO2 SLP125 T03330233 $ KELZ 271856Z AUTO 00000KT 10SM FEW034 OVC045 19/10 A2993 RMK AO2 SLP131 T01940100 CYYZ 271900Z 15007KT 120V180 15SM FEW035 FEW050 BKN068 18/13 A2989 RMK CU1SC1AC6 CU TR SLP125 DENSITY ALT 1000FT KFDR 271853Z AUTO 10SM CLR 36/13 A2973 RMK AO2 SLP047 T03560128 CYZR 271900Z AUTO 01006KT 9SM CLR 20/13 A2991 RMK SLP130 DENSITY ALT 1300FT KFFA 271855Z AUTO 28004KT 10SM CLR 29/14 A2988 RMK AO2 T02880141 KEMT 271845Z VRB04KT 10SM SCT038 24/10 A3007 CYZS 271900Z 11010KT 15SM FEW090 BKN210 03/M01 A3021 RMK AC1CS6 CONTRAIL HALO SLP239 EHSA 271825Z AUTO 22020G22KT 9999 ///////// 16/13 Q1016 W13/H6 KDVT 271853Z VRB04KT 10SM CLR 31/M06 A2995 RMK AO2 SLP118 T03061056 CYZT 271900Z 01003KT 340V050 20SM VCFG FEW002 10/09 A3013 RMK SF2 VIS NW-NE 2 SLP204 KFFC 271853Z AUTO VRB05KT 10SM SCT042 28/19 A3004 RMK AO2 SLP167 T02830189 KENL 271855Z AUTO 00000KT 10SM SCT039 BKN047 OVC055 28/21 A2986 RMK AO2 T02830205 CYZU 271900Z 30011G20KT 270V340 15SM FEW025 SCT250 22/07 A3000 RMK CU1CI2 SLP162 DENSITY ALT 3800FT EHSC 271825Z AUTO 26019G20KT 9999 ///////// 16/13 Q1015 W14/H5 KEMV 271855Z AUTO 24005KT CLR 30/18 A2988 RMK AO2 PWINO KEOD 271858Z AUTO 22009KT 10SM BKN028 BKN035 28/22 A2990 RMK AO2 SLP122 T02770224 CYZV 271900Z 12010KT 070V140 30SM FEW010 BKN100 OVC160 08/03 A2988 RMK CF1AC6AC2 CF TR SLP121 KFDW 271855Z AUTO 25011G18KT 10SM CLR 30/17 A2998 RMK AO1 KEOE 271855Z AUTO 23011G18KT 10SM SCT050 30/19 A3000 RMK AO2 CYZW 271900Z 19006KT 30SM FEW150 BKN230 12/M07 A3014 RMK AC1CI4 SLP229 CYZX 271900Z 02008KT 15SM OVC014 09/07 A2982 RMK SC8 WNDY HILL UNAVBL SLP100 KFDY 271853Z AUTO 13004KT 10SM FEW032 BKN043 OVC050 23/16 A2987 RMK AO2 SLP109 T02330161 TSNO KFEP 271855Z AUTO 22005KT 10SM BKN023 21/16 A2992 RMK AO2 T02140163 CYZY 271900Z AUTO 27006KT 220V310 9SM CLR 20/M01 A3010 RMK SLP196 DENSITY ALT 3200FT KDYA 271855Z AUTO 19008KT 160V220 10SM 30/21 A3002 RMK AO2 T03040208 CZSJ 271900Z AUTO 19006KT 150V240 9SM FEW210 18/09 A2963 RMK SLP040 DENSITY ALT 1800FT KDYB 271915Z AUTO 26010G18KT 10SM CLR 32/16 A2997 RMK AO1 KEOK 271855Z AUTO 11004KT 10SM CLR 23/18 A2987 RMK AO2 KFET 271855Z AUTO 06011G15KT 10SM CLR 23/08 A2988 RMK AO2 T02270082 CZTB 271900Z AUTO 06008KT 17/11 RMK AO1 SLP085 T01680107 56003 KDWU 271855Z AUTO 25007KT 10SM FEW036 SCT043 BKN090 28/21 A2986 RMK AO1 KFFL 271855Z AUTO 14007G12KT 10SM BKN120 23/17 A2985 RMK AO2 PWINO KFFM 271855Z AUTO 28015G20KT 10SM SCT110 23/04 A2981 RMK AO2 KENV 271856Z AUTO 11007KT 10SM CLR 18/02 A3024 RMK AO2 SLP225 T01830022 PNO $ CZSM 271900Z AUTO 03003KT 11/10 RMK AO1 5PAST HR 3030 SLP153 P0006 T01120095 50015 KFEW 271858Z AUTO 35012G17KT 10SM FEW029 11/04 A3017 RMK AO2 SLP190 T01100037 $ KENW 271853Z 20006KT 10SM CLR 22/14 A2991 RMK AO2 SLP127 T02220139 KDWX 271855Z AUTO 33011G19KT 10SM 12/00 A3024 RMK AO2 T01220001 VHHH 271900Z 10009KT CAVOK 26/20 Q1009 NOSIG KFFO 271858Z 29005KT 10SM BKN032 BKN070 25/20 A2986 RMK AO2A SLP109 T02530201 PLCH 271800Z 14006KT 9999 FEW020 28/23 Q1012 CZSP 271800Z AUTO 06011G19KT 10/06 RMK AO1 PK WND 06021/1735 SLP111 T00960057 52013 KEPH 271853Z AUTO 20005KT 10SM CLR 27/04 A3009 RMK AO2 SLP185 T02670044 ZUUU 271900Z 21001MPS CAVOK 23/17 Q1011 NOSIG KDXR 271853Z 34005KT 10SM FEW042 OVC065 20/11 A2988 RMK AO2 SLP117 T02000111 KEQA 271855Z AUTO 06011G15KT 10SM OVC045 27/17 A2978 RMK AO2 KDZB 271701Z M 5SM HZ 019OVC 28/23 A2991 KFFT 271853Z AUTO 22008KT 10SM SCT029 SCT037 SCT049 28/21 A2988 RMK AO2 LTG DSNT W SLP108 T02830206 KFHB 271855Z AUTO 18007KT 10SM CLR 33/15 A3002 RMK AO1 CZST 271900Z 21004KT 150V230 15SM SCT250 17/07 A3016 RMK CI4 CONTRAILS SLP216 KDYL 271854Z AUTO 25004KT 10SM FEW033 SCT050 BKN100 21/13 A2989 RMK AO2 SLP119 T02110133 FABL 271900Z AUTO 18002KT 9999 ///////// 07/M01 Q1024 FABM 270741Z 26004KT CAVOK 13/02 Q1022 KFGN 271853Z AUTO 32003G08KT 2 1/2SM HZ SCT017 SCT047 SCT075 18/04 A2970 RMK AO2 VIS 1 1/4V5 EIKN 271800Z 31012KT 9999 -DZ BKN004 BKN020 11/11 Q1013 BECMG BKN007 KDXX 271854Z AUTO 22006KT 10SM CLR 23/06 A2988 RMK AO2 KFFX 271854Z AUTO 00000KT 7SM CLR 25/08 A2988 RMK AO2 T02500081 KFFZ 271847Z 18006KT 40SM SKC 32/M05 A2996 PKMJ 271159Z 04013KT 15SM SCT014 BKN045 BKN110 OVC300 28/25 A2986 KDYR 271856Z AUTO RMK AO2 SLPNO PWINO FZRANO $ KDYS 271858Z AUTO 19004KT 10SM FEW095 SCT140 BKN170 BKN200 35/20 A2982 RMK AO2 SLP043 T03450201 $ KDYT 271854Z AUTO 24006KT 10SM CLR 23/07 A2984 RMK AO2 VIAG 271030Z 07010KT 6000 FEW030 39/22 Q0998 NOSIG CZUM 271903Z AUTO 06010G15KT 2SM -SN SCT010 OVC018 01/00 A2987 RMK SLP139 EIME 271900Z 26012KT 9999 BKN010 BKN015 14/13 Q1012 KFGX 271855Z AUTO 22006KT 10SM SCT029 SCT040 27/21 A2989 RMK AO2 T02680205 KFIG 271854Z AUTO 28005KT 10SM BKN039 OVC047 21/13 A2991 RMK AO2 SLP127 T02060128 EIKY 271830Z 32007KT 280V360 9999 SCT032 14/10 Q1016 PKMR 271853Z 08007KT 15SM FEW015 SCT050 BKN120 OVC300 28/26 A2982 RMK SLP100 T02810256 KERI 271851Z 34004KT 10SM CLR 19/12 A2991 RMK AO2 SLP128 T01890117 KFHR 271853Z AUTO 09003KT 10SM CLR 22/13 A3012 RMK AO2 SLP198 T02170133 FACT 271900Z 34003KT 9999 BKN040 14/08 Q1028 NOSIG KFHU 271858Z AUTO 23006KT 10SM CLR 28/M09 A3012 RMK AO2 SLP126 T02821092 $ EHVK 271855Z AUTO 30008KT 260V330 9999 NCD 25/16 Q1015 BLU KESC 271856Z AUTO 17013KT 10SM CLR 19/12 A2985 RMK AO2 SLP130 T01890122 CZVL 271900Z AUTO 32009G16KT 300V010 9SM CLR 23/08 A2994 RMK SLP143 DENSITY ALT 3600FT EHVL 271855Z AUTO 24014KT 9999 FEW077 SCT083 19/14 Q1015 BLU KGAD 271856Z AUTO 22008KT 10SM SCT028 SCT039 SCT050 28/21 A3001 RMK AO2 SLP173 T02780211 KFIN 271855Z AUTO 11006KT 10SM CLR 32/16 A3003 RMK AO2 T03160155 KESF 271853Z AUTO 23010KT 10SM FEW029 BKN038 BKN047 32/24 A2997 RMK AO2 SLP147 T03170244 KGAF 271915Z AUTO 26018G23KT 10SM FEW080 SCT100 21/05 A2975 RMK AO2 VIAR 271900Z 14010KT 4000 HZ FEW040 SCT100 33/21 Q0998 NOSIG KEQY 271853Z AUTO 25009G18KT 10SM FEW049 FEW065 29/17 A2995 RMK AO2 SLP139 T02940172 KGAG 271853Z AUTO 02010KT 10SM FEW023 27/19 A2985 RMK AO2 SLP081 T02670189 KI16 271855Z AUTO 10SM SCT026 BKN032 OVC048 25/18 A3001 RMK AO2 T02450182 KGAI 271856Z AUTO 14003KT 10SM -RA FEW047 OVC060 20/16 A2992 RMK AO2 SLP157 P0000 T02000161 KFKA 271853Z AUTO 30006KT 10SM SCT095 21/07 A2993 RMK AO2 T02070074 KFIT 271852Z AUTO VRB05KT 10SM BKN060 22/09 A2986 RMK AO2 SLP110 T02220094 KI19 271850Z AUTO 00000KT 10SM SCT030 BKN060 BKN070 26/19 A2988 RMK AO2 T02550190 KETB 271855Z AUTO 21004KT 10SM BKN036 22/15 A2990 RMK AO2 FAEL 271800Z 24014KT CAVOK 15/08 Q1022 KGBD 271856Z AUTO 33008KT 10SM OVC070 22/16 A2989 RMK AO2 SLP109 T02220161 KERV 271855Z AUTO 22004KT 5SM HZ OVC021 28/25 A2993 RMK AO2 T02790247 VICG 271530Z 14014KT 6000 FEW030 FEW030TCU 32/20 Q1000 TEMPO TS RMK TCU SW 40 KM KI23 271852Z AUTO 30010KT 10SM SCT028 BKN034 26/21 A2988 RMK AO1 KESN 271850Z 34004KT 10SM OVC130 23/15 A2994 KGAO 271855Z AUTO 19005G14KT 10SM SCT025 30/23 A3005 RMK AO2 T03030228 EINN 271900Z 28014KT 9999 FEW018 SCT250 14/10 Q1015 NOSIG FAEO 270842Z 27012KT CAVOK 18/02 Q1022 VIBR 270600Z 00000KT 8000 FEW030 26/13 Q1008 EHWO 271855Z AUTO 30005KT 240V330 9999 BKN150 OVC340 20/14 Q1016 BLU KERY 271855Z AUTO 17010G18KT 10SM CLR 21/12 A2987 RMK AO2 T02120117 KGBG 271855Z AUTO 23003KT 10SM CLR 23/17 A2989 RMK AO2 T02330170 FADY 270827Z 17004KT 9999 SCT035 14/03 Q1022 KETH 271856Z AUTO 23010KT 10SM SCT095 23/01 A2986 RMK AO2 VIDD 271300Z 11003KT 4000 HZ NSC 37/22 Q0997 NOSIG KEST 271852Z AUTO 35004KT 10SM FEW038 FEW075 OVC090 17/11 A2994 RMK AO2 RAE22 SLP137 P0000 T01720106 KGBK 271855Z AUTO VRB06KT 5SM BR CLR 27/26 A3001 RMK A01 KGCC 271853Z AUTO 28010G20KT 10SM SCT070 18/03 A3008 RMK AO2 SLP164 T01780033 KFKL 271855Z 27004KT 10SM OVC042 21/12 A2992 RMK AO1 KFLD 271853Z AUTO 21011KT 10SM FEW038 23/12 A2989 RMK AO2 SLP119 T02330122 KGCD 271855Z AUTO 00000KT 10SM CLR 22/03 A3019 RMK AO2 T02160033 KETN 271855Z AUTO 21014G17KT 10SM CLR 33/23 A2983 RMK AO2 T03340232 KFKN 271855Z AUTO 22006KT 10SM CLR 29/17 A2988 RMK AO2 T02940166 KEUF 271858Z AUTO 26009G16KT 10SM CLR 31/19 A3004 RMK AO2 SLP169 T03060189 KEUG 271854Z VRB05KT 10SM CLR 22/13 A3006 RMK AO2 SLP178 T02170128 KFLG 271857Z 23009G15KT 10SM CLR 19/M04 A3020 RMK AO2 SLP152 T01941044 KI35 271855Z AUTO 00000KT 10SM SCT028 26/17 A2995 RMK AO1 FAGG 271900Z AUTO 29008KT 9999 R29///// // SCT068/// 12/11 Q1026 KFKR 271855Z AUTO 31004KT 10SM SCT017 OVC029 23/19 A2992 RMK AO2 T02310186 KFKS 271856Z AUTO 27006KT 10SM CLR 17/11 A2991 RMK AO2 T01710111 KEVB 271847Z 10008KT 10SM SKC 29/20 A3005 KGDB 271759Z AUTO 22006KT 10SM BKN080 BKN120 21/11 A2993 RMK AO2 KGCK 271854Z 35011KT 10SM BKN047 BKN070 24/12 A2993 RMK AO2 SLP109 T02390117 VIDN 271330Z 20003KT 4000 HZ FEW040 29/20 Q1002 KFLL 271853Z 11008KT 10SM FEW026 FEW037 SCT050 31/24 A3003 RMK AO2 LTG DSNT S SLP170 T03110244 KEUL 271856Z AUTO 00000KT 10SM CLR 22/06 A3019 RMK AO2 SLP213 T02170056 KGCM 271855Z AUTO 19011G16KT 7SM SCT029 BKN034 BKN046 30/23 A2976 RMK AO2 LTG DSNT NE FAGM 271000Z 25017KT CAVOK 22/M04 Q1023 VIDP 271900Z 11010G20KT 5000 HZ NSC 31/20 Q1000 NOSIG KGCN 271854Z 21004KT 10SM CLR 20/M07 A3021 RMK AO2 SLP161 T02001067 KFME 271851Z AUTO 00000KT 10SM SCT060 BKN080 20/16 A2993 RMK AO1 KFLO 271853Z 26013G19KT 10SM FEW055 32/19 A2993 RMK AO2 SLP133 T03170189 KFLP 271855Z 20007G14KT 10SM FEW039 31/21 A2978 RMK AO1 KFMH 271855Z 10SM CLR 17/10 A2990 RMK AO2 PWINO FZRANO TSNO WEA KGDJ 271855Z AUTO 16013KT 10SM OVC033 33/24 A2983 RMK AO2 T03310237 CZZJ 271900Z AUTO 29007KT 23/M02 RMK AO1 PK WND 29020/1831 SLP175 T02271021 53009 KEWB 271853Z 13010KT 10SM SCT033 BKN042 18/12 A2987 RMK AO2 SLP114 T01780117 KFNB 271853Z AUTO 35008KT 10SM BKN011 20/17 A2980 RMK AO2 SLP085 T02000167 KEVM 271855Z AUTO 23009G17KT 200V280 10SM CLR 23/M02 A2983 RMK AO2 T02271021 KGED 271854Z AUTO VRB04KT 10SM BKN060 24/15 A2990 RMK AO2 SLP123 T02440150 KFMM 271855Z AUTO 36009G14KT 10SM SCT036 SCT045 OVC090 16/06 A3010 RMK AO2 T01570055 KFMN 271853Z 30016G23KT 10SM CLR 23/M03 A3008 RMK AO2 SLP131 T02331028 KGEG 271853Z 24010KT 10SM FEW060 FEW250 23/06 A3015 RMK AO2 SLP199 T02280056 $ KFLY 271855Z AUTO 36005KT 5SM RA SCT021 SCT027 OVC034 07/06 A3016 RMK AO2 LTG DSNT SW T00720058 KGDP 271851Z AUTO 24034G48KT 10SM CLR 29/M01 A3009 RMK AO2 PK WND 24048/1849 SLP095 T02891011 KGFA 271858Z AUTO 29011G18KT 10SM BKN085 21/03 A3009 RMK AO2 SLP191 T02080029 $ KFOA 271855Z AUTO 32003KT 10SM SCT039 SCT046 29/19 A2987 RMK AO2 T02890191 FAHS 271700Z AUTO 16004KT //// // ////// 18/11 Q1016 KEWK 271856Z AUTO 07007KT 010V100 10SM FEW075 27/14 A2980 RMK AO2 LTG DSNT NW SLP076 T02720139 FAJB 271900Z AUTO 22004KT //// // ////// 14/M00 Q1023 KFNL 271856Z AUTO 30008KT 10SM -RA SCT043 BKN060 OVC075 12/05 A3013 RMK AO2 RAE1758B39 SLP176 P0001 T01220050 KEVU 271855Z AUTO 35007KT 10SM CLR A2981 RMK AO2 KEVV 271854Z 24008KT 10SM SCT032 SCT048 31/22 A2986 RMK AO2 SLP106 T03060217 KFOD 271855Z AUTO 00000KT 10SM FEW060 OVC070 16/13 A2992 RMK AO1 P0004 KGDV 271856Z AUTO 29015G22KT 10SM BKN090 23/03 A2990 RMK AO2 PK WND 29027/1816 SLP122 T02280033 DRRM 271800Z 22006KT 9999 FEW050 CB 35/19 Q1013 VIGG 271130Z 22003KT 8000 FEW035TCU 36/14 Q1003 KEVW 271853Z AUTO VRB04KT 10SM CLR 12/M01 A3027 RMK AO2 SLP210 T01221006 KFOE 271853Z 03005KT 10SM FEW110 23/17 A2978 RMK AO2 SLP078 T02330167 KEWN 271854Z 27008KT 10SM SCT060 32/19 A2991 RMK AO2 SLP127 T03170189 KI63 271855Z AUTO 07005KT 10SM CLR 23/17 A2987 RMK AO2 T02320171 DRRN 271800Z VRB02KT CAVOK 37/13 Q1010 NOSIG KFMY 271853Z 29009KT 10SM CLR 33/22 A3006 RMK AO2 SLP180 T03330217 EISG 271700Z 31016KT 4100 -DZ OVC007 12/11 Q1013 KEWR 271851Z VRB06KT 10SM FEW041 BKN060 OVC070 23/12 A2986 RMK AO2 SLP112 T02280117 EKAH 271850Z AUTO 18005KT 120V220 9999NDV NCD 21/10 Q1019 KI67 271855Z AUTO 27005KT 10SM SCT029 SCT036 SCT043 27/18 A2986 RMK AO1 FAIR 270726Z 31002KT CAVOK 20/04 Q1022 KI68 271855Z AUTO 25007KT 10SM SCT027 SCT032 27/20 A2987 RMK AO2 KFNT 271853Z AUTO 00000KT 10SM BKN060 23/12 A2990 RMK AO2 SLP122 T02330122 KFOK 271853Z 10SM BKN049 17/11 A2992 RMK AO2 SLP132 T01720106 KGFK 271853Z 28014G24KT 10SM BKN080 BKN110 25/05 A2975 RMK AO2 PK WND 29027/1805 SLP073 T02500050 KI69 271856Z AUTO 24008KT 10SM SCT033 SCT070 28/19 A2988 RMK AO2 T02760191 KGEU 271847Z 00000KT 10SM SKC 32/M02 A2996 DRRT 271800Z 32004KT 4000 DU NSC 38/16 Q1011 KGFL 271451Z AUTO 29004KT 10SM OVC031 16/09 A2990 RMK AO2 KGEV 271910Z AUTO 27007KT 230V290 10SM SCT036 BKN045 BKN050 23/15 A3004 RMK AO2 T02280147 KEYE 271853Z AUTO 34007KT 10SM FEW026 24/17 A2988 RMK AO2 SLP112 T02440167 KGGE 271855Z AUTO 27006G14KT 10SM CLR 31/16 A2996 RMK AO2 KEYF 271900Z AUTO 23009KT 10SM CLR 32/18 A2991 RMK AO2 T03180175 VIGR 271830Z 07007KT 6000 FEW030 SCT250 33/19 Q1001 KGEY 271853Z AUTO 31007KT 250V010 10SM CLR 19/M01 A3013 RMK AO2 SLP191 T01941011 KGGG 271853Z 20011KT 5SM HZ SCT029 SCT034 BKN042 31/25 A2989 RMK AO2 SLP113 T03060250 KI75 271855Z AUTO 35006KT 10SM SCT100 20/16 A2984 RMK AO2 T02040163 KGEZ 271853Z AUTO 27007KT 10SM FEW032 27/18 A2986 RMK AO2 SLP104 T02720183 KGGI 271915Z AUTO 35005KT 10SM RA SCT012 SCT022 BKN040 18/16 A2986 RMK AO2 P0002 T01770162 EKBI 271850Z AUTO 13007KT 100V160 9999NDV NCD 22/14 Q1018 FALA 271900Z 23010KT CAVOK 16/01 Q1023 NOSIG KFPK 271855Z AUTO 10003KT 10SM OVC049 22/14 A2989 RMK AO2 T02240135 KFOT 271855Z AUTO 34004KT 10SM OVC013 14/11 A3013 RMK AO1 KFQD 271855Z AUTO 19006KT 10SM CLR 27/18 A2993 RMK AO2 T02720181 FAKM 271900Z AUTO 21003KT //// // ////// 07/M00 Q1025 FALE 271900Z 21008KT 9999 SCT032 OVC049 16/12 Q1021 NOSIG FAKN 271900Z AUTO 06004KT //// // ////// 15/12 Q1019 KEXX 271855Z AUTO 22004KT 10SM SCT060 29/18 A2992 RMK AO2 T02940184 KEZF 271855Z AUTO 00000KT 10SM SCT070 26/18 A2986 RMK AO2 T02640175 KGGP 271855Z AUTO 00000KT 10SM OVC018 20/16 A2991 RMK AO2 KGHG 271855Z AUTO VRB04KT 10SM CLR 15/09 A2989 RMK AO2 KFOZ 271852Z AUTO 25006G19KT 10SM SCT080 SCT100 21/03 A2979 RMK AO2 WAAA 271900Z 01003KT 8000 FEW020 25/23 Q1008 NOSIG EKCH 271850Z 18008KT CAVOK 17/12 Q1021 NOSIG KFPR 271853Z 09008KT 10SM CLR 32/23 A3004 RMK AO2 SLP171 T03220233 PKWA 271900Z AUTO 06012KT 10SM SCT021 SCT026 BKN035 28/23 A2986 RMK AO2 T02760234 KGIC 271855Z AUTO 02004KT 10SM CLR 19/05 A3020 RMK AO1 KEZM 271855Z AUTO 30008KT 270V330 10SM CLR 32/03 A3006 RMK AO2 T03190027 KEYW 271902Z 04007KT 10SM SCT022 32/26 A3006 RMK AO2 T03170256 KGGW 271853Z AUTO 32016G23KT 10SM FEW120 23/03 A2991 RMK AO2 SLP127 T02330028 $ KGIF 271853Z AUTO 27005KT 10SM CLR 34/08 A3006 RMK AO2 SLP177 T03440083 KFRG 271853Z 18007KT 10SM OVC060 18/13 A2988 RMK AO2 SLP116 T01830133 URKA 271900Z 05003MPS CAVOK 13/11 Q1013 R22/010070 TEMPO 0300 FG BKN002 RMK QFE755/1006 WABB 271800Z 00000KT 9999 FEW019 25/24 Q1007 NOSIG KFRI 271858Z AUTO 29008KT 10SM FEW100 23/17 A2983 RMK AO2 DZB25E38 SLP094 P0000 T02320167 KEZS 271855Z AUTO 17006KT 10SM SCT041 BKN060 BKN070 25/14 A2985 RMK AO2 T02500140 EKEB 271850Z AUTO 11006KT 070V140 9999NDV NCD 22/16 Q1017 VIJO 271330Z 28011KT 6000 SKC 40/20 Q998 NOSIG KFRM 271856Z AUTO 00000KT 10SM OVC080 18/08 A2994 RMK AO2 RAE15 SLP140 P0000 T01830078 KFSD 271856Z 21007KT 180V250 10SM FEW060 OVC075 17/12 A2995 RMK AO2 RAB20E48 SLP142 P0000 T01720122 VIJP 271900Z 09004KT 5000 HZ FEW035 34/16 Q1001 NOSIG FAMM 271900Z AUTO 16012KT //// // ////// 14/02 Q1023 KGHW 271854Z AUTO 22008KT 10SM BKN080 OVC090 19/07 A2990 RMK AO2 KFSE 271855Z AUTO 23011G15KT 10SM CLR 23/03 A2979 RMK AO2 KHAE 271855Z AUTO 02003KT 10SM CLR 27/13 A2989 RMK AO2 FALW 271800Z AUTO 24004KT //// // ////// 13/09 Q1028 KHAF 271855Z AUTO 23003KT 8SM OVC019 14/09 A3014 RMK AO2 PMDY 271856Z AUTO 04004KT 10SM OVC045 21/13 A3024 RMK AO2 SLP239 T02110128 EIWF 271900Z 33006KT 300V010 9999 BKN019 15/12 Q1015 URKK 271900Z 18002MPS 9999 FEW///CB 17/13 Q1012 R23C/290148 NOSIG RMK QFE755 KHAI 271855Z AUTO 10003KT 10SM OVC035 22/15 A2990 RMK AO2 T02200150 KFRR 271855Z AUTO 04006KT 10SM SCT011 SCT044 OVC055 20/17 A2989 RMK AO1 KFSI 271858Z AUTO 22008KT 10SM FEW170 SCT200 34/21 A2975 RMK AO2 SLP063 T03360207 VIJU 271230Z VRB02KT 6000 FEW030 SCT200 40/12 Q997 NOSIG USCC 271900Z 32003MPS 9999 SCT050CB 12/10 Q1000 R09/000060 TEMPO VRB22MPS 2000 TSRA SQ RMK QFE729 VILD 271000Z 15004KT 5000 HZ NSC 40/18 Q0998 FAOB 271900Z AUTO 01006KT //// // ////// 12/07 Q1026 VIKO 270600Z 36006KT 6000 NSC 44/13 Q1001 NOSIG KFSM 271853Z 19006KT 10SM SCT040 31/21 A2981 RMK AO2 SLP087 T03110206 KHBE 271855Z AUTO 00000KT 7SM SCT031 SCT041 SCT047 26/18 A2987 RMK AO2 KHAO 271853Z AUTO 23007KT 10SM FEW029 28/21 A2987 RMK AO2 SLP109 T02780211 KFSO 271855Z AUTO 00000KT 10SM CLR 20/10 A2987 RMK AO2 T01980095 KFTG 271858Z 36014G22KT 10SM SCT036 OVC043 13/07 A3012 KHBG 271853Z AUTO 18008KT 10SM SCT040 BKN055 31/22 A3004 RMK AO2 SLP168 T03110217 VILK 271830Z 09006KT 3000 HZ FEW100 28/23 Q1000 KHBI 271900Z AUTO 24006KT 10SM SCT060 SCT100 30/16 A2994 RMK AO2 T02990160 KGKJ 271853Z AUTO 34004KT 10SM FEW038 SCT046 22/13 A2991 RMK AO2 SLP124 T02170128 TSNO WADD 271900Z 10008KT 9999 FEW015CB SCT015 27/26 Q1009 RMK CB TO NW USCM 271900Z 26005MPS 8000 OVC040CB 13/10 Q1003 R36/190065 NOSIG RMK QFE714 KFST 271853Z AUTO VRB03G20KT 10SM CLR 35/01 A2995 RMK AO2 SLP087 T03500006 $ KGJT 271853Z 26011G17KT 10SM CLR 21/M02 A3010 RMK AO2 SLP135 T02111017 KFTK 271858Z AUTO 25007KT 10SM FEW030 29/21 A2986 RMK AO2 SLP107 T02850209 KGLD 271853Z AUTO 36015G23KT 10SM SCT027 BKN033 OVC070 17/12 A3001 RMK AO2 SLP141 T01720117 $ KHCD 271854Z AUTO 21005KT 10SM BKN100 BKN120 21/09 A2992 RMK AO2 T02060094 URMG 271600Z 09002MPS 9999 FEW040CB 18/14 Q1012 R08/000070 NOSIG RMK QFE744/0993 KFSW 271855Z AUTO 00000KT 10SM CLR 23/19 A2989 RMK AO2 KGLE 271855Z AUTO 20015G22KT 10SM BKN036 34/23 A2981 RMK AO2 T03350232 KFTN 271855Z AUTO 12011KT 10SM CLR 36/22 A2983 RMK A01 FAPE 271900Z 27013KT 9999 FEW049 14/10 Q1023 NOSIG KGLH 271853Z 23015KT 10SM FEW026 SCT032 BKN049 31/23 A2993 RMK AO2 SLP139 T03060228 KHBR 271853Z AUTO 28009KT 10SM CLR 33/11 A2978 RMK AO2 SLP064 T03330111 URML 271900Z 17001MPS 9999 NSC 14/12 Q1012 R14/01//70 NOSIG RMK QFE759/1012 WADL 271900Z AUTO 00000KT 9999 SCT006 OVC049 26/25 Q1009 FAOR 271900Z 20015KT CAVOK 13/00 Q1023 NOSIG DRZA 271800Z 10016KT 8000 NSC 38/09 Q1012 URMM 271900Z 28004MPS 9999 NSC 14/11 Q1012 R30/000070 NOSIG RMK QFE731/0975 KGKT 271855Z AUTO 27009KT 10SM FEW035 SCT055 27/19 A2996 RMK URMN 271900Z 26001MPS 9999 SCT/// 14/08 Q1012 R24/////// NOSIG RMK QFE722 FBFT 271900Z 26005KT 9999 FEW020 SCT065 19/05 Q1020 KFUL 271853Z VRB05KT 10SM OVC038 21/11 A3005 RMK AO2 SLP175 T02060111 KHDC 271855Z AUTO 18008KT 10SM SCT032 SCT040 32/21 A3002 RMK AO2 URMO 271730Z 17002MPS 9999 BKN042 15/11 Q1013 R09/010070 NOSIG RMK QFE716/0955 KHBV 271855Z AUTO 17013KT 10SM CLR 34/20 A2985 RMK AO2 T03380199 ZWSH 271900Z AUTO 29007MPS CAVOK 26/M11 Q1014 KFVE 271853Z AUTO 00000KT 10SM SCT055 18/03 A2983 RMK AO2 SLP100 T01780033 KFTW 271853Z 19017G20KT 10SM BKN036 34/24 A2981 RMK AO2 SLP083 T03390244 KHDE 271855Z AUTO 36010G16KT 10SM SCT039 SCT100 21/11 A2994 RMK AO2 T02070106 FAPN 271300Z AUTO 24008KT //// // ////// 29/01 Q1016 KHCO 271854Z AUTO 27015G20KT 10SM SCT095 SCT110 23/M01 A2971 RMK AO2 KFTY 271853Z VRB06KT 10SM BKN047 28/19 A3002 RMK AO2 SLP157 T02780189 KGKY 271900Z 18011G20KT 6SM HZ BKN023 OVC036 29/23 A2983 RMK AO2 T02890233 FAPP 271900Z AUTO 18001KT //// // ////// 15/03 Q1020 URMT 271900Z 29004MPS 9999 SCT033CB 15/08 Q1013 R25/010070 NOSIG RMK QFE721 KGLR 271853Z AUTO 20006KT 10SM OVC065 23/09 A2988 RMK AO2 SLP117 T02280094 FAPR 271554Z 29001KT 9999 FEW040 19/03 Q1019 KGLS 271852Z 17015KT 5SM HZ BKN013 BKN018 30/26 A2997 RMK AO2 SLP147 T03000256 KFWA 271854Z VRB04KT 10SM FEW022 BKN033 OVC041 22/17 A2989 RMK AO2 SLP118 T02220167 KGMJ 271855Z AUTO 19010G15KT 10SM BKN032 BKN044 BKN050 30/23 A2978 RMK AO2 LTG DSNT N AND NE KGNA 271856Z AUTO 24011KT 09/06 A2982 RMK AO1 SLP102 T00890056 KFWB 271855Z AUTO 16007G14KT 10SM VCTS FEW031 SCT037 BKN048 28/23 A2983 RMK AO2 LTG DSNT N AND NW KFWC 271855Z AUTO 00000KT 10SM BKN050 BKN060 BKN075 28/20 A2985 RMK AO1 T02770195 KGNC 271855Z AUTO 24017G21KT 10SM CLR 34/M01 A2994 RMK AO2 T03401015 KHDN 271855Z AUTO 20004KT 10SM FEW027 SCT033 BKN039 09/03 A3021 RMK AO1 KGLW 271850Z AUTO 23008KT 10SM SCT024 SCT042 SCT050 28/22 A2992 RMK AO2 T02760215 KHDO 271851Z AUTO 16008G17KT 7SM SCT036 34/24 A2987 RMK AO2 SLP097 T03390244 $ KHEF 271856Z AUTO 03004KT 10SM FEW037 BKN065 BKN120 23/17 A2989 RMK AO2 RAE02B26E39 SLP131 T02330167 PNO $ KGLY 271855Z AUTO 06015G26KT M1/4SM +TSRA OVC002 15/14 A2979 RMK AO2 VSBY M1/4V5 ZYCC 271900Z 20003MPS CAVOK 16/06 Q1006 NOSIG KHEI 271853Z AUTO 29019G29KT 10SM FEW075 22/01 A2992 RMK AO2 PK WND 27031/1826 SLP128 T02220011 DRZR 271800Z 22004KT 9999 FEW040 38/15 Q1011 KGMU 271853Z 24010KT 10SM CLR 29/18 A2997 RMK AO2 SLP138 T02940183 FASB 270446Z 17011G26KT 9999 FEW010 07/05 Q1023 KHFD 271853Z VRB04KT 10SM FEW041 20/11 A2988 RMK AO2 SLP118 T02000106 KFWN 271853Z AUTO 02007KT 10SM BKN043 OVC060 20/13 A2989 RMK AO2 SLP120 T02000133 KFXE 271853Z 13012KT 10SM FEW026 SCT032 SCT044 33/23 A3004 RMK AO2 SLP174 T03280233 KFVX 271855Z AUTO 22009KT 10SM BKN050 BKN055 30/15 A2985 RMK AO2 T02960151 KHFF 271856Z AUTO 26009G17KT 10SM FEW055 31/17 A2992 RMK AO2 SLP145 T03140173 $ KGNR 271856Z AUTO VRB05KT 16/08 A2985 RMK AO1 SLP111 T01560083 FASI 271900Z AUTO /////KT //// // ////// 11/M00 Q1026 KFWS 271853Z 17015G20KT 5SM HZ BKN019 BKN035 31/24 A2985 KHFJ 271850Z AUTO 20007KT 10SM VCTS SCT024 BKN031 BKN046 26/22 A2981 RMK AO2 LTG DSNT N DTKA 271900Z 06011KT 9999 FEW020 24/11 Q1016 NOSIG KGOK 271853Z AUTO 23004KT 10SM CLR 33/19 A2974 RMK AO2 SLP057 T03280194 EKKA 271850Z AUTO 15008KT 120V180 9999NDV NCD 23/12 Q1018 KGNT 271855Z AUTO 31003G17KT 10SM CLR 23/M08 A3016 RMK AO2 T02271085 FCBB 271800Z 27002KT CAVOK 26/22 Q1014 NOSIG KGPC 271855Z AUTO 26004KT 7SM SCT028 24/16 A2989 RMK AO2 KGNV 271853Z 29009G15KT 10SM CLR 32/15 A3005 RMK AO2 SLP172 T03220150 KGON 271856Z 19008KT 10SM BKN039 17/11 A2988 RMK AO2 SLP117 T01720111 $ FBKE 271700Z 29002KT CAVOK 19/13 Q1019 USHH 271900Z 17002MPS 9999 FEW040CB 16/09 Q1000 R24/010060 TEMPO 2000 TSRA BKN005CB RMK QFE746 KFYG 271835Z AUTO 21007KT 3SM -RA SCT029 SCT034 22/21 A2984 RMK AO2 LTG DSNT ALQDS P0021 KHEY 271858Z AUTO 23003KT 10SM FEW037 SCT048 29/20 A3006 RMK AO2 SLP179 T02890196 KGPH 271855Z AUTO 01007KT 10SM 19/13 A2974 RMK AO2 LTG DSNT S KHEZ 271856Z AUTO 20009G17KT 10SM SCT029 BKN039 30/24 A3000 RMK AO2 SLP161 T03000239 KFWZ 271855Z AUTO 34008G14KT 10SM SCT037 SCT044 BKN060 07/M02 A3021 RMK AO2 FATH 271055Z 36001KT CAVOK 27/07 Q1017 KGPI 271855Z VRB04KT 10SM CLR 21/06 A3013 RMK AO2 SLP199 T02060056 KFYJ 271855Z AUTO 16004KT 10SM BKN100 BKN120 28/16 A2988 RMK AO2 T02790162 KGOV 271855Z AUTO 08005KT 10SM SCT060 BKN070 24/11 A2989 RMK AO2 T02380108 PWINO KGPM 271850Z 17013G20KT 5SM HZ SCT022 SCT035 29/23 A2985 KFYM 271855Z AUTO 22009KT 10SM FEW032 SCT042 BKN055 27/21 A2997 RMK A01 WAHQ 270500Z 07005KT 8000 SCT015 31/23 Q1009 NSG KHHF 271855Z AUTO 03008KT 10SM SCT040 28/19 A2985 RMK AO2 T02820194 KHFY 271855Z AUTO 28005KT 10SM CLR 25/18 A2988 RMK AO2 T02540180 KFXY 271855Z AUTO 14003KT 10SM SCT095 21/06 A2994 RMK AO2 KHHG 271855Z AUTO 17003KT 10SM BKN020 OVC031 21/18 A2989 RMK AO2 T02100180 KFZG 271855Z AUTO 27007KT 10SM OVC002 32/18 A3007 RMK AO2 T03200175 WAHS 271600Z 15004KT 7000 SCT016 28/25 Q1010 NOSIG UTAA 271900Z 18003KT 9999 NSC 28/11 Q1007 NOSIG KHGR 271853Z 02004KT 5SM BR SCT004 OVC048 18/16 A2992 RMK AO2 RAB1757E38 SLP139 P0002 T01780161 KGRB 271853Z 20012KT 10SM CLR 23/15 A2987 RMK AO2 SLP115 T02330150 KGPT 271903Z 16011KT 10SM BKN014 BKN023 30/25 A3005 RMK AO2 T03000250 KHIB 271853Z AUTO 29008KT 10SM FEW075 22/04 A2982 RMK AO2 SLP100 T02170039 DTMB 271900Z 06008KT 9999 OVC015 21/18 Q1017 KFYV 271853Z 18020G31KT 10SM FEW032 29/23 A2978 RMK AO2 PK WND 19031/1850 PRESFR SLP067 T02940228 KGRD 271856Z AUTO 22013KT 10SM SCT050 31/18 A2999 RMK AO2 SLP147 T03060178 KHIE 271852Z AUTO 00000KT 10SM CLR 18/06 A2987 RMK AO2 SLP117 T01830061 KGRF 271755Z VRB04KT 10SM FEW200 24/08 A3011 RMK AO2A SLP195 WND DATA ESTMD ALSTG/SLP ESTMD T02370081 10151 20081 54001 KHIF 271858Z AUTO 32007KT 10SM CLR 16/03 A3023 RMK AO2 SLP207 T01570031 URRR 271900Z VRB01MPS 8000 FEW///CB 17/09 Q1011 R04/CLRD70 TEMPO -TSRA RMK QFE752/1003 WAJJ 271800Z 00000KT 9000 SCT010 26/24 Q1007 NOSIG FAUP 271900Z AUTO 23003KT //// // ////// 10/M00 Q1025 KGPZ 271856Z AUTO 22009KT 180V250 10SM SCT100 22/05 A2983 RMK AO2 SLP104 T02220050 PNO $ KGRI 271853Z 06006G15KT 10SM CLR 23/09 A2992 RMK AO2 SLP125 T02280094 KHHR 271853Z 25008KT 10SM OVC038 19/11 A3007 RMK AO2 SLP182 T01890106 KHII 271855Z AUTO 16006KT 10SM CLR 32/01 A2992 RMK AO2 UTAK 271900Z 34006KT CAVOK 19/11 Q1010 NOSIG KGSB 271858Z AUTO 24006KT 10SM FEW170 32/18 A2989 RMK AO2 SLPNO T03150177 $ VISM 270700Z 27004KT 6000 FEW060 28/14 Q1012 UTAM 271900Z 35006KT 6000 SKC 27/11 Q1007 NOSIG ZWWW 271900Z 17003MPS CAVOK 16/10 Q1016 NOSIG KGRK 271858Z AUTO 17009KT 10SM OVC026 29/24 A2988 RMK AO2 SLP107 T02870235 KIAB 271858Z AUTO 02009KT 10SM OVC035 26/15 A2981 RMK AO2 SLP086 T02560153 FAUT 271900Z AUTO 07002KT //// // ////// 08/06 Q1023 FAWB 271900Z AUTO 22009KT //// // ////// 18/01 Q1020 KIAD 271852Z 03006KT 10SM -RA OVC050 19/16 A2990 RMK AO2 RAB12E22B49 SLP123 P0000 T01940156 KHHV 271855Z AUTO 14006KT 3SM HZ OVC021 29/26 A2996 RMK A01 KGRN 271855Z AUTO 02008KT 10SM SCT049 BKN070 BKN090 17/06 A3004 RMK AO2 T01730060 KHHW 271855Z AUTO 10SM SCT024 SCT031 SCT041 32/24 A2982 RMK AO2 T03170238 FBMN 271900Z VRB01KT CAVOK 22/12 Q1020 KHIO 271853Z 00000KT 10SM CLR 25/12 A3005 RMK AO2 SLP173 T02500117 VISR 271530Z VRB02KT 6000 FEW025 22/13 Q1012 NOSIG KFZY 271854Z AUTO 26004KT 10SM FEW018 FEW027 SCT032 19/14 A2990 RMK AO2 SLP122 T01940139 KIAG 271853Z 29005KT 10SM FEW022 OVC047 19/12 A2990 RMK AO2 SLP127 T01890122 URSS 271900Z 05004MPS 9999 FEW080 16/12 Q1012 R02/090070 R06/090070 NOSIG RMK R06/06001MPS QFE758 ZYHB 271900Z 15004MPS CAVOK 15/08 Q1004 NOSIG KGSH 271853Z AUTO 10004KT 10SM SCT024 OVC031 22/16 A2989 RMK AO2 SLP120 T02220156 KIAH 271853Z 16015KT 10SM FEW038 SCT047 SCT190 BKN250 33/23 A2992 RMK AO2 SLP129 T03330233 KHJH 271855Z AUTO 01009KT 10SM SCT100 22/15 A2987 RMK AO2 T02170150 DTNH 271900Z 08008KT 9999 R09///// FEW011 20/17 Q1017 KGRR 271853Z 15006KT 10SM SCT048 BKN250 24/13 A2988 RMK AO2 SLP117 T02440128 UTAT 271900Z 07006KT CAVOK 27/12 Q1008 NOSIG KHKA 271853Z AUTO 20011KT 10SM BKN025 BKN029 BKN036 28/23 A2988 RMK AO2 SLP115 T02830233 $ UTAV 271900Z 36006KT 7000 SKC 27/09 Q1008 NOSIG KGTB 271858Z AUTO 00000KT 10SM BKN050 20/09 A2988 RMK AO2 SLP118 T02010092 $ FAWK 271900Z AUTO 21007KT //// // ////// ///// Q1023 EKOD 271450Z 18010KT 140V220 CAVOK 25/09 Q1020 FAVV 271900Z AUTO /////KT //// // ////// 12/// Q//// KHJO 271853Z AUTO VRB03KT 10SM FEW042 23/11 A3006 RMK AO2 SLP181 T02330111 TSNO KGTF 271853Z 32011G15KT 10SM BKN100 BKN120 21/00 A3009 RMK AO2 SLP177 T02110000 KGSO 271854Z 24014G19KT 10SM SCT045 BKN090 BKN250 29/18 A2991 RMK AO2 SLP118 T02940183 KGSP 271853Z 22009KT 10SM CLR 28/18 A2995 RMK AO2 SLP130 T02830178 KGRY 271855Z AUTO 14007KT 3SM BR CLR 27/26 A3006 RMK A01 WALL 271300Z 30003KT 9000 FEW018 27/26 Q1008 NOSIG UTDD 271900Z 08003MPS 9999 NSC 23/09 Q1012 R09/CLRD// NOSIG RMK QFE691/0921 KHLB 271855Z AUTO VRB05KT 10SM FEW027 SCT036 SCT045 27/20 A2987 RMK A01 KHLC 271853Z AUTO 33014KT 10SM SCT030 SCT075 23/16 A2992 RMK AO2 SLP120 T02280156 KGUC 271856Z AUTO 25015G25KT 10SM CLR 14/M03 A3016 RMK AO2 TSE1758 SLP170 T01391028 VITX 270530Z VRB02KT 6000 SCT070 19/-03 Q1024 NOSIG KIBM 271855Z AUTO 36013G16KT 10SM SCT036 SCT044 BKN050 15/05 A3010 RMK AO2 T01500054 KHLG 271853Z 02003KT 10SM FEW020 OVC029 20/16 A2991 RMK AO2 SLP127 T02000161 URWA 271900Z 21002MPS CAVOK 16/11 Q1013 R27/010070 NOSIG RMK QFE761/1015 UTDK 271900Z 01006MPS 9999 NSC 24/10 Q1010 R01/09//70 RMK QFE701/0934 KGTR 271850Z 19010KT 10SM BKN026 OVC040 30/22 A2995 UTDL 271900Z 26003MPS 9999 FEW130 23/12 Q1011 88CLRD70 NOSIG RMK QFE720/0960 KHKS 271853Z 22007KT 10SM FEW033 BKN050 OVC060 31/22 A3000 RMK AO2 SLP150 T03060222 KIDA 271853Z VRB05KT 10SM SCT080 14/07 A3026 RMK AO2 SLP238 T01440067 WAMM 271900Z 00000KT 9999 FEW022 24/23 Q1008 NOSIG KGTU 271850Z 17010KT 5SM HZ FEW030 BKN035 OVC043 31/23 A2988 KICL 271855Z AUTO 04008KT 10SM BKN016 19/16 A2984 RMK AO2 PWINO KGUL 271855Z AUTO 15010KT 4SM BR SCT015 27/25 A2999 RMK A01 KHME 271850Z 08012KT CAVOK 29/05 Q1010 KHLN 271853Z VRB04KT 10SM CLR 21/04 A3013 RMK AO2 SLP202 T02110044 KGVE 271855Z AUTO 18003KT 10SM SCT050 SCT070 BKN110 27/19 A2985 RMK AO1 T02700189 KHKY 271853Z 19006G16KT 10SM CLR 28/17 A2993 RMK AO2 PRESFR SLP113 T02830167 KGUP 271853Z AUTO VRB05G18KT 10SM CLR 22/M06 A3016 RMK AO2 SLP086 T02171056 UTFA 270400Z 03003KT 010V080 9999 NSC 28/10 Q1014 R88/09//70 UTDT 271900Z 05002MPS 9999 NSC 24/10 Q1008 35CLRD70 RMK QFE716/0955 KICR 271853Z AUTO 23008KT 10SM FEW023 BKN041 OVC110 17/12 A2999 RMK AO2 SLP151 T01720117 KIDI 271855Z AUTO 00000KT 10SM BKN029 21/15 A2994 RMK A01 KHLR 271858Z AUTO 18009KT 10SM OVC025 29/23 A2985 RMK AO2 SLP096 T02890231 KGUS 271858Z 32003KT 10SM OVC020 21/18 A2989 RMK AO2A SLP121 T02100183 KICT 271853Z 05009KT 10SM BKN040 BKN048 BKN200 25/16 A2981 RMK AO2 SLP082 T02500156 KHNB 271856Z AUTO 25010G16KT 10SM SCT030 SCT035 29/22 A2986 RMK AO2 SLP105 T02890222 KGWB 271855Z AUTO 07004KT 10SM SCT030 OVC038 22/16 A2990 RMK AO2 USNN 271900Z 15004MPS 9999 FEW030CB 14/12 Q1006 R21/250157 NOSIG RMK QFE750 KGVL 271853Z AUTO 24010KT 10SM CLR 27/18 A3003 RMK AO2 SLP154 T02720183 UTFF 271200Z 05004KT 9999 NSC 33/07 Q1011 R18/CLRD70 KHND 271856Z 03011G18KT 10SM CLR 29/01 A3003 RMK AO2 SLP144 T02890006 KHMN 271858Z AUTO 23016G20KT 10SM FEW200 30/M11 A3006 RMK AO2 SLP103 T02991112 $ VIVZ 270600Z 25005KT 6000 FEW018 OVC090 31/24 Q1004 NOSIG KHLX 271855Z AUTO 28007G17KT 10SM OVC065 24/13 A3001 RMK AO2 T02390132 KGUY 271853Z AUTO 02014G18KT 10SM SCT036 BKN044 24/16 A2993 RMK AO2 SLP096 T02390156 KHMP 271855Z AUTO 23008KT 10SM SCT043 29/21 A3004 RMK AO2 T02850209 KIDP 271855Z AUTO 03011KT 10SM SCT011 BKN017 BKN026 24/21 A2975 RMK AO2 LTG DSNT E WBGB 271900Z 15006KT 120V190 9999 SCT014 BKN150 25/25 Q1008 KIFA 271855Z AUTO 29004KT 7SM +RA BKN065 OVC070 17/14 A2993 RMK AO2 P0007 T01700135 KGXA 271855Z AUTO 03009G17KT 25/M02 A3004 RMK AO2 SLP159 WND DATA ESTMD T02481018 TSNO $ KHOB 271850Z 24014G18KT 10SM SKC 33/M07 A2997 KGVT 271855Z AUTO 19016G21KT 5SM HZ SCT020 BKN025 OVC041 30/24 A2987 RMK AO2 UTFN 271800Z 33006KT 290V350 9999 NSC 24/12 Q1011 R28/CLRD70 NOSIG URWW 271900Z 01003MPS CAVOK 17/11 Q1011 R06/010070 TEMPO -TSRA SCT030CB EKRK 271850Z AUTO 14007KT 9999NDV NCD 18/13 Q1020 EKSB 271850Z AUTO 12008KT 9999NDV NCD 19/14 Q1018 WAOO 271800Z AUTO 17003KT 7000NDV NCD 25/25 Q1008 WBGG 271900Z 13002KT 9999 SCT020 BKN150 24/24 Q1008 NOSIG KIEN 271852Z AUTO 34005KT 10SM FEW055 FEW065 SCT085 19/06 A3004 RMK AO2 SLP161 T01890056 KHOE 271855Z AUTO 24007KT 10SM CLR A3005 RMK AO2 KGXF 271858Z AUTO 30005KT 9SM CLR 32/M01 A2992 RMK AO2 SLP120 T03191010 KGWO 271853Z AUTO 22014G19KT 10SM SCT029 BKN035 30/24 A2995 RMK AO2 SLP141 T03000239 EKRN 271850Z AUTO 10002KT 9999NDV NCD 16/13 Q1022 KHMZ 271855Z AUTO 00000KT 7SM OVC009 16/14 A2992 RMK AO2 T01590140 KGWR 271855Z AUTO 10SM FEW090 24/03 A2982 RMK A01 KHNR 271855Z AUTO 06017G22KT 10SM CLR 18/14 A2990 RMK AO2 KIER 271855Z AUTO 21011G16KT 7SM SCT033 SCT038 BKN048 32/24 A2994 RMK AO2 T03150238 DTTA 271900Z 05007KT 020V080 9999 SCT026 21/14 Q1017 NOSIG KGYB 271855Z AUTO 18010G17KT 7SM SCT036 SCT043 33/23 A2990 RMK AO2 T03250225 DTTB 271900Z 06010KT CAVOK 20/15 Q1017 FBSK 271900Z 22006KT CAVOK 18/02 Q1020 NOSIG WAPP 271800Z 34002KT 8000 -RA BKN017 25/25 Q1009 USPP 271900Z 35007MPS 9000 -SHRA BKN007 BKN016CB 09/08 Q1001 R03/290150 TEMPO BKN003 RMK QFE740 DTTD 271900Z AUTO 10008KT 050V150 NCD 25/08 Q1015 KGWW 271905Z AUTO 22008KT 10SM CLR 31/18 A2991 RMK AO2 T03090177 KHON 271855Z AUTO 27006KT 10SM OVC070 18/07 A2994 RMK AO2 SLP136 T01830072 WBGR 271900Z 15004KT 9999 SCT016 BKN150 26/25 Q1008 DTTF 271900Z 06012KT 9999 FEW026 26/11 Q1014 NOSIG KIFP 271855Z VRB03KT 10SM CLR 32/03 A2991 RMK AO2 KHOP 271858Z AUTO 22013G17KT 10SM SCT027 SCT036 29/22 A2989 RMK AO2 SLP118 T02860223 $ KGYH 271847Z 23012KT 10SM SCT045 28/19 A2997 WBGS 271900Z 14004KT 9999 SCT016 BKN150 24/24 Q1008 DTTG 271700Z 09014KT 9999 SCT030 26/10 Q1015 NOSIG FBSP 271700Z 00000KT CAVOK 21/12 Q1017 KHNZ 271900Z AUTO 25004KT 10SM CLR 28/17 A2989 RMK AO2 T02760168 EKSP 271850Z 12008KT CAVOK 20/14 Q1018 KGYI 271855Z AUTO 17016KT 10SM SCT034 32/24 A2982 RMK AO2 T03200237 DTTJ 271900Z 08010KT 9999 FEW016 22/17 Q1015 NOSING KHOT 271853Z AUTO 19007KT 10SM FEW031 FEW039 OVC050 30/24 A2988 RMK AO2 SLP111 T03000239 DTTK 271900Z 00000KT CAVOK 23/16 Q1017 KHOU 271853Z 16014G20KT 10SM SCT032 SCT120 BKN300 32/24 A2992 RMK AO2 SLP136 T03170239 KGYL 271856Z AUTO 25006KT 10SM OVC120 21/11 A2991 RMK AO2 T02080109 DTTL 271900Z AUTO VRB01KT NCD 20/16 Q1017 KIGM 271851Z AUTO 00000KT 10SM CLR 27/00 A3005 RMK AO2 SLP113 T02720000 $ WBGY 271900Z 08001KT 9999 SCT022 SCT150 BKN300 26/25 Q1007 KHPN 271856Z 30007KT 10SM FEW040 BKN055 21/12 A2987 RMK AO2 SLP112 T02060117 DTTN 271900Z 04013KT 9999 FEW020 24/16 Q1016 WAQQ 271200Z 00000KT 8000 FEW015 28/26 Q1007 KGXY 271856Z AUTO 35015KT 10SM FEW050 BKN065 BKN085 14/05 A3010 RMK AO2 SLP183 T01440050 KHQG 271855Z AUTO 03011G17KT 10SM BKN045 25/11 A2995 RMK AO2 T02500110 KGZH 271853Z AUTO 23009KT 10SM FEW036 FEW045 BKN055 29/21 A3007 RMK AO2 SLP181 T02940211 KIGQ 271855Z AUTO 36003KT 10SM CLR 21/16 A2991 RMK AO2 T02140161 KGYR 271847Z VRB05KT 10SM SKC 32/M01 A2995 KHQI 271855Z AUTO 13009KT 6SM HZ SCT021 28/25 A2997 RMK A01 DTTR 271200Z 06010KT 8000 NSC 37/08 Q1012 KK88 271855Z AUTO 04013G20KT 10SM OVC017 23/17 A2980 RMK AO1 T02320172 KIIB 271855Z AUTO 00000KT 10SM CLR 21/16 A2990 RMK AO2 KHQM 271853Z AUTO 23010KT 7SM FEW005 14/13 A3011 RMK AO2 SLP198 T01440133 KGZN 271840Z AUTO 22011G18KT 10SM FEW041 33/23 A2985 RMK AO2 EKVD 271850Z AUTO 13009KT //// ///////// 20/13 Q1018 KIGX 271856Z AUTO VRB03KT 10SM FEW050 30/18 A2991 RMK AO2 SLP121 T03000183 WARR 271900Z VRB02KT 6000 FEW020 27/25 Q1008 NOSIG USRR 271900Z 12002MPS 080V160 7000 FEW040CB 14/14 Q1003 R07/290060 NOSIG RMK QFE747 DTTX 271900Z 12008KT 090V150 9999 BKN030 22/18 Q1016 NOSIG KGYY 271845Z 36005KT 10SM BKN250 19/14 A2992 EKVG 271850Z AUTO 28009KT 9999NDV NCD 10/09 Q1012 DTTZ 271900Z 07020KT 8000 FEW030 29/08 Q1013 KHRI 271853Z AUTO 00000KT 10SM CLR 27/04 A3008 RMK AO2 SLP183 T02720039 KHSA 271851Z 17010G16KT 7SM SCT023 BKN035 30/24 A3005 UUBC 271900Z AUTO 24002MPS 9999 // NCD 10/06 Q1015 RMK QFE744/0993 KHRJ 271855Z AUTO 27003KT 10SM BKN060 BKN070 30/14 A2991 RMK AO2 T03000138 KGZS 271855Z AUTO 25006G11KT 10SM FEW027 SCT032 BKN055 28/22 A2995 RMK A01 KHSB 271855Z AUTO 21010G15KT 10SM SCT039 30/22 A2985 RMK AO2 T03010216 KHRL 271852Z 14012G26KT 10SM CLR 37/24 A2984 RMK AO2 PK WND 15026/1847 SLP103 T03670239 KJAC 271851Z 18003KT 10SM BKN070 12/M02 A3026 KHQU 271855Z AUTO 31008KT 10SM CLR 30/16 A3004 RMK AO2 T03030158 KIJD 271852Z AUTO VRB04KT 10SM FEW045 21/10 A2988 RMK AO2 SLP116 T02110100 KHSD 271855Z AUTO 23008G15KT 10SM CLR 33/17 A2975 RMK A01 KHSE 271851Z AUTO 22010G18KT 10SM CLR 27/20 A2993 RMK AO2 SLP134 T02720200 TSNO KHRO 271853Z AUTO 18011G21KT 10SM FEW041 30/21 A2983 RMK AO2 SLP082 T03000211 ELLX 271850Z 15003KT CAVOK 27/14 Q1018 NOSIG KHSG 271855Z AUTO 00000KT 10SM SCT070 BKN085 15/00 A3018 RMK AO2 T01520000 USSS 271900Z 12002MPS CAVOK 12/11 Q1000 R08L/250040 NOSIG RMK QFE730/0974 KHQZ 271850Z 18011G15KT 3SM BR OVC022 28/24 A2986 WBKK 271900Z 11004KT 9999 FEW014 SCT140 BKN270 25/23 Q1008 NOSIG KHSI 271853Z AUTO 06011KT 10SM CLR 22/12 A2992 RMK AO2 SLP120 T02220117 WBKL 271900Z 18001KT 9999 FEW013 BKN290 26/25 Q1008 KL18 271855Z AUTO 20004KT 10SM BKN034 20/11 A3006 RMK AO2 KHRT 271858Z 18012KT 10SM FEW190 29/22 A3007 RMK AO2A SLP184 T02870222 $ KJAN 271854Z 19009KT 10SM SCT036 BKN045 OVC060 29/23 A3000 RMK AO2 SLP155 T02940228 $ KHRX 271855Z AUTO 33007G14KT 10SM CLR 30/00 A2995 RMK AO2 T03010004 USTR 271900Z 13002MPS 9999 FEW040 15/08 Q1000 R21/CLRD65 NOSIG RMK QFE741/0988 KHSP 271855Z AUTO 26010G16KT 10SM SCT018 BKN022 OVC030 21/12 A3002 RMK AO2 KIIY 271855Z AUTO 25006KT 10SM CLR 30/19 A3001 RMK AO2 KIKG 271855Z AUTO 14012G18KT 10SM CLR 36/23 A2984 RMK AO2 T03630227 WBKS 271900Z 17002KT 7000 -RA FEW009 SCT045 BKN280 26/25 Q1008 KHTH 271855Z AUTO VRB03KT 10SM CLR 22/M06 A3015 RMK A01 KJAQ 271855Z AUTO 29007KT 10SM CLR 20/11 A3009 RMK AO1 T01950106 WATT 271500Z 12013KT 8000 FEW020 27/23 Q1011 NOSIG WBKT 271900Z 00000KT 9999 FEW014 SCT140 BKN280 25/24 Q1008 KJAS 271855Z AUTO 17010KT 10SM 32/25 A2997 RMK AO2 T03180247 KJCA 271855Z AUTO 25006KT 10SM SCT047 28/18 A3001 RMK AO2 KHUA 271858Z AUTO 23011G19KT 10SM FEW029 SCT035 OVC060 28/21 A2997 RMK AO2 SLP144 T02770211 UUDD 271900Z 10002MPS CAVOK 11/04 Q1015 R32L/010095 NOSIG KIKK 271855Z AUTO 00000KT 10SM CLR 27/16 A2990 RMK AO2 T02660164 KHST 271858Z AUTO 15009KT 10SM CLR 32/28 A3003 RMK AO2 LTG DSNT NE RAB15E36DZB36E39 SLP172 P0000 T03240277 VISNO RWY06 WBKW 271900Z 33003KT 9999 FEW017 BKN300 25/24 Q1008 UUBW 271900Z 02001MPS CAVOK 11/05 Q1015 R30/010060 NOSIG KHTL 271853Z AUTO 18005KT 10SM OVC065 22/11 A2990 RMK AO2 SLP125 T02170111 KJAU 271855Z AUTO 21008KT 10SM FEW029 SCT055 BKN070 27/21 A2999 RMK A01 KHSV 271853Z 21011G17KT 10SM BKN030 BKN035 OVC060 28/22 A2997 RMK AO2 SLP143 T02830217 KILE 271856Z AUTO 18008KT 6SM HZ OVC027 29/24 A2989 RMK AO2 SLP122 T02940239 KHUF 271853Z 31004KT 10SM CLR 26/17 A2988 RMK AO2 SLP113 T02560172 KJAX 271856Z VRB04KT 10SM FEW250 32/15 A3002 RMK AO2 SLP167 T03220150 $ KHTO 271855Z AUTO 18009KT 10SM SCT035 19/10 A2989 RMK AO2 T01880101 KIJX 271855Z AUTO 11006KT 10SM CLR 24/18 A2987 RMK AO2 T02400178 KILG 271851Z 34005KT 9SM -RA FEW050 OVC070 20/15 A2991 RMK AO2 RAB37 SLP129 P0000 T02000150 $ KL35 271855Z AUTO 06008G14KT 10SM CLR 17/M07 A3019 RMK AO2 KJBR 271853Z AUTO 22012G19KT 10SM FEW023 SCT036 SCT043 31/23 A2986 RMK AO2 SLP108 T03110233 UUDL 271900Z 35002MPS CAVOK 07/M01 Q1015 R23/010060 NOSIG RMK QFE753 KHTS 271851Z 23007KT 10SM FEW029 OVC085 27/19 A2989 RMK AO2 SLP112 T02670189 KIKT 271855Z AUTO 13007KT 10SM BKN031 OVC037 29/25 A3010 RMK A01 UUEE 271900Z 06003MPS CAVOK 10/05 Q1015 R06L/CLRD62 R06R/CLRD62 NOSIG KHUL 271853Z AUTO 06006KT 10SM OVC047 17/08 A2982 RMK AO2 SLP100 T01670078 TSNO KHUM 271850Z 19008KT 7SM BKN031 31/23 A3005 KILM 271853Z AUTO 21011KT 10SM FEW048 SCT060 31/20 A2992 RMK AO2 SLP130 T03110200 KIKV 271855Z AUTO 01011KT 4SM -RA FEW025 FEW032 SCT050 16/16 A2987 RMK AO2 P0002 KJDD 271855Z AUTO 19009KT 5SM HZ BKN024 OVC034 29/24 A2988 RMK AO2 KIKW 271854Z AUTO 15003KT 7SM CLR 24/11 A2989 RMK AO2 T02390110 KILN 271854Z AUTO 26006KT 10SM FEW039 27/21 A2987 RMK AO2 SLP104 T02670206 KHVE 271855Z AUTO 28008KT 10SM CLR 23/M05 A3011 RMK AO2 FCPP 271800Z 18008KT 8000 FEW010 27/24 Q1014 NOSIG KHUT 271852Z 01010KT 10SM BKN055 BKN100 25/12 A2984 RMK AO2 LTG DSNT N PRESRR SLP085 T02500122 KJCT 271851Z AUTO 21011G19KT 7SM FEW027 SCT033 31/24 A2990 RMK AO2 SLP086 T03110239 TSNO UTNN 271830Z 05006KT CAVOK 23/11 Q1010 R33/CLRD60 NOSIG EKYT 271850Z AUTO 16010KT 9999NDV NCD 23/15 Q1018 KIML 271853Z AUTO 10SM FEW038 SCT049 BKN060 17/09 A3003 RMK AO2 SLP157 T01720094 $ KIND 271854Z 28005KT 10SM SCT030 SCT250 24/17 A2988 RMK AO2 SLP111 T02440172 KHWD 271854Z 28010G14KT 10SM FEW020 18/08 A3012 RMK AO2 SLP208 T01830078 KIMM 271855Z AUTO VRB06G11KT 10SM SCT050 34/21 A3006 RMK AO2 KJDN 271848Z AUTO 30019G25KT 24/03 A2994 RMK AO1 PK WND 30028/1829 SLP138 T02440028 KHVN 271853Z 13009KT 10SM FEW049 19/11 A2988 RMK AO2 SLP119 T01890111 KJEF 271906Z 36004KT 10SM VCTS FEW009 BKN049 BKN090 23/19 A2985 RMK AO2 LTG DSNT ALQDS RAE03 TSE00 P0000 T02280189 KINF 271855Z AUTO 23006KT 10SM CLR 32/15 A3007 RMK AO2 ZYTL 271900Z 11006MPS 5000 BR NSC 16/16 Q1005 NOSIG KHVR 271853Z AUTO 30012G19KT 10SM CLR 25/01 A2998 RMK AO2 SLP148 T02500011 $ UTNU 271830Z 09004KT 7000 FEW066CB BKN100 23/16 Q1009 R13/CLRD70 NOSIG KIMS 271853Z AUTO 27003KT 10SM SCT027 BKN033 BKN085 27/19 A2989 RMK AO1 KINJ 271855Z AUTO 19011KT 5SM HZ OVC024 29/24 A2987 RMK AO2 T02900241 KHVS 271855Z AUTO 26008G16KT 10SM SCT055 30/18 A2993 RMK AO2 KINK 271853Z AUTO 28015G24KT 10SM CLR 37/M05 A2991 RMK AO2 PK WND 26027/1816 SLP076 T03671050 $ KIMT 271854Z AUTO 26006KT 10SM BKN060 BKN080 OVC090 24/10 A2981 RMK AO2 SLP094 T02390100 KIOB 271855Z AUTO 26004KT 10SM SCT026 SCT032 BKN050 26/21 A2992 RMK AO2 KINL 271855Z AUTO 24010G19KT 220V280 10SM BKN110 22/02 A2975 RMK AO2 SLP078 T02170022 KHXD 271850Z 18010KT 10SM SKC 31/21 A3001 KHWO 271853Z 09009KT 10SM SCT060 35/23 A3004 RMK AO2 LTG DSNT S SLP174 T03500233 KJER 271853Z AUTO 20004KT 10SM CLR 17/06 A3024 RMK AO2 SLP225 T01720056 KINS 271858Z AUTO 29003KT 10SM FEW200 27/M04 A3004 RMK AO2 SLP130 T02691039 $ KHYA 271856Z 02007KT 10SM CLR 16/08 A2988 RMK AO2 SLP119 T01610083 KJES 271855Z AUTO 31010KT 10SM CLR 33/13 A3003 RMK AO2 KJFK 271851Z 20008KT 10SM BKN055 OVC070 21/15 A2987 RMK AO2 SLP115 T02060150 KINT 271854Z 26008KT 230V300 10SM FEW055 SCT075 BKN090 30/15 A2992 RMK AO2 SLP122 T03000150 ZYTX 271900Z 14003MPS 110V170 CAVOK 18/02 Q1004 NOSIG ENAL 271850Z VRB03KT CAVOK 15/11 Q1012 KHWV 271856Z AUTO 14007KT 10SM BKN034 BKN041 OVC065 17/13 A2990 RMK AO2 SLP125 T01670133 KINW 271856Z AUTO VRB06KT 10SM CLR 26/M06 A3010 RMK AO2 SLP134 T02611061 ENAN 271850Z AUTO 07018KT 9999 NCD 05/M00 Q1018 KHWY 271855Z AUTO 03004KT 10SM SCT048 BKN055 OVC070 23/15 A2988 RMK AO2 T02310154 KJGG 271855Z AUTO 00000KT 10SM CLR 31/19 A2987 RMK AO1 FDJR 271800Z AUTO 10008KT //// // ////// 17/11 Q1019 KIPJ 271920Z AUTO 21007KT 10SM SCT050 30/16 A2993 RMK AO2 T02950160 FDLB 271800Z AUTO 12004KT //// // ////// 21/15 Q1019 ENAT 271850Z AUTO 08007KT 9999 FEW049/// 05/M04 Q1021 RMK WIND 700FT 06008KT KIPL 271853Z AUTO VRB05KT 10SM CLR 29/09 A2991 RMK AO2 SLP128 T02940089 ENBL 271450Z 20013KT CAVOK 22/09 Q1016 KHZD 271855Z AUTO 22004KT 4SM BR BKN015 BKN020 25/23 A2991 RMK A01 KIOW 271852Z AUTO 19004KT 10SM CLR 23/18 A2991 RMK AO2 SLP125 T02280178 KHZE 271855Z AUTO 29014G20KT 10SM FEW070 SCT095 22/04 A2984 RMK AO2 ENBN 271850Z AUTO VRB03KT 9999NDV -SHRA FEW015/// SCT029/// OVC050/// 10/10 Q1012 KJFX 271855Z AUTO VRB05KT 10SM CLR 28/22 A3000 RMK AO2 PWINO ENBO 271850Z 09014KT 9999 FEW050 BKN120 10/02 Q1013 NOSIG UTSA 271830Z 36004KT 9999 NSC 26/02 Q1010 R07/CLRD70 NOSIG KJFZ 271855Z AUTO 22005KT 10SM SCT021 BKN033 OVC070 23/18 A3002 RMK AO2 T02290183 UTSB 271830Z 35008KT CAVOK 25/04 Q1009 R01/CLRD70 NOSIG WBSB 271900Z 15002KT 9999 FEW005 BKN140 26/25 Q1009 RERA NOSIG KHYR 271853Z AUTO 21009KT 10SM BKN065 21/08 A2988 RMK AO2 SLP119 T02060078 ENBR 271850Z 17008KT CAVOK 18/11 Q1015 NOSIG RMK WIND 1200FT 17016KT KHYS 271856Z AUTO 32011KT 10SM BKN034 OVC080 23/16 A2990 RMK AO2 SLP113 T02330156 ENBS 261950Z 27006KT 9999 SCT025 BKN045 M01/M04 Q1018 KIPT 271854Z 13004KT 10SM CLR 22/13 A2987 RMK AO2 SLP114 T02220128 KHZL 271855Z AUTO 00000KT 10SM SCT025 22/11 A2994 RMK AO2 ENBV 261950Z 26010KT 9999 1000S SHSN SCT14 BKN024 M00/M01 Q1019 KHYW 271855Z AUTO 22009KT 210V270 7SM CLR 31/18 A2994 RMK AO2 KJHN 271855Z AUTO 02006KT 10SM BKN043 OVC055 22/12 A2997 RMK AO2 T02200116 ENCN 271850Z 18003KT CAVOK 20/12 Q1017 KHYX 271856Z AUTO 00000KT 10SM SCT060 23/10 A2989 RMK AO2 KM04 271855Z AUTO 23010KT 10SM FEW025 SCT031 BKN055 29/23 A2989 RMK A01 UTSK 271830Z 35006KT CAVOK 29/08 Q1008 R16/CLRD70 KHZR 271855Z AUTO 22011G16KT 10SM BKN034 31/24 A3001 RMK AO2 T03080236 KM08 271855Z AUTO 19010G15KT 10SM SCT026 SCT030 BKN065 29/23 A2991 RMK A01 KIRK 271855Z AUTO 10009KT 10SM CLR 24/17 A2984 RMK AO2 SLP100 T02440167 KJHW 271855Z AUTO 02003KT 10SM FEW034 OVC042 18/11 A2993 RMK AO1 KHZX 271852Z AUTO 24006KT 10SM CLR 21/04 A2986 RMK AO2 KHZY 271853Z AUTO 36004KT 10SM CLR 21/12 A2992 RMK AO2 SLP128 T02060117 TSNO UTSS 271830Z 15006KT 110V180 6000 NSC 25/09 Q1011 R09/CLRD70 NOSIG UTST 271800Z 30002KT CAVOK 28/08 Q1007 R88/CLRD70 NOSIG VLLB 271300Z 02002KT 8000 FEW020 FEW060 29/22 Q1006 NOSIG ENDR 271850Z AUTO 21020KT 12/09 Q1010 KIRS 271854Z AUTO 00000KT 10SM OVC034 22/16 A2989 RMK AO2 T02200155 KJKA 271855Z AUTO 21006KT 10SM SCT021 SCT026 SCT034 29/25 A3008 RMK AO2 T02930245 FDMS 271500Z 10005KT CAVOK 20/13 Q1015 NOSIG KM19 271856Z AUTO 20016G21KT 9SM SCT023 SCT028 BKN033 30/24 A2986 RMK AO2 SLP111 T03000239 ENFB 271850Z AUTO 19023KT 9999NDV SCT066/// 11/10 Q1012 W///S3 KM21 271855Z AUTO 26005KT 10SM SCT038 SCT044 29/20 A2987 RMK AO2 T02940200 ENDU 271850Z AUTO 10010KT 9999 NCD 06/M06 Q1018 RMK WIND 1100FT 10008KT WIND 2200FT 11013KT KISM 271856Z 28005KT 10SM CLR 33/11 A3005 RMK AO2 SLP177 T03330111 FDMV 271800Z AUTO 30001KT //// // ////// 16/15 Q1023 KISN 271858Z AUTO 29016KT 10SM FEW075 BKN095 24/02 A2982 RMK AO2 WSHFT 1840 T02440022 KISO 271856Z 00000KT 10SM SCT055 32/16 A2991 RMK AO2 FEFF 271800Z VRB03KT 9999 FEW010 25/23 Q1012 NOSIG KM25 271935Z AUTO 22009KT 10SM OVC023 27/22 A2989 RMK AO2 PWINO KISP 271856Z 17007KT 10SM SCT033 BKN055 BKN070 OVC250 19/14 A2988 RMK AO2 SLP118 T01890139 $ LBBG 271900Z 35005KT 9999 BKN020 BKN030 OVC043 16/13 Q1016 NOSIG KITH 271856Z VRB04KT 10SM SCT025 OVC050 17/12 A2992 RMK AO2 SLP131 T01720122 KISQ 271855Z AUTO 18009KT 10SM SCT090 14/11 A2988 RMK AO2 T01440109 UTTT 271830Z 03006KT 360V060 CAVOK 26/13 Q1010 R08R/CLRD70 NOSIG KJKJ 271854Z AUTO 25015G23KT 10SM CLR 26/01 A2980 RMK AO2 KM30 271855Z AUTO 21010KT 10SM BKN029 BKN036 BKN042 29/22 A2988 RMK AO2 T02890224 VLLN 271200Z 14002KT 8000 FEW040 FEW200 27/26 Q1009 NOSIG KJKL 271853Z AUTO VRB03KT 10SM FEW025 BKN037 27/20 A2993 RMK AO2 SLP120 T02670200 ENFL 271850Z 17007KT 9999 FEW060 18/10 Q1014 ENGC 271850Z 21020KT 9000 FEW060 11/10 Q1012 W08/S4 ENEV 271850Z AUTO 11010KT 9999 BKN170/// 08/M05 Q1016 RMK WIND 1400FT 09017KT KISW 271854Z AUTO 20008KT 10SM SCT060 24/11 A2988 RMK AO2 SLP114 T02440106 KM33 271855Z AUTO 00000KT 10SM FEW039 FEW055 27/21 A2995 RMK A01 KITR 271853Z AUTO 01016G26KT 10SM SCT035 OVC060 18/10 A3003 RMK AO2 PK WND 02026/1846 SLP137 T01830100 FEFT 271000Z 28006KT 9999 SCT016 27/23 Q1013 UUMO 271900Z 00000MPS CAVOK 11/05 Q1015 R08/090060 NOSIG RMK QFE746/0995 KJLN 271853Z 34012G19KT 5SM TS BR SCT030 SCT055 BKN090 27/25 A2981 RMK AO2 LTG DSNT NW-NE TSE03B11E26B27 SLP083 TS OHD MOV E T02670250 ENGM 271850Z 20014KT CAVOK 21/10 Q1015 NOSIG ENHD 271850Z AUTO 16013KT 9999 NCD 20/11 Q1014 ENHE 271850Z 23024KT 0400 FG VV002 10/10 Q1008 W///S3 ENHF 271850Z AUTO VRB02KT 9999 NCD 02/M04 Q1020 RMK WIND 1254FT 35003KT FDPP 271800Z AUTO 07007KT //// // ////// 15/12 Q1022 UUOB 271900Z 32003MPS CAVOK 15/09 Q1015 R11/090060 NOSIG KIWA 271847Z 00000KT 45SM SKC 31/M06 A2996 ENHK 261950Z 01003KT 9999 SCT029 03/M04 Q1021 KIWD 271856Z AUTO VRB03KT 10SM BKN060 21/09 A2985 RMK AO2 SLP106 T02110089